Warning: file_exists(): in /var/www/customers/vh-7192/web/home/phpvms/core/classes/TemplateSet.class.php on line 96
Airports - MATRA Airlines
Sign-in with your pilot id or email, or register

ICAO: Name / Country: /
Latitude: Longitude:
Total Arrivals:
Strict Standards: Non-static method AirportData::getarrflights() should not be called statically, assuming $this from incompatible context in /var/www/customers/vh-7192/web/home/phpvms/core/templates/airport_info.tpl on line 18
0
Total Departures:
Strict Standards: Non-static method AirportData::getdeptflights() should not be called statically, assuming $this from incompatible context in /var/www/customers/vh-7192/web/home/phpvms/core/templates/airport_info.tpl on line 21
0
Latest Arrival: (-) Latest Departure: (-)
Metar: AGGH 281500Z 14002KT 9999 FEW014 FEW015CB BKN100 24/23 Q1009 RMK AYPY 281500Z VRB03KT 9999 SCT040 BKN150 25/23 Q1010 BGBW 281450Z 26002KT 9999 FEW040 03/M10 Q1002 BGGH 281450Z 04002KT 9999 VCSH FEW015 04/M03 Q1009 BGJN 281450Z 31003KT 9999 BKN042 M00/M07 Q1011 BGKK 281450Z AUTO 10013KT 9999NDV OVC019/// 01/M01 Q0998 BGSF 281450Z AUTO 08005KT 9999NDV OVC055/// M01/M04 Q1011 BGTL 281456Z AUTO 12009KT 9999 CLR M07/M12 A2987 RMK AO2 SLP103 T10691120 50003 TSNO $ BIAR 281500Z VRB04KT 9999 FEW046 08/M01 Q0993 BIBD 281500Z 05008KT 9999 BKN050 05/M00 Q0996 BIEG 281500Z 23010KT 9999 -SHRA SCT030 BKN055 11/06 Q0991 BIHN 281500Z 16005KT 9999 VCSH SCT010 BKN020 OVC027 09/05 Q0993 BIIS 281448Z 03011G21KT 9999 SCT020 BKN025 02/M02 Q0998 BIKF 281500Z 27008KT 9999 BKN021 07/03 Q0996 BIRK 281500Z 28008KT 9999 SCT014 BKN023 BKN050 07/03 Q0996 BIVM 281400Z 29014KT 9999 SCT014 08/05 Q0995 BKPR 281530Z 29005KT 9999 FEW030TCU BKN120 19/08 Q1012 NOSIG CAHR 281400Z AUTO 19011KT 21/18 RMK AO1 PK WND 19017/1332 SLP187 T02090175 51009 CBBC 281500Z AUTO 21006G17KT 160V260 1 3/4SM -RA BR FEW008 SCT024 OVC032 13/13 A3026 RMK SLP247 CERM 281500Z AUTO 14005KT 23/18 RMK AO1 SLP138 T02270178 58001 CMFM 281500Z AUTO 14003KT 18/15 RMK AO1 SLP128 T01760152 58003 CMGB 281500Z AUTO 16008KT 25/ RMK AO1 SLP097 T0246 58007 CPBT 281500Z AUTO 26017KT 14/02 RMK AO1 PK WND 27023/1456 T01430018 CPEH 281500Z AUTO 21005KT 09/02 RMK AO1 T00910024 CPFI 281500Z AUTO 25010KT 12/03 RMK AO1 T01230030 CPIR 281400Z AUTO 23007KT 08/03 RMK AO1 T00770026 CPRO 281500Z AUTO 20005KT 05/02 RMK AO1 T00540020 CPRY 281500Z AUTO 25013KT 12/02 RMK AO1 PK WND 25018/1408 T01220015 CPST 281500Z AUTO 20008KT 09/02 RMK AO1 T00910022 CPSV 281500Z AUTO 21013KT 08/02 RMK AO1 PK WND 20017/1455 T00820018 CPXL 281500Z AUTO 19009KT 09/02 RMK AO1 T00880020 CTCK 281500Z AUTO 19002KT 20/18 RMK AO1 SLP087 T02030182 53005 CTNK 281500Z AUTO 18002KT 22/15 RMK AO1 SLP057 T02170147 58011 CTRA 281500Z AUTO 32005KT 07/06 RMK AO1 1PAST HR 3007 SLP101 P0000 T00690063 50002 CWAE 281500Z 00000KT 3/8SM FG VV001 05/05 A3043 RMK FG8 WND ESTD SLP316 CWAF 281500Z AUTO 20016KT 14/11 RMK AO1 PK WND 20021/1410 T01360114 CWAJ 281500Z AUTO 19009KT 20/18 RMK AO1 SLP053 T02020175 50001 CWAQ 281500Z AUTO 30003KT 06/03 RMK AO1 SLP260 T00560034 56001 CWAV 281500Z AUTO 24003KT 06/02 RMK AO1 3PAST HR 8005 SLP214 P0001 T00570024 50005 CWBA 281500Z AUTO 30002KT 16/15 RMK AO1 T01560148 50143 CWBE 281500Z AUTO 30007KT 14/12 RMK AO1 SLP051 T01420118 56010 CWBK 281500Z AUTO 20007G16KT 23/19 RMK AO1 SLP198 T02320190 50004 CWBO 281500Z AUTO 19005KT 07/04 RMK AO1 SLP221 T00710043 57011 CWBS 281500Z AUTO 04005KT 19/16 RMK AO1 T01890164 CWBT 281500Z AUTO 25005KT 15/11 RMK AO1 SLP124 T01490113 51011 CWBU 281500Z AUTO 21006KT 05/04 RMK AO1 SLP205 T00540037 57010 CWBV 281500Z AUTO 22009KT 17/17 RMK AO1 T01670166 CWBY 281500Z AUTO 23009KT 21/15 RMK AO1 SLP123 T02080148 50002 CWBZ 281500Z AUTO 35003KT 21/18 RMK AO1 SLP089 T02120175 51001 CWCF 281500Z AUTO 36007KT 08/04 RMK AO1 SLP167 T00750044 51013 CWCI 281400Z AUTO 32003KT 11/10 RMK AO1 SLP043 T01120095 50000 CWCJ 281500Z AUTO 04002KT 10/10 RMK AO1 SLP051 T01030102 50004 CWCO 281500Z AUTO 17006KT 24/17 RMK AO1 T02390168 CWCT 281500Z AUTO 22009KT 07/M01 RMK AO1 SLP208 T00671006 56019 CWDA 281400Z AUTO 18/ RMK AO1 SLP103 T0179 CWDC 281500Z AUTO 08/07 RMK AO1 4PAST HR 6051 SLP027 P0009 T00790073 50066 CWDJ 281500Z AUTO 27004KT 05/03 RMK AO1 SLP248 T00540030 58001 CWDK 281500Z AUTO 31001KT 16/03 RMK AO1 SLP223 T01560028 55006 CWDM 281500Z AUTO 21009KT 12/12 RMK AO1 SLP117 T01190119 50008 CWDO 281500Z AUTO 23013KT 20/15 RMK AO1 PK WND 23021/1401 SLP123 T01990151 51003 CWDQ 281500Z AUTO 17005KT 20/ RMK AO1 SLP100 T0204 58004 CWDV 281500Z AUTO 32004KT 07/06 RMK AO1 1PAST HR 3011 SLP078 P0000 T00700064 50002 CWDZ 281500Z AUTO 17008KT 06/M01 RMK AO1 SLP200 T00641007 56016 CWEB 281500Z AUTO 10004KT 13/13 RMK AO1 SLP282 T01330132 56008 CWEF 281400Z AUTO 18/ RMK AO1 SLP180 T0176 53012 CWEH 281500Z AUTO 25008KT 03/M02 RMK AO1 SLP260 T00281020 55005 CWEK 281500Z AUTO 20008KT 12/11 RMK AO1 SLP229 T01190112 51012 CWEL 281500Z AUTO 30005KT 14/12 RMK AO1 SLP296 T01360123 56002 CWEP 281500Z AUTO 19013G18KT RMK AO1 PK WND 19020/1445 50009 CWEQ 281500Z AUTO 28005KT 08/03 RMK AO1 SLP212 T00830028 50001 CWER 281500Z AUTO 14001KT RMK AO1 CWEU 281500Z 15012G18KT 15SM FEW010 FEW130 FEW180 BKN210 M06/M08 A2985 RMK SC1AC1AC2CI5 SC TR AC TR SLP121 CWEW 281500Z AUTO 11003KT 22/18 RMK AO1 SLP102 T02240184 58007 CWEZ 281500Z AUTO RMK AO1 CWFF 281500Z AUTO 21007KT 07/06 RMK AO1 SLP209 T00740058 56010 CWFJ 281500Z AUTO 26012G20KT 14/02 RMK AO1 PK WND 26020/1448 T01440018 CWFQ 281500Z AUTO 18008KT 25/18 RMK AO1 SLP100 T02490175 56008 CWGD 281500Z AUTO 20012G17KT 18/16 RMK AO1 PK WND 20017/1456 SLP060 T01800157 51003 CWGH 281500Z AUTO 20002KT 24/18 RMK AO1 SLP090 T02360175 58001 CWGL 281500Z AUTO 15014KT 19/16 RMK AO1 SLP041 T01850155 58006 CWGM 281500Z AUTO 22027G38KT 10/M00 RMK AO1 PK WND 21043/1438 T01031003 CWGR 281500Z AUTO 22017G25KT 20/18 RMK AO1 PK WND 22027/1424 SLP173 T02030178 51010 CWGT 281500Z AUTO 25003KT 13/12 RMK AO1 SLP294 T01260116 57006 CWGW 281500Z AUTO 04001KT 01/M00 RMK AO1 SLP337 T00081002 56001 CWGX 281500Z AUTO 36010KT 05/04 RMK AO1 SLP168 T00500040 51006 CWGY 281500Z AUTO 19015KT 08/M01 RMK AO1 PK WND 18019/1448 SLP210 T00821012 58023 CWHI 281500Z AUTO 05002KT 07/02 RMK AO1 T00740016 CWHL 281500Z AUTO 14011KT 12/11 RMK AO1 SLP228 T01220106 51009 CWHN 281500Z AUTO 22007KT 190V350 9SM FEW071 09/04 A2988 RMK SLP140 CWHO 281500Z AUTO 05/04 RMK AO1 22 6012 SLP075 T00470040 CWHP 281500Z AUTO 22013KT 12/11 RMK AO1 SLP141 T01210111 51006 CWHQ 281500Z AUTO 11003KT 21/ RMK AO1 T0210 CWHT 281500Z AUTO 22004KT 07/02 RMK AO1 SLP029 T00650024 53024 CWHV 281500Z AUTO 14001KT 19/17 RMK AO1 SLP124 T01890168 58004 CWID 281400Z AUTO 25004KT 08/05 RMK AO1 SLP975 T00800048 55002 CWIG 281500Z AUTO 15004KT RMK AO1 CWII 281500Z AUTO 33024G29KT 10/09 RMK AO1 PK WND 33029/1456 SLP151 T00980091 53015 CWIJ 281500Z AUTO 13014KT 01/M00 RMK AO1 PK WND 13018/1452 SLP023 T00051003 CWIK 281500Z AUTO 31010KT 07/03 RMK AO1 SLP232 T00680034 51004 CWIL 281500Z AUTO 17012G17KT ////SM BKN120 02/02 A2989 CWIS 281500Z AUTO 21004KT 17/15 RMK AO1 SLP133 T01720151 50001 CWIT 281500Z AUTO 06003KT 21/19 RMK AO1 SLP093 T02080188 58002 CWIW 281500Z AUTO 25007KT 06/04 RMK AO1 SLP231 T00630039 55003 CWIZ 281500Z AUTO 18006KT 22/20 RMK AO1 2PAST HR M P0001 T02230198 50002 CWJB 281500Z AUTO 06002KT 20/ RMK AO1 T0196 CWJC 281500Z AUTO 17015KT M00/M00 RMK AO1 PK WND 17018/1453 T10031003 58026 CWJD 281500Z AUTO 32004KT 08/03 RMK AO1 SLP192 T00770029 52008 CWJH 281500Z AUTO 20003KT 06/04 RMK AO1 SLP169 T00560039 56028 CWJI 281500Z AUTO 25006KT 05/02 RMK AO1 SLP259 T00500015 57006 CWJO 281500Z AUTO 11005KT 23/17 RMK AO1 8002 SLP109 T02290173 50009 CWJR 281500Z AUTO 08003KT 07/04 RMK AO1 SLP344 T00660037 55003 CWJT 281500Z AUTO 22002KT 20/18 RMK AO1 SLP094 T01950176 56002 CWJU 281000Z AUTO 22014G22KT 13/11 RMK AO1 PK WND 23024/0918 SLP198 T01310112 51025 CWJV 281500Z AUTO 12008KT 08/05 RMK AO1 SLP304 T00770048 56004 CWJW 281500Z AUTO 23002KT 12/04 RMK AO1 SLP219 T01170041 56008 CWJX 281500Z AUTO 18007KT 06/M00 RMK AO1 SLP223 T00591004 58017 CWKG 281500Z AUTO 24006KT 23/20 RMK AO1 SLP204 T02270200 50000 CWKH 281500Z AUTO 11/ RMK AO1 SLP286 T0113 56006 CWKK 281500Z AUTO 32008KT 10/08 RMK AO1 SLP048 T01040082 51013 CWKO 281500Z AUTO 25007KT 05/02 RMK AO1 SLP271 T00470019 56002 CWKX 281500Z AUTO 20003KT 04/01 RMK AO1 SLP175 T00410005 51025 CWLB 281500Z AUTO 24007KT 12/02 RMK AO1 SLP141 T01200021 56011 CWLC 281500Z AUTO 15012KT 12/11 RMK AO1 T01230111 CWLE 281500Z AUTO 21008KT 05/02 RMK AO1 SLP241 T00540024 58010 CWLI 281529Z AUTO 35008KT ////SM //// BKN002 OVC021 01/01 A2955 CWLM 281500Z AUTO 02006KT 12/10 RMK AO1 SLP290 T01160100 56006 CWLP 281500Z AUTO 15018KT 13/ RMK AO1 PK WND 15022/1444 SLP257 T0125 50002 CWLS 281500Z AUTO 19008KT 19/16 RMK AO1 SLP059 T01890158 58005 CWLY 281500Z AUTO VRB02KT 9SM CLR 11/09 A3036 RMK SLP286 CWME 281500Z AUTO 22013KT 15/14 RMK AO1 4PAST HR M PK WND 24024/1420 P0017 T01480142 50142 CWMJ 281500Z AUTO 15006KT 21/16 RMK AO1 SLP078 T02140160 58005 CWMM 281500Z AUTO 00000KT 11/10 RMK AO1 SLP298 T01090101 56004 CWMQ 281500Z AUTO 17003KT 09/02 RMK AO1 SLP241 T00940023 58012 CWMT 281500Z AUTO 24008KT 07/06 RMK AO1 5002 SLP951 T00670057 50011 CWMZ 281400Z AUTO 17013KT 18/16 RMK AO1 PK WND 17017/1300 SLP040 T01770155 55005 CWNC 281500Z AUTO 18005KT 21/18 RMK AO1 SLP075 T02120176 56003 CWND 281500Z AUTO 35012KT 01/01 RMK AO1 SLP005 T00120012 53008 CWNE 281500Z AUTO 22011KT 19/17 RMK AO1 PK WND 22020/1429 SLP163 T01890170 50004 CWNH 281500Z AUTO 20006KT 23/17 RMK AO1 SLP122 T02260167 50000 CWNK 281500Z AUTO 32013G20KT 09/06 RMK AO1 PK WND 34021/1418 T00910056 CWNL 281400Z AUTO 31001KT 13/12 RMK AO1 SLP058 T01260115 58002 CWNM 281500Z AUTO 17002KT 07/06 RMK AO1 SLP335 T00650063 56003 CWNP 281500Z AUTO 12001KT 06/05 RMK AO1 SLP331 T00630054 55002 CWNQ 281500Z AUTO 12001KT 23/19 RMK AO1 SLP103 T02290186 58003 CWNZ 281500Z AUTO 33001KT 11/09 RMK AO1 SLP053 T01130094 51005 CWOB 281500Z AUTO ///// ////SM OVC005 M03/M05 A2990 CWOD 281400Z AUTO 10004KT 18/17 RMK AO1 SLP078 T01820168 51003 CWOE 281500Z AUTO 08007KT 02/M00 RMK AO1 SOG 02 6009 SLP253 T00221004 CWOY 281500Z AUTO 22005KT 07/05 RMK AO1 SLP228 T00650053 58003 CWPC 281500Z AUTO 20012KT 20/17 RMK AO1 SLP076 T02000168 50000 CWPD 281500Z AUTO 17004KT 18/16 RMK AO1 SLP091 T01780162 58003 CWPE 281500Z AUTO 19005KT 15/15 RMK AO1 SLP184 T01530152 50002 CWPF 281515Z AUTO 01003KT 11/10 RMK AO1 SLP287 T01120095 56005 CWPK 281500Z AUTO 19003KT 20/16 RMK AO1 SLP083 T01980160 58005 CWPO 281500Z AUTO 34013G20KT 08/04 RMK AO1 PK WND 34021/1417 SLP205 T00800036 53014 CWPR 281500Z AUTO 34001KT 03/02 RMK AO1 SLP315 T00300022 58003 CWPS 281400Z AUTO RMK AO1 53002 CWPX 281500Z AUTO 10007KT ////SM //// OVC018 02/02 A2967 CWPZ 281500Z AUTO 10001KT 07/07 RMK AO1 SLP242 T00720066 51013 CWQH 281500Z AUTO 19008G17KT 24/18 RMK AO1 PK WND 19017/1458 SLP103 T02440175 58008 CWQK 281500Z AUTO 11007KT 12/ RMK AO1 SLP290 T0122 56006 CWQO 281500Z AUTO 19006KT 14/12 RMK AO1 T01430120 CWQP 281500Z AUTO 17010KT 21/18 RMK AO1 SLP091 T02130182 58001 CWQR 281500Z AUTO 24012KT 12/10 RMK AO1 T01190095 CWQS 281500Z AUTO 16006KT 14/13 RMK AO1 SLP226 T01410127 52009 CWQV 281500Z AUTO 17001KT 18/15 RMK AO1 T01750152 CWRJ 281500Z AUTO 21007KT 05/02 RMK AO1 SLP223 T00540015 58017 CWRK 281500Z AUTO 16004KT 21/16 RMK AO1 SLP072 T02110159 58007 CWRM 281500Z AUTO 11002KT 05/03 RMK AO1 SLP199 T00520029 53001 CWRN 281500Z AUTO 22015G21KT 19/18 RMK AO1 PK WND 22021/1457 SLP225 T01880177 51009 CWRO 281500Z AUTO 22005KT 11/11 RMK AO1 SLP225 T01100110 52012 CWRT 281500Z AUTO 29017G28KT 09/02 RMK AO1 PK WND 29031/1438 T00940015 CWRU 281500Z AUTO 12031G37KT 13/12 RMK AO1 8003 PK WND 12037/1442 SLP259 T01300115 50002 CWRX 281500Z AUTO 32015G21KT ////SM //// OVC020 M03/M07 A3001 CWRY 281500Z AUTO 17004KT 06/01 RMK AO1 SLP257 T00630013 55011 CWRZ 281500Z AUTO 25007KT 16/14 RMK AO1 SLP141 T01610144 50000 CWSA 281500Z AUTO 19011KT 9SM FEW001 19/18 A3026 RMK SLP249 CWSD 281500Z AUTO 21014G20KT 21/19 RMK AO1 PK WND 20020/1457 SLP184 T02110187 51005 CWSF 281500Z AUTO 10003KT 15/12 RMK AO1 SLP120 T01470115 50000 CWSG 281500Z AUTO 28002KT 14/12 RMK AO1 SLP119 T01390119 51004 CWSK 281500Z AUTO 34001KT 07/07 RMK AO1 SLP306 T00710068 56004 CWSL 281500Z AUTO 19002KT 07/06 RMK AO1 SLP307 T00650055 56005 CWSP 281500Z AUTO 09007KT 12/08 RMK AO1 SLP288 T01200075 56009 CWSR 281500Z AUTO 23009KT 09/02 RMK AO1 SLP180 T00910015 58021 CWSS 281500Z AUTO 16004KT 20/18 RMK AO1 SLP173 T01950181 50001 CWST 281500Z AUTO 28002KT 23/17 RMK AO1 SLP118 T02320171 50003 CWSW 281500Z 00000KT 20SM SCT110 OVC180 01/M01 A3051 RMK AC4AS4 SLP362 CWTA 281500Z AUTO 19004KT 22/19 RMK AO1 SLP096 T02180187 58003 CWTG 281500Z AUTO 26016KT 13/10 RMK AO1 PK WND 27018/1440 SLP115 T01250095 50002 CWTN 281500Z AUTO 25001KT 22/18 RMK AO1 SLP117 T02200178 58004 CWTT 281500Z AUTO 19010G16KT 23/18 RMK AO1 PK WND 18017/1425 T02300178 CWTY 281500Z AUTO 07004KT 20/17 RMK AO1 SLP099 T01960174 58003 CWUS 281500Z AUTO 28006KT 08/04 RMK AO1 SLP324 T00800039 53001 CWUW 281500Z AUTO 20003KT 150V220 ////SM SCT004 BKN020 OVC060 M07/M08 A2983 CWUX 281500Z AUTO 12003KT 23/16 RMK AO1 SLP097 T02270163 58003 CWVF 281500Z AUTO 05006KT 13/12 RMK AO1 T01310118 CWVI 281500Z AUTO 19005KT 10/02 RMK AO1 SLP167 T01020023 56010 CWVN 281500Z AUTO 20001KT 02/M01 RMK AO1 SLP273 T00211013 56009 CWVP 281500Z AUTO 22006KT 07/M02 RMK AO1 SLP245 T00721016 56008 CWVQ 281500Z AUTO 10003KT 21/18 RMK AO1 SLP095 T02130175 58002 CWVT 281500Z AUTO 18007G16KT 10/05 RMK AO1 SLP113 T00960049 58053 CWVU 281500Z AUTO 16012G17KT 16/16 RMK AO1 PK WND 16017/1422 SLP191 T01610161 58001 CWWA 281500Z AUTO 00000KT 11/10 RMK AO1 SLP294 T01080099 56003 CWWB 281500Z AUTO 19008KT 23/17 RMK AO1 SLP059 T02280167 57003 CWWE 281500Z AUTO 22006KT 18/18 RMK AO1 0003 SLP214 T01840184 50002 CWWF 281500Z AUTO 33009KT 07/04 RMK AO1 SLP248 T00690041 51003 CWWK 281500Z AUTO 01001KT 10/10 RMK AO1 SLP296 T01040100 56004 CWWL 281500Z AUTO 15016KT 13/12 RMK AO1 3011 PK WND 14020/1446 SLP234 T01270115 50002 CWWS 281500Z AUTO 08/06 RMK AO1 24 1012 SLP175 T00830062 50001 CWWU 281253Z 23007G19KT 200V260 15SM OVC011 18/16 A3012 RMK SC8 SLP200 CWWX 281500Z AUTO 02012KT 14/13 RMK AO1 SLP043 T01420127 55009 CWWZ 281500Z AUTO 20009G15KT 24/18 RMK AO1 SLP063 T02390177 50000 CWXA 281500Z AUTO 25011G19KT 12/M01 RMK AO1 PK WND 25022/1431 SLP219 T01221012 58015 CWXC 281500Z AUTO 23003KT 20/16 RMK AO1 SLP093 T02010156 58001 CWXI 281500Z AUTO 12/12 RMK AO1 SLP101 T01220118 53020 CWXL 281500Z AUTO 21005KT 08/02 RMK AO1 SLP233 T00840021 56008 CWYJ 281500Z AUTO 36005KT 13/11 RMK AO1 SLP292 T01260106 56007 CWYL 281500Z AUTO 26016KT 04/M00 RMK AO1 PK WND 27024/1414 SLP305 T00401003 55001 CWYY 281500Z AUTO 09001KT 10/04 RMK AO1 SLP316 T00950037 50004 CWZA 281500Z AUTO 13004KT 10/09 RMK AO1 SLP290 T01020086 56007 CWZG 281500Z AUTO 25004KT 06/M01 RMK AO1 SLP283 T00601012 56013 CWZL 281500Z AUTO 23003KT 12/ RMK AO1 SLP241 T0123 53012 CWZN 281400Z AUTO RMK AO1 CWZO 281500Z AUTO 01011KT RMK AO1 CWZQ 281520Z AUTO 20012G17KT 23/18 RMK AO1 T02340184 CWZW 281500Z AUTO 18008KT 08/M01 RMK AO1 PK WND 19019/1405 SLP090 T00791014 53027 CWZZ 281500Z AUTO 07005KT 330V110 ////SM SCT002 BKN020 M02/M02 A2978 CXAF 281500Z AUTO 24005KT 11/03 RMK AO1 T01060034 CXAG 281400Z AUTO 19006KT 08/03 RMK AO1 T00800033 CXAJ 281500Z AUTO 22004KT 11/04 RMK AO1 T01110042 CXAK 281500Z AUTO 21010KT 08/02 RMK AO1 T00840022 CXAT 281500Z AUTO 13002KT M03/M07 RMK AO1 SLP167 T10281067 55000 CXBA 281500Z AUTO 19006KT 08/01 RMK AO1 T00820010 CXBI 281500Z AUTO 16011G18KT 20/16 RMK AO1 PK WND 16018/1459 SLP058 T02010162 58007 CXBK 281500Z AUTO 27009KT 06/04 RMK AO1 SLP237 T00640038 56002 CXBO 281500Z AUTO 10003KT RMK AO1 CXBR 281500Z AUTO 25014KT 13/01 RMK AO1 PK WND 26024/1418 T01320005 CXBW 281500Z AUTO 23012KT 11/04 RMK AO1 T01130040 CXCA 281500Z AUTO 35006KT 11/08 RMK AO1 SLP052 T01100078 51007 CXCD 281500Z AUTO 27012KT 13/07 RMK AO1 PK WND 28022/1405 T01290067 CXCK 281500Z AUTO 13006KT 06/02 RMK AO1 SLP997 T00630023 51025 CXCP 281500Z AUTO 19001KT 07/02 RMK AO1 T00710021 CXCS 281500Z AUTO 22012KT 06/M00 RMK AO1 T00611004 CXDB 281500Z AUTO 25012KT 13/01 RMK AO1 PK WND 24018/1401 T01280011 CXDE 281500Z AUTO 28005KT 07/06 RMK AO1 SLP947 T00660063 53014 CXDI 281500Z AUTO 22007KT 23/17 RMK AO1 SLP064 T02280167 CXDK 281500Z AUTO 12/01 RMK AO1 26 3004 SLP008 T01230009 CXDP 281500Z AUTO 25008KT 12/04 RMK AO1 T01160044 CXDW 281500Z AUTO 33021G26KT 09/05 RMK AO1 PK WND 33027/1449 SLP183 T00890048 53010 CXEA 281500Z AUTO 32007KT 08/08 RMK AO1 8PAST HR 3008 SLP087 P0003 T00830077 50013 CXEC 281500Z AUTO 22005KT 11/03 RMK AO1 SLP169 T01120033 56002 CXEG 281500Z AUTO 11/04 RMK AO1 T01140042 CXET 281500Z AUTO 17011G17KT 21/16 RMK AO1 8009 PK WND 18017/1458 SLP057 T02100164 50002 CXFM 281500Z AUTO 19011KT 08/01 RMK AO1 T00780007 CXFR 281500Z AUTO 25018KT 14/07 RMK AO1 PK WND 26024/1457 T01370066 CXGH 281500Z AUTO 33012G21KT 09/06 RMK AO1 PK WND 33026/1439 SLP145 T00860060 53011 CXHA 281500Z AUTO 20006KT 19/17 RMK AO1 SLP051 T01880167 50001 CXHD 281500Z AUTO 22007KT 09/02 RMK AO1 T00900020 CXHF 281500Z AUTO 20/17 RMK AO1 T01970173 CXHM 281500Z AUTO 21003KT 25/18 RMK AO1 SLP056 T02490177 58004 CXHP 281500Z AUTO 27012KT 17/08 RMK AO1 PK WND 28019/1458 T01700075 CXHR 281500Z AUTO 25012KT 11/M00 RMK AO1 T01091002 CXIB 281500Z AUTO 25007KT 26/18 RMK AO1 PK WND 26019/1429 SLP198 T02570184 51006 CXKA 281500Z AUTO 17003KT 13/12 RMK AO1 SLP044 T01280118 51006 CXKE 281500Z AUTO 18003KT 21/18 RMK AO1 SLP086 T02090176 50000 CXKI 281500Z AUTO 13/12 RMK AO1 SLP071 T01270116 58001 CXKM 281500Z AUTO 22005KT 09/01 RMK AO1 T00920008 CXKT 281500Z AUTO 21007G18KT 24/18 RMK AO1 PK WND 19018/1458 SLP194 T02420183 50001 CXLB 281500Z AUTO 18011KT 18/18 RMK AO1 SLP208 T01830183 51004 CXLL 281500Z AUTO 15004KT 11/02 RMK AO1 SLP002 T01060020 53021 CXMD 281500Z AUTO 34012G20KT 09/05 RMK AO1 PK WND 35022/1430 SLP177 T00920047 53010 CXMG 281500Z AUTO 24012KT 13/09 RMK AO1 PK WND 24019/1413 T01340086 CXMI 281500Z AUTO 22012KT 20/19 RMK AO1 PK WND 22019/1403 SLP215 T02010189 51003 CXMM 281500Z AUTO 00024KT 14/06 RMK AO1 SLP070 T01360062 56020 CXMO 281500Z AUTO 19008KT 08/M00 RMK AO1 T00781001 CXMY 281500Z AUTO 20/20 RMK AO1 T02040204 CXNM 281500Z AUTO 25018G25KT RMK AO1 PK WND 24030/1412 CXNP 281500Z AUTO 21014G20KT 23/19 RMK AO1 PK WND 21021/1442 SLP190 T02330193 53001 CXOL 281500Z AUTO 22010KT 12/02 RMK AO1 T01240019 CXOX 281500Z AUTO 20006KT 07/05 RMK AO1 SLP168 T00740049 56030 CXOY 281500Z AUTO 20012KT 06/M00 RMK AO1 T00621004 CXPA 281500Z AUTO 26013KT 15/08 RMK AO1 PK WND 26022/1421 T01540078 CXPC 281500Z AUTO 20/16 RMK AO1 SLP031 T02020155 58009 CXPL 281500Z AUTO 19006KT 04/02 RMK AO1 T00420018 CXRB 281500Z AUTO 00000KT M10/M12 RMK AO1 SOG 09 8004 SLP178 T11001115 CXRH 281500Z AUTO 23008KT 18/16 RMK AO1 T01760155 CXRL 281500Z AUTO 26004KT 10/03 RMK AO1 T01020030 CXSC 281500Z AUTO 22011KT 09/01 RMK AO1 T00870010 CXSE 281500Z AUTO 12013KT M04/M05 RMK AO1 SOG 09 6006 SLP132 T10381050 CXSH 281500Z AUTO 15002KT 21/18 RMK AO1 SLP104 T02060176 51013 CXSL 281500Z AUTO 22004KT 10/02 RMK AO1 T01000022 CXSP 281500Z AUTO 20008KT 11/03 RMK AO1 T01140033 CXTD 281500Z AUTO 20012G19KT 23/19 RMK AO1 PK WND 21023/1441 SLP212 T02310186 50006 CXTH 281500Z AUTO 19012KT 10/02 RMK AO1 PK WND 20018/1444 T01030021 CXTN 281500Z AUTO 15017KT 03/02 RMK AO1 PK WND 15019/1441 SLP008 T00270017 53002 CXTO 281500Z AUTO 21/15 RMK AO1 SLP068 T02140154 56002 CXTP 281500Z AUTO 25010KT 19/15 RMK AO1 PK WND 25017/1458 SLP164 T01880152 50000 CXTV 281500Z AUTO 36006KT 02/02 RMK AO1 SLP018 T00180017 51012 CXVM 281500Z AUTO 22005KT 10/02 RMK AO1 T00970017 CXVN 281500Z AUTO 19011G17KT 24/17 RMK AO1 PK WND 20017/1450 SLP060 T02410168 58002 CXVW 281500Z AUTO 26015KT 16/07 RMK AO1 PK WND 26024/1440 T01590071 CXWB 281400Z AUTO 36001KT M02/M04 RMK AO1 SLP208 T10191038 57006 CXWM 281500Z AUTO 20005KT 10/02 RMK AO1 T01020024 CXWN 281500Z AUTO 32006KT 09/05 RMK AO1 SLP163 T00890046 53014 CXYH 281500Z AUTO 29010G23KT 14/01 RMK AO1 PK WND 29023/1253 SLP983 T01420005 53013 CXZC 281500Z AUTO 18002KT 13/11 RMK AO1 SLP057 T01280109 53013 CXZV 281500Z AUTO 17003KT 14/10 RMK AO1 SLP113 T01380095 51005 CYAB 281500Z VRB02KT 30SM FEW008 SCT017 BKN022 M03/M06 A3001 RMK SC1SC4SC2 SC TR VIS SE 10 -SHSN SLP165 CYAH 281526Z AUTO 25014G21KT 9SM BKN023 OVC027 11/08 A2966 RMK SLP056 DENSITY ALT 1100FT CYAM 281500Z 14005KT 110V170 10SM -SHRA SCT024 BKN044 OVC080 13/12 A2967 RMK CU4SC3AC1 SLP053 DENSITY ALT 900FT CYAS 281500Z 36015KT 4SM -SN BKN009 00/M01 A2989 RMK ST6 WIND EST WIND GUST 20 WND ESTD SLP133 CYAT 281527Z AUTO 05009KT 9SM -RA BKN003 OVC013 10/09 A2972 RMK SLP067 CYAW 281500Z 20009KT 8SM OVC005 20/20 A3018 RMK SF8 DA716FT SLP219 CYAY 281500Z AUTO 23017G24KT 9SM OVC007 15/14 A2982 RMK SLP101 DENSITY ALT 200FT CYAZ 281500Z 16003KT 15SM OVC041 13/13 A3036 RMK SC8 SLP283 CYBC 281500Z AUTO 24014KT 9SM OVC075 18/15 A2987 RMK SLP118 DENSITY ALT 400FT CYBD 281500Z 28008G15KT 2 1/2SM -SHRA BR FEW012 BKN025 OVC050TCU 16/15 A3019 RMK SF2SC3TCU3 SLP224 CYBG 281500Z 09004KT 25SM SCT065 BKN250 21/16 A2984 RMK SC3CI2 SLP103 CYBK 281500Z 17003KT 20SM FEW045 BKN130 02/01 A3003 RMK SC1AC5 SLP173 CYBL 281500Z VRB02KT 20SM FEW010 BKN030 BKN250 11/11 A3041 RMK ST1SC6CI1 ST TR SLP300 CYBN 281500Z AUTO 15010KT 9SM FEW063 23/17 A2967 RMK SLP047 CYBR 281500Z 34015KT 15SM SCT025 BKN250 10/04 A3011 RMK SC3CI2 SLP210 CYBU 281500Z AUTO 19006KT 9SM CLR 05/05 A3011 RMK SLP211 CYBV 281500Z 02006KT 340V060 15SM BKN011 BKN045 BKN080 07/05 A3000 RMK SC5SC1AC1 SLP170 CYBW 281500Z AUTO 28010G15KT 9SM CLR 16/02 A3013 RMK SLP214 DENSITY ALT 4600FT CYBX 281500Z 23006KT 1/8SM -DZ FG VV002 10/10 A2984 RMK FG8 SLP109 CYCA 281500Z AUTO 17005KT 130V210 9SM OVC008 07/07 A2973 RMK SLP068 CYCB 281500Z 14008KT 15SM BKN035 02/01 A2974 RMK SC7 VIA CYHZ SLP074 CYCD 281500Z 00000KT 15SM FEW035 SCT250 10/10 A3041 RMK SC1CI2 SLP299 CYCG 281517Z 15002KT 1/4SM FG FEW250 06/06 A3049 RMK FG5CI1 SLP338 CYCK 281500Z AUTO 21012G19KT 9SM CLR 22/17 A2969 RMK SLP053 DENSITY ALT 1800FT CYCO 281500Z 12006KT 15SM BKN021 OVC090 05/04 A2954 RMK SC7AS1 SLP006 CYCP 281513Z 00000KT 3/8SM FG VV003 04/04 A3038 RMK FG8 SLP309 CYCQ 281500Z 22009KT 35SM FEW035 FEW045 SCT100 BKN150 OVC220 13/04 A3000 RMK SC1SC1AC2AS2CI2 DIST PCPN S+W VIRGA ALQDS SUN DMLY VISBL ACSL E+S SLP174 DENSITY ALT 2100FT CYCS 281500Z 00000KT 15SM BKN020 02/M01 A3011 RMK SC7 SLP197 CYCX 281500Z CCA 17007KT 15SM BKN012 23/19 A3003 RMK SC6 DA1338FT SLP169 CYCY 281510Z 31014KT 1 1/2SM -SN DRSN FEW014 SCT032 BKN060 BKN140 M02/M02 A2992 RMK SF2SC2SC2AC1 SLP134 CYDA 281500Z 00000KT 15SM FEW002 OVC029 05/04 A2941 RMK ST1SC7 VIS 2 E SLP978 CYDB 281500Z 14019G29KT 30SM FEW010 FEW035 FEW060 SCT085 BKN140 05/01 A2940 RMK SF1SC1SC1AC2AC3 SF TR SLP987 DENSITY ALT 2700FT CYDC 281500Z 00000KT 25SM SCT250 03/03 A3044 RMK CI4 CONTRAILS SLP319 CYDF 281500Z 22012KT 15SM OVC015 19/16 A2999 RMK SC8 SLP157 DENSITY ALT 500FT CYDL 281500Z AUTO VRB03KT 9SM FEW035 04/01 A2994 RMK SLP158 CYDN 281500Z AUTO 33015G20KT 9SM OVC031 09/03 A3011 RMK SLP207 CYDP 281500Z 06008KT 14SM -RASN FEW006 OVC011 02/02 A2981 RMK SF2SC6 SLP097 CYDQ 281500Z AUTO 25016G22KT 9SM CLR 13/07 A2996 RMK SLP161 DENSITY ALT 2300FT CYED 281500Z AUTO 24008KT 9SM CLR 13/03 A2997 RMK SLP166 CYEG 281500Z 21003KT 20SM SCT120 BKN180 OVC210 11/04 A3000 RMK AC3AC4CI1 SLP180 DENSITY ALT 2500FT CYEK 281500Z 11010KT 15SM OVC014 04/02 A3007 RMK SC8 SLP184 CYEN 281500Z AUTO 30009G15KT 9SM CLR 07/05 A3020 RMK SLP247 CYET 281500Z AUTO 25004KT 9SM FEW095 10/05 A3003 RMK SLP184 CYEV 281500Z 36008KT 8SM BKN004 OVC017 02/02 A2957 RMK ST6SC2 SLP020 CYFB 281500Z 27004KT 30SM OVC010 M03/M05 A3000 RMK SC8 SLP162 CYFC 281500Z AUTO 16009G16KT 9SM BKN017 BKN022 23/20 A3002 RMK SLP167 DENSITY ALT 900FT CYFO 281500Z 18003KT 15SM SCT013 BKN190 06/04 A3006 RMK SC5AS2 SLP194 CYFR 281500Z 25009G17KT 210V280 15SM FEW040 10/08 A2943 RMK SC1 SC TR SLP976 DENSITY ALT 600FT CYFS 281500Z 25006KT 15SM FEW140 FEW160 FEW200 09/03 A2945 RMK AC1AC1CI1 AC TR SLP982 DENSITY ALT 600FT CYFT 281500Z 12009KT 10SM OVC005 06/05 A2971 RMK SC8 SLP066 CYGE 281500Z 00000KT 20SM SCT120 OVC230 04/02 A3044 RMK AC3CI5 SLP332 CYGH 281500Z 26005KT 10SM -RA BKN005 OVC012 06/06 A2943 RMK ST6SC2 CIG RAG SLP971 CYGK 281500Z 18009KT 15SM FEW025 SCT080 SCT240 21/19 A2979 RMK CU1AC2CI1 SLP089 DENSITY ALT 1300FT CYGL 281500Z 32003KT 290V020 15SM FEW010 SCT085 BKN220 14/09 A2973 RMK CF1AC4CI2 CF TR SLP074 DENSITY ALT 900FT CYGP 281500Z 25012G17KT 15SM FEW025 BKN300 23/16 A2992 RMK CU1CI5 SLP134 DENSITY ALT 1100FT CYGQ 281510Z 32005KT 3SM BR OVC012 11/10 A2968 RMK SF8 SLP060 DENSITY ALT 1200FT CYGR 281500Z 23018G27KT 15SM FEW009 SCT012 BKN270 20/18 A3005 RMK SF1SC3CI3 SLP176 DENSITY ALT 600FT CYGT 281500Z 36011KT 15SM BKN015 M04/M07 A3003 RMK SC7 SLP177 CYGV 281500Z AUTO 27012KT 9SM CLR 18/14 A2988 RMK SLP121 DENSITY ALT 500FT CYGW 281522Z AUTO 27004KT 2 1/2SM BR BKN004 OVC010 10/09 A2973 RMK SLP068 CYGX 281500Z 01011KT 3SM -DZ BR OVC005 05/04 A3000 RMK ST8 SLP168 CYHA 281500Z 03009G15KT 10SM -SHSN BKN009TCU M00/M02 A2996 RMK TCU7 -SHSN INTMT SLP150 CYHD 281506Z AUTO 30008KT 6SM BR BKN008 OVC013 07/06 A2979 RMK SLP102 CYHE 281529Z AUTO 11007KT 9SM SCT002 09/09 A3041 RMK SLP300 CYHI 281500Z 11010KT 15SM FEW004 BKN012 BKN031 03/02 A2963 RMK ST1SC5SC1 CIG RAG SLP037 CYHK 281521Z 16015KT 15SM FEW008 BKN016 BKN160 02/01 A2997 RMK ST2SC3AC1 SLP153 CYHM 281500Z 19012KT 15SM FEW018 SCT035 BKN045 BKN250 22/18 A2972 RMK CU2SC2SC1CI1 SLP064 DENSITY ALT 2100FT CYHU 281508Z AUTO 15009KT 9SM FEW037 BKN048 BKN060 OVC088 22/21 A2981 RMK SLP097 DENSITY ALT 1000FT CYHY 281500Z 25007KT 15SM FEW090 FEW240 09/06 A2948 RMK AC1CI1 AC TR SLP991 CYHZ 281500Z 20012G18KT 12SM OVC004 20/19 A3017 RMK SC8 SLP217 DENSITY ALT 900FT CYIK 281500Z 05007KT 15SM FEW009 FEW013 FEW180 01/M01 A3000 RMK ST1ST1AS1 ST TR ST TR AS TR SLP163 CYIN 281500Z AUTO 13007KT 9SM OVC220 08/05 A3027 RMK SLP262 CYIO 281500Z 17005KT 40SM OVC019 M04/M06 A3000 RMK ST8 S00 AFT 21UTC/9/SNW CVR/MUCH LOOSE SLP167 CYIV 281512Z 36012KT 12SM BKN005 BKN250 06/04 A2998 RMK CU6CI1 OCNL SH SLP165 CYJF 281500Z 24010G16KT 210V280 15SM FEW078 FEW100 10/03 A2963 RMK AC1AC1 SLP042 CYJT 281522Z 27012G22KT 4SM -SHRA BR OVC007 15/15 A3006 RMK SF8 SLP180 CYKA 281500Z 06004KT 40SM SCT220 BKN270 10/07 A3036 RMK CI4CI3 SLP290 CYKD 281521Z 32007KT 2 1/2SM -DZ BR BKN004 OVC024 02/02 A2961 RMK ST7SC1 CIG RAG SLP029 CYKF 281511Z AUTO 16011KT 9SM SCT019 22/17 A2970 RMK PRESFR SLP054 DENSITY ALT 2300FT CYKG 281500Z 32003KT 270V360 12SM -SHSN BKN013 M02/M05 A2995 RMK ST7 SLP157 CYKJ 281500Z AUTO 18011G16KT 8SM -RA OVC046 06/05 A2981 RMK PRESFR SLP122 CYKL 281524Z AUTO 26017G27KT 9SM SCT023 BKN027 BKN032 BKN042 13/10 A2964 RMK SLP053 DENSITY ALT 2200FT CYKO 281500Z 06007KT 15SM BKN017 02/M01 A2995 RMK SC7 SLP146 CYKP 281527Z AUTO 03010G15KT 2 1/4SM -RA BR BKN005 OVC026 11/11 A2965 RMK SLP044 CYKY 281500Z 20016KT 15SM SCT110 OVC230 06/02 A3011 RMK AC3CS5 SLP217 CYLA 281500Z 03018KT 12SM OVC004 01/M00 A2988 RMK ST8 SLP121 CYLC 281500Z 06003KT 010V080 15SM -SN OVC014 M02/M04 A3000 RMK SC8 SLP164 CYLD 281500Z 16004KT 12SM BKN004 BKN020 OVC060 12/11 A2970 RMK SF5SC2SC1 BR SLP067 DENSITY ALT 1700FT CYLH 281500Z AUTO 02009G15KT 9SM OVC007 10/10 A2972 RMK SLP073 CYLJ 281500Z 21010KT 15SM SCT065 OVC080 11/04 A2996 RMK SC3AC5 SLP161 CYLK 281500Z 12010G18KT 6SM -RA OVC034 06/06 A2946 RMK SC8 SLP987 CYLL 281500Z 21010G16KT 15SM FEW120 BKN270 07/02 A3000 RMK AC2CI5 SLP182 CYLT 281500Z 22028KT 10SM DRSN FEW070 BKN080 BKN200 M05/M08 A2972 RMK AC2AC5CI1 SLP069 CYLU 281400Z 11006KT 15SM BKN045 OVC170 05/M01 A2981 RMK SC7AC1 LAST OBS/NEXT 281600UTC SLP102 CYLW 281500Z AUTO 00000KT 9SM CLR 05/05 A3042 RMK SLP312 CYMA 281500Z 02006KT 15SM BKN044 06/04 A2941 RMK SC8 SLP982 CYMH 281514Z AUTO 20004KT 140V240 9SM SCT014 14/12 A2974 RMK SLP074 DENSITY ALT 100FT CYMJ 281500Z 24009KT 15SM SCT150 OVC270 07/05 A3021 RMK AC3CI5 SLP246 CYMM 281500Z AUTO 23014KT 9SM OVC090 14/06 A2971 RMK SLP075 DENSITY ALT 1500FT CYMO 281500Z AUTO 21004KT 9SM CLR 13/11 A2970 RMK SLP057 CYMT 281500Z AUTO 17006KT 9SM FEW100 BKN210 BKN230 17/13 A2978 RMK SLP090 DENSITY ALT 1900FT CYMU 281500Z 08015KT 15SM FEW012 SCT046 SCT300 09/05 A2973 RMK ST2SC1CI1 SC TR SLP074 CYMX 281500Z 00000KT 35SM BKN060 BKN150 OVC250 20/17 A2982 RMK SC5AC1CI2 SLP101 DENSITY ALT 1100FT CYNA 281500Z AUTO 26006KT 220V280 9SM CLR 17/14 A2989 RMK SLP125 DENSITY ALT 200FT CYND 281500Z 09006KT 15SM BKN040 BKN070 19/17 A2979 RMK SC5AC2 SLP091 DENSITY ALT 1000FT CYNE 281524Z AUTO 02004KT 330V070 9SM SCT014 07/04 A3004 RMK SLP186 CYNM 281500Z AUTO 22004KT 9SM FEW044 SCT055 SCT110 15/14 A2975 RMK SLP079 DENSITY ALT 1300FT CYOC 281500Z 04014G19KT 8SM -SN VCBLSN FEW016 BKN039 OVC100 00/M02 A2956 RMK ST2SC3AC3 SLP029 CYOD 281500Z 19008KT 15SM SCT100 OVC180 10/03 A2993 RMK AC4AC4 VIRGA SLP152 CYOJ 281500Z 21006KT 180V240 15SM FEW110 FEW260 11/07 A2968 RMK AC1CI1 SLP063 DENSITY ALT 1200FT CYOO 281500Z AUTO 18010KT 9SM CLR 21/17 A2973 RMK SLP068 DENSITY ALT 1500FT CYOW 281500Z 16007KT 15SM FEW012 SCT045 BKN065 20/17 A2979 RMK CF1SC3SC3 CF TR SLP090 DENSITY ALT 1300FT CYOY 281500Z 14004KT 090V160 15SM BKN022 OVC075 21/17 A2987 RMK SC6AC2 DA1640FT SLP116 CYPA 281500Z 22005KT 15SM OVC120 07/06 A3011 RMK AC8 SLP214 CYPC 281500Z 08004KT 15SM OVC020 04/04 A2951 RMK SC8 SLP996 CYPD 281500Z AUTO 23012G19KT 9SM CLR 24/18 A3016 RMK SLP215 DENSITY ALT 1100FT CYPE 281500Z 28015G22KT 15SM FEW150 BKN230 14/07 A2988 RMK AC1CI6 SLP133 DENSITY ALT 2300FT CYPG 281500Z 31017G23KT 5SM -DZ BR BKN011 OVC020 08/07 A3005 RMK SF6SC2 SLP184 CYPH 281500Z AUTO 08015KT 9SM OVC011 05/02 A2984 RMK SLP108 CYPL 281512Z AUTO 05005KT 020V080 9SM -RA BKN007 BKN013 OVC037 09/09 A2974 RMK SLP084 CYPO 281500Z AUTO 03006KT 360V090 9SM OVC033 09/08 A2981 RMK SLP098 CYPQ 281518Z AUTO 16008KT 150V210 9SM BKN023 BKN034 22/17 A2974 RMK SLP071 DENSITY ALT 1700FT CYPR 281523Z AUTO 14004KT 9SM SCT023 SCT042 BKN055 OVC067 12/11 A3022 RMK SLP235 CYPW 281500Z 05002KT 20SM FEW055 FEW150 11/10 A3041 RMK SC1AC1 AC TR SLP301 CYPX 281500Z AUTO 08009G16KT 9SM OVC013 03/01 A2992 RMK SLP135 CYPY 281500Z AUTO 23005KT 9SM BKN070 11/07 A2956 RMK PRESFR SLP021 DENSITY ALT 800FT CYQA 281500Z AUTO 14012G20KT 9SM CLR 22/17 A2968 RMK SLP051 DENSITY ALT 2100FT CYQB 281500Z 06006KT 20SM BKN028 BKN040 OVC230 20/17 A2987 RMK SC6SC1CI1 SLP119 DENSITY ALT 1000FT CYQD 281500Z AUTO 33005KT 270V350 9SM BKN015 OVC024 07/04 A3008 RMK SLP198 CYQF 281500Z 23006KT 15SM FEW150 OVC250 08/03 A3006 RMK AC2CI6 SLP207 CYQG 281500Z AUTO 32003KT 290V360 9SM OVC014 18/15 A2970 RMK SLP057 DENSITY ALT 1300FT CYQH 281500Z 00000KT 30SM BKN058 04/02 A2976 RMK SC5 SLP102 CYQI 281519Z 17016KT 5SM BR BKN005 OVC090 22/20 A3010 RMK SF5AC3 SLP195 DENSITY ALT 800FT CYQK 281500Z 32009G16KT 3SM -RA BR OVC003 07/06 A2984 RMK SF8 CIG RAG SLP119 CYQL 281500Z 23014KT 60SM FEW120 SCT150 BKN250 13/02 A3017 RMK AC2AC1CI3 SLP226 DENSITY ALT 3200FT CYQM 281500Z 21016G24KT 15SM BKN030 BKN240 25/19 A3005 RMK CU5CI1 CONTRAILS SLP176 DENSITY ALT 1300FT CYQQ 281500Z 00000KT 20SM MIFG FEW008 FEW040 FEW250 11/10 A3041 RMK ST1SC1CI1 SLP298 CYQR 281500Z 27004KT 15SM FEW130 OVC220 06/04 A3021 RMK AC1CI8 AC TR SLP250 CYQT 281500Z 30008KT 20SM SCT016 BKN021 BKN065 11/08 A2970 RMK SC4SC2SC1 SLP065 CYQU 281500Z 25011KT 25SM FEW070 BKN110 14/09 A2999 RMK AC1AC6 SLP171 DENSITY ALT 2600FT CYQV 281508Z AUTO 32008KT 9SM SCT024 08/04 A3014 RMK SLP225 CYQW 281500Z AUTO 17006KT 9SM FEW110 08/04 A3009 RMK SLP208 CYQX 281500Z 23014G23KT 20SM FEW018 BKN027 BKN160 20/16 A2999 RMK SC2SC4AC1 SLP158 DENSITY ALT 1200FT CYQY 281500Z 20012G18KT 15SM FEW010 FEW090 SCT240 23/18 A3014 RMK CU1AC1CI3 AC TR SLP210 DENSITY ALT 1000FT CYQZ 281500Z AUTO 10004KT 070V150 9SM -RA OVC070 12/08 A3022 RMK SLP246 CYRA 281527Z 13006KT 4SM -DZ BR BKN005 OVC008 07/06 A2934 RMK ST5ST3 SLP949 CYRB 281517Z 00000KT 7SM SCT071 M09/M10 A3002 RMK AC3 SLP176 CYRJ 281500Z 10003KT 030V160 40SM BKN026 OVC085 21/17 A2980 RMK SC6AC2 SLP095 DENSITY ALT 1500FT CYRL 281500Z 35007KT 320V020 3SM -RA BR BKN007 OVC020 08/08 A2982 RMK FG1ST5SC2 SLP112 CYRQ 281500Z AUTO VRB02KT 9SM OVC065 21/18 A2983 RMK SLP104 DENSITY ALT 1000FT CYRT 281500Z 10008KT 15SM SCT029 SCT250 03/M00 A3008 RMK SC4CI1 CI TR SLP189 CYRV 281500Z AUTO 00000KT 9SM OVC017 08/08 A3046 RMK SLP327 CYSB 281500Z 03007KT 6SM -SHRA BR SCT003 OVC030 13/13 A2969 RMK SF4SC4 SLP058 DENSITY ALT 1500FT CYSC 281500Z AUTO VRB05KT 9SM FEW040 SCT055 SCT240 23/20 A2988 RMK SLP118 DENSITY ALT 1800FT CYSD 281500Z 20005KT 15SM BKN100 08/01 A3016 RMK AC6 DA2035FT SLP219 CYSF 281502Z AUTO 16012G19KT 5SM -RA BR OVC055 06/05 A2970 RMK SLP072 CYSJ 281520Z 20010KT 3/8SM R05/2600V4000FT/U RA BR VV002 18/18 A3008 RMK FG8 SLP189 DENSITY ALT 700FT CYSK 281500Z 05017KT 15SM FEW045 SCT210 07/05 A2977 RMK SC1CS2 SLP083 CYSM 281500Z 17003KT 15SM FEW070 FEW140 08/08 A2951 RMK AC1AC1 AC TR SLP003 CYSN 281500Z 21015KT 15SM FEW033 FEW220 24/17 A2971 RMK SC1CI1 SC TR SLP062 DENSITY ALT 1700FT CYSP 281500Z 00000KT 12SM BKN009 OVC016 11/10 A2965 RMK ST6SC2 SLP051 DENSITY ALT 1100FT CYSY 281500Z 08008KT 15SM FEW014 SCT025 OVC044 01/01 A2960 RMK SC1SC2SC5 SLP032 CYTE 281500Z 35003KT 310V040 15SM BKN015 BKN050 M01/M04 A3003 RMK SC4SC2 SLP176 CYTH 281500Z 35003KT 260V050 15SM OVC008 04/03 A3004 RMK SC8 SLP186 CYTL 281500Z AUTO 36007KT 320V040 9SM OVC004 07/07 A2984 RMK SLP116 CYTQ 281500Z 03015G21KT 8SM OVC008 03/01 A2984 RMK SC8 SLP110 CYTR 281500Z 22007KT 15SM FEW025 SCT080 23/17 A2976 RMK CU1AC3 CU TR SLP077 CYTS 281500Z 15007KT 5SM -RA BKN028 OVC080 13/12 A2971 RMK SC5AC3 SLP067 DENSITY ALT 1200FT CYTZ 281500Z AUTO 16006KT 9SM CLR 21/17 A2972 RMK SLP064 DENSITY ALT 1100FT CYUA 281500Z AUTO 32015G20KT ////SM OVC003 01/01 A2963 CYUB 281500Z 36006KT 7SM BCFG OVC003 02/02 A2959 RMK ST8 SLP020 CYUL 281500Z 12006KT 30SM BKN045 OVC250 22/19 A2981 RMK SC7CI1 DIST SHWR W-NW SLP095 DENSITY ALT 1200FT CYUS 281500Z AUTO 14015KT ////SM //// BKN085 M01/M02 A3002 CYUT 281500Z 14003KT 100V170 15SM OVC015 M03/M06 A3012 RMK SC8 SLP205 CYUX 281500Z 34014KT 10SM -FZDZ OVC015 M03/M06 A3004 RMK ST8 SLP176 CYUY 281525Z 06004KT 8SM -RA FEW003 SCT015 BKN064 OVC090 14/14 A2972 RMK SF2SC1SC4AC1 SLP071 DENSITY ALT 1400FT CYVC 281500Z 18009KT 15SM OVC100 08/05 A3000 RMK AC8 SLP174 CYVL 281500Z AUTO 02004KT 9SM -RA FEW032 OVC041 06/06 A2939 RMK SLP970 CYVM 281500Z 01010KT 15SM FEW008 SCT012 OVC085 01/M00 A2991 RMK SF1SC3AC4 SLP130 CYVO 281500Z 00000KT 12SM -RA FEW002 OVC065 14/14 A2975 RMK SF1SC7 SLP081 DENSITY ALT 1500FT CYVP 281500Z 08009KT 15SM FEW022 BKN027 BKN035 BKN220 06/01 A2979 RMK SC1SC6SC1CI1 SC TR CI TR SLP093 CYVQ 281500Z 28012G17KT 25SM SCT007 BKN020 BKN030 05/05 A2943 RMK ST4SC2SC1 SLP972 CYVR 281500Z 20003KT 190V270 20SM FEW020 FEW035 FEW240 12/11 A3040 RMK CU1SC1CI1 CU TR SLP295 CYVT 281500Z AUTO 19011G19KT 9SM OVC060 10/05 A2978 RMK PRESFR SLP101 CYVV 281518Z 21011KT 6SM -SHRA BR OVC020 20/17 A2964 RMK SC8 CVCTV CLD EMBD SLP038 DENSITY ALT 1900FT CYWA 281500Z AUTO 14009KT 9SM CLR 20/16 A2972 RMK SLP066 CYWE 281500Z AUTO 12011KT 9SM -RA BKN015 BKN021 OVC028 05/05 A2939 RMK PCPN 1.0MM PAST HR SLP973 CYWG 281500Z 33017G25KT 15SM BKN018 BKN044 09/05 A2999 RMK SC6SC1 SLP164 CYWH 281500Z 31002KT 15SM FEW230 11/10 A3039 RMK CI1 CI TR SLP292 CYWJ 281500Z 27006KT 15SM -DZ SCT003 BKN005 07/07 A2932 RMK ST3ST4 BCFG DIST S SLP941 CYWK 281500Z 25013G21KT 15SM SCT023 BKN220 16/09 A2976 RMK SC3CI3 SLP089 DENSITY ALT 2600FT CYWL 281500Z 14008KT 15SM BKN090 09/05 A3024 RMK AC7 VIRGA E SLP258 CYXC 281500Z 23003KT 25SM BKN210 04/02 A3045 RMK CI7 SLP331 CYXE 281500Z 20007KT 15SM BKN110 BKN240 05/03 A3014 RMK AC5CI2 SLP225 CYXH 281500Z 21015G21KT 30SM OVC270 10/02 A3016 RMK CI8 SLP228 CYXJ 281500Z 23014G21KT 15SM FEW160 OVC220 12/05 A2994 RMK AC1CI8 AC TR SLP159 DENSITY ALT 2500FT CYXL 281500Z 32007KT 15SM BKN009 OVC013 08/06 A2976 RMK SF6SC2 SLP090 CYXN 281500Z 12007KT 15SM SCT022 04/M00 A3008 RMK CU4 SLP188 CYXP 281500Z 26006KT 15SM BKN018 00/M02 A2993 RMK SC7 SLP138 CYXR 281526Z AUTO 09006KT 9SM -RA OVC048 14/13 A2970 RMK SLP062 DENSITY ALT 1100FT CYXS 281519Z AUTO 17011G16KT 2 1/2SM -RA BR BKN005 BKN022 OVC030 09/09 A3020 RMK SLP245 CYXT 281500Z 00000KT 7SM -RA SCT001 BKN008 OVC050 10/10 A3023 RMK SF2SC5SC1 SLP243 CYXU 281500Z 18013G18KT 15SM SCT016 BKN270 22/18 A2970 RMK CU4CI3 SLP054 DENSITY ALT 2200FT CYXX 281500Z 01005KT 30SM FEW001 FEW150 FEW210 11/10 A3039 RMK SF1AC1CI1 SF TR CI TR SLP292 CYXY 281500Z 16007KT 40SM FEW025 SCT055 BKN100 08/01 A2961 RMK CU1SC3AC1 SLP051 DENSITY ALT 2400FT CYXZ 281500Z 21003KT 180V270 15SM BKN045 BKN090 BKN160 13/12 A2966 RMK SC5AC1AS1 SLP049 DENSITY ALT 1300FT CYYB 281514Z 09005KT 15SM SCT008 BKN042 OVC060 17/16 A2966 RMK SC3SC3SC2 SLP047 DENSITY ALT 2100FT CYYC 281500Z 17006KT 160V230 40SM SCT200 BKN250 OVC300 13/02 A3010 RMK CC3CC4CI1 SLP206 DENSITY ALT 4100FT CYYD 281500Z 00000KT 25SM FEW015 FEW030 BKN060 BKN140 08/06 A3019 RMK SF1SC2SC3AC2 SF TR SLP234 CYYE 281526Z 00000KT 30SM PRFG FEW120 SCT220 02/02 A2976 RMK FG1AC1CI2 AC TR FG BANK E-SE VIS 1/2 SLP094 CYYF 281500Z VRB03KT 15SM FEW150 SCT230 08/05 A3042 RMK AC1CI4 AC TR SLP308 CYYG 281500Z 19009G15KT 15SM OVC014 21/19 A3009 RMK SC8 SLP192 DENSITY ALT 700FT CYYH 281520Z 15010KT 15SM -SN SCT011 BKN036 M00/M02 A3001 RMK SC3SC5 SLP167 CYYJ 281500Z 28004KT 30SM FEW035 FEW250 11/10 A3039 RMK SC1CI1 SC TR CI TR SLP294 CYYL 281500Z AUTO 15005KT 9SM BKN034 03/03 A2999 RMK PRESFR SLP177 CYYN 281500Z AUTO 22010KT 9SM CLR 06/02 A3018 RMK SLP241 CYYQ 281511Z 06008KT 5SM -DZ BR OVC009 04/04 A3002 RMK ST8 SLP168 CYYR 281500Z 00000KT 5SM BR OVC005 09/08 A2975 RMK SF8 VIS HIER SW SLP075 CYYT 281500Z 26016G25KT 15SM OVC006 17/16 A3011 RMK ST8 SLP199 DENSITY ALT 700FT CYYU 281500Z 16003KT 10SM SCT005 BKN054 OVC110 13/12 A2968 RMK SF3SC4AC1 BR SLP057 DENSITY ALT 1000FT CYYW 281500Z AUTO 33006KT 10/08 A2970 RMK CLD MISG WX MISG VIS MISG PCPN MISG SLP059 CYYY 281500Z 20009G15KT 15SM BKN045 OVC090 23/16 A2988 RMK SC6AC2 SLP121 DENSITY ALT 1200FT CYYZ 281500Z 17007KT 15SM BKN020 22/17 A2971 RMK CU5 SLP060 DENSITY ALT 1800FT CYZE 281500Z AUTO 35003KT 9SM -RA FEW017 SCT050 BKN065 OVC086 13/12 A2968 RMK SLP055 DENSITY ALT 800FT CYZF 281500Z 22006KT 15SM FEW006 BKN016 BKN110 08/08 A2937 RMK ST2SC4AC1 SLP958 DENSITY ALT 700FT CYZG 281500Z 06007KT 10SM FEW003 SCT008 M02/M04 A2996 RMK ST1ST3 SLP167 CYZH 281500Z AUTO 26019G32KT 9SM FEW090 BKN110 OVC140 17/07 A2988 RMK SLP129 DENSITY ALT 2600FT CYZP 281500Z AUTO 23004KT 9SM BKN100 OVC120 13/10 A3021 RMK SLP233 CYZR 281502Z AUTO 36003KT 9SM OVC009 18/17 A2968 RMK SLP050 DENSITY ALT 1300FT CYZS 281500Z 36006KT 15SM BKN021 M01/M04 A3009 RMK SC7 SLP197 CYZT 281500Z 13010G15KT 15SM BKN033 14/11 A3030 RMK SC7 SLP264 CYZU 281500Z 32007KT 15SM SCT089 SCT130 BKN240 12/05 A2997 RMK AC3AC1CI2 SLP163 DENSITY ALT 2800FT CYZV 281500Z 23004KT 190V260 30SM FEW030 BKN250 17/14 A2986 RMK SC1CI6 SLP116 DENSITY ALT 600FT CYZW 281500Z 16010KT 40SM FEW030 SCT035 08/M02 A2973 RMK CU2CF1 SLP091 CYZX 281500Z 21014G20KT 15SM SCT026 24/19 A3010 RMK SC4 SLP194 CYZY 281500Z AUTO 19005G15KT 110V230 9SM SCT038 OVC085 11/04 A3013 RMK SLP222 CZBF 281500Z AUTO 19008KT 9SM FEW023 24/19 A2998 RMK SLP153 DENSITY ALT 1100FT CZCP 281500Z AUTO 07010KT ////SM //// OVC003 02/02 A2953 CZCR 281500Z AUTO 03005KT 21/17 RMK AO1 SLP139 T02050172 50001 CZDB 281500Z AUTO 21007KT 23/19 RMK AO1 SLP206 T02330192 50003 CZEL 281500Z AUTO 19010KT 19/16 RMK AO1 SLP068 T01850163 58006 CZEM 281500Z 00000KT 15SM BKN008 BKN035 13/11 A2972 RMK SC7SC1 SLP065 CZEV 281500Z AUTO 01009KT 02/02 RMK AO1 3012 SLP023 T00200019 50002 CZFA 281500Z 31008KT 30SM BKN068 BKN090 07/01 A2948 RMK AC6AC2 PRESRR SLP011 DENSITY ALT 2500FT CZFM 281500Z 34008KT 5SM -RA BR OVC006 02/01 A2957 RMK ST8 SLP017 CZFN 281500Z 18004KT 160V300 7SM OVC009 06/05 A2941 RMK SC8 R0.9 AFT 252300 SLP965 CZFS 281500Z AUTO 23006KT 09/03 RMK AO1 SLP982 T00940027 53012 CZHY 281500Z AUTO 25006KT 09/05 RMK AO1 SLP986 T00900053 53002 CZMD 281500Z AUTO /////KT 9SM OVC004 06/06 A2987 RMK WND MISG SLP126 CZMJ 281500Z AUTO 25006KT 07/04 RMK AO1 SLP255 T00720040 56005 CZMT 281500Z VRB02KT 15SM FEW040 OVC200 11/11 A3020 RMK CU2CI2 SLP228 CZMU 281400Z AUTO 19006KT 09/03 RMK AO1 T00860030 CZOL 281500Z AUTO 23003KT 12/04 RMK AO1 T01210035 CZPC 281500Z AUTO 27019G27KT 9SM 12/01 A3024 RMK CLD MISG SLP251 DENSITY ALT 4100FT CZPS 281400Z AUTO 24010KT 10/01 RMK AO1 T01020012 CZRP 281500Z AUTO 11001KT M08/M09 RMK AO1 SLP161 T10821089 56002 CZSJ 281514Z AUTO /////KT 9SM OVC006 06/06 A2991 RMK WND MISG SLP141 CZSM 281500Z AUTO 18002KT 08/08 RMK AO1 6023 SLP001 T00820075 50022 CZSP 281500Z AUTO 21015G22KT 23/19 RMK AO1 PK WND 20022/1451 SLP196 T02340191 51006 CZST 281513Z 00000KT 6SM BR FEW005 BKN012 OVC050 09/09 A3020 RMK SC2SC4SC2 SLP227 CZTB 281500Z AUTO 32009KT 11/08 RMK AO1 SLP065 T01060080 51005 CZUM 281500Z AUTO 26006KT 210V300 9SM FEW036 16/11 A2973 RMK SLP081 DENSITY ALT 2100FT CZVL 281500Z AUTO 26009KT BKN160 16/04 A2996 RMK WX MISG VIS MISG PCPN MISG ICG MISG SLP160 DENSITY ALT 2800FT CZZJ 281500Z AUTO 25004KT 11/05 RMK AO1 SLP184 T01060048 50006 DAAD 281500Z 07005KT CAVOK 26/03 Q1016 DAAE 281500Z 12005KT CAVOK 24/13 Q1016 DAAG 281500Z 03013KT 9999 FEW023 SCT230 26/16 Q1017 DAAJ 281500Z 20002KT CAVOK 36/M02 Q1017 DAAP 281500Z 13003KT 9999 FEW040 40/// Q1012 DAAS 281500Z 27009KT CAVOK 22/M06 Q1019 DAAT 281500Z 09011KT 040V120 CAVOK 34/// Q1020 DAAV 281500Z 02003KT 9999 FEW023 24/08 Q1016 DAAY 281500Z 17012KT CAVOK 29/03 Q1020 DABB 281500Z 36011KT 9999 FEW026 26/11 Q1014 DABC 281500Z 02010KT 350V050 CAVOK 24/06 Q1018 DABS 281500Z 31010KT 9999 FEW033 25/02 Q1017 DABT 281500Z 31013KT CAVOK 26/M06 Q1018 DAFH 281500Z 16005KT CAVOK 29/08 Q1018 DAOB 281500Z 27004KT CAVOK 25/M06 Q1019 DAOF 281500Z 16014KT 8000 NSC 35/02 Q1009 DAOI 281500Z 24006KT CAVOK 29/04 Q1014 DAOL 281500Z 06012KT CAVOK 32/02 Q1014 DAON 281500Z 34012KT CAVOK 28/12 Q1013 DAOO 281500Z 34011KT CAVOK 27/14 Q1013 DAOR 281500Z 11009KT CAVOK 32/02 Q1015 DAOV 281500Z 02008KT CAVOK 29/01 Q1015 DAOY 281500Z 24007KT CAVOK 25/02 Q1020 DATM 281500Z 14012KT CAVOK 41/// Q1008 DAUA 281500Z 22007KT CAVOK 44/// Q1008 DAUB 281500Z 25004KT CAVOK 30/04 Q1015 DAUE 281500Z 08008KT CAVOK 35/M01 Q1013 DAUG 281500Z 07007KT 040V110 CAVOK 31/06 Q1016 DAUH 281500Z 03006KT CAVOK 35/06 Q1012 DAUI 281500Z 05004KT CAVOK 43/// Q1009 DAUK 281500Z 03005KT CAVOK 31/06 Q1014 DAUL 281500Z 16006KT CAVOK 29/12 Q1018 DAUO 281500Z 27002KT CAVOK 31/09 Q1014 DAUT 281500Z 33003KT CAVOK 41/02 Q1009 DAUU 281500Z 06010KT CAVOK 34/04 Q1013 DAUZ 281500Z 15009KT 110V220 9999 FEW046 41/// Q1013 DBBB 281400Z 23012KT 9999 SCT013 29/24 Q1010 NOSIG DFFD 281500Z 26005KT 210V290 9999 FEW020 33/24 Q1010 NOSIG DFOO 281500Z 29004KT 240V340 9999 FEW016 32/23 Q1011 DGAA 281500Z 19015KT 9999 FEW020 28/23 Q1010 NOSIG DGLE 281400Z 23005KT 9999 SCT016 33/24 Q1008 NOSIG DGSI 281400Z 00000KT 9999 BKN018 30/23 Q1011 NOSIG DGTK 281400Z 27002KT 3000 TSRA BKN010 FEW030CB 25/24 Q1012 NOSIG DIAP 281500Z 22007KT 9999 FEW010 SCT040 26/24 Q1011 NOSIG DIBK 281500Z 34006KT 9999 TS BKN013 FEW020CB 30/23 Q1012 NOSIG DIYO 281500Z 30004KT 9999 SCT015 SCT260 32/24 Q1010 NOSIG DNAA 281500Z 16006KT 3000 -TSRA BKN007 FEW017CB 21/20 Q1012 BECMG 5000 DNEN 281400Z 13005KT 3000 TSRA BKN009 FEW019CB 24/24 Q1010 TEMPO 1500 TSRA DNIB 281300Z 24004KT 9999 SCT013 30/22 Q1011 DNIL 281300Z 00000KT 9999 SCT013 31/23 Q1012 DNJO 281300Z 08016KT 5000 -RA BKN003 18/18 Q1017 DNKA 281300Z 12011KT 9999 -TSRA BKN009 FEW020CB 22/20 Q1015 DNKN 281500Z 20008KT CAVOK 28/22 Q1012 NOSIG DNMM 281400Z 24006KT 9999 BKN013 FEW020CB 30/25 Q1011 TEMPO TS DNMN 281300Z 27007KT 9999 SCT013 30/23 Q1011 DNPO 281500Z 19004KT 9999 BKN009 FEW020CB 27/24 Q1009 TEMPO TS DRRM 281500Z 32004KT 280V360 CAVOK 35/20 Q1009 DRRN 281500Z 32005KT 290V030 9999 FEW030 36/19 Q1008 NOSIG DRRT 281500Z 34006KT CAVOK 35/17 Q1009 DRZA 281500Z 14014KT CAVOK 40/05 Q1010 DRZR 281500Z 20006KT CAVOK 34/17 Q1009 DTKA 281500Z 30012KT 9999 FEW020 23/11 Q1016 NOSIG DTMB 281500Z 09014KT CAVOK 25/14 Q1015 DTNH 281500Z 20005KT 150V240 9999 FEW026 28/09 Q1015 DTTA 281500Z 01008KT 9999 FEW023 26/10 Q1016 DTTB 281500Z 28013KT 9999 SCT020 24/11 Q1016 DTTD 281500Z 07006KT 360V110 9999 SCT026 31/11 Q1015 DTTF 281500Z 21008KT 170V240 CAVOK 30/10 Q1015 NOSIG DTTG 281500Z 06014KT CAVOK 28/18 Q1015 NOSIG DTTJ 281500Z 08014KT CAVOK 28/18 Q1015 NOSIG DTTK 281500Z 16002KT 9999 FEW023 29/12 Q1014 DTTL 281500Z 14006KT 9999 SCT020 24/14 Q1016 DTTN 281500Z 33010KT 300V030 9999 FEW020 26/08 Q1015 DTTR 281500Z 01010KT 9999 FEW020 35/04 Q1014 DTTX 281500Z 08007KT 050V110 CAVOK 26/15 Q1015 DTTZ 281500Z 27004KT 230V340 CAVOK 32/08 Q1014 DXNG 281500Z 27005KT 220V310 9999 SCT008 30/21 Q1012 DXSK 281500Z 00000KT 9999 SCT016 BKN260 29/23 Q//// DXXX 281500Z 21015KT 170V230 9999 FEW015 28/23 Q1010 NOSIG EBAW 281520Z 14003KT 2000 -DZ BR BKN002 13/13 Q1009 NOSIG EBBE 281455Z 19006KT 2000 RADZ BKN005 BKN010 12/11 Q1009 YLO YLO TEMPO AMB EBBL 281503Z 17005KT 3000 -DZ BKN005 11/10 Q1009 YLO YLO TEMPO AMB EBBR 281520Z 32005KT 1600 RADZ BR BKN002 15/14 Q1009 NOSIG EBCI 281520Z 28008KT 230V330 3000 -RADZ BR SCT003 BKN005 14/13 Q1009 TEMPO 2000 RADZ BR BKN003 EBDT 281509Z AUTO 17005KT 3000 -RA SCT002/// BKN004/// BKN006/// 11/11 Q1009 AMB EBFN 281455Z AUTO 31012KT 9999 OVC012/// 14/12 Q1011 GRN EBFS 281504Z 20007KT 2000 -RADZ BKN003 BKN007 10/10 Q1009 YLO YLO TEMPO AMB EBLB 281455Z AUTO 21005KT 9999 -DZ OVC006/// 08/08 Q1010 YLO EBLG 281520Z 17009KT 140V200 2500 DZ SCT003 BKN005 10/09 Q1010 TEMPO 4000 -RADZ BKN003 EBOS 281520Z 32012KT 9999 BKN010 14/12 Q1011 TEMPO BKN011 EDAH 281450Z 12007KT 9999 SCT037 16/09 Q1012 EDDB 281520Z 14005KT 110V180 9999 SCT048 17/07 Q1011 NOSIG EDDC 281520Z 12005KT 080V140 9999 FEW040 13/07 Q1011 NOSIG EDDE 281520Z VRB02KT CAVOK 16/07 Q1011 NOSIG EDDF 281520Z 18005KT 150V210 9999 FEW036 SCT043 16/07 Q1011 NOSIG EDDG 281520Z 22008KT 180V240 9999 FEW016 BKN046 13/10 Q1010 NOSIG EDDH 281520Z 17006KT 9999 FEW018 BKN040 14/10 Q1010 NOSIG EDDK 281520Z 19006KT 9999 FEW026 14/08 Q1010 NOSIG EDDL 281520Z 19003KT 160V230 9999 FEW015 BKN040 13/09 Q1010 NOSIG EDDM 281520Z VRB02KT 9999 FEW028 SCT043 10/07 Q1012 NOSIG EDDN 281520Z 23003KT 200V270 9999 FEW033 14/08 Q1011 NOSIG EDDP 281520Z 29003KT 240V310 9999 FEW048 18/06 Q1011 NOSIG EDDR 281520Z 25006KT 9999 FEW017 BKN019 11/08 Q1011 NOSIG EDDS 281520Z 09003KT 050V130 CAVOK 16/07 Q1011 NOSIG EDDT 281520Z 15006KT 100V190 CAVOK 18/07 Q1011 NOSIG EDDV 281520Z 20004KT 150V260 9999 FEW034 15/08 Q1010 NOSIG EDDW 281520Z 17005KT 9999 FEW020 BKN035 14/11 Q1010 NOSIG EDFH 281520Z 22005KT 200V260 9999 FEW013 BKN020 09/07 Q1011 EDFM 281520Z 18005KT 140V220 CAVOK 17/06 Q1011 EDGS 281520Z 22005KT 160V260 9999 FEW015 BKN020 10/07 Q1011 EDHI 281520Z VRB02KT 9999 FEW029 SCT035 BKN045 14/11 Q1010 EDHK 281520Z 18006KT 150V210 9999 FEW015 BKN020 13/10 Q1010 EDHL 281520Z 15003KT 120V210 9999 FEW025 BKN048 15/10 Q1010 EDJA 281520Z 21003KT 170V250 CAVOK 13/05 Q1012 EDLN 281520Z 20003KT 150V240 9999 OVC030 13/10 Q1010 EDLP 281520Z 17006KT 9999 BKN043 14/06 Q1010 EDLV 281520Z 18007KT 130V210 9999 BKN007 11/10 Q1010 EDLW 281520Z 19007KT 9999 FEW036 15/07 Q1010 EDMA 281520Z 00000KT CAVOK 12/08 Q1012 EDMO 281520Z 13005KT 9999 FEW023 SCT031 10/08 Q1012 EDNY 281520Z 21003KT 180V300 CAVOK 15/04 Q1012 EDQM 281520Z 24003KT CAVOK 13/06 Q1011 EDSB 281520Z 23006KT 200V260 9999 FEW044 16/08 Q1011 EDTL 280950Z VRB04KT CAVOK 13/07 Q1011 EDTY 281450Z 29003KT 210V340 9999 FEW048 17/06 Q1011 EDVE 281520Z 14006KT 9999 FEW037 OVC046 15/08 Q1010 EDVK 281520Z 24008KT 9999 SCT038 14/07 Q1010 EDXW 281520Z 15011KT 5000 -DZ BKN006 OVC010 14/13 Q1009 EEEI 281450Z 08007KT CAVOK 17/10 Q1017 NOSIG EEKA 281520Z 13003KT 9999 BKN047 15/10 Q1016 EEKE 281520Z 11007KT 9999 BKN006 OVC014 14/13 Q1016 EEPU 281320Z 08006KT 040V120 9999 BKN048 15/10 Q1016 EETN 281520Z 07007KT CAVOK 15/11 Q1017 NOSIG EETU 281520Z AUTO 13007KT 9999 OVC017/// 13/09 Q1017 EFET 281520Z AUTO 19004KT 150V220 2000 BR OVC001 08/08 Q1017 EFHA 281520Z 12003KT CAVOK 15/09 Q1019 EFHK 281520Z 08009KT CAVOK 15/09 Q1019 NOSIG EFIV 281520Z 20008KT 9999 OVC006 10/09 Q1018 EFJO 281520Z AUTO 12004KT CAVOK 13/08 Q1022 EFJY 281520Z AUTO 14004KT CAVOK 14/09 Q1020 EFKE 281520Z AUTO 13002KT CAVOK 12/11 Q1020 EFKI 281520Z 11005KT CAVOK 13/10 Q1021 EFKK 281520Z AUTO 13004KT CAVOK 17/11 Q1019 EFKS 281520Z AUTO 17005KT 140V200 9000 OVC002 09/09 Q1022 EFKT 281520Z AUTO 18007KT 1300 R16/1900U BCFG OVC001 10/10 Q1019 EFKU 281520Z AUTO 13006KT CAVOK 13/09 Q1021 EFLP 281520Z AUTO 08007KT CAVOK 14/09 Q1021 EFMA 281520Z AUTO 13007KT 110V170 CAVOK 15/11 Q1017 EFMI 281520Z AUTO 09001KT CAVOK 14/09 Q1021 EFOU 281520Z AUTO 14005KT CAVOK 14/11 Q1020 EFPO 281520Z AUTO 12003KT CAVOK 18/11 Q1018 EFRO 281520Z AUTO 18006KT 150V210 9999 OVC004 10/10 Q1020 EFSA 281520Z AUTO 10005KT CAVOK 14/09 Q1022 EFSI 281520Z AUTO 10004KT CAVOK 16/11 Q1018 EFTP 281520Z AUTO 10004KT CAVOK 16/10 Q1019 EFTU 281520Z AUTO 11003KT CAVOK 17/10 Q1017 EFUT 281520Z AUTO 10006KT 9999 -SHRA //////CB 14/10 Q1020 EFVA 281520Z AUTO 11002KT CAVOK 16/13 Q1018 EGAA 281520Z 28012KT 9999 SCT034 16/09 Q1012 EGAC 281520Z AUTO 29007KT 250V320 9999 SCT048/// 16/09 Q1011 EGAE 281520Z 27014KT 9999 SCT040 16/09 Q1012 EGBB 281520Z 25005KT 190V280 CAVOK 16/11 Q1012 EGBJ 281450Z 20006KT 170V230 9999 FEW012 SCT019 17/13 Q1012 EGCC 281520Z AUTO 22005KT 180V240 9999 FEW027 OVC032 17/11 Q1011 NOSIG EGCK 281520Z 30008KT 2000 +RA BKN001 BKN014 OVC022 15/14 Q1012 EGCN 281520Z VRB02KT 9999 FEW037 17/11 Q1012 EGDM 281520Z 23006KT 9999 SCT017 BKN044 16/13 Q1013 NOSIG RMK WHT WHT EGDR 281520Z 24012KT 0200 -DZ BKN000 OVC001 16/15 Q1014 NOSIG RMK RED RED EGDY 281520Z 22006KT 4500 -RADZ FEW012 BKN018 17/16 Q1013 GRN TEMPO 4000 -RADZ BKN005 RMK GRN TEMPO YLO1 EGEC 281520Z 29014KT 9999 FEW020 14/10 Q1011 EGEO 281450Z 25012KT 9999 SCT035 15/11 Q1009 EGFF 281520Z AUTO 20004KT 160V230 1800 R30/1300 RADZ OVC002 15/15 Q1013 EGGD 281520Z AUTO 23007KT 9999 SCT010 SCT015 BKN019 16/13 Q1013 EGGP 281520Z VRB03KT 9999 BKN021 OVC023 17/13 Q1011 EGGW 281520Z AUTO 29010KT 9999 NCD 16/10 Q1012 EGHC 281520Z 24010KT 0050 FG VV/// 15/15 Q1014 EGHE 281520Z 29010KT 9999 BKN004 15/15 Q1014 EGHH 281520Z 24006KT 210V290 9999 SCT023 BKN045 18/13 Q1013 EGHI 281520Z 26004KT 9999 SCT020 17/12 Q1013 EGHQ 281520Z 24012KT 2000 R30/1200 -DZ BR OVC002 16/15 Q1014 EGJA 281520Z 26011KT 9999 FEW006 BKN008 16/14 Q1015 EGJB 281520Z 26011KT 9999 BKN006 16/15 Q1015 EGJJ 281520Z 26009KT 9999 VCSH FEW003 BKN008 16/15 Q1015 RERA REDZ EGKA 281520Z 30007KT CAVOK 17/11 Q1012 EGKB 281520Z 28007KT 240V330 CAVOK 16/09 Q1013 EGKK 281520Z 30009KT CAVOK 17/10 Q1013 EGLC 281520Z AUTO 29007KT 250V350 9999 NCD 18/07 Q1012 EGLF 281520Z AUTO 28006KT 250V310 9999 NCD 17/11 Q1013 EGLL 281520Z AUTO 27009KT 9999 NCD 17/11 Q1013 EGMC 281520Z 31007KT 260V350 CAVOK 17/01 Q1012 EGMD 281520Z 31004KT 260V350 CAVOK 18/05 Q1012 EGNH 281520Z 17005KT 2000 DZBR OVC002 14/12 Q1011 EGNJ 281520Z 27004KT 9999 FEW025 16/10 Q1011 EGNM 281520Z 25007KT 9999 SCT020 15/11 Q1011 EGNR 281520Z VRB03KT 9999 SCT023 BKN030 17/13 Q1011 EGNS 281520Z 28005KT 9999 FEW020 BKN040 15/14 Q1011 NOSIG EGNT 281520Z VRB02KT 9999 FEW028 16/09 Q1010 EGNV 281520Z 20007KT 9999 FEW045 16/10 Q1011 EGNX 281450Z 24005KT CAVOK 16/10 Q1012 EGOM 281450Z AUTO 25006KT 8000 HZ OVC008/// 12/10 Q1010 EGOP 281450Z AUTO 24015KT 6000 // BKN002/// 16/16 Q1012 EGOS 281520Z 17003KT 9999 SCT023 BKN026 17/13 Q1011 NOSIG RMK WHT WHT EGOV 281520Z 30007KT 9999 FEW006 BKN034 15/15 Q1012 NOSIG RMK BLU BLU EGOW 281250Z 12006KT 9999 SCT040 14/11 Q1012 RMK BLU EGPA 281520Z 27017KT 9999 FEW018 SCT040 14/10 Q1006 EGPB 281520Z 21012KT 9999 BKN041 12/10 Q1006 EGPC 281520Z 27013KT 9999 FEW024 16/08 Q1007 EGPD 281520Z AUTO 25004KT 9999 NCD 14/11 Q1008 NOSIG EGPE 281520Z 23011KT 9999 FEW031 16/08 Q1007 EGPF 281520Z AUTO VRB03KT 9999 SCT034 BKN040 14/12 Q1010 EGPH 281520Z 27004KT 250V310 9999 -RA FEW008 SCT023 BKN041 13/13 Q1010 EGPI 281520Z 27015KT 9999 SCT020 14/10 Q1011 EGPK 281520Z VRB03KT 9999 FEW012 SCT028 15/12 Q1011 EGPL 281520Z 24016KT 9999 VCSH BKN022 13/09 Q1008 EGPN 281520Z 00000KT 9999 FEW013 13/10 Q1009 EGPO 281520Z 24015KT 9999 VCSH FEW014 SCT026 13/10 Q1006 EGPU 281520Z 26016KT 9999 FEW018 14/09 Q1010 EGQA 281450Z 24014KT 9999 FEW020 18/// Q1007 BLU EGQK 281450Z 26015KT 9999 FEW039 SCT045 16/09 Q1007 BLU EGQL 281450Z 25009KT 9999 SCT012 SCT020 BKN080 14/12 Q1009 GRN EGQM 281450Z AUTO 22006KT 9999 FEW050/// OVC120/// 17/12 Q1009 EGQS 281450Z AUTO 27011KT 9999 // NCD 16/09 Q1007 EGSC 281520Z 29006KT CAVOK 17/03 Q1012 EGSH 281520Z 29007KT 270V330 9999 SCT025 15/08 Q1011 NOSIG EGSS 281520Z AUTO 30007KT 260V340 9999 NCD 17/05 Q1012 EGSY 281520Z 24012KT 200V270 3000 RADZ OVC002 16/16 Q1013 EGTC 281520Z 28008KT CAVOK 15/11 Q1012 EGTE 281520Z 05002KT 9999 9000E FEW004 SCT015 BKN022 17/16 Q1013 EGTK 281520Z 26005KT 220V300 9999 FEW024 18/12 Q1012 EGUB 281450Z 26006KT 9999 FEW024 BKN100 17/11 Q1012 NOSIG RMK BLU BLU EGUL 281456Z AUTO 28006KT 9999 FEW200 17/06 A2986 RMK AO2 SLPNO T01720058 58005 $ EGUN 281355Z 30006KT 9999 CLR 16/04 A2988 RMK AO2A SLPNO WND DATA ESTMD ALSTG ESTMD RVRNO PWINO PNO FZRANO VISNO RWY11 CHINO RWY11 EGUW 281520Z 31007KT CAVOK 15/07 Q1011 NOSIG RMK BLU BLU EGVA 281456Z AUTO 25011KT 9999 BKN040 BKN060 BKN160 17/12 A2990 RMK AO2 SLP129 T01670124 57010 $ EGVN 281450Z 25005KT 9999 FEW022 BKN160 18/11 Q1012 NOSIG RMK BLU BLU EGVO 281450Z 25009KT 9999 SCT022 BKN130 16/12 Q1013 TEMPO FEW022 RMK WHT TEMPO BLU EGVP 281520Z 25005KT 9999 SCT017 SCT045 BKN070 16/12 Q1013 TEMPO FEW017 RMK WHT TEMPO BLU EGWC 281050Z 19004KT 9999 BKN035 09/08 Q1013 RMK BLU EGWU 281450Z 31008KT 9999 FEW028 BKN140 17/11 Q1012 NOSIG RMK BLU BLU EGXC 281450Z 28007KT CAVOK 16/04 Q1011 NOSIG RMK BLU BLU EGXE 281520Z 17006KT 9999 FEW020 BKN120 15/10 Q1011 TEMPO SCT018 RMK BLU TEMPO WHT EGXP 281450Z 29005KT CAVOK 15/08 Q1011 RMK BLU EGXS 281450Z AUTO 33005KT 9999 // BKN150/// SCT200/// 14/08 Q1011 EGXT 281450Z 29010KT CAVOK 16/09 Q1011 BLU EGXU 281450Z AUTO 10005KT 9999 FEW120/// 17/11 Q1010 EGXV 281450Z AUTO 27005KT 9999 FEW100/// BKN140/// 14/06 Q1011 EGXW 281450Z 30005KT CAVOK 15/06 Q1011 NOSIG RMK BLU BLU EGXZ 281450Z AUTO 12006KT 9999 FEW060/// BKN110/// 15/10 Q1011 EGYD 281450Z 28006KT CAVOK 15/06 Q1012 NOSIG RMK BLU BLU EGYE 281450Z 27007KT CAVOK ///// Q1012 RMK BLU EGYH 281450Z 30006KT CAVOK 16/05 Q1012 RMK BLU EGYM 281520Z 29007KT CAVOK 15/06 Q1011 NOSIG RMK BLU BLU EGYP 281450Z 30025KT 9999 FEW030 SCT130 BKN210 09/04 Q0993 TEMPO SCT010 EHAK 281525Z AUTO 01003KT 270V080 5000 BR FEW002/// BKN007/// OVC009/// 15/15 Q1009 EHAM 281525Z 15004KT 1800 1400NE R18C/P2000N R27/1400U R18R/P2000N R06/P2000N BR DZ PRFG FEW001 BKN002 15/14 Q1008 NOSIG EHBK 281525Z AUTO 19011KT 160V220 9000 DZ FEW004 BKN016 BKN026 10/10 Q1010 BECMG -DZ BKN008 TEMPO 7000 EHDL 281525Z AUTO 17007KT 120V230 7000 BR BKN003 OVC004 12/12 Q1009 YLO EHDV 281525Z AUTO 32014KT 9999 FEW002/// BKN003/// BKN004/// 15/14 Q1009 EHEH 281525Z AUTO 16007KT 130V190 9999 BKN005 OVC006 12/11 Q1009 YLO TEMPO 1500 +DZRA SCT002 BKN003 OVC005 EHFD 281525Z AUTO /////KT 8000 FEW005/// SCT007/// OVC010/// 16/15 Q1009 EHFS 281455Z AUTO 31014KT 3300 +DZ BKN003/// OVC004/// 15/14 Q1008 EHGG 281525Z AUTO 18005KT 1900 BR BKN001 OVC002 13/13 Q1008 BECMG BKN002 EHGR 281525Z AUTO 16005KT 120V200 5000 -RA OVC002 13/12 Q1009 AMB TEMPO 1500 +DZ SCT001 BKN003 EHHW 281525Z AUTO 21005KT 6000 FEW000/// BKN007/// OVC008/// 16/16 Q1008 EHJA 281525Z AUTO 32018KT 9999 SCT002/// BKN003/// BKN005/// 14/14 Q1009 EHJR 281525Z AUTO 00000KT //// // ///////// 15/14 Q1010 RE// W17/H16 EHKD 281525Z AUTO 07002KT 8000 BR FEW007 OVC016 17/16 Q1008 WHT TEMPO 2500 DZ FEW002 SCT004 BKN007 EHKV 281525Z AUTO 34015KT 5000 BR SCT001 SCT003 BKN004 15/15 Q1009 EHLE 281525Z AUTO 15006KT 4500 BR OVC003 14/13 Q1009 TEMPO 2500 EHLW 281525Z AUTO 15004KT 6000 BR OVC007 16/14 Q1008 GRN EHMA 281525Z AUTO 13005KT 090V170 8000 FEW006 SCT009 OVC012 16/15 Q1008 EHMG 281525Z AUTO 36004KT 230V040 9999 BKN025 OVC035 18/17 Q1009 EHPG 281525Z AUTO 32017KT 270V010 4100 -DZ SCT002 BKN004 OVC005 15/14 Q1009 EHQE 281525Z AUTO 30013KT 8000 FEW003 BKN006 BKN008 17/16 Q1009 EHRD 281525Z AUTO VRB01KT 2700 DZ SCT002 BKN003 BKN004 16/16 Q1008 TEMPO 3000 EHSA 281525Z AUTO 31024KT 9000 ///////// 15/14 Q1010 W16/H16 EHSC 281525Z AUTO 33024KT 3900 BR ///////// 15/15 Q1009 W18/H16 EHVK 281525Z AUTO 18007KT 140V220 9999 BKN006 OVC007 12/11 Q1009 YLO EHVL 281525Z AUTO VRB02KT 8000 BR BKN005 OVC007 17/16 Q1008 YLO EHWO 281525Z AUTO 32008KT 210V010 2300 +DZ BKN002 OVC004 16/16 Q1008 AMB EICK 281500Z 31013KT 280V340 9999 FEW034 16/07 Q1014 NOSIG EIDL 281500Z 27016KT 9999 SCT026 14/09 Q1012 EIDW 281500Z 31014KT 9999 FEW018 16/10 Q1012 NOSIG EIKN 281400Z 26012KT 220V280 9999 FEW015 FEW020CB 14/09 Q1013 NOSIG EIKY 281500Z 30007KT 250V330 9999 FEW030 14/09 Q1015 EIME 281500Z 29015KT 9999 SCT028 17/10 Q1012 EINN 281500Z 28011KT 9999 FEW024 16/09 Q1014 NOSIG EISG 281500Z 28013KT CAVOK 14/09 Q1013 EIWF 281500Z 31012KT 270V340 9999 FEW025 17/10 Q1013 EKAH 281520Z AUTO 13005KT 090V160 9999NDV BKN012/// BKN044/// 16/14 Q1011 EKBI 281520Z AUTO 12008KT 090V150 9999 SCT016/// SCT029/// BKN072/// 17/14 Q1010 EKCH 281520Z AUTO 17007KT 9999 BKN024/// 14/10 Q1012 NOSIG EKEB 281520Z 14007KT 9999 SCT010 BKN025 17/14 Q1009 EKKA 281520Z AUTO 08005KT 9999 BKN011/// OVC075/// 16/14 Q1010 EKOD 281450Z 14009KT 9999 SCT018 SCT030 BKN040 15/13 Q1010 EKRK 281520Z AUTO 17006KT 9999 OVC025/// 13/10 Q1012 EKRN 281520Z AUTO 16009KT 9999 SCT026/// 15/10 Q1013 EKRS 281520Z AUTO 18004KT 070V240 9999 FEW017/// OVC032/// 14/10 Q1011 EKSB 281520Z 15007KT 2500 -DZ BR BKN004 13/12 Q1010 EKSN 281250Z 09009KT 9999 SCT013 OVC018 16/14 Q1012 EKSP 281520Z 14007KT 110V170 9999 FEW009 SCT011 BKN022 14/12 Q1010 EKVD 281520Z AUTO 14008KT //// ///////// 15/13 Q1010 EKVG 281520Z AUTO 28010KT 9999 -RA SCT014/// BKN088/// 10/09 Q0999 EKVJ 281420Z 08003KT 9999 BKN013 16/15 Q1009 EKYT 281520Z AUTO 08008KT 9999 OVC013/// 16/14 Q1011 ELLX 281520Z 19006KT 170V230 5000 -RA SCT008 BKN036 09/08 Q1011 RERA TEMPO 2500 RA BKN008 ENAL 281520Z 05003KT CAVOK 14/10 Q1009 ENAN 281520Z 18010KT 9999 BKN049 11/08 Q1013 ENAT 281520Z 17007KT CAVOK 11/07 Q1016 RMK WIND 700FT 15012KT ENBL 281520Z 24003KT 9999 FEW015 SCT050 BKN070 15/12 Q1010 ENBN 281520Z 12010KT 090V170 CAVOK 17/10 Q1011 ENBO 281520Z 09019KT 9999 FEW060 SCT070 15/09 Q1012 NOSIG ENBR 281520Z 22003KT 9999 FEW012CB BKN018 14/12 Q1011 NOSIG RMK WIND 1200FT 22004KT ENBS 281520Z 25009KT 9999 BKN011 09/07 Q1015 ENBV 281120Z 22015KT 9999 BKN020 10/06 Q1017 ENCN 281520Z 04009KT 9999 FEW002 BKN007 13/11 Q1013 ENDU 281520Z VRB02KT 9999 FEW050 SCT070 13/07 Q1014 NOSIG RMK WIND 1100FT 13008KT WIND 2200FT 15013KT ENEV 281520Z 21008KT CAVOK 12/08 Q1014 RMK WIND 1400FT 15008KT ENFB 281520Z AUTO 18034KT 9999NDV OVC006/// ///// Q//// W///S4 ENFL 281520Z 20008KT 170V240 9999 VCSH FEW010 SCT050 BKN055 14/10 Q1010 ENGC 281520Z 20027KT 9999 SCT018 BKN050 12/11 Q1007 W11/S4 ENGK 281350Z 05007KT 9999 VCSH FEW008 BKN014 12/10 Q1013 ENGM 281520Z 03005KT 350V080 9999 FEW018 14/10 Q1014 NOSIG ENHD 281520Z 25002KT 9999 BKN022 15/12 Q1011 ENHE 281520Z 20019KT 9999 SCT045 BKN100 12/07 Q1009 W///S4 ENHF 281520Z 00000KT 9999 FEW041 BKN055 10/06 Q1014 RMK WIND 1254FT 20009KT ENHK 281420Z 13010KT 9999 FEW043 BKN063 11/07 Q1015 ENHM 281520Z 16028KT 5000 OVC007 12/12 Q1008 W13/S3 ENHV 281420Z 22004KT CAVOK 10/07 Q1015 ENKB 281520Z 27004KT 230V290 CAVOK 16/10 Q1009 RMK WIND 745FT 36004KT ENKR 281520Z 19012KT 9999 BKN017 09/07 Q1017 RMK WIND 731FT 19017KT ENLA 281520Z AUTO 13013KT 0150NDV FG NCD 13/13 Q1008 W///S4 ENLE 281520Z 13005KT 0800 FG VV002 14/14 Q1009 W14/S4 ENLK 281520Z 25003KT 9999 SCT040 BKN050 13/09 Q1012 ENMH 281450Z 13004KT CAVOK 09/06 Q1015 ENML 281520Z VRB02KT CAVOK 16/11 Q1008 ENMS 281520Z VRB02KT CAVOK 14/10 Q1013 RMK WIND 412FT VRB02KT ENNA 281520Z 16010KT 9999 FEW019 10/07 Q1016 RMK WIND 1800FT 21010KT ENNE 281520Z 16013KT 9999 BKN040 11/10 Q1010 W///S3 ENNM 281520Z 08012KT CAVOK 18/11 Q1011 ENNO 281450Z 18003KT 9999 FEW030 16/11 Q1013 ENOA 281520Z 17026KT 9000 FEW008 BKN026 13/11 Q1009 W///S3 ENOL 281520Z 09003KT CAVOK 18/11 Q1009 NOSIG ENOV 281520Z VRB02KT CAVOK 15/11 Q1009 RMK WIND 2175FT 09004KT ENQA 281520Z AUTO 18017KT 9999NDV BKN020/// BKN035/// OVC042/// 13/11 Q1010 W11/S3 ENQC 281520Z AUTO 16015KT 9999NDV BKN021/// OVC071/// 13/11 Q1009 W///S3 ENQR 281520Z AUTO 16024KT 9999NDV OVC028/// 12/11 Q1007 W///S4 ENRA 281520Z VRB05KT CAVOK 16/09 Q1013 ENRM 281520Z 11006KT 070V130 CAVOK 18/10 Q1011 ENRO 281520Z 13012KT CAVOK 15/11 Q1014 ENRY 281520Z 02003KT 350V060 9999 OVC015 14/10 Q1014 ENSB 281520Z 14004KT 9999 -RA FEW007 BKN022 04/02 Q1009 RMK WIND 1400FT 21006KT ENSD 281450Z 07003KT 010V120 9999 FEW060 BKN073 15/11 Q1009 RMK WIND 1138FT 03004KT ENSE 281520Z AUTO 18027KT 9999NDV FEW011/// OVC030/// 12/10 Q1007 W///S4 ENSF 281520Z AUTO 18033KT 9999NDV BKN007/// OVC035/// ///// Q//// W///S4 ENSG 281520Z 07004KT CAVOK 16/11 Q1011 RMK WIND 3806FT 10015KT ENSH 281520Z 09010KT 9999 BKN050 14/09 Q1013 RMK WIND 150FT 14006KT 100V220 ENSK 281520Z VRB03KT 9999 FEW040 BKN050 14/10 Q1013 ENSL 281520Z AUTO 17020KT 0200NDV -SHRA FG NCD 13/13 Q1009 W11/S4 ENSO 281520Z VRB02KT 9999 FEW010 SCT015 BKN018 15/13 Q1011 ENSR 281450Z 16011KT 9999 FEW050 11/07 Q1015 RMK WIND 1119FT 15014KT ENSS 281520Z 20011KT 160V260 9999 FEW013 BKN026 09/07 Q1017 RMK WIND 500FT 22020KT ENST 281520Z 02003KT CAVOK 15/11 Q1011 RMK WIND 300FT 23005KT ENTC 281520Z 00000KT 9999 BKN064 10/06 Q1014 NOSIG RMK WIND 2600FT 16009KT ENTO 281520Z 03007KT 350V050 9999 OVC014 13/11 Q1014 TEMPO OVC015 ENUG 281520Z AUTO 14004KT 050V180 9999NDV SCT080/// 09/04 Q1014 W///S4 ENUN 281520Z AUTO 18022KT 9999NDV OVC008/// 09/08 Q1008 W09/S/ ENVA 281520Z 12009KT 090V150 CAVOK 22/10 Q1010 NOSIG RMK WIND 670FT 15010KT ENVD 281450Z 23015KT 9999 SCT015 BKN023 10/07 Q1017 ENWV 281520Z AUTO 18003KT 150V220 0450NDV FG NCD 14/14 Q1009 W///S4 ENZV 281520Z 27004KT 9999 FEW009 BKN015 15/13 Q1011 TEMPO BKN012 EPBY 281500Z 11006KT 9999 FEW038 16/10 Q1014 EPGD 281500Z 15007KT 130V190 9999 FEW030 14/08 Q1015 EPKK 281500Z 04005KT CAVOK 14/10 Q1010 EPKT 281500Z 09003KT 060V140 9999 -RA NSC 12/11 Q1011 EPLB 281500Z 09010KT CAVOK 17/12 Q1014 EPLL 281500Z 06011KT CAVOK 13/09 Q1012 EPMO 281500Z 08009KT CAVOK 15/10 Q1014 EPPO 281500Z 10008KT CAVOK 15/08 Q1013 EPRA 281400Z 07009KT CAVOK 16/13 Q1013 EPRZ 281500Z 10016KT CAVOK 16/10 Q1012 EPSC 281500Z 10007KT 9999 SCT036 15/09 Q1013 EPSY 281500Z 11007KT CAVOK 14/08 Q1016 EPWA 281500Z 07009KT CAVOK 16/09 Q1014 NOSIG EPWR 281500Z 08003KT 040V120 8000 RA FEW020 11/10 Q1012 EPZG 281500Z 08004KT 060V120 CAVOK 14/09 Q1013 EQPH 281500Z AUTO 05007KT 010V090 9999 NCD 36/03 Q1015 EQYA 281456Z AUTO 18003KT 9999 FEW025 BKN047 BKN095 11/07 A2991 RMK AO2 SLP120 60006 T01090066 51003 $ EQYB 281456Z AUTO 21003KT 9999 FEW026 SCT060 BKN080 12/07 A2990 RMK AO2 SLP115 T01220067 51002 $ EQYC 281456Z AUTO 00000KT 9999 BKN070 OVC080 10/07 A2989 RMK AO2 SLP124 T01000073 52004 $ EQYD 281456Z AUTO 00000KT 9999 BKN080 10/05 A2990 RMK AO2 SLP133 T01010052 52004 $ EQYE 281456Z AUTO 00000KT 9999 BKN085 12/07 A2988 RMK AO2 SLP142 T01240074 51002 $ EQYF 281456Z AUTO 00000KT 9999 FEW029 BKN075 11/06 A2988 RMK AO2 SLP106 T01050063 52004 $ EQYK 281456Z AUTO 20010KT 9999 CLR 31/21 A2992 RMK AO2 SLP131 T03120213 55005 $ EQYL 281456Z AUTO 33008KT 9999 FEW018 23/ A3021 RMK AO2 SLP232 57006 $ EQYT 281456Z AUTO 00000KT 9999 -SHRA FEW020 SCT024 SCT042 08/08 A2991 RMK AO2 SLP142 P0005 60005 T00790078 53007 $ EQYV 281456Z 08004KT 9999 FEW030 BKN042 BKN050 BKN100 15/06 A2980 RMK AO2A RAB15E16DZB16E22RAB22E42 SLP093 P0001 60001 T01450058 52012 $ ESCF 281520Z AUTO 04005KT 9999 OVC010/// 15/13 Q1014 ESCM 281520Z AUTO 01004KT 9999 OVC005/// 13/13 Q1016 ESDF 281520Z 20004KT 9999 FEW007 BKN020 13/13 Q1013 ESGG 281520Z 08007KT 9999 SCT012 BKN016 16/12 Q1012 ESGJ 281520Z AUTO 01006KT 6000 BR OVC002/// 13/13 Q1013 ESGR 281520Z AUTO 08003KT 9000 BR OVC005/// 13/// Q1014 ESGT 281520Z AUTO 04008KT 9999 OVC008/// 13/12 Q1013 ESIA 281520Z AUTO 05008KT 9999 OVC006/// 13/12 Q1014 ESIB 281520Z AUTO 06007KT 9999 BKN010/// OVC012/// 14/13 Q1013 ESKM 281520Z AUTO 34003KT 9999 R16/P2000N R34///// OVC005/// 11/11 Q1016 ESKN 281520Z 10009KT 9999 FEW025 16/12 Q1014 ESMK 281520Z AUTO /////KT 9999 SCT025/// 14/10 Q1012 ESMQ 281520Z 16009KT 9999 BKN044 15/13 Q1013 ESMS 281520Z 17007KT 9999 FEW028 14/09 Q1012 ESMT 281520Z 20007KT 9999 FEW016 OVC019 15/14 Q1011 ESMX 281520Z AUTO 09003KT 050V150 9999 SCT018/// BKN024/// OVC036/// 16/13 Q1012 ESND 281520Z AUTO VRB03KT 9999 OVC003/// 10/09 Q1016 ESNG 281520Z 18004KT 140V220 9999 OVC005 09/08 Q1018 ESNK 281520Z AUTO 16003KT 5000 BR OVC003/// 11/11 Q1018 ESNL 281520Z AUTO 00000KT 0350 R14/0900N R32/0800N FG VV001 09/09 Q1018 ESNN 281520Z 09005KT 9999 OVC005 11/10 Q1018 ESNO 281450Z AUTO 04003KT 010V100 0450 R12/0900D R30/1300U FG OVC001/// 10/11 Q1018 ESNQ 281520Z AUTO 20008KT 9999 OVC006/// 09/07 Q1016 ESNS 281520Z AUTO 07003KT 0300 R10/0750N R28/1300N FG OVC002/// 09/09 Q1019 ESNU 281520Z 06003KT 020V080 0900 R14/P1500N R32/P1500N OVC002 10/10 Q1019 ESNV 281520Z AUTO 00000KT 0400 R10/0900N R28/0800D BCFG OVC002/// 09/06 Q1017 ESNX 281520Z 09003KT 0900 R30/1300N FG VV002 09/09 Q1018 ESNZ 281520Z 12010KT 0600 R12/P1500N R30/1100D BR OVC002 09/09 Q1016 ESOE 281520Z AUTO 05009KT 9999 OVC007/// 13/11 Q1015 ESOH 281520Z AUTO 06006KT 030V110 9999 OVC017/// 14/11 Q1015 RERA ESOK 281520Z 14006KT 9999 BKN018 14/12 Q1014 ESOW 281520Z AUTO 01009KT 9999 OVC007/// 13/11 Q1016 ESPA 281520Z 11002KT 0150 R14/0400N R32/0550N FG VV002 10/10 Q1019 ESPE 281520Z AUTO 10003KT 0450 0350// R11/0900N R29/0750N FG VV002 08/08 Q1019 ESSA 281520Z 08009KT 9000 FEW018 15/12 Q1015 BECMG BKN009 ESSB 281520Z 07008KT 9999 FEW016 16/13 Q1015 ESSD 281520Z AUTO 10004KT 9999 OVC006/// 11/10 Q1016 ESSL 281520Z AUTO VRB03KT 9999 BKN011/// BKN013/// OVC018/// 15/14 Q1014 ESSP 281520Z AUTO 10009KT 9999 OVC021/// 16/13 Q1014 ESST 281520Z AUTO 04005KT 010V080 9999 NCD 14/11 Q1015 ESSV 281520Z 15005KT 9999 FEW015 BKN023 14/11 Q1014 ESTA 281520Z 15007KT 7000 -RA SCT006 BKN011 OVC018 13/12 Q1012 REDZ ESTL 281520Z AUTO 18005KT 9999 FEW013/// OVC019/// 14/12 Q1012 ESUP 281520Z AUTO 19006KT 1700 BR OVC001/// 11/11 Q1019 ESUT 281520Z AUTO 15013KT 9999 NCD 09/06 Q1016 ETAD 281511Z AUTO 21006KT 9999 RA BKN009 BKN013 BKN020 OVC048 09/08 A2985 RMK AO2 CIG 009V020 BKN009 V SCT SLP103 $ ETAR 281456Z AUTO 26009KT 9999 SCT028 BKN037 OVC095 13/09 A2986 RMK AO2 SLP118 T01330088 53004 FZRANO $ ETEB 281456Z AUTO 07005KT 9999 SCT170 13/07 A2987 RMK AO2 SLP136 T01340067 53003 $ ETGG 281520Z AUTO ///07KT 2200 // ////// 13/12 Q1009 /// ETHA 281520Z VRB01KT 9999 -RA FEW025 BKN060 09/07 Q1012 BLU ETHB 281520Z 19005KT 9999 FEW024 BKN046 15/09 Q1010 BLU BLU ETHC 281520Z VRB02KT 9999 FEW032 16/08 Q1010 BLU+FCST CNL ETHF 281520Z 23005KT 9999 FEW045 SCT120 15/07 Q1010 BLU+BLU+ ETHL 281520Z 26003KT 9999 FEW050 SCT120 14/03 Q1011 BLU+BLU+ ETHN 281520Z VRB02KT 9999 FEW040 16/04 Q1011 BLU+BLU+ ETHS 281520Z 24009KT 9999 SCT035 15/06 Q1010 BLU+FCST CANCEL ETIC 281456Z AUTO 18003KT 9999 FEW050 SCT080 13/09 A2985 RMK AO2 SLP119 T01250093 53001 $ ETIH 281456Z AUTO 00000KT 9999 BKN032 11/06 A2989 RMK AO2 SLP135 T01140059 51004 ETIK 281456Z AUTO 09004KT 9999 BKN049 BKN060 16/06 A2987 RMK AO2 SLP121 T01550062 55000 ETML 281520Z AUTO 16007KT //// // ////// 15/11 Q1011 /// ETMN 281520Z 16003KT 3000 -RADZ BR BKN008 12/11 Q1009 YLO GRN TEMPO YLO ETND 281320Z 19007KT 9000 SCT015 SCT022 BKN046 14/11 Q1009 BLU ETNG 281450Z 18002KT 9999 FEW012 BKN018 BKN030 12/10 Q1010 NOSIG ETNH 281520Z 14003KT 3200 BR SCT005 BKN012 12/11 Q1010 YLO ETNL 281520Z VRB03KT 9999 FEW035 BKN048 16/09 Q1011 BLU BLU ETNN 281520Z 18005KT 9999 -RA FEW025 OVC038 13/07 Q1010 BLU ETNS 281520Z 14004KT 2500 -DZ BR SCT005 BKN006 12/11 Q1010 YLO ETNT 281520Z 21006KT 7000 OVC006 13/11 Q1009 YLO FCST CNL ETNW 281520Z 25003KT 9999 FEW030 BKN053 16/09 Q1010 BLU BLU ETOU 281456Z AUTO 27003KT 9999 BKN038 OVC050 15/08 A2985 RMK AO2 SLP112 T01500075 55002 ETSB 281520Z 22009KT 9999 FEW009 BKN016 BKN050 09/07 Q1010 WHT FCST CANCEL ETSH 281520Z 12004KT 9999 FEW045 SCT093 17/07 Q1011 BLACKBLU+ ETSI 281520Z 19004KT 9999 FEW030 BKN080 12/06 Q1012 BLU ETSL 281520Z 06004KT 9999 FEW025 BKN080 BKN100 11/07 Q1012 BLU ETSN 281520Z 16003KT 9999 FEW018 BKN100 12/07 Q1013 BLU FCST CNL EVLA 281520Z AUTO 21007KT 9999 FEW024 15/10 Q1016 EVRA 281520Z 22004KT 9999 -DZ OVC003 13/13 Q1016 NOSIG EVVA 281520Z AUTO 16004KT 9999 FEW010 OVC023 14/13 Q1016 EYKA 281520Z VRB02KT CAVOK 15/08 Q1017 EYPA 281520Z 19006KT 9999 SCT025 14/09 Q1016 EYSA 281520Z 04003KT 9999 BKN036 BKN130 14/10 Q1017 BLU NOSIG EYVI 281520Z 21004KT CAVOK 15/07 Q1018 NOSIG FABL 281500Z 29005KT 190V350 CAVOK 18/M13 Q1019 NOSIG FACT 281500Z 19006KT 9999 -RA SCT018 BKN032 13/10 Q1025 NOSIG FACV 280953Z 23004KT CAVOK 15/M04 Q1023 FAEL 281500Z 07011KT 030V090 CAVOK 17/09 Q1020 FAGG 281500Z 19006KT 9999 FEW040 15/06 Q1022 FAGM 281200Z 25013KT CAVOK 24/M12 Q1020 FAJB 281500Z AUTO 27003KT //// // ////// 24/M11 Q1019 FAKM 281500Z 28005KT CAVOK 21/M10 Q1020 FAKN 281500Z 05010KT 9999 BKN020 18/13 Q1020 TEMPO BKN015 FALA 281500Z 22006KT 190V260 CAVOK 25/M08 Q1018 NOSIG FALE 281500Z 05003KT 020V090 9999 FEW038 BKN045 OVC049 16/11 Q1021 NOSIG FALW 281500Z AUTO 24008KT //// // ////// 17/08 Q1024 FAMM 281500Z AUTO 22007KT //// // ////// 25/M12 Q1018 FAOB 281500Z AUTO 29017G29KT //// // ////// 15/08 Q1023 FAOR 281500Z 24010KT 210V270 CAVOK 23/M13 Q1020 NOSIG FAPE 281500Z 22013KT CAVOK 16/07 Q1021 NOSIG FAPP 281500Z 04012KT CAVOK 24/11 Q1017 NOSIG FASI 281300Z AUTO 34007G20KT //// // ////// 25/M08 Q1022 FAUP 281500Z 22007KT CAVOK 20/M11 Q1020 NOSIG FAUT 281500Z AUTO 11012KT //// // ////// 14/07 Q1020 FAVV 281300Z AUTO /////KT //// // ////// 25/M14 Q//// FAWB 281500Z AUTO 29009G19KT //// // ////// 27/M09 Q1016 FAWK 281500Z AUTO 30010KT //// // ////// 25/M11 Q1019 FBFT 281500Z 14014KT CAVOK 29/14 Q1014 FBKE 281500Z 32005KT 290V350 CAVOK 37/04 Q1010 FBMN 281500Z 18006KT CAVOK 36/04 Q1011 FBSK 281500Z 26008KT 220V300 CAVOK 30/M17 Q1015 NOSIG FBSP 281500Z 18005KT CAVOK 25/17 Q1014 FCBB 281500Z 27006KT 240V310 9000 -RA FEW018 SCT023 24/21 Q1013 NOSIG FCPP 281500Z VRB03KT 9999 SCT013 FEW030CB 30/27 Q1012 NOSIG FDMY 281500Z AUTO 04003KT //// // ////// 17/14 Q1028 FDOT 281500Z AUTO 17003KT //// // ////// 17/12 Q1020 FDSK 281400Z 19014KT 9999 BKN030 19/13 Q1017 NOSIG FDST 281400Z AUTO 04009KT //// // ////// 15/12 Q1017 FEFF 281500Z 32003KT 9999 -RA BKN016 FEW040CB 26/23 Q1009 TEMPO TS FEFT 281000Z 22004KT 9999 BKN012 SCT025 24/21 Q1016 FGBT 281500Z 20009KT 9999 SCT008 28/25 Q1010 FGSL 281500Z 24011KT 9999 SCT010 BKN050 27/24 Q1010 NOSIG FIMP 281500Z 10007KT 9999 VCSH BKN016 23/20 Q1020 FIMR 281500Z 09011KT 9999 SCT018 23/20 Q1019 FJDG 281455Z 11003KT 9999 FEW017 SCT045 BKN080 26/24 A2988 RMK SLP115 60018 8/830 T02620244 52014 FKKD 281500Z VRB04KT 9999 TS BKN013 FEW016CB 28/24 Q1010 NOSIG FKKL 281500Z 21006KT 170V240 9999 SCT035 32/25 Q1009 FKKN 281500Z 22004KT 9999 BKN016TCU FEW020CB 24/18 Q1013 FKKR 281500Z 27008KT 240V310 9999 FEW020 FEW023CB 31/23 Q1008 NOSIG FKYS 281500Z 26005KT 230V310 8000 -TSRA BKN010 FEW020CB 22/22 Q1014 TEMPO 4000 TSRA FLKK 281400Z 05005KT 9000 35/02 Q1013 FMCZ 281500Z AUTO 05006KT CAVOK 26/21 Q1014 NOSIG FMEE 281500Z AUTO 14012KT 9999 SCT052 24/15 Q1019 NOSIG FMEP 281500Z AUTO 33003KT 9999 BKN027 23/19 Q1019 NOSIG FMMI 281500Z 11012KT 9999 FEW020 22/11 Q1020 NOSIG FMMT 281500Z 07004KT 040V100 9999 SCT017 BKN033 24/21 Q1017 NOSIG FMNA 281500Z 14012KT 9999 FEW020 26/18 Q1013 FMNM 281500Z 31009KT 9999 FEW023 26/23 Q1012 NOSIG FMNN 281500Z 23002KT 9999 FEW020 BKN233 28/// Q1013 FMSD 281500Z 08019KT CAVOK 25/21 Q1015 FNCA 281400Z 26008KT 9999 SCT020 28/21 Q1011 FNCT 281300Z 29008KT 9999 FEW015 25/20 Q1012 FNDU 281300Z 00000KT 9999 SCT023 ///// Q//// FNGI 281400Z VRB03KT CAVOK 35/M09 Q1013 FNHU 281300Z 00000KT 9999 BKN080 26/08 Q1020 FNKU 281400Z 20008KT CAVOK 21/13 Q1020 FNLU 281500Z 28008KT 9999 FEW020 SCT080 26/21 Q1009 NOSIG FNMA 281400Z VRB03KT 9999 BKN012 28/24 Q1013 FNMO 281400Z 25016KT CAVOK 24/16 Q1013 FNSA 281100Z 00000KT 9999 BKN023 25/16 Q1018 FNSO 281500Z 25010KT 9000 SCT010 ///// Q//// FNSU 281400Z 23007KT 9999 SCT013 26/// Q1014 FNUB 281500Z 15004KT CAVOK 29/// Q1021 FNUE 281200Z 16005KT 9999 FEW031 SCT060 26/22 Q1018 FNUG 281300Z 12004KT 9999 BKN022 26/17 Q1014 FOGM 281500Z /////KT 9999 FEW016TCU OVC040 30/23 Q//// FOGO 281500Z /////KT 9999 SCT011 25/22 Q//// FOGR 281500Z /////KT 9999 SCT010TCU BKN030 29/24 Q//// FOOB 281500Z /////KT 9999 SCT015TCU BKN033 27/21 Q1009 FOOG 281500Z 21013KT 9999 FEW012 29/21 Q1011 FOOK 281500Z 00000KT 9999 SCT014 27/21 Q//// FOOL 281500Z 24009KT 9999 SCT011 28/22 Q1010 NOSIG FOON 281500Z VRB02KT 9999 SCT015 BKN023 28/22 Q1011 FOOR 281500Z /////KT 9999 SCT005 BKN008 24/22 Q//// FOOT 281500Z 27006KT 9999 SCT010 OVC030 30/22 Q//// FPST 281500Z 01004KT 9999 FEW023 30/22 Q1011 NOSIG FQBR 281500Z 13011KT 9999 SCT018 BKN030 26/24 Q1011 FQCH 281500Z 19010KT CAVOK 27/20 Q1017 FQIN 281500Z 06011KT 9999 SCT020 26/23 Q1014 NOSIG FQLC 281500Z 09013KT 5000 FU FEW016 25/11 Q1019 FQMA 281500Z 15012KT 9999 BKN020 22/18 Q1016 NOSIG FQNP 281500Z 05009KT CAVOK 32/12 Q1012 FQPB 281500Z 06013KT 9999 FEW020 26/22 Q1013 FQQL 281500Z 12010KT CAVOK 30/22 Q1009 FQTT 281500Z 13010KT 8000 NSC 38/14 Q1007 RMK HZ FQVL 281300Z 11012KT 9999 SCT020 28/24 Q1012 FSIA 281500Z VRB02KT 9999 FEW024 27/23 Q1011 NOSIG FTTA 281500Z 18008KT 9999 TS FEW020 FEW050CB 27/21 Q1009 FTTC 281500Z 28004KT 9999 FEW040 34/// Q1009 FTTD 281200Z 00000KT 9999 FEW040 31/24 Q1012 FTTJ 281500Z VRB03KT 8000 FEW026 33/22 Q1007 NOSIG FWKI 281200Z 10009KT CAVOK 29/09 Q1016 NOSIG FXMM 281200Z 27010KT 9999 FEW040 17/M08 Q1018 NOSIG FYKM 281400Z 07005KT 9999 FEW030 39/04 Q1009 FYKT 281400Z 28005KT CAVOK 23/M07 Q1020 FYOA 281400Z 20004KT CAVOK 37/M10 Q1012 FYRU 281400Z 05003KT CAVOK ///// Q1015 FYWB 281400Z 36013KT 5000 DU NSC 23/07 Q1016 RESA FYWE 281400Z 12005KT CAVOK 28/M19 Q1020 FYWH 281400Z 00000KT CAVOK 26/M09 Q1021 NOSIG FYWW 281400Z 23002KT CAVOK 28/M17 Q1020 FZAA 281400Z 32008KT 4000 -TSRA SCT016 FEW028CB BKN020 25/23 Q1012 BECMG 1500 FZIC 281400Z 23008KT 9999 SCT032 FEW034CB 32/22 Q1010 BECMG TS FZNA 281400Z 05006KT 6000 TSRA SCT020 FEW020CB BKN100 20/16 Q1018 NOSIG FZQA 281300Z 09006KT 9000 HZ SCT023 34/15 Q1013 NOSIG GABS 281500Z 27006KT 240V300 9999 FEW020 FEW025CB 33/22 Q1012 NOSIG GAKD 281500Z 26004KT 9999 FEW020 33/26 Q1011 GAMB 281500Z 24012KT 9999 FEW030 FEW040CB 34/24 Q1009 GANR 281500Z 36006KT 9999 SCT020 FEW033CB 36/23 Q1011 GBYD 281500Z 00000KT 9999 SCT012 SCT120 31/24 Q1010 GCFV 281500Z 01018KT 330V040 9999 FEW021 SCT033 28/18 Q1013 GCGM 281500Z 22006KT 170V260 9999 SCT035 26/17 Q1016 RMK R09/24006KT 170V300 ARP/23005KT 140V290 GCHI 281500Z 02017KT 340V050 9999 FEW040 25/17 Q1016 GCLA 281500Z 01014KT 340V040 9999 SCT045 25/17 Q1017 GCLP 281500Z 36024KT 9999 FEW025 BKN035 26/17 Q1015 NOSIG GCRR 281500Z 36020KT 320V020 9999 FEW027 27/17 Q1013 GCTS 281500Z 09018G29KT 060V120 9999 SCT040 26/17 Q1015 NOSIG GCXO 281500Z 31024KT 9999 SCT022 22/14 Q1017 NOSIG GEML 281500Z 06006KT 360V120 CAVOK 24/18 Q1014 GFLL 281500Z 24005KT 9999 BKN013 FEW027CB 29/24 Q1010 RMK CB-NE GGOV 281400Z 18009KT 150V230 9999 SCT014 31/24 Q1011 NOSIG GLRB 281530Z 21010KT 9999 BKN018 31/25 Q1010 NOSIG GMAD 281500Z 26011KT CAVOK 28/16 Q1008 NOSIG GMAG 281500Z 24013KT 8000 NSC 26/15 Q1010 NOSIG GMAT 281500Z 36021KT 6000 BKN016 22/16 Q1010 NOSIG GMFF 281500Z 32006KT 280V360 CAVOK 32/08 Q1013 NOSIG GMFK 281500Z 13003KT 080V180 CAVOK 32/00 Q1017 NOSIG GMFM 281500Z VRB05KT CAVOK 30/14 Q1012 NOSIG GMFO 281500Z 30010KT CAVOK 31/07 Q1014 NOSIG GMMB 281500Z 36011KT 330V050 CAVOK 25/15 Q1013 NOSIG GMMC 281500Z 34016KT CAVOK 23/16 Q1012 GMMD 281500Z 32002KT CAVOK 32/06 Q1012 NOSIG GMME 281500Z 03011KT 360V060 8000 NSC 23/16 Q1011 NOSIG GMMH 281500Z 36017KT CAVOK 23/19 Q1013 NOSIG GMMI 281500Z 02019KT 8000 NSC 29/16 Q1009 NOSIG GMML 281500Z 02024KT 9999 SCT030 27/16 Q1012 NOSIG GMMN 281500Z 01011KT 340V040 CAVOK 25/15 Q1012 NOSIG GMMW 281500Z 05013KT 010V070 CAVOK 27/13 Q1013 NOSIG GMMX 281500Z VRB03KT CAVOK 32/13 Q1011 NOSIG GMMZ 281500Z 09008KT CAVOK 33/M00 Q1016 NOSIG GMTA 281500Z 34010KT 9999 FEW020 24/19 Q1014 NOSIG GMTN 281500Z 09011KT 9999 FEW020 24/19 Q1013 NOSIG GMTT 281500Z 04016KT CAVOK 27/15 Q1011 NOSIG GOBD 281500Z 26009KT 9999 SCT010 FEW020TCU 31/25 Q1011 NOSIG GOGG 281500Z VRB02KT 9999 BKN015TCU 32/26 Q1012 GOGK 281500Z VRB02KT 9999 SCT016TCU 33/26 Q1010 GOGS 281500Z 20004KT 9999 FEW015 30/24 Q1011 GOOD 281500Z 00000KT 9999 SCT015 34/26 Q1011 GOOG 281500Z 32004KT 9999 FEW010 34/25 Q//// GOOK 281500Z 28006KT 9999 SCT018 BKN230 33/25 Q1012 GOOY 281500Z 32004KT 9999 BKN011TCU 30/25 Q1012 GOSM 281500Z 00000KT 9999 FEW016 35/25 Q1010 GOSP 281500Z 24002KT 9999 FEW013 37/25 Q1009 GOSS 281500Z 32008KT 260V350 9999 FEW013 FEW015TCU 33/26 Q1010 GOTK 281500Z 28006KT 9999 SCT015 FEW030CB 33/25 Q1014 GOTT 281500Z 14006KT 070V180 9999 SCT013 33/25 Q1010 GQNO 281500Z 29016KT 4500 DU NSC 32/20 Q1009 NOSIG GQPP 281500Z 34013KT 310V010 7000 NSC 28/18 Q1012 NOSIG GUCY 281500Z 18006KT 9999 SCT015 BKN110 29/25 Q1011 NOSIG GVAC 281500Z 06014KT 9999 BKN014 30/23 Q1013 NOSIG GVBA 281500Z 04016KT 8000 SCT015 31/24 Q1012 NOSIG GVNP 281500Z 08011KT 7000 FEW016 31/25 Q1012 NOSIG GVSV 281500Z 06017KT 7000 BKN018 31/23 Q1013 NOSIG HAAB 281500Z 10008KT 9999 SCT025 21/12 Q1023 HBBA 281500Z 27020KT 9999 RA FEW 0250FEW 030CB BKN100 28/21 Q1009 HCMF 281400Z 03010KT 9999 FEW030 31/27 Q1006 HCMM 281400Z 19010KT 9999 SCT024 28/22 Q1009 HDAM 281100Z 07011KT 9999 FEW023 35/26 Q1007 HEAT 281500Z 33008KT CAVOK 40/14 Q1011 NOSIG HEAX 281500Z 01008KT CAVOK 32/17 Q1015 NOSIG HEBA 281500Z 02008KT CAVOK 33/20 Q1014 NOSIG HEBL 281500Z 06005KT CAVOK 40/11 Q1008 NOSIG HECA 281530Z 03012KT 6000 NSC 36/16 Q1014 NOSIG HECP 281500Z 02011KT CAVOK 35/16 Q1014 NOSIG HEGN 281500Z 33003KT CAVOK 37/14 Q1009 NOSIG HELX 281500Z 28005KT CAVOK 39/12 Q1008 NOSIG HEMM 281500Z 04007KT CAVOK 28/23 Q1016 NOSIG HEPS 281500Z 01010KT CAVOK 29/24 Q1015 NOSIG HESC 281500Z 05014KT CAVOK 30/M00 Q1025 NOSIG HESG 281500Z 22003KT CAVOK 40/06 Q1007 NOSIG HESH 281500Z 01008KT CAVOK 38/17 Q1010 NOSIG HKEL 281500Z 14007KT 9999 FEW022CB 21/11 Q1021 HKJK 281500Z 10014KT 9999 FEW030 25/12 Q1018 NOSIG HKKI 281500Z 29005KT 9999 FEW023CB BKN090 24/17 Q1014 HKML 281500Z 15919KT 9999 FEW021 27/23 Q1011 HKMO 281500Z 14008KT 9999 FEW024 27/23 Q1012 NOSIG HKNW 281500Z 11018KT 9999 FEW026CB SCT028 24/12 Q1018 HKWJ 281400Z 16003KT 9999 SCT037 34/17 Q1007 HRYR 281500Z 02010KT 9999 FEW025 SCT300 24/13 Q1017 NOSIG HSSS 281500Z 04003KT 9999 FEW050 39/11 Q1008 NOSIG HTAR 281500Z 11015KT 9999 FEW034 25/15 Q1016 NOSIG HTBU 281500Z 05003KT 9999 FEW020 FEW022CB BKN100 25/18 Q1013 HTDA 281500Z 05012KT 9999 BKN012 26/22 Q1012 NOSIG HTDO 281500Z 09010KT 9999 FEW026 27/14 Q1015 NOSIG HTIR 281500Z 09009KT 9999 BKN027 25/15 Q1017 HTKA 281500Z 23008KT 9999 FEW020 FEW021CB 28/21 Q1010 BECMG TS/SHRA HTKJ 281500Z 09010KT 9999 FEW032 30/15 Q1014 NOSIG HTMG 281500Z 00000KT 9999 FEW026 28/20 Q1013 HTMT 281500Z 09010KT 9999 SCT021 26/21 Q1013 NOSIG HTMU 281500Z 00000KT 9999 FEW020 FEW022CB 25/19 Q1015 HTMW 281500Z 33005KT 9999 SCT020 FEW021CB 24/19 Q1013 NOSIG HTSO 281500Z 09008KT 9999 SCT024 26/15 Q1015 HTSU 281500Z 00000KT 9999 FEW020 FEW022CB BKN070 22/15 Q1020 HTTB 281500Z 36010KT 9999 SCT024 FEW025CB 26/15 Q1012 NOSIG HTZA 281500Z 12004KT 9999 FEW014 BKN070 26/23 Q1012 NOSIG HUEN 281500Z 24009KT 9999 FEW022 FEW024CB 25/19 Q1014 K00U 281510Z AUTO 00000KT 10SM CLR 11/M02 A3036 RMK A01 Hardin K04V 281515Z AUTO 00000KT 10SM CLR 06/M04 A3046 RMK AO2 K04W 281255Z AUTO 30004KT 10SM SCT030 OVC060 08/06 A2983 RMK AO2 K05U 281515Z AUTO 00000KT 10SM CLR 08/M05 A3048 RMK A01 K06C 281515Z AUTO 24005KT 10SM BKN010 OVC014 11/10 A2978 RMK AO2 T01110098 K06D 281515Z AUTO 33016G22KT 10SM BKN042 BKN048 09/04 A3010 RMK AO2 K08D 281515Z AUTO 33011KT 10SM CLR 08/06 A3021 RMK AO2 K0A0 281515Z AUTO 35014KT 10SM CLR 14/M00 A3034 RMK AO2 K0A9 281515Z AUTO 04003KT 10SM CLR 23/18 A2993 RMK AO2 K0CO 281515Z AUTO 32009G16KT 171V351 10SM CLR M08/M18 A3051 RMK AO2 PWINO K0E0 281510Z AUTO 12011KT 10SM OVC050 10/M04 A3049 RMK AO2 K0F2 281515Z AUTO 34010KT 10SM CLR 19/08 A3019 RMK AO2 T01900080 K0J4 281247Z AUTO 00000KT 1 1/2SM BR OVC002 23/21 A2993 RMK AO2 T02280211 $ K0R4 281515Z AUTO 00000KT 10SM CLR 21/20 A2987 RMK AO2 LTG DSNT NE SW AND W T02120199 K0S9 281515Z AUTO 00000KT 10SM CLR 09/09 A3038 RMK AO2 K0V4 281515Z AUTO 20010KT 10SM SCT019 25/20 A2993 RMK AO1 T02520201 K0VG 281515Z AUTO 21011G19KT 10SM BKN020 BKN028 22/18 A2993 RMK AO2 K11R 281515Z AUTO 01013G24KT 10SM SCT028 21/14 A3003 RMK AO2 T02080144 K12N 281454Z AUTO 20007KT 160V230 23/18 A2993 RMK AO1 SLP127 T02280178 51007 K13K 281515Z AUTO 31014KT 10SM CLR 15/08 A3015 RMK AO2 T01500075 K14Y 281515Z AUTO 32015G19KT 10SM OVC025 10/05 A2991 RMK AO2 K17J 281515Z AUTO 22003KT 10SM SCT009 SCT013 BKN039 26/25 A2992 RMK AO2 LTG DSNT NW T02560246 K18A 281515Z AUTO 00000KT 10SM BKN008 OVC021 22/20 A2996 RMK AO2 T02220204 K19S 281515Z AUTO 35015G21KT 10SM CLR 14/00 A3035 RMK AO2 T01381003 K1A5 281515Z AUTO 00000KT 10SM CLR 23/18 A3000 RMK AO2 T02250179 K1A6 281515Z AUTO 21007KT 170V230 10SM SCT029 BKN036 BKN045 23/19 A2990 RMK AO2 T02250190 K1A9 281515Z AUTO 00000KT 10SM SCT016 OVC022 24/22 A2991 RMK AO2 T02430217 K1AN 281456Z AUTO 34016G22KT 10SM FEW019 BKN050 09/ A3010 RMK AO2 SLP220 52011 $ K1BM 281359Z AUTO 23011KT 10SM CLR 05/M03 A3032 RMK AO2 SLP288 T00461030 $ K1BW 281458Z AUTO 31013KT 10SM CLR 07/M03 A3042 RMK AO2 SLP300 T00701033 51009 $ K1CM 281458Z AUTO 20003KT 10SM CLR 08/M05 A3032 RMK AO2 SLP287 T00821046 57013 $ K1CN 281456Z AUTO 34014KT 10SM FEW018 FEW030 SCT046 08/04 A3016 RMK AO2 SLP227 T00810039 52009 $ K1CW 281458Z AUTO 31013KT 10SM CLR 07/M03 A3044 RMK AO2 SLP303 T00671026 50007 $ K1DM 281458Z AUTO 18004KT 10SM CLR 05/M03 A3029 RMK AO2 SLP288 T00501030 56009 $ K1DN 281456Z AUTO 34015KT 10SM SCT012 08/05 A3016 RMK AO2 SLP228 T00830049 52010 $ K1EN 281456Z AUTO 33019KT 10SM FEW035 08/05 A3015 RMK AO2 SLP230 T00790049 50008 $ K1F0 281515Z AUTO 33007G14KT 10SM CLR 18/06 A3017 RMK AO2 K1FN 281456Z AUTO 33019G22KT 10SM CLR 08/05 A3008 RMK AO2 SLP236 T00840049 51011 $ K1FW 281458Z AUTO 33022G27KT 10SM CLR 09/M03 A3039 RMK AO2 SLP285 T00861027 52008 $ K1GM 281458Z AUTO 19017KT 10SM CLR 08/00 A3031 RMK AO2 SLP280 T00791003 57011 $ K1GN 281456Z AUTO 33011KT 10SM BKN044 08/05 A3017 RMK AO2 SLP242 T00750050 52013 $ K1GW 281458Z AUTO 33018KT 10SM CLR 09/M03 A3037 RMK AO2 SLP282 T00941033 51006 $ K1H2 281515Z AUTO 27009KT 10SM BKN012 15/11 A2987 RMK AO2 T01460111 K1HM 281458Z AUTO 21016KT 10SM CLR 08/00 A3029 RMK AO2 SLP271 T00841004 56010 $ K1HN 281356Z AUTO 33010KT 10SM BKN038 06/04 A3020 RMK AO2 SLP245 T00620039 $ K1HW 281459Z AUTO 33016G23KT 10SM CLR 09/M02 A3037 RMK AO2 SLP286 T00941019 51009 $ K1IM 281458Z AUTO 19009KT 10SM CLR 10/00 A3032 RMK AO2 SLP291 T00981002 57014 $ K1IN 281356Z AUTO 32011KT 10SM CLR 05/03 A3018 RMK AO2 SLP240 T00500034 $ K1J0 281458Z AUTO 00000KT 8SM BKN007 OVC017 26/23 A2992 RMK AO2 CIG 006V011 SLP088 T02610228 50002 K1K1 281515Z AUTO 33008G15KT 10SM CLR 14/04 A3019 RMK AO2 T01440038 K1KM 281458Z AUTO 27013KT 10SM CLR 08/M01 A3036 RMK AO2 SLP296 T00761014 57012 $ K1KW 281458Z AUTO 32014KT 10SM CLR 08/M02 A3038 RMK AO2 SLP291 T00831020 51009 $ K1LM 281458Z AUTO 22008KT 10SM CLR 08/M03 A3033 RMK AO2 SLP297 T00761029 57011 $ K1LW 281358Z AUTO 31014KT 10SM CLR 05/M03 A3042 RMK AO2 SLP303 T00451034 $ K1M4 281456Z AUTO 20009KT 10SM OVC010 23/21 A2989 RMK AO2 SLP500 T02280206 50001 K1M5 281515Z AUTO 20008KT 10SM FEW010 BKN033 OVC041 20/20 A2980 RMK A01 K1MM 281458Z AUTO 22011KT 10SM FEW140 09/M04 A3033 RMK AO2 SLP292 T00881036 57011 $ K1MN 281356Z AUTO 30012KT 10SM BKN044 07/05 A3017 RMK AO2 SLP232 T00670047 $ K1MW 281458Z AUTO 32015KT 10SM CLR 10/M04 A3040 RMK AO2 SLP299 T00981041 51008 $ K1NM 281458Z AUTO 28009KT 10SM CLR 10/M04 A3029 RMK AO2 SLP280 T00951036 57012 $ K1NN 281356Z AUTO 32013KT 10SM SCT046 06/04 A3017 RMK AO2 SLP227 T00610041 $ K1NW 281358Z AUTO 33007KT 10SM CLR 03/M04 A3040 RMK AO2 SLP296 T00291040 $ K1OM 281458Z AUTO 29008KT 10SM CLR 10/M01 A3031 RMK AO2 SLP281 T00981008 55005 $ K1ON 281356Z AUTO 33011KT 10SM BKN055 08/04 A3015 RMK AO2 SLP224 T00790041 $ K1OW 281458Z AUTO 32012KT 10SM CLR 07/M04 A3041 RMK AO2 SLP306 T00691038 52008 $ K1P1 281515Z AUTO 10SM SCT026 SCT033 23/17 A2994 RMK AO2 T02330172 K1R7 281515Z AUTO 21004G11KT 10SM BKN013 OVC018 25/24 A2987 RMK AO2 PWINO K1S5 281515Z AUTO 00000KT 10SM CLR 06/05 A3045 RMK AO2 T00640046 K1U7 281515Z AUTO 00000KT 10SM CLR 03/M04 A3051 RMK A01 K1V4 281454Z AUTO 23/16 A2989 RMK AO1 SLP110 T02330161 55004 K1V6 281510Z AUTO 00000KT 10SM CLR 10/01 A3047 RMK AO2 K1YT 281458Z AUTO 00000KT 10SM CLR 08/03 A3043 RMK AO2 SLPNO T00750031 53002 $ K20U 281515Z AUTO 30012KT 10SM CLR 08/03 A3029 RMK AO2 K20V 281515Z AUTO 00000KT 10SM CLR 00/M07 A3054 RMK AO2 K21D 281515Z AUTO 31010KT 10SM BKN021 OVC026 11/07 A2987 RMK AO2 K22N 281515Z AUTO 20003KT 10SM SCT014 BKN020 OVC025 20/19 A2992 RMK AO2 K24A 281515Z AUTO 12005KT 10SM SCT024 BKN032 BKN038 19/17 A3001 RMK AO2 LTG DSNT SE AND W T01900170 K24J 281515Z AUTO 00000KT 10SM SCT048 25/25 A2994 RMK A01 K27K 281535Z AUTO 20006KT OVC070 21/17 A2979 RMK AO1 K2A0 281515Z AUTO 19007G13KT 150V220 10SM FEW018 SCT023 BKN027 24/20 A2988 RMK A01 K2C8 281515Z AUTO 33017G27KT 10SM OVC019 09/05 A3002 RMK AO2 K2D5 281455Z AUTO 32016KT 10SM BKN020 BKN024 OVC031 10/08 A3005 RMK AO2 K2DP 281456Z AUTO 36004KT 10SM BKN018 25/22 A2999 RMK AO2 SLPNO T02510218 51011 $ K2G4 281515Z AUTO 20007G14KT 172V232 10SM BKN022 BKN031 BKN040 20/15 A2993 RMK AO1 K2G9 281515Z AUTO 20011G18KT 10SM SCT028 SCT033 BKN080 21/15 A2990 RMK AO2 K2I0 281515Z AUTO 32004KT 7SM RA OVC007 15/14 A2983 RMK AO2 P0002 T01540141 K2IS 281515Z AUTO 16003KT 10SM SCT020 29/25 A2995 RMK AO2 LTG DSNT SW T02940249 K2J3 281515Z AUTO 14003KT 10SM SCT005 OVC013 22/ A2995 RMK AO2 LTG DSNT W T0222//// K2J5 281515Z AUTO 16005KT 10SM OVC007 22/21 A2995 RMK AO2 T02240213 K2J9 281515Z AUTO 30003KT 10SM FEW011 SCT017 BKN038 27/24 A2993 RMK AO2 K2LS 281515Z AUTO VRB04KT 8SM FEW014 FEW020 29/24 A2991 RMK AO2 TSNO K2M2 281515Z AUTO 20007G14KT 10SM BKN016 OVC020 22/20 A2983 RMK A01 K2P2 281515Z AUTO 00000KT 10SM SCT065 SCT100 13/11 A2966 RMK AO2 T01310108 K2R9 281515Z AUTO 01013G24KT 10SM OVC043 21/12 A3005 RMK AO2 T02060118 K2V5 281515Z AUTO 32017G24KT 10SM CLR 13/M03 A3038 RMK AO2 K2V6 281504Z AUTO 31013G16KT 10SM CLR 10/M02 A3039 RMK AO2 K2W6 281515Z AUTO 23007KT 10SM CLR 24/18 A2994 RMK AO1 K2WX 281456Z AUTO 31016KT 09/00 A3026 RMK AO1 SLP252 T00940000 53005 K33N 281515Z AUTO 23006G12KT 10SM CLR 25/20 A2992 RMK A01 K33V 281459Z AUTO 16003KT 10SM CLR M01/M08 A3052 RMK AO1 K38S 281530Z AUTO 00000KT 10SM 06/00 A3055 K3AU 281515Z AUTO 30009KT 10SM CLR 14/05 A3018 RMK AO2 K3D2 281515Z AUTO 00000KT 10SM BKN011 13/11 A2966 RMK AO2 T01260105 K3F3 281510Z AUTO 33009G14KT 10SM OVC013 18/16 A3002 RMK AO2 LTG DSNT E AND S T01750156 K3I2 281515Z AUTO 16008KT 10SM CLR 25/19 A2983 RMK AO2 T02500186 K3J7 281515Z AUTO 00000KT 10SM BKN008 OVC021 23/22 A2995 RMK AO2 K3K3 281515Z AUTO 34016G19KT 10SM CLR 13/M02 A3039 RMK AO2 K3K8 281515Z AUTO 33014G20KT 10SM CLR 16/M00 A3029 RMK AO2 K3LF 281455Z AUTO 29009G14KT 10SM OVC011 12/10 A2990 RMK AO2 T01220101 K3N8 281455Z AUTO 33012G17KT 10SM OVC018 08/06 A2994 RMK AO2 T00810060 K3R7 281515Z AUTO 23004KT 10SM VCTS BKN009 BKN017 OVC075 27/27 A2988 RMK AO2 LTG DSNT ALQS T02710265 K3T5 281515Z AUTO 36013G26KT 10SM OVC085 21/12 A3002 RMK AO2 T02100115 K3U3 281530Z AUTO 00000KT 10SM 05/M01 A3051 K40B 281516Z AUTO 17008KT 20/ A2994 RMK AO1 SLP136 T0198 58002 K41U 281515Z AUTO 33003KT 10SM CLR 06/M02 A3047 RMK AO1 T00601020 K42J 281515Z AUTO 20004KT 10SM FEW038 SCT060 BKN070 27/25 A2994 RMK A01 TSNO K46D 281515Z AUTO 33015G23KT 10SM SCT023 SCT030 OVC055 10/06 A3010 RMK AO2 K46U 281515Z AUTO 00000KT 10SM 01/M04 A3055 RMK A01 K48A 281515Z AUTO 17004KT 10SM OVC005 23/22 A2994 RMK AO2 LTG DSNT NW T02340222 K49A 281515Z AUTO 21006KT 10SM SCT015 SCT022 BKN033 23/19 A2997 RMK AO2 T02300186 K4A6 281515Z AUTO VRB06G12KT 10SM SCT023 BKN030 OVC050 24/22 A2989 RMK AO2 K4A9 281515Z AUTO 22011KT 10SM A2990 RMK AO2 LTG DSNT W K4BM 281515Z AUTO 34003KT 10SM CLR A3055 RMK AO2 K4F2 281515Z AUTO 35010G20KT 10SM BKN020 OVC027 18/15 A3001 RMK AO2 LTG DSNT E THRU S T01790153 K4I3 281515Z AUTO 20011KT 10SM CLR 23/17 A2978 RMK AO2 K4M9 281515Z AUTO 32009KT 16/15 A2995 RMK AO2 PWINO K4MR 281458Z AUTO 03016KT 10SM BKN075 13/M01 A3042 RMK AO2 SLP267 T01281012 52014 $ K4O4 281515Z AUTO 35012G17KT 10SM 17/09 A3007 RMK AO2 K4R5 281455Z AUTO 31008KT 10SM BKN060 BKN080 12/07 A2975 RMK AO2 T01150071 K4S1 281515Z AUTO 04010KT 7SM CLR 25/04 A2994 RMK AO2 K4S2 281455Z AUTO 00000KT 10SM CLR 05/05 A3043 RMK AO2 K4U6 281510Z AUTO 21005KT 10SM 07/01 A3028 RMK A01 Circle K54A 281515Z AUTO 18006KT 10SM FEW016 29/26 A2994 RMK AO2 LTG DSNT SE K54J 281455Z AUTO 00000KT 10SM OVC010 25/23 A2992 RMK AO2 LTG DSNT SE T02470225 K57C 281515Z AUTO 27004KT 10SM OVC012 12/11 A2975 RMK AO2 T01180111 K5A6 281515Z AUTO 31005KT 10SM OVC003 19/18 A2986 RMK AO2 LTG DSNT NE AND E T01850180 K5C1 281515Z AUTO 02015G32KT 10SM CLR 20/04 A3012 RMK AO1 K5H4 281455Z AUTO 34018G23KT 10SM FEW030 OVC055 09/05 A3013 RMK AO2 K5M9 281515Z AUTO 33006KT 10SM OVC008 13/12 A2986 RMK AO2 T01330122 K5R8 281515Z AUTO 33010G29KT 2 1/2SM +VCTSRA SCT007 BKN012 OVC029 22/20 A2990 RMK AO2 LTG DSNT ALQS T02210203 K5SM 281515Z AUTO 07006KT 10SM CLR M02/M12 A3057 RMK AO2 K65S 281510Z AUTO 00000KT 10SM CLR 06/04 A3049 RMK AO2 K66R 281455Z AUTO 36011G21KT 10SM BKN050 BKN065 OVC090 20/15 A3001 RMK AO2 T01990148 K6A1 281515Z AUTO 24006KT 10SM SCT009 BKN022 OVC029 24/21 A2995 RMK AO2 LTG DSNT NW T02400212 K6A2 281515Z AUTO 25004KT 10SM SCT012 BKN020 OVC025 22/22 A2995 RMK AO2 LTG DSNT W K6B0 281515Z AUTO 18006KT 10SM BKN031 OVC036 22/21 A2985 RMK AO2 T02230205 K6B9 281515Z AUTO VRB06KT 150V210 10SM CLR 24/17 A2982 RMK AO2 K6I2 281505Z AUTO 18013G18KT 10SM SCT017 SCT025 BKN060 22/20 A2980 RMK AO2 K6L4 281515Z AUTO 07006KT 10SM FEW010 BKN075 OVC090 20/19 A2990 RMK AO2 K6P9 281515Z AUTO 35010G15KT 10SM OVC110 17/07 A3020 RMK AO2 T01690069 K6R3 281515Z AUTO 36011G18KT 7SM OVC012 19/17 A2997 RMK AO2 LTG DSNT NE AND E T01870171 K6R6 281451Z AUTO 36012G18KT 19/01 A3029 RMK AO1 SLP227 T01940011 51035 K6S0 281510Z AUTO 25025G31KT 10SM CLR 08/M03 A3039 RMK A01 Big Timber K6S2 281515Z AUTO 07005KT 10SM CLR 16/08 A3013 RMK AO2 T01630077 K6S5 281510Z AUTO 20010KT 10SM CLR 06/01 A3052 RMK AO2 Hamilton K6S8 281510Z AUTO 21008KT 10SM 08/M02 A3039 RMK A01 LAUREL K74V 281515Z AUTO 26003KT 10SM CLR 08/M05 A3052 RMK AO2 K77S 281515Z AUTO 00000KT 1/4SM FG OVC002 09/09 A3021 RMK A01 K79J 281522Z AUTO 21004KT 10SM FEW011 OVC018 27/22 A2992 RMK AO2 T02720222 K79S 281530Z AUTO 17006KT 10SM 11/M01 A3029 K7BM 281515Z AUTO 14005KT 10SM BKN007 BKN011 BKN042 02/M01 A3052 RMK AO2 K7L2 281515Z AUTO 30013G20KT 10SM BKN021 BKN025 OVC038 A3017 RMK AO2 K7S0 281510Z AUTO 00000KT 10SM 06/03 A3048 RMK A01 Ronan K7S1 281510Z AUTO 20004KT 10SM CLR 03/M02 A3053 RMK AO2 Twin Bridge K7S6 281510Z AUTO 16013G20KT 10SM 06/M02 A3041 RMK A01 White Sulphur Spg K7W4 281515Z AUTO 20008KT 10SM SCT100 OVC110 22/20 A2992 RMK AO1 T02200196 K7W6 281435Z AUTO 32003KT 10SM SCT014 BKN024 BKN028 23/20 A2999 RMK AO2 T02340195 K82C 281515Z AUTO 32008G14KT 10SM OVC014 12/09 A2976 RMK AO2 T01180090 K82V 281515Z AUTO 32015KT 10SM CLR 10/M05 A3043 RMK AO2 K8A0 281515Z AUTO 23007KT 10SM BKN020 23/19 A2991 RMK AO2 K8A3 281515Z AUTO 21008G16KT 10SM BKN022 BKN027 BKN034 23/18 A2984 RMK A01 K8B0 281515Z AUTO 22007G15KT 160V230 10SM BKN023 BKN029 21/16 A2999 RMK AO2 K8D3 281456Z AUTO 31013KT 10/07 A3000 RMK AO1 SLP157 P0002 60003 T01000072 51012 K96D 281535Z AUTO 33017G26KT 10SM OVC018 09/10 A3003 RMK AO2 K9A5 281515Z AUTO 20006KT 10SM SCT018 SCT027 BKN033 23/19 A2990 RMK AO2 T02310194 K9D7 281515Z AUTO 33016KT 10SM BKN024 OVC050 10/05 A3011 RMK AO2 K9L2 281458Z AUTO 00000KT 10SM CLR 16/M02 A3008 RMK AO2 SLP167 T01611019 52022 $ K9MN 281515Z AUTO 30010G18KT 10SM SCT011 BKN044 OVC050 10/07 A2986 RMK AO1 T01040074 K9V9 281515Z AUTO 32017G22KT 10SM CLR 13/04 A3017 RMK AO2 T01260040 KA08 281435Z AUTO 19008KT 10SM OVC011 25/22 A2988 RMK AO2 T02490220 KA39 281510Z AUTO 15008KT 10SM SCT120 26/02 A2999 RMK AO2 KAAA 281515Z AUTO 28003KT 10SM OVC010 13/10 A2986 RMK AO2 T01250097 KAAF 281253Z AUTO 00000KT 10SM 24/24 A2990 RMK AO2 RAE1159B06 SLP125 P0001 T02440239 $ KAAO 281454Z AUTO 33011KT 10SM CLR 14/04 A3018 RMK AO2 SLP218 T01390039 51022 KAAS 281515Z AUTO 21010KT 10SM OVC016 23/18 A2985 RMK AO1 KAAT 281455Z AUTO 00000KT 10SM CLR 06/M03 A3036 RMK AO2 SLP265 T00611033 53003 KABE 281451Z 19008KT 10SM BKN022 OVC026 21/18 A2992 RMK AO2 SLP130 T02110183 53012 KABH 281458Z AUTO 34013KT 10SM CLR 07/M06 A3048 RMK AO2 SLP326 T00711059 $ KABI 281452Z 35011G21KT 10SM OVC100 18/06 A3024 RMK AO2 SLP223 T01780061 51017 KABQ 281452Z 10017KT 10SM FEW055 12/M03 A3042 RMK AO2 PK WND 09031/1413 SLP239 T01171028 51027 KABR 281453Z AUTO 32015G22KT 10SM OVC060 11/06 A3008 RMK AO2 SLP189 T01060056 51012 KABY 281453Z 24004KT 10SM SCT010 SCT016 BKN080 26/23 A2994 RMK AO2 SLP138 60000 T02610233 50008 KACB 281515Z AUTO 17006KT 10SM -RA SCT010 SCT043 OVC065 14/12 A2969 RMK AO2 T01410121 KACJ 281510Z AUTO 29007KT 10SM BKN010 OVC018 26/22 A2996 RMK AO2 LTG DSNT NW KACK 281509Z 15013KT 5SM BR FEW003 BKN017 BKN050 22/21 A3002 RMK AO2 T02220206 $ KACP 281515Z AUTO 04011G20KT 010V070 1 1/2SM +VCTSRA BKN005 BKN020 OVC028 21/20 A2990 RMK AO2 LTG DSNT ALQS KACQ 281456Z AUTO 31016G22KT 10SM OVC047 11/06 A2991 RMK AO2 KACT 281451Z 35018G27KT 10SM CLR 20/08 A3012 RMK AO2 PK WND 35027/1451 SLP192 T02000078 51029 KACV 281453Z AUTO 10006KT 10SM CLR 18/07 A2992 RMK AO2 SLP134 T01830072 53007 KACY 281454Z 20007KT 10SM SCT036 23/19 A2996 RMK AO2 SLP145 T02280189 52016 KADC 281455Z AUTO 31011G18KT 10SM BKN019 OVC024 08/06 A2991 RMK AO2 PWINO KADG 281523Z AUTO 02003KT 10SM -RA OVC009 15/13 A2971 RMK AO2 RAB23 P0000 T01500128 TSNO KADH 281510Z AUTO 36008G15KT 10SM CLR 17/08 A3018 RMK AO2 KADM 281455Z 34010G17KT 10SM CLR 18/10 A3016 KADS 281452Z 35014G17KT 13SM OVC120 18/08 A3014 KADU 281515Z AUTO 32013G19KT 10SM SCT047 BKN055 13/08 A3000 RMK AO2 KADW 281456Z AUTO 22007KT 10SM CLR 24/19 A2991 RMK AO2 SLP133 T02390190 52006 FZRANO $ KAEG 281447Z 11017G21KT 10SM CLR 09/M02 A3043 KAEJ 281515Z AUTO 00000KT 10SM CLR 04/M02 A3050 RMK AO2 T00441016 KAEL 281515Z AUTO 31009KT 280V340 10SM BKN018 OVC044 11/08 A2989 RMK AO2 KAEX 281453Z 32003KT 10SM OVC014 21/19 A2987 RMK AO2 LTG DSNT ALQDS RAE43 SLP119 P0000 60024 T02060194 51020 $ KAFF 281458Z AUTO 01009KT 10SM CLR 07/M08 A3046 RMK AO2 SLP304 T00661082 $ KAFJ 281456Z AUTO 20012KT 10SM FEW021 BKN065 22/18 A2986 RMK AO2 SLP106 T02220178 50002 KAFK 281515Z AUTO 32013G20KT 10SM CLR 15/07 A3007 RMK AO2 T01460069 KAFN 281452Z AUTO 17008G17KT 10SM SCT021 BKN028 22/17 A2998 RMK AO2 SLP150 T02220167 53001 KAFO 281515Z AUTO 00000KT 10SM CLR 00/M06 A3054 RMK AO2 KAFP 281515Z AUTO 18004KT 10SM SCT065 23/18 A2997 RMK AO2 T02310184 KAFW 281453Z 34014KT 10SM BKN120 19/08 A3016 RMK AO2 SLP201 T01890078 51028 KAGC 281453Z 19008KT 10SM SCT070 BKN085 21/17 A2984 RMK AO2 SLP103 T02060167 52006 KAGR 281458Z AUTO 18005KT 10SM SCT012 BKN210 M A2995 RMK AO2 LTG DSNT E SLPNO 50010 $ KAGS 281453Z 00000KT 10SM OVC006 23/21 A2994 RMK AO2 RAB19E26 SLP136 P0000 60000 T02330211 50005 KAHN 281512Z VRB06KT 10SM FEW008 BKN012 OVC030 24/21 A2995 RMK AO2 T02440206 KAHQ 281515Z AUTO 32012G19KT 10SM CLR 15/04 A3009 RMK AO2 T01540044 KAIA 281453Z AUTO 31016KT 10SM CLR 10/M02 A3035 RMK AO2 SLP274 T01001022 51008 KAID 281459Z 30003G18KT 10SM OVC009 14/13 A2976 KAIG 281515Z AUTO 33008KT 10SM SCT018 OVC025 10/10 A2971 RMK AO2 T01000096 KAIK 281515Z AUTO 15005KT 10SM SCT011 BKN028 24/20 A2997 RMK AO2 LTG DSNT SE T02360204 KAIO 281515Z AUTO 31015G21KT 10SM CLR 13/09 A3000 RMK AO2 KAIT 281515Z AUTO 32005KT 10SM -DZ SCT015 SCT032 08/06 A2984 RMK AO2 KAIZ 281512Z AUTO 29009KT 10SM SCT019 14/10 A3001 RMK AO2 KAJG 281515Z AUTO 34009G16KT 10SM SCT008 OVC012 14/12 A2983 RMK AO2 LTG DSNT S T01360120 KAJO 281456Z AUTO 00000KT 6SM BR FEW008 16/15 A2993 RMK AO2 SLP129 T01560150 53010 KAJR 281515Z AUTO 23007KT 7SM SCT011 BKN016 OVC060 A2996 RMK AO2 LTG DSNT S KAJZ 281515Z AUTO 00000KT 10SM CLR 10/M06 A3044 RMK AO2 T00961064 PWINO KAKH 281454Z AUTO 22006KT 10SM BKN016 OVC039 24/19 A2996 RMK AO2 SLP140 T02390194 KAKO 281453Z AUTO 29010KT 10SM CLR 07/M02 A3041 RMK AO2 SLP293 T00671017 53008 KAKQ 281454Z AUTO 24003KT 10SM CLR 25/19 A2996 RMK AO2 SLP145 T02500194 50008 KAKR 281454Z AUTO 22010KT 10SM CLR 23/17 A2977 RMK AO2 SLP074 60001 T02280167 58001 KALB 281451Z 17011G16KT 8SM -RA FEW009 BKN013 OVC018 20/19 A2988 RMK AO2 RAE1354B41 SLP115 P0000 60001 T02000194 53007 KALI 281453Z AUTO 01017KT 10SM BKN017 23/19 A2995 RMK AO2 PK WND 02026/1412 SLP140 T02330189 51044 KALK 281456Z AUTO 29003KT 10SM CLR 22/00 A3018 RMK AO2 SLP132 T02170000 51012 KALM 281515Z AUTO 19013KT 10SM CLR 16/00 A3035 RMK AO2 KALN 281450Z 30009KT 10SM BKN014 13/12 A2990 KALO 281454Z 31011G21KT 10SM OVC017 13/09 A2986 RMK AO2 RAB24E33 SLP111 P0000 60000 T01280094 53008 KALS 281452Z AUTO 11010KT 10SM CLR 06/M03 A3044 RMK AO2 SLP273 T00611033 51015 KALW 281453Z 07003KT 10SM CLR 10/06 A3042 RMK AO2 SLP302 T01000056 58001 KALX 281515Z AUTO 21004KT 10SM SCT016 SCT021 24/21 A2992 RMK AO2 LTG DSNT NW T02440206 KAMA 281453Z 35014KT 10SM CLR 13/00 A3037 RMK AO2 SLP259 T01330000 51020 KAMG 281453Z AUTO VRB04KT 10SM OVC007 24/22 A2994 RMK AO2 SLP134 T02440222 50010 KAMN 281515Z AUTO 00000KT 2 1/2SM +DZ SCT005 BKN011 OVC035 13/11 A2973 RMK AO2 KAMW 281453Z AUTO 34018G26KT 10SM SCT021 BKN100 13/08 A2992 RMK AO2 PK WND 32026/1450 SLP129 T01330083 53010 KANB 281453Z AUTO 21008KT 10SM BKN021 OVC028 24/20 A2991 RMK AO2 SLP119 T02440200 50000 KAND 281523Z AUTO 22006KT 10SM SCT010 OVC035 23/20 A2995 RMK AO2 T02330200 KANE 281450Z 31012KT 10SM SCT050 BKN100 12/07 A2986 KANJ 281455Z AUTO 14004KT 8SM -RA FEW044 OVC070 14/12 A2968 RMK AO2 SLP048 P0004 60013 T01390122 53000 KANK 281515Z AUTO 11006KT 10SM CLR 07/00 A3057 RMK AO1 T00671001 KANQ 281515Z AUTO 34005KT 5SM BR BKN022 BKN026 12/11 A2973 RMK AO2 KANW 281515Z AUTO 32018G24KT 10SM CLR 12/01 A3023 RMK AO2 T01200005 KAOH 281520Z AUTO 20005KT 1 3/4SM +RA BR SCT013 BKN040 OVC070 18/17 A2971 RMK AO2 RAB10 P0002 T01830167 KAOO 281453Z AUTO 21011KT 10SM CLR 23/15 A2989 RMK AO2 SLP111 T02330150 51005 KAPA 281453Z 24006KT 10SM FEW090 07/M03 A3047 RMK AO2 SLP312 T00721033 51009 KAPC 281454Z AUTO 08003KT 10SM CLR 24/01 A2991 RMK AO2 SLP119 T02390006 53013 KAPF 281453Z 22005KT 10SM SCT020 SCT028 BKN034 29/26 A2993 RMK AO2 LTG DSNT SE SLP134 T02940261 50009 $ KAPG 281458Z 21009KT 7SM BKN013 22/20 A2991 RMK AO2A OVC V BKN SLP131 60000 T02240195 52013 $ KAPN 281515Z 00000KT 5SM -RA BR FEW027 BKN035 OVC042 12/11 A2970 KAPS 281515Z AUTO 25007KT 10SM SCT015 BKN023 BKN043 30/25 A2988 RMK AO2 LTG DSNT N AND NW T03020245 KAPY 281455Z AUTO 36009KT 7SM BKN014 OVC019 28/25 A2995 RMK AO2 T02800245 TSNO KAQO 281515Z AUTO 35010KT 10SM OVC080 20/05 A3017 RMK AO2 KAQP 281513Z AUTO 33013G21KT 10SM SCT022 OVC060 12/06 A2997 RMK AO2 KAQR 281510Z AUTO RMK AO2 PWINO PNO TSNO KAQW 281523Z AUTO 10007KT 10SM FEW027 BKN035 OVC055 23/18 A2991 RMK AO2 T02330178 KAQX 281515Z AUTO 00000KT 8SM FEW004 BKN022 OVC026 21/21 A2995 RMK AO2 LTG DSNT E KARA 281453Z VRB03KT 10SM FEW006 SCT009 BKN015 27/27 A2989 RMK AO2 SLP120 T02670267 50002 KARB 281453Z 05004KT 10SM BKN009 OVC018 15/12 A2970 RMK AO2 SLP055 T01500122 58005 $ KARG 281456Z AUTO 33012KT 10SM FEW016 OVC110 16/13 A2996 RMK AO2 SLP143 60001 T01610133 53017 KARM 281515Z AUTO 34015G20KT 10SM BKN013 OVC031 19/16 A2998 RMK AO2 T01920160 KARR 281452Z 24008KT 7SM OVC009 11/10 A2979 RMK AO2 RAB23E32 CIG 007V012 SLP089 P0000 60000 T01110100 53003 KART 281456Z AUTO 19008KT 10SM FEW080 24/17 A2979 RMK AO2 SLP081 T02440167 56001 $ KARV 281515Z AUTO 33006KT 10SM BKN015 OVC025 11/07 A2973 RMK AO2 T01100067 KARW 281455Z AUTO 00000KT 3SM -RA SCT009 SCT013 BKN075 23/22 A2993 RMK AO2 LTG DSNT E AND SE P0019 KASD 281453Z AUTO VRB04KT 10SM FEW011 SCT019 BKN025 29/24 A2987 RMK AO2 SLP113 T02890244 58006 KASE 281453Z 12005KT 10SM CLR 03/M07 A3048 RMK AO2 SLP264 T00281072 53015 KASG 281448Z 31009KT 10SM FEW019 15/12 A3009 KASH 281456Z VRB04KT 10SM BKN018 OVC024 23/21 A2996 RMK AO2 SLP149 T02330211 53002 KASJ 281515Z AUTO 00000KT 10SM CLR 24/18 A2997 RMK AO2 T02360183 KASL 281515Z AUTO 35013G17KT 10SM BKN021 OVC027 18/14 A3004 RMK AO1 T01830140 KAST 281455Z AUTO 06008KT 10SM CLR 14/11 A3026 RMK AO2 SLP247 T01440111 56005 KASW 281515Z AUTO 31005KT 3SM RA BKN006 OVC018 12/12 A2976 RMK AO2 P0001 KASX 281517Z AUTO 30008KT 10SM BKN023 OVC045 11/07 A2978 RMK AO2 T01110067 KATL 281525Z 22005KT 10SM SCT015 SCT026 OVC036 24/19 A2994 RMK AO2 BINOVC T02390194 KATS 281515Z AUTO 01014KT 10SM OVC070 15/M01 A3042 RMK AO2 KATT 281451Z AUTO 36010G28KT 10SM OVC080 21/07 A3010 RMK AO2 PK WND 34028/1443 SLP183 T02110067 53031 $ KATW 281445Z 29006KT 10SM BKN006 BKN025 12/11 A2968 KATY 281453Z AUTO 32014G21KT 10SM BKN014 OVC070 09/07 A3001 RMK AO2 SLP170 T00940067 51007 KAUG 281511Z AUTO VRB05KT 1/2SM FG VV002 20/20 A2999 RMK AO2 T02000200 KAUH 281515Z AUTO 32015G19KT 10SM CLR 15/02 A3017 RMK AO2 T01450024 KAUM 281515Z AUTO 32012G19KT 7SM BKN018 OVC025 11/08 A2988 RMK AO2 KAUN 281515Z AUTO 08007G14KT 10SM CLR 28/M02 A2999 RMK A01 KAUO 281525Z AUTO 21004KT 10SM SCT020 25/21 A2994 RMK AO2 KAUS 281453Z 36017G24KT 10SM FEW060 BKN085 22/09 A3007 RMK AO2 PK WND 35031/1413 SLP174 T02170089 53027 KAUW 281454Z AUTO 10SM OVC021 11/09 A2971 RMK AO2 SLP068 60000 T01110089 53007 $ KAVC 281515Z AUTO 24010G14KT 10SM CLR 24/18 A3001 RMK AO2 T02420184 KAVK 281515Z AUTO 34014KT 10SM CLR 16/01 A3026 RMK AO2 PWINO TSNO KAVL 281454Z 22008KT 10SM CLR 22/18 A2998 RMK AO2 SLP129 T02220178 50003 KAVP 281527Z VRB05KT 10SM SCT023 BKN032 22/17 A2989 RMK AO2 T02220172 KAVQ 281515Z AUTO 10005KT 10SM CLR 25/00 A2998 RMK AO2 T02470003 KAVX 281451Z AUTO 12006KT 10SM CLR 24/11 A2995 RMK AO2 SLP119 T02390106 53010 $ KAWG 281515Z AUTO 29010G15KT 10SM SCT014 14/12 A2987 RMK AO2 KAWM 281506Z AUTO 35009KT 10SM BKN009 BKN015 OVC060 16/14 A2992 RMK AO2 CIG 006V012 T01560139 PNO $ KAWO 281456Z AUTO 00000KT 4SM BR BKN001 09/08 A3038 RMK AO2 SLPNO 6//// T00890083 55003 PNO $ KAXA 281515Z AUTO 33014G20KT 10SM SCT029 BKN060 13/07 A2993 RMK A01 KAXH 281455Z AUTO 33011G16KT 10SM OVC010 20/19 A2996 RMK AO2 LTG DSNT NE T02000189 KAXN 281453Z AUTO 31019G27KT 10SM FEW018 BKN025 OVC034 09/06 A2993 RMK AO2 PK WND 31027/1452 SLP143 T00940061 51006 KAXS 281515Z AUTO 36013G19KT 10SM CLR 19/01 A3028 RMK AO2 T01880010 KAXV 281515Z AUTO 00000KT 10SM -RA BKN011 BKN018 OVC070 17/16 A2972 RMK AO2 KAXX 281515Z AUTO 00000KT 10SM OVC027 02/M04 A3050 RMK AO2 T00241036 KAYS 281515Z AUTO 26006KT 10SM BKN011 OVC014 26/23 A2993 RMK AO2 T02610233 TSNO KAZC 281515Z AUTO 07006KT 10SM CLR 21/M05 A3032 RMK AO2 KAZE 281515Z AUTO 20003KT 10SM SCT008 BKN013 OVC018 26/23 A2992 RMK AO2 T02600233 KAZO 281453Z 00000KT 4SM -RA BR BKN007 BKN027 OVC065 13/11 A2975 RMK AO2 RAB16 SLP073 P0000 60001 T01280111 50001 KBAB 281458Z AUTO 34009KT 9SM CLR 18/04 A2992 RMK AO2 SLP134 T01840042 $ KBAC 281455Z AUTO 32014G21KT 10SM BKN021 BKN030 OVC037 10/08 A3005 RMK AO2 KBAD 281516Z 01016G19KT 10SM SCT017 BKN024 18/14 A2999 RMK AO2A CIG 018V024 CIG 018 RWY15 SLP157 KBAF 281526Z 19011KT 10SM SCT025 BKN032 OVC045 23/18 A2993 RMK AO2 T02330183 KBAK 281526Z 31009KT 5SM -RA BR BKN008 BKN013 OVC031 14/13 A2976 KBAM 281515Z AUTO 04007KT 10SM CLR 11/M02 A3045 RMK AO1 KBAN 281452Z AUTO 00000KT 10SM CLR 00/M04 A3044 RMK AO2 SLP285 T00001044 53003 FZRANO $ KBAX 281515Z AUTO 33004KT 10SM OVC008 14/14 A2969 RMK AO2 T01400135 KBAZ 281451Z 02019G32KT 10SM BKN080 22/07 A3006 RMK AO2 PK WND 01034/1441 SLP169 T02220072 53032 KBBB 281515Z AUTO 35014G23KT 10SM BKN024 12/07 A2996 RMK AO2 KBBD 281515Z AUTO 01013G19KT 10SM OVC080 18/04 A3021 RMK AO2 KBBG 281445Z 31009G14KT 10SM FEW015 14/10 A3005 KBBP 281515Z AUTO 00000KT 10SM SCT014 BKN060 23/21 A2997 RMK AO2 KBBW 281453Z AUTO 31017G26KT 10SM -RA CLR 13/00 A3022 RMK AO2 PK WND 29028/1436 RAB04 SLP229 P0000 60000 T01280000 51013 KBCB 281515Z AUTO 00000KT 10SM SCT018 BKN028 OVC045 22/19 A2999 RMK AO2 T02170188 KBCE 281453Z AUTO 02006KT 10SM CLR 06/M04 A3045 RMK AO2 SLP237 T00611039 51010 KBCK 281515Z AUTO 32004KT 10SM OVC018 12/09 A2978 RMK AO2 T01170086 KBCT 281447Z 18010KT 10SM SCT023 33/24 A2993 RMK LTG DSNT SW AND NW. KBDE 281453Z AUTO 32013G22KT 10SM BKN015 OVC019 08/07 A2986 RMK AO2 SLP119 60000 T00830067 51009 KBDG 281515Z AUTO 04012G18KT 10SM 14/M07 A3043 RMK AO1 T01401075 KBDH 281515Z AUTO 31014G20KT 10SM SCT100 12/08 A2996 RMK AO2 KBDL 281451Z 18011KT 10SM SCT019 BKN025 BKN250 23/18 A2994 RMK AO2 SLP138 T02330183 50006 KBDN 281515Z AUTO 00000KT 9SM CLR 07/01 A3046 RMK AO2 KBDR 281452Z 19009KT 10SM SCT017 23/19 A2995 RMK AO2 SLP141 T02330194 50006 KBDU 281512Z AUTO 15003KT 10SM CLR 10/M01 A3045 RMK AO2 KBEC 281515Z AUTO 31007KT 10SM CLR 14/03 A3019 RMK AO2 T01400031 KBED 281458Z COR 22010G15KT 10SM BKN015 24/19 A2996 RMK AO2 T02440189 KBEH 281453Z AUTO 28007KT 10SM -RA FEW020 BKN045 OVC055 14/12 A2975 RMK AO2 SLP072 P0001 60004 T01390117 50004 KBFD 281453Z AUTO 20006G15KT 10SM FEW022 BKN055 OVC085 21/14 A2986 RMK AO2 SLP099 T02060139 50003 KBFF 281453Z AUTO 29011KT 10SM CLR 08/01 A3039 RMK AO2 SLP292 T00780006 51007 $ KBFI 281523Z 30003KT 10SM FEW008 14/11 A3036 RMK AO2 T01390106 KBFL 281454Z 00000KT 8SM CLR 23/11 A2994 RMK AO2 SLP133 T02280111 51010 KBFM 281453Z VRB03KT 10SM SCT018 29/24 A2989 RMK AO2 SLP122 T02940239 58000 KBFW 281455Z AUTO 32007G19KT 250V030 10SM BKN120 09/06 A2974 RMK AO2 KBGD 281451Z AUTO 35010G18KT 10SM CLR 16/M01 A3037 RMK AO2 SLP261 T01561006 51019 KBGE 281515Z AUTO 00000KT 10SM OVC008 25/23 A2993 RMK AO2 LTG DSNT NW T02460232 KBGF 281515Z AUTO 22009G22KT 10SM SCT031 BKN039 OVC050 24/18 A2987 RMK A01 KBGM 281453Z AUTO 19007KT 10SM SCT030 BKN035 19/16 A2988 RMK AO2 SLP111 T01940161 50005 KBGR 281525Z 16007KT 1 3/4SM R15/4000VP6000FT -RA BR BKN004 OVC020 19/18 A3000 RMK AO2 RAB07 T01940183 PNO $ KBHB 281456Z AUTO 16005KT 4SM -RA BR OVC002 18/18 A3003 RMK AO2 RAB41 SLP169 6//// T01780178 58002 KBHC 281515Z AUTO 26006KT 10SM OVC009 25/24 A2993 RMK AO2 LTG DSNT NW KBHK 281451Z AUTO 28008KT 10SM CLR 07/00 A3031 RMK AO2 SLP266 T00670000 53005 KBHM 281453Z 20013KT 10SM BKN017 25/20 A2992 RMK AO2 SLP124 T02500200 51005 KBID 281526Z AUTO 23005KT 10SM BKN004 OVC019 19/18 A2999 RMK AO2 KBIE 281515Z AUTO 33017G23KT 10SM CLR 14/05 A3012 RMK AO2 T01420049 KBIF 281458Z AUTO 04003KT 10SM CLR 16/M01 A3031 RMK AO2 SLP204 T01601006 52028 $ KBIH 281456Z AUTO 31009KT 10SM CLR 18/M02 A3028 RMK AO2 SLP210 T01781017 52010 KBIJ 281515Z AUTO 25003KT 10SM BKN024 26/20 A2992 RMK AO2 LTG DSNT NW KBIL 281453Z 23012KT 10SM FEW150 07/M02 A3037 RMK AO2 SLP293 T00721022 57004 KBIS 281452Z 30011G23KT 10SM OVC040 10/05 A3017 RMK AO2 SLP222 T01000050 53012 KBIV 281521Z AUTO 23003KT 10SM FEW008 BKN021 OVC050 14/12 A2974 RMK AO2 RAE12 P0000 T01390117 KBIX 281456Z 21007KT 10SM SCT013 29/25 A2988 RMK AO2A SLP121 T02870249 50005 $ KBJC 281447Z 22005KT 10SM FEW100 09/M01 A3046 KBJI 281515Z AUTO 32013G18KT 4SM -RA BKN010 OVC014 07/06 A2989 RMK AO2 T00710063 KBJJ 281456Z AUTO 20010G16KT 10SM FEW014 21/17 A2977 RMK AO2 SLP077 T02110167 58002 KBKD 281515Z AUTO 36006KT 5SM HZ OVC110 19/07 A3021 RMK AO2 T01910069 KBKE 281453Z AUTO 00000KT 10SM CLR 05/02 A3049 RMK AO2 SLP331 T00500017 53008 KBKF 281458Z 23006KT 10SM FEW090 FEW220 08/M02 A3047 RMK AO2A SLP302 T00791024 52009 KBKL 281453Z 17008G16KT 10SM CLR 24/16 A2972 RMK AO2 SLP061 T02390161 55002 KBKN 281515Z AUTO 32010KT 10SM CLR 16/05 A3021 RMK AO2 KBKT 281455Z AUTO 21006KT 10SM CLR 24/20 A2995 RMK AO1 T02430201 KBKV 281453Z 18006KT 10SM CLR 28/26 A2994 RMK AO2 SLP138 60000 T02830261 50007 KBKW 281502Z AUTO 22006KT 10SM BKN007 BKN024 OVC060 17/17 A2997 KBKX 281456Z AUTO 32015G20KT 10SM OVC014 10/07 A3002 RMK AO2 SLP183 T01000067 53010 KBLF 281452Z AUTO 25007KT 5SM -RA BR BKN003 OVC018 16/16 A3000 RMK AO2 SLP136 P0011 60011 T01560156 51012 KBLH 281452Z AUTO 35014KT 10SM CLR 29/M02 A2990 RMK AO2 SLP116 T02941022 51020 KBLI 281453Z 03005KT 10SM CLR 11/09 A3039 RMK AO2 SLP297 T01060089 56006 KBLM 281456Z AUTO 15009KT 10SM FEW021 23/22 A2996 RMK AO2 SLP145 T02330217 51009 KBLU 281452Z AUTO 00000KT 10SM CLR 16/M04 A3027 RMK AO2 SLP172 T01561044 53004 TSNO KBLV 281516Z AUTO 31009KT 10SM BKN020 15/12 A2989 RMK AO2 BKN V SCT SLP124 $ KBMC 281510Z AUTO 34003KT 10SM CLR 09/M02 A3047 RMK AO1 T00881023 KBMG 281453Z 33005KT 6SM -RA BR OVC006 14/12 A2978 RMK AO2 RAE05B45 SLP080 P0001 60002 T01390117 52001 KBMI 281456Z 28009KT 10SM OVC008 11/10 A2985 RMK AO2 RAB25E40 SLP104 P0000 60000 T01110100 53006 KBML 281452Z AUTO 15012KT 10SM FEW040 23/15 A2995 RMK AO2 SLP137 T02330150 51004 $ KBMQ 281453Z AUTO 36013G26KT 10SM OVC085 19/06 A3016 RMK AO2 PK WND 36026/1446 SLP198 T01890056 53033 KBMT 281510Z AUTO 35015G18KT 3SM /VCTSRA BKN008 BKN015 OVC020 23/22 A2990 RMK AO2 LTG DSNT NE AND E T02260218 KBNA 281505Z 22005KT 10SM SCT018 BKN025 OVC040 22/19 A2982 RMK AO2 T02220189 KBNL 281515Z AUTO 00000KT 10SM BKN006 BKN018 BKN029 22/21 A2996 RMK AO2 LTG DSNT SE AND NW KBNO 281453Z AUTO 31004KT 10SM CLR 06/M01 A3047 RMK AO2 SLP321 T00611011 53005 KBNW 281515Z AUTO 32015G21KT 10SM FEW021 SCT060 BKN070 13/10 A2993 RMK AO2 KBOI 281453Z 11008KT 10SM CLR 11/02 A3045 RMK AO2 SLP305 T01060017 51012 KBOK 281456Z AUTO 08011G19KT 10SM CLR 28/02 A2997 RMK AO2 SLP144 T02780022 53002 KBOS 281454Z 19011KT 10SM FEW025 FEW120 BKN250 26/18 A2996 RMK AO2 SLP146 T02560183 58002 KBOW 281450Z 12004KT 10SM BKN010 27/26 A2996 KBPC 281515Z AUTO 36015KT 10SM CLR 15/00 A3037 RMK AO2 KBPG 281515Z AUTO 03015KT 10SM OVC085 18/00 A3030 RMK AO2 T01761003 KBPI 281453Z AUTO 00000KT 10SM CLR 00/M07 A3054 RMK AO2 SLP334 T00001072 51013 KBPK 281453Z AUTO 34007KT 10SM CLR 15/10 A3000 RMK AO2 SLP157 T01500100 51018 KBPT 281527Z 23010KT 10SM VCTS BR SCT017 BKN024 OVC050 27/26 A2986 RMK AO2 LTG DSNT N AND NE T02720256 KBQK 281515Z AUTO 21007KT 10SM BKN016 OVC026 27/24 A2993 RMK AO2 LTG DSNT E AND SE T02670237 KBQP 281515Z AUTO 34006G14KT 10SM BKN015 BKN050 OVC095 19/14 A2994 RMK AO2 T01870138 TSNO KBRD 281523Z AUTO 33011KT 4SM -RA BR SCT008 BKN020 OVC036 08/07 A2987 RMK AO2 RAB1457 P0003 T00830067 KBRG 281515Z AUTO 03006KT 10SM CLR 13/M02 A3042 RMK AO2 T01281019 KBRL 281453Z AUTO 31011G19KT 10SM OVC011 13/10 A2987 RMK AO2 SLP114 T01330100 51010 KBRO 281512Z 00000KT 10SM BKN017 30/26 A2987 RMK AO2 T03000261 KBRY 281515Z AUTO 20004KT 4SM SCT007 BKN019 OVC023 20/18 A2976 RMK AO1 KBTA 281515Z AUTO 32013G21KT 10SM OVC065 13/M08 A3006 RMK AO2 T01341080 KBTL 281453Z 27005KT 10SM -RA BKN009 BKN012 OVC049 13/12 A2975 RMK AO2 RAB28 SLP071 P0000 60000 T01280117 53003 KBTM 281453Z AUTO 00000KT 10SM CLR 00/M03 A3051 RMK AO2 SLP346 T00001028 53002 $ KBTP 281456Z AUTO 21008KT 10SM CLR 22/17 A2984 RMK AO2 SLP102 6//// T02220167 50002 PNO $ KBTR 281453Z 24011KT 10SM BKN008 28/25 A2987 RMK AO2 CIG 007V012 SLP114 T02780250 50000 KBTV 281513Z 17005KT 3SM R15/5000VP6000FT -RA BR FEW008 BKN037 OVC060 22/20 A2984 KBUF 281454Z 20011KT 10SM FEW035 FEW085 FEW250 FEW350 25/16 A2975 RMK AO2 SLP071 T02500156 58005 KBUR 281453Z 00000KT 7SM CLR 18/15 A2991 RMK AO2 SLP118 T01780150 53010 $ KBUU 281515Z AUTO 28005KT 10SM OVC012 12/10 A2974 RMK AO2 T01200104 PWINO KBUY 281511Z AUTO 20006KT 10SM BKN018 24/18 A2996 RMK AO2 T02390183 KBVI 281515Z AUTO 20005KT 10SM SCT023 24/16 A2981 RMK AO2 T02440160 KBVN 281515Z AUTO 32015G22KT 10SM CLR 14/02 A3014 RMK AO2 T01410023 KBVO 281453Z 33011KT 10SM CLR 16/08 A3015 RMK AO2 SLP205 T01610083 51023 KBVS 281515Z AUTO 00000KT 1/2SM BR OVC003 11/11 A3039 RMK A01 KBVU 281515Z AUTO 36018KT 10SM CLR 24/M04 A3014 RMK AO2 KBVX 281456Z AUTO 32007G14KT 280V360 10SM CLR 17/13 A2999 RMK AO2 SLP152 60000 T01670128 51023 KBVY 281453Z 19009KT 10SM CLR 25/19 A2996 RMK AO2 SLP139 T02500189 58002 KBWD 281455Z AUTO 36011G18KT 330V030 10SM OVC100 18/05 A3021 RMK AO1 KBWG 281524Z AUTO 20008KT 10SM BKN026 OVC036 21/19 A2978 RMK AO2 T02060189 KBWI 281454Z 19005KT 10SM SCT015 SCT065 BKN200 23/18 A2991 RMK AO2 SLP127 T02330183 53009 KBWW 281515Z AUTO 32016KT 10SM CLR 09/03 A3026 RMK AO2 KBXA 281515Z AUTO 20006KT 10SM OVC010 27/25 A2988 RMK AO2 T02740247 KBXK 281515Z AUTO 00000KT 8SM CLR 25/02 A2993 RMK A01 KBYG 281453Z AUTO 33009KT 10SM CLR 10/M04 A3040 RMK AO2 SLP284 T01001044 53003 KBYH 281450Z 33008G15KT 8SM BKN010 OVC029 16/14 A2993 KBYI 281453Z AUTO 00000KT 10SM CLR 07/01 A3048 RMK AO2 SLP312 T00720011 53010 KBYL 281455Z AUTO 20009KT 10SM FEW031 FEW037 SCT055 24/18 A2987 RMK AO1 KBYS 281458Z 01006KT 6SM HZ FU CLR 27/M02 A3008 RMK AO2A SLPNO WND DATA ESTMD ALSTG ESTMD $ KBYY 281515Z AUTO 36012G19KT 10SM OVC012 21/18 A2995 RMK AO2 T02090186 KBZN 281456Z 17004KT 10SM CLR 04/M02 A3049 RMK AO2 SLP335 T00391017 53002 KC07 281515Z AUTO 00000KT 10SM CLR M01/M10 A3053 RMK AO2 KC09 281515Z AUTO 27006KT 10SM BKN011 OVC015 12/11 A2980 RMK AO2 T01150110 KC29 281455Z AUTO 30007KT 10SM OVC014 13/10 A2975 RMK AO1 T01270104 KC35 281515Z AUTO 31007KT 10SM OVC014 11/10 A2976 RMK AO2 T01110101 PWINO KC62 281515Z AUTO 34003KT 10SM -DZ BKN005 BKN011 OVC025 12/12 A2974 RMK AO2 T01210121 KC65 281515Z AUTO 29008KT 2SM BR FEW009 BKN014 12/11 A2977 RMK A01 KC75 281515Z AUTO 00000KT 10SM OVC011 12/10 A2982 RMK AO2 T01230104 KC83 281515Z AUTO 31007KT 10SM CLR 26/M01 A2994 RMK AO2 KC99 281506Z AUTO 32006KT 10SM CLR M04/M13 A3051 RMK AO2 KCAD 281515Z AUTO 21004KT 10SM -DZ SCT008 BKN016 OVC065 13/12 A2970 RMK AO2 T01270116 KCAE 281456Z 10004KT 10SM BKN080 23/20 A2995 RMK AO2 SLP141 T02330200 51006 KCAG 281453Z AUTO 00000KT 10SM CLR 01/M06 A3051 RMK AO2 SLP344 T00061056 51014 KCAK 281451Z 20011KT 10SM FEW013 SCT039 SCT070 SCT250 23/17 A2978 RMK AO2 SLP078 T02280172 50000 KCAO 281455Z AUTO 33011G17KT 10SM OVC100 09/M02 A3044 RMK AO2 SLP287 T00891017 51017 KCAR 281513Z AUTO 20009G15KT 10SM FEW027 OVC070 24/17 A2996 KCAV 281515Z AUTO 33016G25KT 10SM FEW025 SCT032 SCT038 14/08 A2992 RMK A01 KCBE 281515Z AUTO 00000KT 10SM CLR 21/17 A2992 RMK AO2 T02070168 KCBF 281515Z AUTO 32009G19KT 10SM OVC060 13/05 A3004 RMK AO2 KCBG 281355Z AUTO 31009KT 10SM SCT050 10/05 A2985 RMK AO2 P0001 KCBK 281515Z AUTO 34013G21KT 10SM CLR 12/M03 A3035 RMK AO2 PWINO KCBM 281456Z AUTO 20006KT 10SM FEW044 FEW060 24/21 A2984 RMK AO2 SLP106 T02360205 53000 $ KCCA 281515Z AUTO 32010G17KT 9SM CLR 17/12 A3001 RMK AO2 KCCB 281515Z AUTO 00000KT 10SM CLR 24/14 A2994 RMK AO2 KCCO 281515Z AUTO 22003KT 10SM BKN013 BKN019 BKN034 25/22 A2994 RMK AO2 LTG DSNT W T02520220 KCCR 281453Z AUTO 19004KT 10SM CLR 21/04 A2992 RMK AO2 SLP117 T02110039 53010 KCCU 281515Z AUTO 00000KT 10SM CLR M03/M12 A3053 RMK AO2 KCCY 281515Z AUTO 32015G20KT 10SM BKN018 BKN026 OVC044 11/08 A2987 RMK AO2 KCDA 281515Z AUTO 12008G15KT 10SM BKN032 BKN037 BKN044 22/16 A2993 RMK AO2 T02210162 KCDC 281453Z AUTO VRB03KT 10SM CLR 08/M05 A3040 RMK AO2 SLP258 T00781050 53010 $ KCDD 281513Z AUTO 00000KT 10SM SCT022 SCT029 OVC037 08/07 A2983 RMK AO2 KCDH 281515Z AUTO 35010G15KT 9SM BKN020 BKN026 BKN031 19/14 A3001 RMK AO2 KCDI 281515Z AUTO 18007KT 10SM SCT043 SCT049 SCT060 24/18 A2980 RMK AO2 T02350183 KCDJ 281452Z AUTO 31008G15KT 270V340 14/09 A3000 RMK AO1 SLP158 T01440094 51016 KCDN 281515Z AUTO 00000KT 10SM FEW039 FEW055 OVC095 24/20 A2997 RMK AO2 LTG DSNT SE KCDR 281453Z AUTO 28013KT 10SM CLR 09/00 A3035 RMK AO2 SLP286 T00940000 51007 KCDS 281453Z AUTO 36015KT 10SM CLR 17/00 A3031 RMK AO2 SLP250 T01720000 51028 KCDW 281453Z 19009KT 10SM FEW026 FEW034 BKN048 24/18 A2993 RMK AO2 SLP139 T02390183 51010 KCEC 281456Z AUTO 07007KT 7SM CLR 26/04 A2994 RMK AO2 SLP139 T02560044 53003 KCEF 281456Z 18010G17KT 10SM SCT022 BKN200 24/17 A2994 RMK AO2A SLP143 WND DATA ESTMD T02350172 50004 KCEU 281505Z AUTO 00000KT 7SM FEW009 BKN028 OVC034 22/20 A2996 RMK AO2 T02220200 KCEW 281500Z AUTO 26005KT 10SM BKN015 28/23 A2991 RMK AO2 T02780228 KCEY 281515Z AUTO 33009KT 10SM BKN011 OVC060 14/13 A2986 RMK AO1 KCEZ 281453Z AUTO 12005KT 10SM CLR 14/M06 A3033 RMK AO2 SLP211 T01391056 53021 KCFD 281515Z AUTO 35015G23KT 10SM SCT095 20/13 A3006 RMK AO2 T02010125 KCFE 281515Z 10SM SCT024 BKN075 OVC095 11/05 A2990 RMK AO2 T01080051 KCFJ 281515Z AUTO 30009KT 7SM BKN007 BKN012 OVC019 11/10 A2981 RMK AO2 T01070101 KCFO 281447Z 25005KT 10SM CLR 08/00 A3047 KCFS 281515Z AUTO 27004KT 7SM DZ SCT003 OVC009 13/12 A2970 RMK AO2 T01330122 KCFV 281452Z AUTO 32013G18KT 10SM CLR 16/09 A3011 RMK AO2 SLP196 T01560089 51025 KCGC 281515Z AUTO 18003KT 10SM SCT014 SCT080 28/25 A2995 RMK AO2 LTG DSNT W KCGE 281515Z AUTO 20008KT 10SM CLR 25/19 A2993 RMK A01 KCGF 281445Z 19012KT 20SM SCT100 22/17 A2974 KCGI 281522Z 35011KT 10SM SCT015 BKN019 16/12 A2990 RMK AO2 T01610122 KCGS 281515Z AUTO 17003KT 10SM SCT013 22/18 A2990 RMK AO1 T02240178 KCGZ 281456Z AUTO 11004KT 10SM CLR 24/02 A2996 RMK AO2 SLP129 T02390017 51016 KCHA 281453Z 18007G16KT 130V210 10SM SCT018 BKN031 BKN065 BKN150 25/19 A2989 RMK AO2 SLP114 T02500194 50000 KCHD 281447Z 06004KT 10SM SKC 23/05 A2993 KCHK 281515Z AUTO 01017KT 10SM CLR 18/04 A3019 RMK AO2 T01820039 KCHO 281523Z 16008KT 10SM BKN009 BKN055 OVC090 22/18 A2991 RMK AO2 T02170183 $ KCHS 281526Z 11007KT 3SM R15/6000VP6000FT +RA BR BKN023 BKN033 OVC060 23/22 A2995 RMK AO2 RAB22 P0001 T02330217 KCIC 281449Z 33005KT 40SM SKC 19/M01 A3000 RMK FU DSNT S KCID 281503Z 30011KT 10SM BKN013 OVC090 12/09 A2986 KCII 281520Z AUTO 22009KT 10SM 13/01 A3027 RMK A01 Choteau KCIN 281515Z AUTO 32016KT 5SM -DZ BKN049 BKN055 11/10 A2998 RMK AO2 KCIR 281515Z 10SM SCT015 SCT020 BKN046 14/13 A2989 RMK AO2 T01410128 KCIU 281456Z AUTO 15007KT 10SM -RA SCT036 BKN046 OVC070 13/12 A2968 RMK AO2 SLP052 P0002 60010 T01280122 58003 KCJR 281455Z AUTO 20003KT 10SM OVC012 22/19 A2993 RMK AO2 T02170188 KCKB 281453Z 20007KT 10SM FEW038 BKN047 OVC095 22/16 A2987 RMK AO2 SLP101 T02220156 50003 KCKC 281455Z AUTO 32008KT 10SM BKN016 OVC065 09/04 A2971 RMK AO2 KCKF 281515Z AUTO 27005KT 10SM SCT008 SCT014 OVC030 25/22 A2994 RMK AO2 LTG DSNT NW T02490221 KCKI 281515Z AUTO 00000KT 2 1/2SM -RA SCT028 BKN036 OVC046 20/20 A2999 RMK AO2 LTG DSNT S P0002 KCKM 281535Z AUTO 00000KT 10SM 16/16 A2995 RMK A01 KCKN 281455Z AUTO 35020G23KT 10SM BKN023 BKN035 10/06 A2997 RMK AO2 KCKP 281455Z AUTO 32009G15KT 10SM SCT020 OVC065 12/08 A3001 RMK AO2 T01150080 KCKV 281525Z AUTO 32008KT 4SM -RA BR SCT008 BKN022 OVC060 14/14 A2982 RMK AO2 P0007 T01440144 KCKZ 281515Z AUTO 00000KT 10SM BKN012 OVC018 20/20 A2994 RMK AO2 KCLE 281451Z AUTO 19010KT 10SM CLR 22/17 A2972 RMK AO2 SLP074 T02170167 58003 KCLI 281515Z AUTO 32007KT 10SM RA SCT012 BKN026 OVC046 13/11 A2970 RMK AO2 T01260105 KCLL 281453Z 35021G26KT 10SM CLR 20/13 A3003 RMK AO2 PK WND 36027/1423 SLP165 T02000128 51028 KCLM 281453Z AUTO 00000KT 9SM CLR 08/08 A3040 RMK AO2 SLP296 T00830078 55006 KCLS 281515Z AUTO 00000KT 10SM CLR 09/09 A3035 RMK AO2 KCLT 281452Z 20009KT 10SM BKN008 BKN017 BKN040 24/19 A2997 RMK AO2 SLP140 T02440194 53003 KCLW 281515Z AUTO 18003KT 10SM SCT011 27/25 A2993 RMK AO2 KCMA 281455Z 00000KT 2 1/2SM HZ OVC004 19/16 A2991 RMK AO2 SLP136 T01890161 53013 KCMD 281515Z AUTO 20010KT 10SM OVC017 23/19 A2991 RMK AO2 T02340189 KCMH 281451Z 19013KT 10SM FEW019 SCT050 BKN250 22/17 A2976 RMK AO2 SLP074 T02220172 58002 $ KCMI 281453Z 29008KT 10SM BKN009 BKN013 OVC110 13/11 A2983 RMK AO2 CIG 007V012 SLP101 60002 T01280111 51005 KCMR 281515Z AUTO 00000KT 10SM CLR 16/M08 A3033 RMK AO2 KCMX 281524Z AUTO 34010KT 10SM BKN015 OVC065 12/07 A2969 RMK AO2 T01220072 KCMY 281515Z AUTO 30007KT 10SM OVC017 11/08 A2979 RMK AO2 T01080083 KCNB 281515Z AUTO 28008KT 10SM OVC035 11/09 A3001 RMK AO2 T01070087 KCNC 281515Z AUTO 30013KT 10SM OVC017 12/12 A2994 RMK AO2 KCNI 281510Z AUTO 23005KT 10SM BKN015 OVC021 23/20 A2995 RMK AO2 KCNK 281455Z AUTO 32012G21KT 10SM CLR 17/02 A3017 RMK AO2 SLP210 T01720022 51016 $ KCNM 281453Z AUTO 35010KT 10SM OVC070 16/00 A3038 RMK AO2 SLP241 T01560000 51014 KCNO 281453Z AUTO 00000KT 3SM HZ FU CLR 18/16 A2993 RMK AO2 SLP131 T01830156 53004 KCNU 281452Z AUTO 32015G21KT 10SM CLR 15/07 A3011 RMK AO2 SLP191 T01500072 51018 KCNW 281455Z 36016G22KT 10SM SKC 20/09 A3012 KCNY 281453Z AUTO 04017KT 10SM CLR 15/M07 A3038 RMK AO2 SLP252 T01501067 53020 KCOD 281456Z AUTO 23009KT 10SM CLR 08/M04 A3044 RMK AO2 SLP316 T00781044 56004 KCOE 281456Z AUTO 04004KT 10SM CLR 06/04 A3049 RMK AO2 SLP353 T00610039 51004 KCOF 281456Z AUTO 00000KT 10SM BKN016 BKN022 29/23 A2994 RMK AO2 CIG 016V021 SLP143 60004 T02880230 51012 $ KCOM 281515Z AUTO 02015G21KT 10SM OVC110 19/04 A3023 RMK AO2 T01870043 KCON 281518Z AUTO 17013G18KT 10SM SCT022 24/18 A2994 KCOQ 281515Z AUTO 31008KT 10SM SCT018 BKN023 OVC032 09/05 A2981 RMK AO2 TSNO KCOS 281454Z 32009KT 10SM FEW070 FEW100 08/M07 A3048 RMK AO2 SLP312 T00781067 51010 KCOT 281453Z AUTO 03009G23KT 10SM OVC049 22/12 A3004 RMK AO2 PK WND 04029/1359 RAB13E23 SLP167 P0000 60000 T02220117 51057 KCOU 281454Z 32014KT 10SM SCT013 13/09 A2996 RMK AO2 SLP145 T01330094 51014 KCPF 281515Z AUTO 19009G14KT 170V230 10SM SCT027 SCT033 24/18 A2987 RMK AO2 KCPK 281535Z AUTO 22004KT 7SM SCT023 25/19 A2997 RMK AO2 T02460185 KCPR 281453Z 24010KT 10SM CLR 05/M03 A3044 RMK AO2 SLP306 T00501033 51005 KCPS 281453Z 29012G19KT 10SM OVC018 14/11 A2991 RMK AO2 SLP126 60000 T01390111 51012 KCPT 281515Z AUTO 36017G22KT 10SM SCT120 19/08 A3017 RMK A01 KCPU 281515Z AUTO 13003KT 4SM HZ CLR 20/02 A2998 RMK AO2 T01950015 KCPW 281514Z AUTO 24004KT 10SM CLR 01/M12 A3059 RMK AO2 KCQB 281515Z AUTO 33009KT 10SM CLR 17/08 A3018 RMK AO2 T01750081 KCQC 281453Z AUTO 09015G23KT 10SM OVC046 06/M04 A3048 RMK AO2 SLP276 T00561044 51016 KCQF 281515Z AUTO 21004KT 10SM BKN013 27/23 A2989 RMK AO2 KCQM 281455Z AUTO 31006KT 2 1/2SM +RA SCT017 OVC022 08/06 A2981 RMK AO2 VIS 1 3/4V5 KCQT 281452Z AUTO 26003KT 5SM HZ CLR 20/16 A2990 RMK AO2 SLP122 T02000161 53010 KCQW 281515Z AUTO 00000KT 10SM FEW060 SCT070 23/20 A2997 RMK AO2 LTG DSNT S KCQX 281524Z AUTO 20007KT 160V230 2SM BR OVC002 20/19 A3003 RMK AO2 T02000194 KCRE 281453Z 14003KT 10SM BKN090 25/19 A2998 RMK AO1 SLP154 60000 T02500194 53007 KCRG 281453Z 21009KT 10SM FEW041 FEW055 SCT110 28/24 A2994 RMK AO2 SLP136 T02830244 50006 KCRP 281524Z 01018KT 10SM OVC016 23/19 A2996 KCRQ 281453Z AUTO 00000KT 7SM CLR 18/15 A2990 RMK AO2 SLP121 T01830150 51010 KCRS 281453Z AUTO 34017G23KT 10SM OVC120 19/09 A3010 RMK AO2 SLP189 T01890094 51032 KCRW 281454Z 15006KT 10SM FEW070 BKN095 22/18 A2986 RMK AO2 SLP105 60004 T02170178 50006 KCRX 281515Z AUTO 33006G12KT 3SM +RA BKN006 OVC010 17/16 A2983 RMK AO2 KCSG 281458Z VRB04KT 10SM SCT015 BKN022 OVC027 25/21 A2993 RMK AO2 T02500211 KCSM 281453Z 34017G26KT 10SM CLR 16/01 A3026 RMK AO2 PK WND 34029/1415 SLP236 T01560011 51021 KCSQ 281515Z AUTO 32019G27KT 10SM BKN024 BKN028 13/10 A2997 RMK AO2 KCSV 281519Z AUTO 19011G19KT 10SM BKN020 BKN028 22/17 A2989 RMK AO2 T02220167 KCTB 281456Z AUTO 24012KT 10SM CLR 10/00 A3025 RMK AO2 SLP246 T01000000 56010 KCTJ 281515Z AUTO 26003KT 10SM BKN016 OVC024 23/19 A2997 RMK AO2 T02330193 KCTY 281515Z AUTO 00000KT 10SM SCT020 SCT027 SCT038 26/25 A2993 RMK AO2 LTG DSNT SW T02580247 KCTZ 281515Z AUTO 00000KT 10SM CLR 24/21 A2999 RMK AO2 T02380205 KCUB 281453Z AUTO 17005KT 10SM SCT037 SCT090 23/21 A2997 RMK AO2 SLP146 T02330206 51007 KCUH 281515Z AUTO 34010G14KT 10SM CLR 16/08 A3017 RMK AO2 T01630083 KCUL 281515Z AUTO 03011G15KT 10SM BKN011 OVC017 14/13 A2985 RMK AO2 LTG DSNT S KCUT 281453Z AUTO 32010G19KT 280V360 10SM CLR 07/M05 A3031 RMK AO2 SLP260 T00721050 52003 KCVB 281515Z AUTO 02017G23KT 7SM SCT090 24/04 A3009 RMK AO2 T02430041 KCVC 281515Z AUTO 00000KT 7SM RA BKN010 OVC015 22/20 A2994 RMK AO2 LTG DSNT W KCVG 281521Z 18011KT 10SM -DZ BKN017 BKN045 OVC110 21/17 A2974 RMK AO2 RAB12E20DZB20 P0000 T02110167 $ KCVN 281456Z AUTO 02016KT 10SM BKN080 12/M01 A3041 RMK AO2 SLP282 T01221006 51019 KCVO 281456Z AUTO 00000KT 10SM CLR 08/07 A3023 RMK AO2 SLP240 T00780072 55001 KCVS 281458Z AUTO 36015G21KT 10SM OVC080 12/M02 A3042 RMK AO2 SLP271 T01221017 52019 $ KCVX 281515Z AUTO 17005KT 10SM SCT009 SCT025 OVC090 14/13 A2968 RMK AO2 T01420129 KCWA 281453Z 32009KT 10SM OVC013 10/08 A2974 KCWC 281455Z AUTO 34010G21KT 10SM CLR 18/05 A3023 RMK AO2 T01810050 KCWF 281447Z 21004KT 10SM BKN007 27/26 A2987 KCWI 281456Z AUTO 30009KT 10SM OVC008 12/11 A2983 RMK AO2 SLP105 T01220111 53008 KCWN 281458Z AUTO 03006KT 10SM CLR 06/M07 A3042 RMK AO2 SLP205 T00611068 52009 PWINO $ KCWV 281515Z AUTO 00000KT 7SM SCT004 OVC010 24/23 A2993 RMK AO2 T02410226 KCXE 281455Z AUTO 21004KT 10SM OVC017 23/19 A2996 RMK AO1 T02290189 KCXO 281453Z 35012KT 10SM BKN017 OVC032 19/16 A2998 RMK AO2 SLP150 60000 T01890161 51037 KCXP 281515Z AUTO 00000KT 10SM CLR 10/M04 A3041 RMK AO2 KCXU 281515Z AUTO 05003KT 10SM SCT010 BKN016 26/23 A2993 RMK AO1 T02630232 KCXW 281510Z AUTO 33012G17KT 10SM SCT120 17/12 A3001 RMK A01 KCXY 281522Z 12005KT 10SM SCT019 24/17 A2989 RMK AO2 T02440172 KCYD 281515Z AUTO 16010KT 5SM TSRA BKN048 BKN060 BKN120 24/21 A2996 RMK A02 LTG DSNT E SE AND W P0001 T02440214 KCYS 281453Z 32009KT 10SM CLR 06/M06 A3043 RMK AO2 SLP298 T00611056 51008 KCZL 281515Z AUTO 20006KT 10SM BKN019 BKN025 BKN031 25/20 A2993 RMK AO2 KCZT 281515Z AUTO 02007G15KT 10SM OVC044 22/10 A3007 RMK AO2 KCZZ 281452Z AUTO 00000KT 16/07 A2997 RMK AO1 SLP122 T01560067 51014 KD07 281456Z AUTO 32018G23KT 10/02 A3024 RMK AO1 SLP248 T01000017 51008 KD25 281515Z AUTO 31010KT 10SM BKN016 OVC026 10/08 A2973 RMK AO2 T01040078 KD39 281515Z AUTO 31015G21KT 10SM BKN024 BKN028 OVC036 10/06 A2991 RMK AO2 T01000060 KD50 281535Z AUTO 32011KT 10SM CLR 08/05 A3023 RMK AO2 KD55 281515Z AUTO 34020G25KT 10SM BKN017 OVC023 09/07 A3004 RMK AO2 KD60 281515Z AUTO 32011KT 10SM CLR 07/06 A3024 RMK AO2 KD73 281510Z AUTO 33004KT 10SM BKN008 BKN015 OVC025 23/22 A2996 RMK AO2 T02280224 KD95 281515Z AUTO 28004KT 10SM RA OVC006 14/14 A2971 RMK AO2 T01420136 KDAA 281521Z AUTO 18005KT 10SM SCT013 23/19 A2991 RMK AO2 SLP131 $ KDAB 281522Z 16008KT 10SM FEW022 BKN027 BKN090 30/26 A2994 KDAG 281450Z AUTO 00000KT 10SM CLR 21/01 A3005 RMK AO2 SLP152 T02110011 51022 KDAL 281453Z 34013G19KT 10SM BKN120 19/08 A3014 RMK AO2 SLP198 T01890083 51027 KDAN 281509Z AUTO 23011KT 10SM BKN020 24/18 A2995 RMK AO2 T02440183 KDAW 281518Z AUTO VRB04KT 10SM SCT013 BKN021 24/20 A2996 RMK AO2 T02390200 KDAY 281456Z 19009KT 10SM FEW018 SCT060 BKN180 21/17 A2974 RMK AO2 SLP065 60000 T02110167 56008 KDBN 281515Z AUTO 00000KT 10SM OVC007 23/22 A2996 RMK AO2 LTG DSNT W KDBQ 281520Z 30011KT 10SM SCT021 BKN026 BKN090 13/09 A2981 KDCA 281452Z 17008KT 10SM SCT016 22/19 A2991 RMK AO2 SLP129 T02220194 51006 KDCM 281515Z AUTO 17005KT 10SM OVC017 23/18 A2998 RMK AO2 LTG DSNT SE AND W KDCU 281453Z AUTO 20009KT 10SM BKN018 BKN024 24/21 A2986 RMK AO2 SLP105 T02440206 55002 KDCY 281515Z AUTO 31006KT 4SM DZ OVC007 14/14 A2981 RMK AO2 LTG DSNT S T01360135 KDDC 281452Z AUTO 34016G29KT 10SM CLR 14/M01 A3029 RMK AO2 PK WND 35029/1448 SLP248 T01441006 51017 KDDH 281454Z AUTO 17010KT 10SM OVC026 22/17 A2990 RMK AO2 SLP121 60001 T02170172 53008 KDEC 281454Z 26009KT 10SM BKN012 OVC100 12/11 A2985 RMK AO2 SLP108 T01220111 52008 KDED 281515Z AUTO 17008KT 10SM SCT013 BKN090 29/25 A2995 RMK AO2 T02860250 KDEH 281515Z AUTO 32010G17KT 10SM 12/10 A2981 RMK AO2 KDEN 281453Z 24005KT 10SM FEW100 FEW220 09/M02 A3046 RMK AO2 SLP290 T00891017 53010 KDEQ 281453Z AUTO VRB04KT 10SM CLR 18/12 A3005 RMK AO1 SLP172 T01830117 51028 KDET 281453Z 35005KT 10SM BKN015 OVC022 18/13 A2969 RMK AO2 SLP052 T01780133 50002 KDEW 281453Z AUTO 10SM CLR 04/02 A3048 RMK AO2 SLP336 T00390022 53004 KDFI 281513Z AUTO 00000KT 10SM -RA OVC014 16/13 A2971 RMK AO2 RAB01 P0000 T01610128 KDFW 281453Z 35013KT 10SM BKN120 18/09 A3013 RMK AO2 SLP195 T01830089 51027 KDGW 281453Z AUTO 31010KT 10SM CLR 04/M01 A3042 RMK AO2 SLP311 T00441006 50003 $ KDHN 281453Z VRB05KT 10SM BKN014 BKN023 26/22 A2995 RMK AO2 SLP137 T02610222 50003 KDHT 281453Z AUTO 35016G22KT 10SM OVC110 12/M01 A3042 RMK AO2 SLP276 T01221006 51017 KDIJ 281456Z AUTO 00000KT 10SM CLR 01/M01 A3053 RMK AO2 SLP358 T00061006 53006 KDIK 281456Z AUTO 31013G20KT 10SM CLR 08/02 A3022 RMK AO2 SLP241 T00780022 50008 KDKB 281515Z AUTO 24006KT 10SM OVC010 11/11 A2979 RMK AO2 T01130107 KDKK 281453Z AUTO 18011KT 10SM -RA SCT065 SCT080 23/16 A2976 RMK AO2 RAE04B48 SLP075 P0000 60000 T02330161 50002 $ KDKX 281515Z AUTO 23005KT 10SM FEW027 FEW047 SCT060 25/20 A2990 RMK A01 KDLF 281456Z AUTO 34010KT 10SM OVC060 21/06 A3015 RMK AO2 SLP200 T02120055 52035 TSNO CHINO RWY31 $ KDLH 281455Z 33009G18KT 10SM BKN015 BKN024 OVC065 09/05 A2979 RMK AO2 SLP095 T00940050 53003 KDLL 281515Z AUTO 30010KT 10SM SCT016 OVC021 12/09 A2975 RMK AO2 T01150089 KDLN 281453Z AUTO 20006KT 10SM CLR 02/M02 A3050 RMK AO2 SLP335 T00221017 53004 KDLO 281455Z AUTO 00000KT 10SM 16/11 A2995 RMK AO2 T01560107 KDLP 281515Z AUTO 22008KT 10SM SCT014 SCT038 28/24 A2990 RMK A01 KDLS 281453Z AUTO 00000KT 10SM CLR 08/03 A3044 RMK AO2 SLP308 T00780028 53003 KDLZ 281515Z AUTO 19008G14KT 10SM SCT022 SCT075 SCT090 22/16 A2975 RMK AO2 KDMA 281458Z AUTO 16005KT 10SM CLR 24/00 A3002 RMK AO2 SLP123 T02400003 52011 FZRANO $ KDMN 281453Z AUTO 08016G25KT 10SM CLR 16/00 A3031 RMK AO2 PK WND 07030/1438 SLP202 T01560000 51031 KDMO 281453Z AUTO 32012KT 10SM CLR 13/09 A3001 RMK AO2 SLP162 T01330089 51017 $ KDMW 281515Z AUTO 17005KT 10SM BKN015 23/19 A2991 RMK AO2 KDNA 281515Z AUTO 10010KT 10SM CLR 17/M00 A3032 RMK AO2 KDNL 281453Z AUTO 16004KT 10SM FEW025 SCT032 BKN045 24/20 A2996 RMK AO2 SLP140 T02390200 50002 KDNN 281515Z AUTO 18009KT 156V216 10SM SCT014 SCT019 SCT028 25/20 A2992 RMK AO2 LTG DSNT W KDNS 281515Z AUTO 31016KT 10SM BKN065 13/07 A3003 RMK AO2 KDNV 281455Z AUTO 29006KT 10SM -DZ OVC007 12/12 A2983 RMK AO2 P0001 60008 T01230122 KDOV 281456Z AUTO 18010KT 10SM CLR 24/20 A2993 RMK AO2 SLP138 T02400199 52010 $ KDPA 281452Z 24008KT 10SM OVC010 11/09 A2978 RMK AO2 CIG 008V012 SLP085 T01110094 53002 KDPG 281450Z 00000KT 50SM BKN350 08/M02 A3048 RMK SLP298 T00821025 51016 KDPL 281515Z AUTO 27003KT 10SM OVC100 24/19 A2998 RMK AO2 KDQH 281515Z AUTO 29003KT 10SM OVC008 25/23 A2995 RMK AO2 LTG DSNT NW T02500230 KDRA 281453Z AUTO 04015G24KT 10SM CLR 19/M04 A3020 RMK AO2 SLP185 T01941039 51017 $ KDRI 281515Z AUTO 34009KT 10SM TSRA SCT006 SCT029 BKN042 22/21 A2991 RMK AO2 LTG DSNT ALQS T02150206 KDRM 281515Z AUTO 00000KT 10SM -RA OVC060 12/11 A2969 RMK AO2 P0001 T01210110 KDRO 281453Z AUTO 09009KT 10SM CLR 09/M05 A3036 RMK AO2 SLP234 T00891050 53033 KDRT 281453Z AUTO 33011G17KT 10SM OVC065 22/06 A3016 RMK AO2 SLP196 T02220061 51034 TSNO KDSF 281520Z AUTO M1/4SM FG OVC004 23/21 A2994 RMK A01 KDSM 281525Z 33015G24KT 10SM SCT021 BKN065 BKN250 13/08 A2993 KDSV 281454Z AUTO VRB05G17KT 10SM FEW039 25/15 A2979 RMK AO2 SLP093 T02500150 58008 KDTA 281514Z AUTO 00000KT 10SM CLR 08/M03 A3044 RMK AO1 KDTL 281455Z AUTO 33017G20KT 10SM SCT010 BKN015 07/06 A2995 RMK AO2 KDTN 281520Z 36013G23KT 10SM FEW024 OVC030 19/13 A3000 RMK AO2 T01890133 KDTO 281453Z 34011KT 10SM OVC120 18/08 A3016 RMK AO2 SLP207 T01780078 51029 $ KDTS 281453Z 06004KT 10SM BKN014 27/23 A2989 RMK AO2 SLP120 T02670233 58002 KDTW 281453Z 36004KT 10SM OVC014 16/12 A2970 RMK AO2 SLP055 T01610122 50003 $ KDUA 281515Z AUTO 34011G15KT 10SM CLR 19/11 A3016 RMK AO2 KDUB 281515Z AUTO 30010KT 10SM CLR 01/M06 A3048 RMK AO2 KDUC 281515Z AUTO 35009KT 10SM CLR 18/06 A3022 RMK AO2 T01840059 KDUH 281515Z AUTO 00000KT 10SM OVC016 17/14 A2969 RMK AO2 T01690136 KDUJ 281453Z AUTO VRB05KT 10SM FEW012 20/16 A2985 RMK AO2 RAE04 SLP098 P0000 60001 T02000161 50003 KDUX 281515Z AUTO 33015G18KT 10SM CLR 13/M01 A3041 RMK AO2 T01261010 KDVK 281510Z AUTO 22008G14KT 10SM OVC016 22/18 A2982 RMK AO2 KDVL 281456Z AUTO 35017KT 10SM OVC024 09/04 A3007 RMK AO2 SLP765 T00940039 51015 KDVN 281452Z AUTO 30009KT 10SM BKN013 13/11 A2985 RMK AO2 SLP105 T01330106 53009 KDVO 281515Z AUTO 19005KT 10SM CLR 21/08 A2991 RMK AO2 KDVP 281513Z AUTO 30011G14KT 7SM SCT021 BKN036 OVC048 10/08 A3000 RMK AO2 T01000077 KDVT 281453Z 00000KT 10SM CLR 27/02 A2994 RMK AO2 SLP116 T02670017 51018 KDWA 281515Z AUTO 33015KT 10SM CLR 26/M01 A2995 RMK AO2 KDWH 281513Z 35010G18KT 10SM OVC016 20/16 A2998 RMK AO2 T02000156 KDWU 281456Z AUTO VRB05KT 10SM CLR 24/19 A2981 RMK AO2 SLP094 6//// T02440194 58004 PNO $ KDWX 281510Z AUTO 15012G16KT 10SM CLR 03/M11 A3054 RMK AO2 T00251112 KDXR 281515Z 19009KT 10SM FEW017 BKN023 BKN050 22/19 A2996 RMK AO2 T02170189 KDXX 281455Z AUTO 32014G18KT 10SM BKN031 BKN044 OVC050 12/08 A2999 RMK AO2 PWINO KDYA 281515Z AUTO 22009KT 10SM BKN016 BKN023 26/22 A2989 RMK AO2 T02620215 KDYB 281515Z AUTO 10SM BKN033 OVC050 23/22 A2995 RMK AO2 KDYL 281526Z AUTO 17006KT 10SM -RA SCT012 OVC022 23/19 A2993 RMK AO2 RAB19 P0000 T02280194 KDYR 281519Z AUTO 32007KT 10SM RA BKN010 OVC023 14/14 A2992 RMK AO2 RAB12 CIG 007V013 PNO $ KDYS 281456Z AUTO 36016KT 10SM OVC100 18/02 A3023 RMK AO2 SLP209 T01780021 52016 $ KDYT 281515Z AUTO 28009G17KT 251V321 7SM BKN026 OVC070 12/06 A2980 RMK AO2 KDZB 281516Z AUTO 34009G15KT 10SM BKN080 20/07 A3018 RMK AO2 KDZJ 281515Z AUTO 00000KT 10SM BKN025 BKN035 22/18 A2997 RMK AO2 T02170178 KE11 281515Z AUTO 01015G22KT 10SM OVC080 17/M01 A3035 RMK AO2 T01671008 KE16 281510Z AUTO 00000KT 10SM CLR 18/10 A2995 RMK AO2 PWINO PNO KE38 281515Z AUTO 04014G22KT 10SM BKN060 14/00 A3040 RMK AO2 T01420000 KE41 281515Z AUTO 03016KT 10SM OVC080 17/02 A3029 RMK AO2 T01680023 KEAN 281510Z AUTO 29005KT 10SM CLR 11/M03 A3042 RMK AO2 T01071026 KEAR 281456Z AUTO 32016G24KT 10SM CLR 13/00 A3021 RMK AO2 SLP232 T01330000 51014 KEAT 281455Z AUTO 00000KT 10SM CLR 09/07 A3045 RMK AO2 SLP313 T00940072 53006 KEAU 281456Z 33012G20KT 10SM BKN024 OVC050 12/06 A2979 RMK AO2 SLP090 T01170061 51009 KEBG 281515Z AUTO 02009KT 7SM SCT007 BKN020 OVC028 25/22 A2991 RMK AO2 T02460220 KEBS 281515Z AUTO 32017G23KT 10SM SCT032 SCT040 OVC070 14/08 A2992 RMK AO2 KECG 281454Z 00000KT 10SM CLR 27/21 A2998 RMK AO2 SLP153 T02670206 51009 KECP 281519Z VRB03KT 10SM BKN014 BKN021 28/24 A2989 RMK AO2 RAB18E19 P0000 T02830239 KECS 281455Z AUTO 31009KT 10SM CLR 06/M03 A3038 RMK AO2 KECU 281455Z AUTO 02015G23KT 10SM OVC070 16/04 A3020 RMK AO2 KEDC 281515Z AUTO 01019G26KT 10SM BKN085 21/07 A3010 RMK AO2 KEDE 281515Z AUTO 17004KT 10SM CLR 25/22 A2999 RMK AO2 T02490216 KEDJ 281515Z AUTO 20007KT 10SM BKN013 BKN060 BKN070 19/19 A2973 RMK AO1 KEDU 281520Z AUTO 34011G17KT 10SM CLR 27/M02 A2993 RMK AO1 KEDW 281458Z 00000KT 50SM FEW000 SCT250 17/M01 A3006 RMK AO2A FU FEW000 SLP161 T01661006 52021 KEED 281456Z AUTO 36020G27KT 10SM CLR 27/M01 A2998 RMK AO2 PK WND 36027/1450 SLP120 T02721011 53019 KEEN 281456Z AUTO 17008G15KT 10SM BKN025 OVC033 22/17 A2995 RMK AO2 SLP143 T02220172 51007 $ KEEO 281453Z AUTO 00000KT 10SM CLR 01/M07 A3050 RMK AO2 SLP316 T00111072 51017 KEET 281518Z AUTO 18007KT 10SM SCT013 BKN022 BKN065 24/21 A2991 RMK AO2 T02440211 KEFD 281450Z 32012KT 10SM OVC010 21/19 A2993 KEFK 281521Z AUTO 17011G15KT 10SM SCT027 BKN041 OVC049 22/18 A2990 RMK AO2 KEFT 281515Z AUTO 28006KT 10SM BKN010 OVC019 12/10 A2976 RMK AO2 T01230095 KEGE 281456Z 00000KT 10SM CLR 01/M08 A3054 RMK AO2 SLP346 6//// T00111083 51016 PNO $ KEGI 281459Z 20003KT 10SM BKN015 27/23 A2993 RMK SLP133 WND DATA ESTMD ALSTG/SLP ESTMD 52007 $ KEGV 281515Z AUTO 32006KT 10SM SCT012 BKN029 BKN035 11/09 A2971 RMK AO2 T01050093 KEHA 281515Z AUTO 36012KT 10SM CLR 14/01 A3040 RMK AO2 T01420009 KEHO 281515Z AUTO 20004KT 10SM SCT007 BKN011 OVC024 21/20 A2996 RMK AO2 T02110200 KEHR 281456Z AUTO 30008KT 8SM -RA OVC008 14/13 A2984 RMK AO2 RAE28B51 CIG 005V011 SLP104 P0001 60030 T01390133 51022 KEHY 281515Z AUTO 10SM CLR 05/M10 A3045 RMK AO2 PWINO KEIK 281515Z AUTO 18004KT 10SM CLR 11/M04 A3046 RMK AO2 T01051039 KEKM 281452Z 29004KT 10SM -RA OVC007 13/12 A2975 RMK AO2 KEKN 281451Z AUTO 00000KT 10SM OVC070 20/16 A2992 RMK AO2 SLP128 T02000156 50000 KEKO 281456Z AUTO 11003KT 10SM CLR 05/M06 A3046 RMK AO2 SLP302 T00501056 51010 KEKQ 281456Z AUTO VRB04KT 10SM CLR 24/20 A2985 RMK AO2 SLP095 6//// T02440200 58010 PNO $ KEKS 281455Z AUTO 00000KT 10SM CLR 03/M01 A3054 RMK AO2 KEKX 281515Z AUTO 16003KT 7SM -RA BKN015 OVC021 18/18 A2978 RMK AO2 LTG DSNT SW P0002 T01830183 KEKY 281456Z AUTO 19008KT 10SM 23/21 A2991 RMK AO2 SLP977 6//// T02330211 51003 PNO $ KELA 281515Z AUTO 01014G25KT 10SM SCT021 BKN050 OVC090 20/16 A3000 RMK AO2 T02010155 KELD 281453Z AUTO 34011G15KT 10SM BKN019 OVC026 17/14 A3000 RMK AO2 SLP157 60001 T01670139 51029 KELK 281515Z AUTO 34020G24KT 10SM CLR 17/00 A3027 RMK AO2 T01660002 KELM 281453Z 18006KT 10SM SCT032 24/17 A2983 RMK AO2 SLP095 T02390172 58003 KELN 281453Z AUTO 00000KT 10SM CLR 07/05 A3045 RMK AO2 SLP318 T00720050 53003 KELO 281455Z AUTO 31005KT 10SM SCT010 OVC014 08/08 A2978 RMK AO2 KELP 281451Z 06011KT 10SM CLR 16/00 A3032 RMK AO2 SLP201 T01610000 51029 KELY 281453Z AUTO 18005KT 10SM CLR 03/M06 A3047 RMK AO2 SLP282 T00281061 51010 KELZ 281456Z AUTO 20009G16KT 10SM FEW050 22/14 A2987 RMK AO2 SLP103 T02170139 58001 $ KEMM 281515Z AUTO 36008KT 10SM CLR 01/M06 A3053 RMK AO2 KEMP 281453Z AUTO 31009KT 10SM CLR 14/07 A3012 RMK AO2 SLP201 T01440072 53018 KEMT 281449Z 00000KT 7SM CLR 19/16 A2993 RMK FU ALQDS/ TFR KEMV 281515Z AUTO 19003KT 10SM SCT015 24/20 A2997 RMK AO2 T02360199 KEND 281456Z AUTO 34015KT 10SM CLR 16/04 A3022 RMK AO2 SLP231 T01560040 52028 KENL 281515Z AUTO 30008G15KT 10SM SCT013 SCT018 OVC120 15/12 A2988 RMK AO2 LTG DSNT S T01450123 KENV 281456Z AUTO 23003KT 8SM CLR 12/M01 A3047 RMK AO2 SLP309 T01221011 52017 KENW 281500Z 24006KT 10SM OVC010 13/11 A2975 RMK AO2 T01280106 KEOD 281458Z AUTO 30007KT 1 7/8SM -RA BR SCT009 OVC019 15/14 A2984 RMK AO2 VIS 1 5/8V2 1/4 RAB01 CIG 009V020 SLP105 P0011 60013 50018 KEOE 281455Z AUTO 00000KT 5SM RA OVC015 21/20 A3000 RMK AO2 P0001 KEOK 281515Z AUTO 29013KT 10SM OVC012 13/12 A2990 RMK AO2 KEPH 281453Z AUTO 02006KT 10SM CLR 08/05 A3044 RMK AO2 SLP313 T00830050 53004 KEQA 281515Z AUTO 32008KT 10SM CLR 15/06 A3017 RMK AO2 KEQY 281453Z AUTO 21004KT 10SM CLR 23/19 A2997 RMK AO2 SLP150 T02280194 53003 KERI 281451Z 19010KT 10SM CLR 24/16 A2975 RMK AO2 SLP069 T02390161 58002 KERV 281515Z AUTO 01016G22KT 10SM SCT065 SCT080 BKN095 20/04 A3015 RMK AO2 T02000038 KERY 281515Z AUTO 11003KT 10SM SCT003 SCT040 BKN085 13/12 A2966 RMK AO2 T01250122 KESC 281456Z AUTO 00000KT 10SM SCT060 BKN075 OVC100 13/11 A2967 RMK AO2 SLP050 T01330106 55003 KESF 281526Z AUTO 00000KT 10SM OVC009 21/19 A2992 RMK AO2 LTG DSNT ALQDS CIG 008V012 T02060194 $ KESN 281445Z 18010KT 10SM CLR 26/19 A2997 KEST 281520Z AUTO 32013G22KT 10SM FEW020 BKN027 OVC060 12/08 A2996 RMK AO2 T01170078 KETB 281515Z AUTO 26003KT 10SM OVC010 12/11 A2972 RMK AO2 KETC 281455Z AUTO 25004KT 10SM BKN110 24/19 A2997 RMK AO2 T02380193 KETH 281513Z AUTO 29012G18KT 7SM SCT017 SCT029 SCT065 10/07 A3001 RMK AO2 KETN 281515Z AUTO 35011G14KT 10SM OVC110 16/06 A3021 RMK AO2 T01640065 KEUF 281458Z AUTO 27/21 A2993 RMK AO2 SLP130 T02720211 51006 $ KEUG 281454Z VRB03KT 10SM CLR 09/08 A3023 RMK AO2 SLP235 T00940078 53001 KEUL 281456Z AUTO 03006KT 10SM CLR 07/04 A3046 RMK AO2 SLP317 T00720044 51012 KEVB 281447Z 10SM FEW013 BKN070 RMK AWOS OTS. KEVM 281515Z AUTO 32008G16KT 10SM SCT021 BKN030 OVC060 09/06 A2981 RMK AO2 T00900055 PWINO KEVU 281515Z AUTO 31012G16KT 10SM CLR 15/09 A3003 RMK AO2 T01510092 KEVV 281454Z 30005KT 2SM -RA BR BKN008 BKN012 OVC040 14/12 A2983 RMK AO2 RAB1359 SLP098 P0002 60036 T01390122 53009 KEVW 281453Z AUTO 07004KT 10SM CLR 04/M08 A3051 RMK AO2 SLP300 T00441078 51009 KEWB 281523Z 19005KT 1 1/2SM R05/4500VP6000FT BR OVC004 22/21 A2998 RMK AO2 T02170206 KEWK 281456Z AUTO 33014KT 10SM CLR 13/04 A3018 RMK AO2 SLP216 T01330039 51019 KEWN 281454Z VRB03KT 10SM CLR 26/19 A3000 RMK AO2 SLP159 T02610189 51011 $ KEWR 281451Z 17007KT 10SM FEW012 SCT017 BKN048 BKN250 23/19 A2994 RMK AO2 SLP136 T02330194 53010 KEXX 281455Z AUTO 19005KT 10SM BKN018 OVC023 22/22 RMK AO2 T02190217 KEYE 281453Z AUTO 33008KT 9SM BKN009 OVC022 13/12 A2975 RMK AO2 RAE1355 CIG 006V012 PRESFR SLP071 P0000 60000 T01330117 50001 $ KEYF 281515Z AUTO 00000KT 10SM SCT019 SCT070 BKN095 25/20 A2999 RMK AO2 T02470203 KEYW 281524Z 29008KT 10SM SCT020 31/24 A2994 RMK AO2 T03110244 KEZF 281455Z AUTO 19004KT 10SM OVC110 23/20 A2991 RMK AO2 T02250201 KEZM 281510Z AUTO 00000KT 7SM OVC004 23/22 A2997 RMK AO2 LTG DSNT W T02280220 KEZS 281515Z AUTO 29003KT 10SM SCT021 SCT030 OVC047 13/12 A2969 RMK AO2 T01250118 KEZZ 281515Z AUTO 32014G19KT 10SM CLR 14/09 A3003 RMK AO2 T01420086 KF00 281515Z AUTO 36009KT 320V030 10SM CLR 16/11 A3014 RMK AO2 T01630113 KF05 281515Z AUTO 01011G17KT 10SM CLR 19/03 A3026 RMK AO1 T01880031 KF44 281515Z AUTO 36018G23KT 10SM SCT120 19/08 A3006 RMK AO2 KF45 281510Z AUTO 23007KT 10SM 32/24 A2995 RMK AO2 KF46 281515Z AUTO 35011G16KT 10SM OVC120 18/10 A3013 RMK AO2 LTG DSNT SE T01780100 KF70 281515Z AUTO 00000KT 7SM CLR 19/15 A2995 RMK AO1 KFAF 281456Z 19004KT 10SM CLR 24/21 A2995 RMK AO2A SLP145 T02410208 52008 $ KFAM 281456Z AUTO 30009G14KT 10SM BKN015 OVC020 13/11 A2993 RMK AO2 SLP143 T01330106 51015 KFAR 281517Z 33017G26KT 10SM -RA BKN029 OVC034 10/05 A2999 KFAT 281453Z 10004KT 6SM HZ CLR 21/13 A2995 RMK AO2 SLP139 T02060128 53016 KFAY 281453Z 18004KT 10SM OVC100 23/19 A2997 RMK AO2 SLP143 T02330194 51003 KFBG 281456Z AUTO 24003KT 10SM FEW110 23/23 A2997 RMK AO2 SLP150 T02250225 50003 $ KFBL 281515Z AUTO 31012G20KT 10SM SCT024 SCT042 BKN050 12/07 A2989 RMK AO2 KFCI 281456Z AUTO 23007KT 10SM CLR 23/19 A2995 RMK AO2 SLP151 T02330194 50003 KFCM 281453Z 33008G20KT 10SM OVC100 11/06 A2987 RMK AO2 SLP115 60001 T01110056 53006 KFCS 281458Z AUTO 36010KT 10SM CLR 09/M08 A3046 RMK AO2 SLP322 T00891078 52009 $ KFDK 281447Z 20005KT 10SM BKN011 22/18 A2991 KFDR 281453Z AUTO 36011G19KT 10SM CLR 19/04 A3021 RMK AO2 SLP219 T01890039 51023 KFDW 281515Z AUTO 20005KT 10SM -RA SCT022 OVC027 22/18 A2997 RMK AO1 KFDY 281453Z AUTO 21008KT 10SM -RA FEW018 BKN090 BKN110 20/17 A2970 RMK AO2 RAB46 SLP050 P0000 60000 T02000167 56007 KFEP 281515Z AUTO 30008KT 10SM OVC015 13/11 A2980 RMK AO2 T01260105 KFET 281515Z AUTO 30018G26KT 10SM CLR 15/05 A3008 RMK AO2 T01540050 KFEW 281458Z AUTO 31007KT 10SM CLR 05/M05 A3046 RMK AO2 SLP324 T00471048 52008 $ KFFA 281535Z AUTO 00000KT 10SM OVC020 23/19 A2999 RMK AO2 T02270185 KFFC 281525Z AUTO VRB04KT 10SM BKN017 OVC036 24/21 A2994 RMK AO2 T02440211 KFFL 281515Z AUTO 30009G15KT 10SM SCT014 BKN090 14/13 A2990 RMK A01 KFFM 281515Z AUTO 34011G17KT 10SM SCT022 BKN037 OVC065 09/06 A2998 RMK AO2 KFFO 281456Z 18008KT 10SM FEW017 SCT035 OVC190 22/16 A2972 RMK AO2A SLP063 T02230163 56012 KFFT 281453Z AUTO 21009KT 10SM BKN017 OVC042 23/18 A2978 RMK AO2 SLP079 T02280178 56001 KFFX 281515Z AUTO 21005KT 10SM -DZ OVC005 13/13 A2972 RMK AO2 T01340127 KFFZ 281454Z 03006KT 10SM CLR 27/02 A2994 RMK AO2 SLP114 T02670017 53016 $ KFGN 281455Z AUTO 32014KT 07/06 A2987 RMK AO2 PWINO KFGX 281515Z AUTO 23013G18KT 210V290 10SM SCT023 SCT032 OVC100 23/18 A2980 RMK AO2 T02310176 KFHB 281515Z AUTO 25010KT 5SM RA BR 25/23 A2994 RMK AO2 LTG DSNT E P0002 T02510234 KFHR 281453Z AUTO VRB03KT 10SM CLR 12/11 A3040 RMK AO2 SLP293 T01170106 56006 TSNO KFHU 281458Z AUTO 08003KT 10SM CLR 25/M02 A3017 RMK AO2 SLP141 T02521024 52015 KFIG 281454Z AUTO 36003KT 10SM SCT021 OVC090 19/15 A2987 RMK AO2 SLP109 T01940150 50000 KFIN 281450Z 18006KT 10SM OVC085 27/25 A2995 KFIT 281452Z AUTO 19008KT 10SM BKN018 OVC026 23/19 A2997 RMK AO2 SLP146 T02280189 50002 KFKA 281515Z AUTO 33010G15KT 10SM BKN017 OVC024 10/07 A2984 RMK AO2 T01040071 KFKL 281508Z AUTO 20011KT 10SM BKN019 BKN027 22/17 A2983 RMK AO2 KFKN 281515Z AUTO 00000KT 10SM CLR 25/19 A2996 RMK AO2 T02470190 KFKR 281455Z AUTO 31006KT 3SM DZ OVC005 13/12 A2981 RMK AO2 P0005 60007 T01310120 KFKS 281455Z AUTO 15003KT 10SM -RA SCT015 BKN019 OVC034 14/12 A2968 RMK AO2 T01410122 KFLD 281453Z AUTO 27008KT 10SM BKN010 OVC030 13/11 A2971 RMK AO2 CIG 007V014 SLP061 T01330111 55002 KFLG 281456Z 050/15G21KT 10SM CLR 16/M08 A3036 KFLL 281453Z 19006KT 10SM SCT022 SCT060 SCT150 SCT250 31/24 A2993 RMK AO2 SLP134 T03060244 51009 KFLO 281522Z 17005KT 10SM BKN011 BKN055 OVC100 23/21 A2999 RMK AO2 T02330206 KFLP 281456Z AUTO 33007KT 10SM CLR 16/11 A3002 RMK AO2 SLP160 T01560106 51017 KFLY 281515Z AUTO 34008G14KT 310V020 10SM CLR 07/M09 A3050 RMK AO2 T00661088 KFME 281515Z AUTO 23004KT 10SM BKN016 22/20 A2993 RMK AO1 KFMH 281455Z 20008KT 3SM BR OVC004 22/22 A3001 KFMM 281515Z AUTO 33010KT 10SM CLR 09/M04 A3044 RMK AO2 T00891036 KFMN 281453Z 08006KT 10SM CLR 11/M07 A3030 RMK AO2 SLP224 T01111067 53027 KFMY 281453Z VRB03KT 10SM CLR 29/25 A2992 RMK AO2 SLP135 T02940250 50006 KFNB 281453Z AUTO 33014G21KT 10SM CLR 15/07 A3005 RMK AO2 SLP173 T01500067 51014 KFNL 281456Z 03005KT 10SM CLR 07/M01 A3046 RMK AO2 SLP305 T00721006 51010 KFNT 281525Z 32008KT 10SM FEW009 SCT014 OVC021 13/11 A2972 KFOA 281515Z AUTO 30010G20KT 10SM SCT011 BKN016 OVC070 14/12 A2987 RMK AO2 KFOD 281456Z AUTO 33012G15KT 10SM BKN070 OVC095 13/08 A2994 RMK AO2 SLP167 T01280078 51012 KFOE 281453Z 31013KT 10SM CLR 14/08 A3008 RMK AO2 SLP185 T01440078 53016 KFOK 281453Z VRB06KT 10SM OVC005 20/19 A2999 RMK AO2 CIG 004V009 SLP156 T02000194 51009 KFOT 281515Z AUTO 10003KT 10SM FEW033 SCT044 SCT110 22/03 A2994 RMK AO1 KFOZ 281513Z AUTO 30006KT 4SM BKN008 BKN011 OVC017 07/06 A2990 RMK AO2 KFPK 281515Z AUTO 26005KT 4SM RA SCT007 OVC014 13/11 A2973 RMK AO2 T01280112 KFPR 281519Z 22007KT 10SM -RA SCT025 SCT037 BKN050 30/26 A2993 RMK AO2 RAB17 P0000 T03000261 KFPY 281515Z AUTO 14003KT 10SM -RA SCT012 BKN021 OVC050 26/25 A2994 RMK AO2 LTG DSNT SW P0001 T02590254 KFQD 281455Z AUTO 20004KT 10SM OVC013 22/20 A2997 RMK AO2 KFRG 281517Z AUTO 19011KT 10SM SCT010 22/19 A2996 RMK AO2 T02220194 KFRH 281455Z AUTO 29003KT 10SM OVC005 12/ A2979 RMK AO1 KFRI 281456Z 33008KT 10SM CLR 14/05 A3012 RMK AO2A SLP198 T01420048 52016 KFRM 281456Z AUTO 31018G22KT 10SM SCT023 BKN032 BKN038 12/08 A2994 RMK AO2 SLP144 T01220078 51013 KFRR 281515Z AUTO 21007KT 170V240 10SM SCT090 24/18 A2988 RMK AO1 KFSD 281456Z 32014G24KT 10SM FEW017 BKN070 12/07 A3003 RMK AO2 SLP174 T01170067 53010 KFSE 281515Z AUTO 32015G19KT 10SM OVC018 07/05 A2994 RMK AO2 KFSI 281456Z AUTO 36017KT 10SM CLR 18/05 A3020 RMK AO2 SLP223 T01800045 52025 $ KFSM 281453Z 32006KT 10SM CLR 17/11 A3008 RMK AO2 SLP182 T01720111 51020 KFSO 281515Z AUTO 18004KT 10SM BKN042 26/17 A2982 RMK AO2 T02580174 KFST 281453Z AUTO 01012KT 10SM OVC070 17/01 A3032 RMK AO2 SLP229 T01670011 51017 KFSW 281515Z AUTO 30009G15KT 10SM OVC010 13/11 A2989 RMK AO2 KFTK 281522Z AUTO 17008KT 10SM -RA BKN022 BKN030 OVC040 19/19 A2976 RMK AO2 RAB22 CIG 022V030 SLP077 KFTW 281453Z 34011G20KT 10SM BKN110 18/07 A3015 RMK AO2 SLP202 T01780072 51024 KFTY 281513Z 22004KT 10SM SCT015 BKN022 OVC041 23/19 A2993 RMK AO2 T02330194 KFUL 281453Z 00000KT 4SM HZ CLR 21/17 A2990 RMK AO2 SLP123 T02060167 53012 KFVE 281453Z AUTO 17010KT 10SM BKN011 BKN060 20/17 A2996 RMK AO2 SLP140 T02000167 58000 KFVX 281515Z AUTO 21009KT 10SM BKN016 24/20 A2992 RMK AO2 T02390195 KFWA 281519Z 30004KT 10SM SCT006 OVC017 13/13 A2973 KFWB 281515Z AUTO 33009KT 300V360 10SM CLR 15/10 A3006 RMK AO2 KFWC 281515Z AUTO 29003KT 10SM BKN010 OVC015 14/13 A2986 RMK AO1 LTG DSNT S T01350126 KFWN 281453Z AUTO 22006KT 10SM BKN030 23/18 A2991 RMK AO2 SLP126 T02280183 51005 KFWS 281453Z 36010G17KT 10SM CLR 18/08 A3016 KFWZ 281455Z AUTO 22005KT 10SM CLR 02/M06 A3044 RMK AO2 KFXE 281453Z 17006KT 10SM SCT035 31/24 A2993 RMK AO2 SLP138 T03110244 51010 KFXY 281515Z AUTO 34014G23KT 10SM SCT026 BKN040 12/07 A2991 RMK AO2 KFYE 281515Z AUTO 35008G13KT 8SM FEW006 SCT013 SCT022 15/14 A2987 RMK A01 KFYG 281455Z AUTO 31009G14KT 10SM OVC016 13/10 A2993 RMK AO2 KFYJ 281515Z AUTO 17004KT 10SM CLR 24/19 A2996 RMK AO1 T02440194 KFYV 281453Z 29007KT 10SM CLR 14/11 A3007 RMK AO2 SLP180 T01440111 51020 KFZG 281515Z AUTO 19003KT 10SM SCT012 BKN027 OVC037 26/24 A2996 RMK AO2 LTG DSNT NW T02630238 KFZY 281454Z AUTO VRB06KT 10SM CLR 24/17 A2980 RMK AO2 SLP088 T02440172 58001 KGAD 281456Z AUTO 20008KT 10SM BKN017 OVC028 24/21 A2991 RMK AO2 SLP126 6//// T02440206 50003 PNO $ KGAF 281535Z AUTO 33016G26KT 9SM BKN022 BKN046 BKN065 10/05 A3002 RMK AO2 PWINO KGAG 281453Z AUTO 35011G19KT 10SM CLR 15/00 A3030 RMK AO2 SLP249 T01500000 51022 KGAI 281456Z AUTO 22004KT 10SM OVC011 22/18 A2993 RMK AO2 SLP145 T02220183 50006 KGAO 281517Z AUTO 23007KT 10SM BKN015 BKN020 BKN025 29/25 A2990 RMK AO2 LTG DSNT N KGBD 281456Z AUTO 32016KT 10SM CLR 14/02 A3024 RMK AO2 SLP238 T01390017 51018 KGBG 281515Z AUTO 28012G16KT 10SM OVC008 13/10 A2986 RMK AO2 T01250102 KGBK 281515Z AUTO 17006KT 10SM FEW019 29/27 A2990 RMK A01 KGCC 281453Z AUTO 28015KT 10SM CLR 08/M02 A3037 RMK AO2 SLP288 T00831022 53004 KGCD 281515Z AUTO 12007KT 10SM CLR 09/03 A3046 RMK AO2 T00850030 KGCK 281454Z 33017KT 10SM CLR 12/00 A3033 RMK AO2 SLP262 T01170000 51017 KGCM 281515Z AUTO 33007KT 10SM CLR 16/03 A3014 RMK AO2 KGCN 281454Z 06013KT 10SM CLR 15/M06 A3035 RMK AO2 SLP204 T01501061 51017 KGCY 281515Z AUTO VRB05KT 10SM SCT055 23/16 A2993 RMK A01 KGDB 281515Z AUTO 29012G18KT 10SM SCT022 BKN046 OVC060 12/08 A2998 RMK AO2 T01240083 KGDJ 281515Z AUTO 33011G18KT 10SM OVC120 20/08 A3019 RMK AO2 T01990081 KGDP 281451Z AUTO 05033G39KT 9SM CLR 11/M03 A3035 RMK AO2 PK WND 05042/1418 SLP211 T01111028 51024 KGDV 281456Z AUTO 30008KT 10SM CLR 09/03 A3030 RMK AO2 SLP266 T00940028 50003 KGED 281454Z AUTO 23006KT 10SM FEW019 25/21 A2995 RMK AO2 SLP143 T02500206 51013 KGEG 281453Z 00000KT 10SM FEW150 FEW250 07/03 A3047 RMK AO2 SLP323 T00720033 53004 KGEU 281449Z 00000KT 10SM FEW200 24/06 A2994 KGEV 281515Z AUTO 18005KT 10SM SCT022 SCT032 BKN045 20/17 A3000 RMK AO2 T02040165 KGEY 281453Z AUTO 12005KT 10SM CLR 03/M06 A3044 RMK AO2 SLP316 T00281056 51007 KGEZ 281453Z AUTO 32009KT 10SM -RA BKN012 OVC017 17/13 A2975 RMK AO2 RAB01E20B36 SLP068 P0000 60002 T01670133 53002 KGFA 281458Z AUTO 22014KT 10SM CLR 09/00 A3031 RMK AO2 SLP281 T00881005 57015 $ KGFK 281453Z 33020G30KT 10SM BKN022 BKN050 BKN090 11/04 A2998 RMK AO2 PK WND 33030/1443 SLP158 60000 T01060044 51009 KGFL 281453Z AUTO 18008KT 10SM SCT008 BKN012 OVC022 22/20 A2985 RMK AO2 RAE36 SLP107 P0003 60016 T02170200 55000 KGGE 281515Z AUTO 12005KT 10SM SCT035 SCT043 BKN070 23/20 A3000 RMK AO2 LTG DSNT S KGGG 281453Z 35014G21KT 10SM SCT015 SCT120 18/13 A3001 RMK AO2 SLP156 T01830128 51023 KGGI 281515Z AUTO 30010G15KT 10SM BKN014 15/11 A2991 RMK AO2 T01480106 KGGP 281516Z AUTO 30004KT 4SM DZ OVC006 12/12 A2980 RMK AO2 KGGW 281453Z AUTO 00000KT 10SM CLR 06/00 A3028 RMK AO2 SLP264 T00610000 55004 KGHG 281515Z AUTO 18007G14KT 140V210 10SM BKN018 25/21 A2997 RMK AO2 KGHW 281515Z AUTO 30016G21KT 10SM CLR 10/07 A2993 RMK AO2 KGIC 281515Z AUTO 00000KT 10SM CLR 07/03 A3050 RMK AO1 KGIF 281453Z AUTO 17005KT 10SM FEW075 SCT100 28/25 A2996 RMK AO2 SLP143 T02780250 51012 KGJT 281453Z 01008KT 10SM CLR 13/M08 A3042 RMK AO2 SLP258 T01331083 53024 KGKJ 281527Z AUTO 20007KT 10SM BKN023 BKN030 BKN080 21/16 A2979 RMK AO2 T02110156 KGKT 281515Z AUTO 00000KT 10SM CLR 24/19 A2990 RMK A01 KGKY 281453Z 34014KT 10SM BKN120 20/08 A3014 RMK AO2 SLP198 T02000083 51025 $ KGLD 281453Z AUTO 33014KT 10SM CLR 11/M02 A3036 RMK AO2 SLP272 T01111017 51015 KGLE 281515Z AUTO 32011KT 10SM CLR 19/08 A3018 RMK AO2 T01900080 PWINO KGLH 281513Z 35015KT 10SM BKN016 OVC037 17/14 A2991 RMK AO2 T01720144 KGLR 281453Z AUTO 16003KT 10SM SCT008 BKN014 OVC075 12/11 A2969 RMK AO2 RAE14B33E45 SLP055 P0000 60009 T01220106 58003 KGLS 281520Z 32015KT 10SM SCT008 BKN029 OVC040 25/23 A2992 RMK AO2 T02500233 KGLW 281515Z AUTO 19003KT 5SM -RA BKN013 BKN020 OVC041 20/19 A2980 RMK AO2 P0003 T01970194 KGLY 281515Z AUTO 32006G13KT 10SM CLR 15/11 A3003 RMK AO2 KGMJ 281515Z AUTO 34014G19KT 10SM CLR 16/08 A3011 RMK AO2 KGMU 281453Z 21006KT 10SM BKN010 OVC017 23/21 A2996 RMK AO2 RAE1354 CIG 005V012 SLP138 P0000 60004 T02280211 51004 KGNA 281456Z AUTO VRB05KT 12/06 A2971 RMK AO1 SLP063 T01220056 53002 KGNB 281512Z AUTO 00000KT 10SM CLR M01/M08 A3052 RMK AO2 T10111080 KGNC 281515Z AUTO 02015G23KT 10SM OVC080 16/00 A3040 RMK AO2 T01600000 KGNR 281456Z AUTO 19006KT 19/18 A2998 RMK AO1 SLP150 60003 T01890178 53000 KGNT 281515Z AUTO 14019G24KT 10SM CLR 10/M01 A3043 RMK AO2 T01001010 KGNV 281453Z VRB06KT 10SM FEW060 28/24 A2996 RMK AO2 SLP143 T02780244 50009 KGOK 281453Z AUTO 32006KT 10SM CLR 16/07 A3020 RMK AO2 SLP225 T01560072 51026 KGON 281504Z 17004KT 10SM OVC008 20/19 A2997 RMK AO2 T02000189 KGOO 281515Z AUTO 09009KT 10SM CLR 25/M06 A3009 RMK A01 KGOP 281515Z AUTO 01011G21KT 10SM CLR 20/07 A3017 RMK AO2 KGOV 281519Z AUTO 19003KT 9SM SCT005 BKN009 OVC055 12/12 A2969 RMK AO2 RAB1457E14 CIG 009V055 BKN V SCT SLP061 $ KGPC 281515Z AUTO 29009KT 7SM -DZ OVC006 12/12 A2981 RMK AO2 P0001 T01250119 KGPH 281455Z AUTO 32009G14KT 10SM CLR 14/08 A3003 RMK AO2 KGPI 281455Z 00000KT 10SM CLR 03/01 A3047 RMK AO2 SLP338 T00280011 51004 KGPM 281451Z 34010G20KT 10SM SKC 18/07 A3016 KGPT 281453Z AUTO VRB05KT 10SM SCT015 BKN028 OVC035 29/24 A2987 RMK AO2 SLP115 T02890239 50004 KGPZ 281456Z AUTO 34011KT 10SM RA SCT009 BKN014 OVC040 08/06 A2985 RMK AO2 SLP118 P0003 60004 T00780061 53005 KGRB 281453Z 30005KT 10SM FEW009 BKN038 OVC070 13/10 A2969 RMK AO2 SLP054 T01280100 56006 KGRD 281456Z AUTO 18006KT 7SM OVC009 21/21 A2998 RMK AO2 CIG 006V012 SLP146 60001 T02110206 51007 KGRF 281513Z 13005KT 3/8SM FG SCT002 09/09 A3035 RMK AO2A SLP282 $ KGRI 281453Z 31016KT 10SM CLR 14/00 A3018 RMK AO2 RAB38E49 SLP225 P0000 60000 T01390000 51015 KGRK 281458Z AUTO 01018G25KT 10SM OVC080 19/07 A3012 RMK AO2 PK WND 35026/23 SLP191 T01890068 52029 KGRN 281515Z AUTO 31012G19KT 10SM CLR 11/M02 A3030 RMK AO2 T01051020 KGRR 281453Z 22005KT 7SM -RA SCT006 BKN040 OVC060 13/12 A2974 RMK AO2 RAB46 SLP072 P0000 60000 T01280117 53001 KGRY 281515Z AUTO VRB04KT 10SM FEW021 BKN065 OVC090 31/25 A2992 RMK A01 KGSB 281456Z AUTO 00000KT 10SM BKN110 24/20 A2997 RMK AO2 SLP151 T02430196 52007 $ KGSH 281522Z AUTO 29005KT 2 1/2SM -RA BR BKN007 BKN012 OVC032 13/12 A2976 RMK AO2 P0001 T01280117 KGSO 281454Z 22010KT 10SM BKN015 OVC035 22/19 A2996 RMK AO2 SLP138 T02170189 52004 KGSP 281453Z 20008KT 10SM SCT009 BKN014 OVC023 23/21 A2996 RMK AO2 RAE09 SLP134 P0001 60001 T02330206 51004 KGTB 281456Z AUTO 23006KT 10SM FEW028 FEW033 SCT050 BKN065 24/17 A2980 RMK AO2 SLP088 60000 T02400170 55002 KGTF 281453Z 21013KT 10SM CLR 09/M01 A3030 RMK AO2 SLP277 T00891011 56015 $ KGTR 281510Z 19011KT 10SM TS SCT014 25/22 A2985 RMK AO2 LTG DSNT W AND NW TSB10 KGTU 281456Z 36017G24KT 10SM OVC085 19/08 A3012 RMK AO2 PK WND 01026/1445 SLP195 T01940078 51028 KGUC 281456Z AUTO 00000KT 10SM CLR 02/M07 A3046 RMK AO2 SLP288 T00221072 51017 FZRANO KGUL 281515Z AUTO 25005KT 10SM CLR 29/25 A2989 RMK A01 KGUP 281453Z AUTO 00000KT 10SM CLR 11/M09 A3035 RMK AO2 SLP156 T01111089 51021 KGUR 281458Z AUTO 28005KT 10SM CLR 06/00 A3046 RMK AO2 SLP326 T00630001 50004 KGUS 281516Z 30010KT 4SM -RA BR BKN005 OVC011 12/12 A2977 RMK AO2A SLP083 $ KGUY 281453Z AUTO 35015KT 10SM CLR 13/01 A3036 RMK AO2 SLP261 T01330006 51017 KGVE 281455Z AUTO 23005KT 7SM BKN008 OVC090 20/20 A2992 RMK AO1 T02020197 KGVL 281514Z AUTO 23005KT 10SM BKN015 BKN029 OVC035 22/19 A2997 RMK AO2 T02220189 KGVQ 281456Z AUTO 21010G15KT 10SM SCT032 23/16 A2978 RMK AO2 SLP078 T02330161 58004 KGVT 281510Z AUTO 34010G17KT 10SM BKN120 19/11 A3013 RMK AO2 KGWB 281455Z AUTO 29007KT 4SM RA OVC007 13/12 A2974 RMK AO2 P0001 KGWO 281453Z AUTO 36007KT 10SM OVC008 17/16 A2987 RMK AO2 SLP113 60030 T01670161 53023 KGWR 281515Z AUTO 34013G19KT 10SM SCT021 BKN027 OVC034 11/10 A3003 RMK A01 KGWW 281515Z AUTO 20005KT 10SM SCT021 OVC110 24/20 A2998 RMK AO2 T02410203 KGXA 281458Z AUTO 16004KT 10SM CLR 22/M22 A3008 RMK AO2 SLP157 WND DATA ESTMD T02181225 52019 KGXF 281458Z AUTO 00000KT 10SM CLR 26/01 A2989 RMK AO2 LTG DSNT S SLP109 T02600013 52018 KGXY 281456Z AUTO 26006KT 10SM CLR 07/M01 A3046 RMK AO2 SLP329 T00671011 51012 KGYB 281515Z AUTO 36015G23KT 10SM BKN085 22/12 A3004 RMK AO2 T02210117 KGYF 281515Z AUTO 16008KT 10SM SCT015 30/25 A2987 RMK AO2 T02980253 KGYH 281520Z 20005KT 10SM BKN012 23/21 A2995 KGYI 281447Z 32010KT 10SM SKC 18/09 A3016 KGYL 281515Z AUTO 30010G16KT 10SM SCT029 SCT034 OVC060 12/06 A2991 RMK AO2 T01170064 KGYR 281447Z 03005KT 10SM SKC 23/03 A2992 KGYY 281445Z 25005KT 7SM BKN029 OVC090 12/10 A2979 KGZH 281453Z AUTO VRB04KT 10SM BKN011 OVC028 26/23 A2992 RMK AO2 SLP127 T02610228 58001 KGZL 281515Z AUTO 33008KT 10SM 17/09 A3012 RMK AO2 KGZN 281500Z AUTO 34012KT 10SM OVC100 17/06 A3020 RMK AO2 KGZS 281515Z AUTO 21009G14KT 10SM BKN021 OVC025 25/21 A2982 RMK A01 KH71 281515Z AUTO 32012G18KT 10SM CLR 17/09 A3012 RMK AO2 KHAE 281515Z AUTO 29010KT 10SM BKN011 BKN020 14/10 A2992 RMK AO2 KHAF 281515Z AUTO 12003KT 5SM BR CLR 15/14 A2993 RMK AO2 KHAI 281515Z AUTO 30003KT 5SM RA SCT006 BKN017 OVC065 13/12 A2975 RMK AO2 T01320117 KHAO 281453Z AUTO 00000KT 10SM FEW019 FEW090 22/17 A2974 RMK AO2 SLP068 T02220172 58010 KHBG 281453Z AUTO 18006KT 10SM BKN016 OVC023 27/23 A2988 RMK AO2 SLP114 T02670228 58001 KHBI 281515Z AUTO 19009KT 10SM BKN021 BKN027 24/18 A2999 RMK AO2 T02350182 KHBR 281453Z AUTO 01016KT 10SM CLR 18/02 A3025 RMK AO2 SLP235 T01830017 51025 KHBV 281515Z AUTO 03021G27KT 7SM BKN007 BKN013 OVC027 22/19 A2999 RMK AO2 T02170190 KHCD 281515Z AUTO 30013G18KT 10SM 12/08 A2992 RMK AO2 T01170079 KHCO 281515Z AUTO 32015G20KT 10SM OVC017 09/08 A2998 RMK AO2 KHCR 281455Z AUTO 00000KT 10SM CLR 03/M04 A3048 RMK AO2 KHDC 281515Z AUTO 26006KT 10SM BKN014 BKN021 26/25 A2987 RMK AO2 LTG DSNT NE KHDE 281515Z AUTO 32012G22KT 10SM CLR 13/01 A3025 RMK AO2 T01290006 KHDN 281456Z AUTO 00000KT 10SM CLR 02/M08 A3051 RMK AO2 SLP325 T00221078 51012 FZRANO KHDO 281451Z AUTO 03025G33KT 10SM CLR 23/04 A3006 RMK AO2 PK WND 04035/1436 SLP165 T02330044 51037 TSNO KHEF 281513Z 22005KT 10SM BKN015 OVC110 22/19 A2991 RMK AO2 KHEG 281515Z AUTO VRB05KT 9SM FEW015 BKN048 OVC075 27/24 A2996 RMK AO2 KHEI 281453Z AUTO 31017G22KT 10SM CLR 09/03 A3025 RMK AO2 SLP253 T00890028 53005 KHEQ 281450Z AUTO 32011G18KT 10SM CLR 12/00 A3037 RMK AO2 KHEY 281458Z AUTO 28003KT 10SM OVC013 25/22 A2991 RMK AO2 SLP128 T02490220 50003 KHEZ 281456Z AUTO 27006KT 10SM FEW010 SCT014 22/21 A2988 RMK AO2 RAB08E33 SLP118 P0000 60000 T02220206 53012 KHFD 281453Z 16010KT 10SM SCT019 BKN028 BKN032 23/18 A2994 RMK AO2 SLP139 T02280178 50006 KHFF 281520Z AUTO 22005KT 10SM BKN012 BKN055 23/21 A2997 RMK AO2 CIG 012V055 SLP162 $ KHFJ 281515Z AUTO 31010KT 10SM CLR 13/08 A3007 RMK AO2 KHFY 281455Z AUTO 33007KT 10SM OVC011 14/12 A2977 RMK AO2 T01350121 KHGR 281453Z 21005KT 10SM CLR 23/17 A2989 RMK AO2 SLP128 T02330172 50004 KHHF 281515Z AUTO 34012G16KT 10SM CLR 15/00 A3033 RMK AO2 T01501003 KHHG 281515Z AUTO 29004KT 7SM -RA OVC006 13/12 A2975 RMK AO2 P0001 T01300124 KHHR 281522Z VRB03KT 5SM HZ FU SCT009 BKN015 20/17 A2991 RMK AO2 T02000172 KHHW 281515Z AUTO 33014G17KT CLR 16/10 A3011 RMK AO2 PWINO KHIB 281453Z AUTO 32009KT 10SM BKN017 OVC080 08/06 A2981 RMK AO2 SLP102 60000 T00830056 53006 KHIE 281452Z AUTO 16010G17KT 130V210 10SM BKN060 25/13 A2993 RMK AO2 SLP130 T02500133 58001 KHIF 281458Z AUTO 10013KT 10SM CLR 08/M05 A3044 RMK AO2 SLP286 T00791049 52011 KHII 281515Z AUTO 34008G16KT 10SM CLR 28/M03 A2995 RMK AO2 KHIO 281453Z 00000KT 10SM CLR 09/08 A3027 RMK AO2 SLP251 T00940083 55004 KHJH 281515Z AUTO 34010G17KT 10SM CLR 16/03 A3016 RMK AO2 T01580026 KHJO 281508Z AUTO 00000KT 3SM BR CLR 18/16 A2995 RMK AO2 T01780161 KHKA 281527Z AUTO 33005KT 10SM FEW012 BKN019 OVC026 16/14 A2993 RMK AO2 RAE19 P0001 T01560144 $ KHKS 281414Z 19005KT 3SM BR OVC003 23/21 A2984 RMK AO2 T02280211 KHKY 281502Z 20008KT 170V230 10SM SCT014 OVC032 22/19 A2996 RMK AO2 T02170194 KHLB 281515Z AUTO 00000KT 3SM BR BKN006 17/17 A2974 RMK A01 KHLC 281453Z AUTO 32018G28KT 10SM CLR 14/00 A3028 RMK AO2 PK WND 33028/1451 SLP250 T01390000 51017 KHLG 281453Z 19010KT 10SM SCT065 22/17 A2983 RMK AO2 SLP097 T02220167 50003 KHLN 281453Z 00000KT 10SM CLR 07/M01 A3043 RMK AO2 SLP325 T00671006 55003 KHLR 281458Z AUTO 36015G26KT 10SM FEW085 20/07 A3013 RMK AO2 PK WND 02026/42 SLP193 T01970065 52029 KHLX 281455Z AUTO 20008KT 10SM BKN014 BKN020 OVC028 20/18 A2998 RMK AO2 T01990178 KHMN 281458Z AUTO 14012KT 10SM CLR 16/01 A3031 RMK AO2 SLP208 T01590012 52039 $ KHMP 281515Z AUTO 24005KT 10SM SCT009 BKN027 OVC033 23/21 A2998 RMK AO2 LTG DSNT W T02290208 KHMT 281515Z AUTO 24003KT 10SM SCT120 18/13 A2995 RMK AO2 T01850130 KHMZ 281515Z AUTO 15007KT 10SM SCT095 24/15 A2986 RMK AO2 T02360154 KHNB 281456Z AUTO 32007KT 7SM -RA BKN006 OVC017 13/13 A2980 RMK AO2 SLP090 P0003 60029 T01330133 51016 KHND 281456Z 04007KT 10SM CLR 22/M01 A3018 RMK AO2 SLP211 T02221006 51021 KHNR 281515Z AUTO 31017KT 10SM FEW070 13/06 A3002 RMK AO2 KHNZ 281515Z AUTO 22004KT 10SM BKN016 22/19 A2997 RMK AO2 T02220189 KHOB 281450Z 36017KT 10SM OVC075 15/M02 A3037 KHOE 281515Z AUTO 00000KT 10SM BKN008 OVC012 24/23 A2994 RMK AO2 KHON 281455Z AUTO 32012KT 10SM -RA OVC065 10/06 A3009 RMK AO2 SLP194 P0000 60000 T01000056 51014 KHOP 281515Z AUTO 31007KT 10SM -DZ BKN008 OVC014 14/14 A2982 RMK AO2 RAE01DZB01E05DZB15 SLP097 KHOT 281453Z AUTO 33006KT 10SM FEW110 18/11 A3002 RMK AO2 SLP162 T01780111 51028 KHOU 281453Z 35014KT 10SM BKN011 OVC024 21/18 A2994 RMK AO2 SLP141 60001 T02110183 53032 KHPN 281517Z 17006KT 8SM BKN010 OVC015 22/19 A2994 RMK AO2 T02170189 KHPT 281455Z AUTO 31014G21KT 10SM BKN021 BKN028 OVC032 12/07 A2989 RMK AO2 KHQG 281510Z AUTO 35017G20KT 10SM CLR 14/00 A3036 RMK AO2 T01350000 KHQM 281453Z AUTO 07005KT 10SM CLR 11/08 A3033 RMK AO2 SLP273 T01110083 56008 KHQZ 281450Z 33014G24KT 10SM CLR 18/09 A3012 KHRI 281453Z AUTO 15003KT 10SM CLR 08/04 A3042 RMK AO2 SLP301 T00780039 54000 KHRJ 281515Z AUTO 00000KT 10SM SCT008 BKN100 21/21 A2998 RMK AO2 T02080208 KHRL 281501Z 08006KT 10SM BKN015 29/27 A2988 RMK AO2 T02940267 KHRO 281453Z AUTO 29008KT 10SM CLR 14/10 A3003 RMK AO2 SLP164 T01440100 51020 KHRT 281516Z 00000KT 10SM SCT018 31/25 A2988 RMK AO2A SLP120 $ KHRX 281515Z AUTO 03018G26KT 10SM OVC100 14/00 A3039 RMK AO2 T01391003 KHSA 281450Z 20008KT 7SM BKN015 28/25 A2987 KHSB 281455Z AUTO 32010G14KT 10SM SCT011 OVC020 14/12 A2987 RMK AO2 60011 T01430120 KHSD 281515Z AUTO 32014KT 10SM CLR 17/05 A3022 RMK A01 KHSE 281451Z AUTO VRB04KT 10SM FEW033 25/21 A3000 RMK AO2 SLP157 T02500206 51014 $ KHSG 281515Z AUTO 20003KT 10SM CLR 09/M04 A3046 RMK AO2 T00891043 KHSI 281453Z AUTO 32016G25KT 10SM CLR 13/01 A3019 RMK AO2 SLP224 T01330006 51015 KHSP 281515Z AUTO 00000KT 7SM SCT009 BKN017 OVC055 20/16 A3002 RMK AO2 T02040164 KHST 281456Z AUTO 13005KT 10SM FEW022 30/25 A2993 RMK AO2 SLP139 T03010247 52011 KHSV 281453Z 20008G18KT 10SM BKN021 BKN070 24/19 A2986 RMK AO2 SLP105 T02390194 51001 KHTH 281515Z AUTO 31004KT 10SM CLR 13/M01 A3039 RMK A01 KHTL 281527Z AUTO 00000KT 6SM BR OVC006 12/11 A2971 RMK AO2 RAB1456E27 CIG 004V010 P0001 T01220111 KHTO 281515Z AUTO 19006KT 7SM OVC004 19/19 A2997 RMK AO2 T01940192 KHTS 281451Z 19009KT 10SM CLR 23/18 A2983 RMK AO2 SLP094 T02280183 50000 KHUA 281458Z AUTO 22012KT 10SM OVC017 24/20 A2985 RMK AO2 LTG DSNT W OVC V BKN SLP104 T02400201 51001 KHUF 281518Z 32010G16KT 4SM -RA BR BKN008 OVC013 13/12 A2981 RMK AO2 RAB1457 P0000 T01330122 $ KHUL 281521Z AUTO 17010G17KT 10SM BKN026 BKN033 OVC070 24/18 A2998 RMK AO2 T02390178 KHUM 281447Z 26005KT 7SM SCT018 29/25 A2989 KHUT 281452Z 32015G19KT 10SM CLR 15/02 A3019 RMK AO2 SLP213 T01500022 51018 KHVE 281515Z AUTO 34004KT 10SM CLR 13/M06 A3044 RMK AO2 KHVN 281453Z 18011KT 10SM SCT017 24/21 A2995 RMK AO2 SLP142 T02390206 50006 KHVR 281453Z AUTO 22018G25KT 10SM CLR 10/M01 A3027 RMK AO2 SLP259 T01001006 56010 KHVS 281515Z AUTO VRB04KT 10SM SCT013 BKN070 24/21 A2998 RMK AO2 LTG DSNT E AND SE KHWD 281454Z 00000KT 10SM FU CLR 22/12 A2991 RMK AO2 SLP137 T02170122 53010 KHWO 281453Z 17007KT 10SM FEW024 30/26 A2995 RMK AO2 SLP141 T03000256 51008 KHWV 281456Z AUTO 18009KT 10SM BKN010 23/18 A2997 RMK AO2 SLP148 T02280183 50008 KHWY 281515Z AUTO 19005KT 10SM BKN013 OVC110 22/19 A2991 RMK AO2 T02220191 KHXD 281450Z 24007KT 1 1/4SM -RA BKN007 OVC024 23/23 A2995 KHYA 281456Z 20005KT 5SM -RA BR BKN003 OVC045 21/21 A3000 RMK AO2 RAB19 SLP161 P0004 60004 T02110206 51006 KHYI 281456Z 36018G28KT 10SM BKN080 22/08 A3008 RMK AO2 PK WND 01029/1416 SLP176 T02170083 53026 KHYR 281453Z AUTO 33007KT 10SM OVC021 10/05 A2979 RMK AO2 SLP094 T01000050 53004 KHYS 281456Z AUTO 34015G22KT 10SM CLR 14/01 A3026 RMK AO2 SLP246 T01390006 53019 KHYW 281535Z AUTO 16004KT 10SM -RA SCT037 SCT043 OVC060 23/20 A3000 RMK AO2 LTG DSNT S KHYX 281455Z AUTO 29003KT 10SM SCT013 BKN021 OVC026 12/11 A2971 RMK AO2 KHZD 281515Z AUTO 35004KT 9SM FEW010 BKN013 OVC031 15/14 A2986 RMK A01 KHZE 281515Z AUTO 34016G24KT 10SM FEW030 BKN039 11/05 A3021 RMK AO2 KHZL 281515Z AUTO 16006KT 10SM OVC008 20/17 A2995 RMK AO2 KHZR 281515Z AUTO 23007KT 10SM SCT008 SCT013 28/24 A2986 RMK AO2 LTG DSNT W THRU NE KHZX 281515Z AUTO 32008G17KT 10SM SCT031 OVC041 08/07 A2985 RMK AO2 KHZY 281453Z AUTO 21009KT 10SM FEW042 SCT050 BKN065 21/17 A2977 RMK AO2 SLP076 T02060172 58002 KI16 281515Z AUTO 10SM BKN050 OVC070 19/19 A2998 RMK AO2 T01900186 KI19 281515Z AUTO 21012G15KT 10SM SCT017 SCT042 SCT049 21/16 A2976 RMK AO2 T02120162 KI23 281515Z AUTO 19008KT 10SM CLR 21/17 A2976 RMK AO1 KI35 281515Z AUTO 23003KT 10SM BKN027 OVC037 22/17 A2991 RMK AO2 T02160172 KI43 281515Z AUTO 20011G15KT 164V224 10SM CLR 25/17 A2981 RMK AO2 KI63 281515Z AUTO 30012G16KT 10SM OVC011 13/11 A2989 RMK AO2 T01260107 KI67 281455Z AUTO 20008KT 10SM BKN014 BKN038 BKN045 20/16 A2974 RMK AO1 KI68 281515Z AUTO 19012G18KT 10SM SCT013 21/21 A2975 RMK AO1 T02100210 KI69 281515Z AUTO 22006KT 10SM SCT019 SCT034 22/18 A2977 RMK AO2 T02170177 KI74 281455Z AUTO 19008KT 10SM SCT015 SCT038 20/17 A2974 RMK AO2 KI75 281515Z AUTO 31011G15KT 7SM OVC019 13/09 A2996 RMK AO2 T01320092 KIAB 281456Z AUTO 33014KT 10SM CLR 13/02 A3018 RMK AO2 SLP221 T01340017 52020 $ KIAD 281452Z 16005KT 10SM OVC006 21/18 A2991 RMK AO2 SLP126 T02060183 KIAG 281453Z 20013KT 10SM CLR 23/16 A2974 RMK AO2 SLP067 T02330161 56004 $ KIAH 281453Z 34013G19KT 10SM OVC010 20/17 A2995 RMK AO2 RAE1355 SLP142 P0000 60002 T02000172 51037 KIBM 281515Z AUTO 32014KT 10SM CLR 10/M04 A3041 RMK AO2 T01011038 KICL 281515Z AUTO 33011G18KT 10SM CLR 15/07 A3003 RMK AO2 KICR 281453Z AUTO 30017G26KT 10SM -RA FEW050 11/00 A3020 RMK AO2 PK WND 31029/1436 RAB00 SLP229 P0000 60000 T01110000 51016 KICT 281453Z 33013KT 10SM CLR 14/03 A3018 RMK AO2 SLP218 T01440033 51020 KIDA 281453Z 35005KT 10SM CLR 02/M01 A3051 RMK AO2 SLP343 T00221011 53009 KIDI 281515Z AUTO 26012G18KT 10SM FEW026 SCT035 BKN080 24/16 A2989 RMK A01 KIDP 281515Z AUTO 33010KT 10SM CLR 16/09 A3015 RMK AO2 T01590087 KIEN 281452Z AUTO 32004KT 10SM CLR 08/M01 A3032 RMK AO2 SLP273 T00831006 51006 KIER 281515Z AUTO 36010G15KT 5SM -TSRA BKN010 BKN017 OVC040 17/16 A2996 RMK AO2 LTG DSNT E THRU SW P0004 T01660160 KIFA 281515Z AUTO 32016G21KT 10SM BKN019 BKN028 14/07 A2991 RMK AO2 T01370071 KIFP 281447Z 35024KT 20SM SKC 27/M01 A2976 KIGM 281451Z AUTO 10007KT 10SM CLR 19/M04 A3015 RMK AO2 SLP146 T01891044 51017 KIGQ 281455Z AUTO 26008KT 10SM BKN013 OVC090 12/12 A2979 RMK AO2 T01150115 KIIB 281515Z AUTO 31010KT 10SM BKN015 BKN020 OVC025 12/10 A2986 RMK AO2 T01210096 KIIY 281515Z AUTO 00000KT 5SM BR OVC003 22/21 A2996 RMK AO2 TSNO KIJD 281452Z AUTO 20008KT 10SM SCT016 BKN022 22/18 A2997 RMK AO2 SLP148 T02220178 50005 KIJX 281515Z AUTO 28010KT 10SM OVC011 12/11 A2988 RMK AO2 T01210106 KIKG 281515Z AUTO 35013G18KT 7SM OVC014 23/20 A2996 RMK AO2 T02300196 KIKK 281457Z AUTO 24006KT 10SM BKN008 BKN120 12/11 A2981 RMK AO2 P0001 KIKV 281515Z AUTO 32011G19KT 10SM BKN021 BKN055 OVC070 13/09 A2994 RMK AO2 KIKW 281515Z AUTO 00000KT 2SM DZ SCT005 BKN010 OVC024 12/11 A2972 RMK AO2 T01200110 KILE 281456Z AUTO 36016G24KT 10SM OVC080 19/07 A3013 RMK AO2 SLP190 6//// T01940072 53027 PNO $ KILG 281509Z 16005KT 10SM SCT014 SCT020 23/19 A2992 RMK AO2 T02330194 KILM 281453Z 07004KT 10SM SCT090 BKN110 26/18 A2998 RMK AO2 SLP151 T02610178 50007 KILN 281454Z AUTO 19010KT 10SM BKN070 20/17 A2976 RMK AO2 RAB18E28 SLP072 P0000 60001 T02000172 58007 $ KIML 281453Z AUTO 32013KT 10SM CLR 11/M01 A3034 RMK AO2 SLP276 T01061006 51014 KIMM 281515Z AUTO 00000KT 10SM 32/25 A2993 RMK AO2 LTG DSNT S PWINO KIMS 281515Z AUTO 00000KT 5SM SCT023 SCT029 BKN035 18/18 A2975 RMK AO1 KIMT 281506Z AUTO 32008KT 10SM FEW006 BKN018 OVC027 11/09 A2968 RMK AO2 T01110089 KIND 281454Z 33010KT 10SM OVC008 13/12 A2975 RMK AO2 SLP073 60003 T01330117 50001 KINF 281515Z AUTO 00000KT 10SM SCT085 28/28 A2995 RMK AO2 LTG DSNT W KINJ 281520Z AUTO 34016G22KT 10SM SCT100 OVC120 19/09 A3012 RMK AO2 T01860089 KINK 281453Z AUTO 01013KT 10SM FEW070 OVC080 17/00 A3034 RMK AO2 SLP233 T01720000 51023 KINL 281523Z AUTO 32007KT 10SM BKN020 BKN025 OVC045 09/05 A2982 KINS 281458Z AUTO 00000KT 10SM CLR 21/M04 A3020 RMK AO2 SLP185 T02111042 52018 $ KINT 281514Z 20006KT 10SM SCT014 SCT019 OVC029 22/19 A2997 RMK AO2 T02170194 KINW 281456Z AUTO 31003KT 10SM CLR 16/M06 A3029 RMK AO2 SLP196 T01611061 53026 KIOB 281515Z AUTO 21007G16KT 10SM SCT016 SCT021 SCT037 23/18 A2983 RMK AO2 KIOW 281452Z AUTO 31011KT 10SM BKN090 13/09 A2988 RMK AO2 SLP118 T01280094 53012 KIPJ 281535Z AUTO 23005KT 10SM SCT010 OVC016 22/22 A2996 RMK AO2 T02210220 KIPL 281453Z AUTO 28004KT 10SM CLR 22/12 A2985 RMK AO2 SLP108 T02220122 51019 KIPT 281454Z 15008KT 10SM SCT021 SCT027 BKN034 24/17 A2986 RMK AO2 SLP108 T02390167 53010 $ KIRK 281455Z AUTO 30009KT 10SM FEW012 13/11 A2995 RMK AO2 SLP145 T01330106 51015 KIRS 281515Z AUTO 35004KT 10SM SCT006 BKN033 OVC050 13/12 A2974 RMK AO2 T01250115 KISM 281456Z RMK AO2 SLPNO 6//// $ KISO 281456Z 22004KT 10SM SCT019 OVC120 25/20 A2999 KISP 281456Z 19012KT 10SM BKN009 BKN014 OVC250 22/19 A2996 RMK AO2 SLP146 BKN009 V SCT T02170189 50008 KISQ 281515Z AUTO 00000KT 10SM CLR 13/11 A2966 RMK AO2 T01310107 KISW 281454Z AUTO 31011KT 10SM OVC024 13/09 A2974 RMK AO2 SLP073 60010 T01330089 53007 KITH 281456Z 18009KT 10SM SCT030 24/17 A2985 RMK AO2 SLP101 T02390167 50002 KITR 281453Z AUTO 33015KT 10SM CLR 10/M02 A3040 RMK AO2 SLP277 T01001022 51015 KIWA 281450Z 12006KT 10SM SKC 23/01 A2995 KIWD 281456Z AUTO 29005KT 10SM -RA SCT009 BKN013 OVC025 09/08 A2975 RMK AO2 SLP079 P0002 60002 T00940083 53006 KIWI 281453Z AUTO VRB03KT 1/2SM FG VV002 18/18 A3000 RMK AO2 SLP160 6//// T01830178 KIXA 281515Z AUTO 21004KT 10SM CLR 23/22 A2996 RMK AO2 KIXD 281453Z 31008KT 10SM CLR 13/09 A3007 RMK AO2 SLP180 T01330089 53016 KIYA 281515Z AUTO 23005KT 7SM SCT013 BKN019 BKN037 27/23 A2988 RMK AO2 LTG DSNT ALQDS T02740233 KIZA 281515Z AUTO 00000KT M1/4SM FG OVC001 12/12 A2992 RMK AO2 KIZG 281510Z AUTO 16006KT 10SM FEW021 SCT055 24/18 A2996 RMK AO2 T02390183 KJAC 281456Z 30003KT 10SM CLR M02/M04 A3054 RMK AO2 SLP375 T10171044 53010 KJAN 281454Z 20007KT 10SM OVC006 24/23 A2984 RMK AO2 CIG 005V010 SLP101 T02440228 55008 KJAQ 281515Z AUTO 00000KT 10SM CLR 28/00 A2999 RMK AO1 T02840001 KJAS 281515Z AUTO 35008KT 10SM BKN010 BKN019 OVC032 20/19 A2996 RMK AO2 T01950187 KJAU 281515Z AUTO 18009KT 10SM FEW029 BKN035 BKN044 25/19 A2990 RMK A01 KJAX 281509Z 23011G21KT 4SM +RA BR FEW018 BKN037 BKN120 BKN250 25/23 A2993 KJBR 281503Z AUTO 32010KT 10SM FEW016 FEW020 SCT110 17/13 A2995 RMK AO2 T01670128 TSNO $ KJCA 281515Z AUTO 20005KT 10SM BKN016 OVC024 22/21 A2996 RMK AO2 T02240205 KJCT 281451Z AUTO 02015G22KT 10SM OVC065 19/06 A3021 RMK AO2 SLP197 T01890056 51034 KJDD 281515Z AUTO 36011KT 10SM CLR 19/11 A3009 RMK AO2 KJDN 281448Z AUTO 27008KT 08/M02 A3029 RMK AO1 SLP266 T00781022 58011 KJEF 281453Z 30010G16KT 10SM BKN017 14/09 A2997 RMK AO2 SLP139 T01390094 51014 KJER 281453Z AUTO 11007KT 10SM CLR 08/02 A3048 RMK AO2 SLP318 T00830017 53012 KJES 281515Z AUTO 26003KT 10SM OVC008 25/22 A2994 RMK AO2 KJFK 281451Z 17015G20KT 10SM BKN009 BKN048 BKN250 23/20 A2996 RMK AO2 SLP145 BKN009 V SCT T02280200 53011 $ KJFX 281515Z AUTO VRB05G11KT 10SM FEW016 FEW022 SCT043 27/22 A2987 RMK AO2 PWINO KJFZ 281515Z AUTO 25006KT 10SM SCT004 BKN008 OVC060 18/16 A2998 RMK AO2 T01750163 KJGG 281455Z AUTO 23006KT 10SM CLR 25/21 A2997 RMK AO1 KJHN 281515Z AUTO 32012KT 10SM CLR 12/01 A3038 RMK AO2 T01240011 KJHW 281456Z AUTO 19007KT 10SM BKN015 OVC027 18/16 A2982 RMK AO2 RAB31E46 SLP097 P0001 60001 T01780161 50001 KJKJ 281515Z AUTO 33015G21KT 10SM SCT029 BKN034 BKN055 12/03 A2999 RMK AO2 KJKL 281453Z AUTO 10SM 23/18 A2986 RMK AO2 SLP099 T02330183 58001 $ KJLN 281453Z 34009KT 10SM CLR 15/09 A3009 RMK AO2 SLP186 T01500094 51022 KJMR 281515Z AUTO 32004KT 7SM -DZ SCT008 SCT014 BKN020 09/07 A2987 RMK AO2 KJMS 281456Z AUTO 33013G23KT 10SM SCT019 OVC030 11/05 A3006 RMK AO2 PK WND 36027/1446 SLP186 T01060050 52014 KJNX 281515Z AUTO 00000KT 10SM SCT017 OVC100 A2997 RMK AO2 KJOT 281515Z AUTO 27003KT 10SM OVC010 13/11 A2980 RMK AO2 T01250110 KJQF 281450Z 22004KT 7SM BKN012 23/19 A2999 KJRB 281528Z AUTO 16011KT 10SM BKN014 BKN021 OVC050 23/19 A2995 RMK AO2 KJSL 281500Z AUTO VRB04KT 10SM CLR 29/25 A2989 RMK A01 KJSO 281515Z AUTO 36006G16KT 10SM SCT017 BKN110 16/13 A3006 RMK AO2 LTG DSNT E AND SE T01630131 KJST 281454Z AUTO 22013KT 10SM CLR 21/14 A2990 RMK AO2 SLP112 T02110144 50005 KJSV 281515Z AUTO 33008KT 10SM CLR 17/10 A3011 RMK AO2 KJSY 281455Z AUTO 00000KT 10SM CLR 07/01 A3048 RMK AO2 T00650012 KJTC 281515Z AUTO 12004KT 10SM CLR 16/M04 A3035 RMK AO2 KJVL 281445Z 27009KT 10SM OVC012 13/13 A2975 KJVW 281515Z AUTO 26005KT 10SM SCT007 BKN011 BKN023 25/25 A2985 RMK AO2 KJWG 281515Z AUTO 33013G17KT 10SM CLR 16/03 A3028 RMK AO2 T01590028 KJWN 281515Z AUTO 20008KT 10SM BKN028 OVC034 21/19 A2979 RMK A01 KJWY 281515Z AUTO 35012G17KT 10SM BKN120 19/09 A3015 RMK AO2 T01910094 KJXI 281515Z AUTO 34010G16KT 10SM CLR 17/11 A3006 RMK AO2 T01740113 KJXN 281522Z 25007KT 2 1/2SM BR OVC006 13/12 A2973 RMK AO2 RAB03E19 CIG 004V009 P0000 T01280117 KJYG 281515Z AUTO 31011G19KT 10SM 12/08 A2994 RMK AO2 PWINO KJYL 281515Z AUTO 11004KT 10SM OVC008 23/21 A2995 RMK AO2 LTG DSNT E T02260212 KJYM 281515Z AUTO 29006KT 4SM RA BKN007 OVC010 13/12 A2973 RMK AO2 T01250121 KJYO 281515Z AUTO 17004KT 10SM BKN011 BKN016 18/16 A2992 RMK AO2 KJYR 281515Z AUTO 31016KT 10SM CLR 14/03 A3014 RMK AO2 KJZI 281515Z AUTO 08007G13KT 050V120 1/2SM VCTS RA BKN004 OVC015 23/22 A2995 RMK AO2 LTG DSNT E AND SE KJZP 281515Z AUTO 00000KT 10SM SCT007 BKN015 BKN037 21/19 A2998 RMK AO2 T02070193 KK82 281515Z AUTO 33016G20KT 10SM CLR 15/02 A3023 RMK AO2 KK88 281515Z AUTO 31010G20KT 10SM CLR 14/09 A3012 RMK AO1 T01430085 KKLS 281456Z AUTO 00000KT 10SM CLR 08/08 A3033 RMK AO2 SLP276 T00830078 55003 KKY8 281515Z AUTO VRB04G11KT 3SM BR FEW007 BKN013 BKN017 14/14 A2980 RMK A01 KL08 281515Z AUTO 04004KT 10SM CLR 25/05 A2990 RMK AO2 KL18 281515Z AUTO 00000KT 10SM CLR 19/16 A2992 RMK AO2 KL35 281515Z AUTO 07006KT 10SM CLR 10/M01 A3034 RMK AO2 KL52 281455Z AUTO 00000KT M1/4SM FG OVC002 15/15 A2992 RMK A01 KLAA 281453Z AUTO 34010KT 10SM CLR 12/M02 A3041 RMK AO2 SLP280 T01171022 51017 $ KLAF 281526Z 29010KT 4SM -RA BR OVC010 13/12 A2980 RMK AO2 P0002 T01280117 $ KLAL 281450Z 17006KT 10SM SCT009 27/25 A2995 KLAM 281515Z AUTO 21013KT 10SM OVC039 06/M02 A3046 RMK AO2 T00611022 KLAN 281509Z 27003KT 3SM BR OVC006 12/11 A2973 KLAR 281453Z AUTO 15005KT 4SM HZ CLR M01/M06 A3046 RMK AO2 SLP328 T10111061 51010 KLAS 281456Z 02011KT 10SM FEW250 24/M02 A3015 RMK AO2 SLP186 T02391017 51022 KLAW 281453Z 35014G21KT 10SM CLR 19/03 A3021 RMK AO2 SLP225 T01890033 51024 KLAX 281453Z 29004KT 4SM BR SCT008 SCT012 19/17 A2991 RMK AO2 SLP126 VIS S-SW 1 T01890172 53011 KLBB 281453Z 01014G21KT 10SM BKN095 15/M01 A3034 RMK AO2 SLP245 T01501006 53019 KLBE 281445Z 21014KT 10SM FEW040 BKN085 23/17 A2986 KLBF 281453Z AUTO 30015G25KT 10SM CLR 13/00 A3029 RMK AO2 SLP257 T01330000 51015 KLBL 281456Z AUTO 34017KT 10SM CLR 13/M01 A3036 RMK AO2 SLP270 T01281006 51019 KLBO 281515Z AUTO 30009G15KT 10SM BKN018 BKN022 13/09 A3002 RMK AO2 LTG DSNT SE KLBX 281453Z AUTO 33008KT 10SM OVC006 21/19 A2994 RMK AO2 RAE1354 CIG 005V009 SLP137 P0000 60000 T02110194 53023 KLCG 281515Z AUTO 32017G22KT 10SM CLR 14/05 A3008 RMK AO2 T01420048 KLCH 281453Z 23006KT 9SM SCT007 BKN012 27/27 A2989 KLCI 281456Z AUTO 19011G15KT 10SM BKN024 OVC033 23/18 A2996 RMK AO2 SLP143 T02280183 56001 KLCK 281455Z AUTO 19011KT 10SM SCT070 BKN080 22/16 A2976 RMK AO2 T02170164 KLCQ 281515Z AUTO 21004KT 10SM SCT009 BKN014 BKN070 25/24 A2994 RMK AO2 KLDJ 281515Z AUTO 19005KT 10SM SCT019 SCT023 SCT049 24/18 A2994 RMK AO2 T02400181 KLDM 281515Z AUTO 25008KT 10SM BKN018 BKN024 OVC034 15/12 A2970 RMK AO2 T01480116 KLEB 281453Z 17014G20KT 10SM FEW027 OVC041 24/17 A2991 RMK AO2 SLP119 T02440167 53003 KLEE 281453Z 17004KT 10SM CLR 27/26 A2996 RMK AO2 RAE00 SLP144 P0000 60000 T02720256 51013 KLEW 281458Z AUTO 16006KT 1 1/2SM BR OVC002 19/19 A2999 RMK AO2 VIS 1V2 1/2 KLEX 281526Z 19013G20KT 10SM BKN022 22/18 A2979 RMK AO2 T02220183 KLFI 281456Z AUTO 22010KT 9SM CLR 25/20 A2997 RMK AO2 SLP155 T02460203 52007 $ KLFK 281453Z AUTO 34010G20KT 10SM OVC016 18/15 A2999 RMK AO2 SLP151 60001 T01830150 53021 KLFT 281500Z 20005KT 10SM BKN011 BKN080 28/24 A2987 RMK AO2 T02830244 KLGA 281451Z 17011KT 10SM SCT016 BKN021 BKN049 23/19 A2994 RMK AO2 SLP138 T02280189 53012 KLGB 281453Z AUTO 00000KT 4SM HZ CLR 20/17 A2991 RMK AO2 SLP127 T02000172 53013 KLGC 281515Z AUTO 19005KT 10SM SCT021 BKN026 BKN037 26/20 A2993 RMK AO2 LTG DSNT W T02580198 KLGD 281456Z AUTO 00000KT 10SM CLR 05/03 A3049 RMK AO2 SLP335 T00500028 53008 KLGF 281458Z AUTO 00000KT 10SM CLR 26/09 A2987 RMK AO2 SLP111 T02570088 52017 $ KLGU 281451Z AUTO 33003KT 10SM CLR 04/M01 A3049 RMK AO2 SLP322 T00391006 53013 KLHB 281455Z AUTO 35017G26KT 10SM BKN095 20/12 A3007 RMK AO2 T02040115 KLHM 281515Z AUTO 35010KT 10SM CLR 19/03 A2992 RMK AO1 KLHQ 281453Z AUTO 19010G21KT 10SM BKN090 23/17 A2978 RMK AO2 SLP079 T02330167 58004 KLHW 281456Z 00000KT 10SM BKN013 OVC021 25/24 A2991 RMK AO2A CIG 011V015 SLP131 60003 T02530235 50009 $ KLHX 281453Z AUTO 36011KT 10SM CLR 12/M03 A3045 RMK AO2 SLP287 T01221028 53013 TSNO KLHZ 281515Z AUTO 22005KT 4SM HZ CLR 23/19 A3000 RMK AO2 KLIC 281455Z AUTO 31013KT 10SM CLR 08/M04 A3044 RMK AO2 SLP285 T00831044 53011 KLIT 281453Z 33012KT 10SM FEW014 SCT100 17/13 A2998 RMK AO2 SLP154 60000 T01720128 51020 KLJF 281455Z AUTO 30013G18KT 10SM BKN100 12/08 A2991 RMK AO2 KLKR 281515Z AUTO VRB06KT 10SM BKN047 BKN065 28/20 A2997 RMK AO2 KLKU 281515Z AUTO 16004KT 10SM SCT010 OVC110 21/19 A2996 RMK AO2 T02130190 KLKV 281453Z AUTO 34016KT 10SM CLR 10/M02 A3041 RMK AO2 SLP293 T01001017 52003 $ KLLJ 281455Z AUTO 16003KT 10SM CLR 03/M04 A3055 RMK AO2 SLP342 T00331039 53009 KLLQ 281453Z AUTO 34008KT 310V030 10SM OVC017 16/13 A2997 RMK AO2 SLP145 60000 T01610133 53025 KLMO 281515Z AUTO 00000KT 10SM CLR 11/00 A3047 RMK AO2 T01131004 KLMT 281453Z 01006KT 10SM CLR 09/02 A3038 RMK AO2 SLP265 T00940017 53002 KLNA 281515Z AUTO 13011KT 10SM SCT026 SCT033 32/26 A2994 RMK AO2 T03160255 PNO KLNC 281455Z AUTO 34016KT 10SM CLR 19/09 A3013 RMK AO2 T01910085 KLND 281453Z AUTO 10005KT 10SM CLR 03/M05 A3046 RMK AO2 SLP315 T00331050 51001 KLNK 281454Z 33016G23KT 10SM CLR 14/04 A3011 RMK AO2 SLP196 T01440039 51015 KLNL 281515Z AUTO 36006KT 10SM -RA BKN009 OVC015 10/09 A2973 RMK AO2 T00960085 KLNN 281515Z AUTO 23006G10KT 10SM CLR 23/15 A2972 RMK AO1 T02310150 KLNP 281535Z AUTO 23009KT 10SM SCT010 BKN025 OVC030 20/16 A2997 RMK AO2 KLNQ 281513Z AUTO 10SM BKN016 OVC023 30/24 A2991 RMK AO2 T02950242 KLNR 281456Z AUTO 30009KT 10SM -RA OVC019 12/10 A2977 RMK AO2 SLP075 P0000 60000 T01220100 53007 KLNS 281453Z 17006KT 10SM OVC015 22/18 A2992 RMK AO2 SLP128 T02170178 53011 KLOL 281453Z AUTO 00000KT 10SM CLR 08/M03 A3039 RMK AO2 SLP275 T00831028 53009 KLOM 281515Z AUTO 15007KT 130V190 10SM OVC012 22/20 A2993 RMK AO2 T02220199 KLOR 281513Z AUTO 24003KT 10SM OVC016 25/22 A2991 RMK AO2 SLP110 KLOT 281515Z AUTO 27008KT 10SM BKN009 OVC015 12/11 A2979 RMK AO2 T01150106 KLOU 281453Z 17011KT 6SM -RA FEW085 OVC110 21/18 A2974 RMK AO2 RAB25 SLP065 P0002 60002 T02060178 58014 KLOZ 281453Z AUTO 21008KT 10SM FEW022 FEW026 23/18 A2986 RMK AO2 SLP101 T02280178 58002 KLPC 281521Z AUTO 1/2SM FG OVC002 14/14 A2993 RMK AO2 KLPR 281453Z AUTO 20008KT 10SM CLR 22/16 A2973 RMK AO2 SLP064 T02220156 58004 KLQK 281515Z AUTO 22005KT 10SM SCT011 BKN018 OVC035 23/22 A2995 RMK AO2 T02290221 KLRD 281456Z 02016KT 10SM OVC022 22/19 A3000 RMK AO2 PK WND 01030/1424 SLP153 T02220189 51067 KLRF 281456Z AUTO 32008G14KT 10SM FEW018 17/13 A2998 RMK AO2 SLP153 60000 T01700129 50021 $ KLRJ 281515Z AUTO 30011KT 10SM OVC065 12/06 A3003 RMK AO2 KLRO 281455Z AUTO VRB03KT 10SM BKN065 OVC070 23/22 A2996 RMK AO2 KLRU 281515Z AUTO 30005KT 10SM SCT048 SCT055 16/00 A3033 RMK AO2 T01611001 KLRY 281515Z AUTO 33008G15KT 10SM CLR 16/10 A3008 RMK AO2 KLSE 281453Z 33011KT 10SM BKN020 OVC026 13/08 A2979 RMK AO2 SLP085 T01330083 51008 KLSF 281456Z AUTO 20004KT 10SM FEW011 SCT019 BKN025 26/21 A2992 RMK AO2 SLP135 60000 T02560208 51006 CHINO RWY15 $ KLSV 281458Z AUTO 01015KT 10SM CLR 25/M03 A3013 RMK AO2 SLP181 T02531032 $ KLTS 281456Z 36015KT 10SM CLR 18/03 A3025 RMK AO2A SLP236 52023 $ KLUA 281515Z AUTO 19010KT 10SM SCT085 SCT120 24/17 A2991 RMK AO2 KLUD 281515Z AUTO 10SM CLR 17/08 A3018 RMK AO2 T01710079 KLUF 281458Z AUTO 01003KT 10SM CLR 25/04 A2991 RMK AO2 SLP116 T02480040 52018 $ KLUG 281515Z AUTO 19011G18KT 10SM FEW021 BKN027 OVC075 24/20 A2982 RMK A01 KLUK 281453Z 18010KT 8SM FEW038 BKN080 21/18 A2975 RMK AO2 SLP072 60003 T02110178 58007 KLUL 281515Z AUTO 19006KT 10SM OVC014 26/23 A2986 RMK A02 T02650233 KLUM 281515Z AUTO 28011KT 10SM SCT024 OVC055 10/06 A2982 RMK AO2 T00980057 KLUV 281515Z AUTO 02018KT 3SM HZ OVC090 17/M01 A3033 RMK AO2 VIS 1 3/4V5 KLUX 281515Z AUTO 19005KT 7SM OVC009 22/20 A2996 RMK AO2 LTG DSNT W KLVJ 281453Z AUTO 34009KT 10SM OVC011 22/19 A2995 RMK AO2 SLP140 60000 T02220189 53030 KLVK 281453Z 00000KT 9SM CLR 19/07 A2994 RMK AO2 SLP135 T01940072 53011 KLVM 281526Z AUTO 22020G27KT 10SM CLR 11/M02 A3041 RMK AO2 PK WND 21027/1523 WSHFT 1506 T01061022 KLVN 281515Z AUTO 32011KT 10SM SCT026 OVC100 12/06 A2987 RMK AO2 KLVS 281453Z AUTO 36010KT 10SM OVC043 06/M04 A3048 RMK AO2 SLP268 T00611039 51015 KLWA 281515Z AUTO 28006KT 10SM SCT022 SCT035 OVC049 14/12 A2974 RMK AO2 T01370117 KLWB 281455Z 00000KT 10SM BKN023 OVC042 18/17 A2997 KLWC 281452Z AUTO 29009KT 10SM CLR 15/11 A3007 RMK AO1 SLP180 T01500106 51014 KLWD 281453Z AUTO 31012G22KT 10SM CLR 13/08 A2997 RMK AO2 SLP148 T01280083 51012 KLWM 281454Z 20008G16KT 10SM FEW024 SCT035 25/19 A2997 RMK AO2 SLP148 T02500189 58002 KLWS 281456Z 09006KT 10SM CLR 10/05 A3047 RMK AO2 SLP320 T01000050 58000 KLWT 281454Z AUTO 10004KT 10SM CLR 05/M02 A3034 RMK AO2 SLP287 T00501022 56009 KLWV 281511Z AUTO 32011KT 9SM OVC011 14/14 A2983 RMK AO2 T01440139 KLXL 281515Z AUTO 30009G17KT 10SM BKN022 OVC028 10/06 A2989 RMK AO2 KLXN 281515Z AUTO 32016G19KT 10SM CLR 13/00 A3026 RMK AO2 T01330000 KLXT 281453Z AUTO 32012KT 10SM CLR 14/08 A3004 RMK AO2 SLP171 T01440083 51015 KLXV 281453Z AUTO VRB04KT 10SM CLR M01/M13 A3050 RMK AO2 SLP258 T10061133 51014 $ KLXY 281515Z AUTO 36009G18KT 10SM SCT110 20/09 A3009 RMK AO2 T02000090 KLYH 281454Z 22007KT 10SM BKN005 OVC013 22/19 A2994 RMK AO2 CIG 004V009 SLP131 60001 T02170194 50001 KLYO 281515Z AUTO 34015KT 10SM CLR 15/01 A3022 RMK AO2 T01520014 KLZU 281456Z 22005KT 10SM SCT013 OVC022 23/21 A2996 RMK AO2 SLP146 T02280211 51006 KLZZ 281515Z AUTO 01014G20KT 10SM BKN080 19/05 A3015 RMK AO2 T01880053 KM02 281515Z AUTO 22007G13KT 1 1/2SM BR BKN007 OVC011 19/18 A2980 RMK A01 KM04 281515Z AUTO 34009KT 3SM BR FEW010 BKN015 BKN021 15/14 A2991 RMK A01 KM08 281515Z AUTO 32007KT 290V350 5SM BR FEW008 SCT017 BKN036 15/14 A2987 RMK A01 KM19 281456Z AUTO 33012KT 10SM CLR 17/12 A2997 RMK AO2 SLP145 T01670122 51019 KM21 281455Z AUTO 31007KT 10SM RA BKN008 OVC016 A2982 RMK AO2 KM25 281515Z AUTO 33009KT 10SM BKN009 OVC012 14/13 A2987 RMK AO2 PWINO KM40 281515Z AUTO 15006KT 3SM -DZ SCT014 SCT033 OVC060 22/12 A2985 RMK AO2 KM54 281515Z AUTO 20011KT 10SM BKN044 BKN070 BKN090 23/20 A2978 RMK A01 KM75 281515Z AUTO 24004KT 10SM CLR 04/M01 A3027 RMK A01 KM91 281515Z AUTO 20007KT 6SM BR OVC022 20/19 A2979 RMK A01 KMAE 281453Z AUTO 00000KT 8SM CLR 18/14 A2995 RMK AO2 SLP140 T01830139 53016 KMAF 281453Z 01016KT 10SM OVC080 17/M01 A3032 RMK AO2 SLP228 T01671006 51024 KMAI 281515Z AUTO 00000KT 10SM BKN011 BKN019 26/23 A2990 RMK AO2 T02610228 KMAN 281515Z AUTO 14004KT 10SM CLR 08/05 A3046 RMK A01 KMAO 281515Z AUTO 16004KT 10SM BKN017 BKN070 BKN085 24/21 A2999 RMK AO2 KMAW 281515Z AUTO 33012G15KT 10SM SCT010 SCT013 16/13 A2993 RMK AO2 LTG DSNT S KMBG 281452Z AUTO 32016G27KT 10SM OVC055 11/04 A3014 RMK AO2 PK WND 32027/1445 SLP210 T01060039 51011 KMBL 281456Z AUTO VRB03KT 10SM -RA FEW004 BKN013 OVC029 13/13 A2969 RMK AO2 SLP056 P0003 60004 T01330133 55003 KMBO 281535Z AUTO 00000KT 7SM VCTS OVC007 22/22 A2986 RMK AO2 LTG DSNT W KMBS 281523Z 30003KT 2SM -RA FEW008 BKN023 OVC028 12/09 A2972 RMK AO2 RAB08 P0001 T01220089 KMBT 281515Z AUTO 19012G17KT 10SM FEW044 BKN055 BKN090 24/19 A2980 RMK A01 KMBY 281515Z AUTO 31008KT 10SM SCT010 14/09 A2997 RMK AO2 KMCB 281453Z AUTO 20009KT 10SM SCT006 OVC010 26/24 A2987 RMK AO2 SLP108 T02560239 58001 KMCC 281515Z AUTO 35005KT 8SM CLR 18/05 A2993 RMK AO2 KMCD 281515Z AUTO 17004KT 10SM SCT006 SCT070 OVC095 13/13 A2968 RMK AO2 T01330133 KMCE 281453Z AUTO 00000KT 7SM CLR 18/13 A2993 RMK AO2 SLP133 T01780133 52014 KMCF 281456Z AUTO 19007KT 10SM FEW010 SCT120 BKN140 27/25 A2993 RMK AO2 DZE05RAB12E25DZB25E26 SLP138 P0000 60000 T02700248 50009 FZRANO $ KMCI 281453Z 33012G19KT 10SM FEW250 14/09 A3004 RMK AO2 SLP170 T01390094 51014 $ KMCJ 281515Z AUTO 33018G28KT 10SM OVC012 19/17 A2994 RMK A01 LTG DSNT NE KMCK 281453Z AUTO 33017G25KT CLR 13/M01 A3030 RMK AO2 PK WND 32026/1425 SLP257 T01331011 51015 $ KMCN 281453Z VRB03KT 10SM OVC018 26/22 A2993 RMK AO2 SLP131 T02560222 50002 KMCO 281453Z 20005KT 10SM FEW020 OVC190 27/26 A2995 RMK AO2 SLP140 60000 T02720256 50012 KMCW 281508Z AUTO 33016G27KT 10SM FEW020 SCT028 BKN037 12/07 A2990 RMK AO2 PK WND 32027/1501 T01220067 KMCX 281515Z AUTO 30007KT 3SM +DZ OVC005 12/11 A2980 RMK AO2 P0001 T01150107 KMDD 281515Z AUTO 02013KT 10SM OVC080 17/M01 A3033 RMK AO2 T01691009 KMDH 281449Z 30008KT 10SM FEW011 BKN016 BKN022 15/13 A2989 RMK AO2 SLP120 60004 T01500128 53012 KMDJ 281515Z AUTO RMK A01 PNO KMDQ 281515Z AUTO 19012KT 10SM BKN022 OVC028 25/20 A2987 RMK A02 LTG DSNT SW T02470197 KMDS 281515Z AUTO 32019G28KT 10SM OVC070 09/08 A3005 RMK AO2 KMDT 281456Z 00000KT 10SM BKN016 OVC035 23/18 A2989 RMK AO2 SLP120 T02330178 50007 KMDW 281453Z 26012KT 10SM OVC013 12/09 A2978 RMK AO2 SLP082 60001 T01220094 53002 KMDZ 281515Z AUTO 33007KT 10SM OVC018 10/07 A2975 RMK AO2 T00980067 KMEB 281452Z AUTO 00000KT 10SM SCT008 SCT014 24/21 A2998 RMK AO2 SLP151 T02390211 51003 KMEI 281458Z 19010KT 10SM FEW006 BKN009 OVC018 26/22 A2986 RMK AO2 SLP106 T02610222 58007 KMEM 281508Z 34009KT 8SM BKN009 BKN015 OVC040 15/14 A2992 RMK AO2 RAE05 VCSH P0000 T01500139 $ KMER 281445Z 00000KT 7SM CLR 17/16 A2994 KMEV 281515Z AUTO 00000KT 10SM CLR 07/M04 A3041 RMK AO2 KMEZ 281515Z AUTO 33009G15KT 10SM CLR 17/11 A3008 RMK AO2 LTG DSNT E KMFD 281452Z 17011KT 10SM CLR 22/17 A2975 RMK AO2 SLP066 T02220167 58006 KMFE 281522Z 06006KT 8SM BKN015 OVC020 29/24 A2990 RMK AO2 T02890244 KMFI 281454Z AUTO 35013G18KT 10SM OVC018 11/07 A2974 RMK AO2 SLP076 T01110072 53010 KMFR 281453Z 35006KT 10SM CLR 11/05 A3018 RMK AO2 SLP216 T01110050 53003 KMFV 281515Z AUTO 23004KT 10SM CLR 26/17 A2996 RMK AO2 T02600167 KMGC 281515Z AUTO 24004KT 7SM -RA SCT015 BKN023 OVC055 12/12 A2978 RMK AO2 KMGE 281456Z 18007KT 7SM BKN012 BKN020 OVC030 23/20 A2994 RMK AO2A SLP131 T02330200 50004 $ KMGG 281515Z AUTO 31007KT 10SM 11/07 A2990 RMK AO2 T01110072 KMGJ 281454Z AUTO 19009KT 10SM BKN020 BKN027 23/19 A2990 RMK AO2 SLP121 T02330189 50008 KMGM 281500Z 23006KT 10SM FEW016 OVC022 26/21 A2992 KMGN 281515Z AUTO 18004KT 10SM BKN009 OVC090 13/12 A2968 RMK AO2 T01360126 KMGR 281510Z AUTO 00000KT 10SM SCT038 25/22 A2994 RMK AO2 LTG DSNT NW KMGW 281453Z 24008KT 10SM SCT044 BKN060 24/16 A2987 RMK AO2 SLP106 T02390156 50002 KMGY 281453Z AUTO 18012KT 10SM FEW013 21/17 A2974 RMK AO2 SLP064 T02110167 58005 KMHE 281453Z AUTO 32017G24KT 10SM OVC070 12/05 A3010 RMK AO2 RAB33E42 SLP196 P0000 60000 T01220050 53013 KMHK 281452Z 33008G19KT 10SM CLR 14/05 A3013 RMK AO2 SLP201 T01440050 51014 KMHL 281515Z AUTO 29009KT 10SM CLR 13/10 A3001 RMK AO2 KMHP 281515Z AUTO 00000KT 5SM BR OVC004 22/22 A2994 RMK AO2 T02240218 KMHR 281450Z 33005KT 10SM SKC SKC 19/04 A2991 KMHS 281456Z AUTO 00000KT 8SM CLR 07/M01 A3029 RMK AO2 SLP267 T00671006 53003 KMHT 281453Z 17011KT 10SM BKN018 BKN250 23/18 A2994 RMK AO2 SLP149 T02330183 52002 KMHV 281500Z AUTO 04008KT 10SM CLR 24/00 A3010 RMK A01 KMIA 281453Z 11005KT 10SM FEW020 SCT050 BKN250 30/24 A2994 RMK AO2 SLP139 60000 T03000239 51009 KMIB 281456Z AUTO 35011KT 10SM SCT049 09/05 A3015 RMK AO2 SLP222 T00860046 52016 $ KMIC 281526Z 33015G22KT 10SM BKN028 OVC100 12/06 A2986 RMK AO2 PK WND 31028/1510 T01170056 KMIE 281453Z 30008KT 10SM BKN008 OVC012 16/13 A2974 RMK AO2 RAE04B34E43 CIG 007V011 SLP063 P0000 60000 T01610133 53001 KMIO 281515Z AUTO 34012KT 10SM CLR 16/09 A3010 RMK AO2 KMIV 281454Z AUTO VRB05KT 10SM CLR 23/19 A2995 RMK AO2 SLP140 T02330189 51012 KMIW 281527Z AUTO 32014KT 10SM BKN017 BKN050 OVC095 12/09 A2990 RMK AO2 T01220094 KMJD 281535Z AUTO 00000KT 10SM BKN014 BKN020 28/25 RMK AO2 KMJQ 281515Z AUTO 31016G21KT 10SM SCT017 BKN045 OVC060 11/07 A2997 RMK AO2 KMJX 281456Z AUTO 19008KT 10SM BKN024 BKN031 BKN045 24/18 A2995 RMK AO2 SLP147 T02440183 53009 KMKC 281454Z 30007G16KT 10SM CLR 14/08 A3004 RMK AO2 SLP170 T01390083 51015 KMKE 281512Z 24007KT 10SM BKN013 BKN075 BKN140 13/11 A2973 RMK AO2 T01330111 KMKG 281501Z 16005KT 10SM -RA FEW006 BKN015 OVC037 14/12 A2973 KMKJ 281455Z AUTO 24007KT 10SM BKN006 OVC010 19/18 A3001 RMK AO2 T01850179 KMKL 281510Z 35008KT 3SM RA BR BKN009 BKN019 OVC050 14/13 A2988 RMK AO2 TSE03 P0014 T01390133 KMKN 281515Z AUTO 36012G22KT 10SM OVC095 18/07 A3019 RMK AO2 T01760067 KMKO 281453Z AUTO 33011KT 10SM CLR 17/10 A3013 RMK AO2 SLP200 T01670100 51022 KMKS 281515Z AUTO 07004KT 10SM VCTS SCT028 SCT046 OVC060 22/22 A2997 RMK AO2 LTG DSNT SE AND S KMKT 281456Z AUTO 32012KT 10SM FEW025 SCT050 12/07 A2991 RMK AO2 SLP134 6//// T01170072 51012 KMKY 281456Z AUTO 14005KT 10SM FEW075 28/24 A2995 RMK AO2 SLP141 T02780244 51011 TSNO $ KMLB 281453Z 21005KT 10SM FEW020 29/26 A2994 RMK AO2 SLP137 T02890256 51011 KMLC 281453Z AUTO 34008KT 10SM FEW110 17/11 A3014 RMK AO2 SLP201 T01720106 51025 KMLE 281515Z AUTO 31014G21KT 10SM CLR 15/05 A3007 RMK AO2 T01520051 KMLF 281526Z AUTO 01014KT 10SM CLR 12/M03 A3042 RMK AO2 WSHFT 1512 T01171028 KMLI 281452Z 28011KT 10SM OVC012 13/11 A2983 RMK AO2 SLP102 T01330106 53009 KMLJ 281518Z AUTO 00000KT 10SM OVC008 24/22 A2994 RMK AO2 LTG DSNT NW KMLP 281453Z AUTO 30004KT 10SM CLR 04/M02 A3049 RMK AO2 SLP286 T00441017 53001 KMLS 281453Z AUTO 23006KT 10SM CLR 07/M04 A3032 RMK AO2 RAB10E19 SLP274 P0000 60000 T00721039 50002 KMLT 281453Z AUTO VRB05KT 9SM OVC007 20/19 A3000 RMK AO2 RAB1355E39 CIG 004V012 SLP162 P0005 60005 T02000189 58000 KMLU 281453Z 36010KT 10SM BKN017 18/14 A2993 RMK AO2 SLP133 60002 T01830144 53019 KMMH 281516Z AUTO 28007KT 10SM CLR 12/M02 A3044 RMK AO2 KMMI 281515Z AUTO 23009KT 10SM SCT018 BKN025 BKN047 24/19 A2991 RMK A01 KMMK 281453Z AUTO 17011KT 10SM OVC015 23/18 A2995 RMK AO2 SLP139 T02280183 58004 TSNO KMML 281456Z AUTO 33012KT 10SM -RA OVC039 11/07 A2998 RMK AO2 RAB54 SLP160 P0000 60000 T01110067 53009 KMMT 281456Z 16004KT 10SM -DZ BKN039 OVC090 22/21 A2996 RMK AO2A SLP147 P0000 60000 T02240214 52008 KMMU 281445Z 21007KT 10SM SCT018 SCT024 BKN047 24/22 A2994 KMMV 281453Z AUTO 35008KT 10SM CLR 17/07 A3024 RMK AO2 SLP239 T01670072 55003 KMNE 281515Z AUTO 35012G22KT 10SM BKN020 OVC025 18/15 A3001 RMK AO2 LTG DSNT E THRU S T01800145 KMNH 281515Z AUTO 30006KT 10SM CLR 05/M05 A3050 RMK AO2 KMNI 281455Z AUTO 12003KT 2SM -RA SCT018 BKN048 OVC070 20/20 A2997 RMK AO2 LTG DSNT S P0013 KMNM 281456Z AUTO 00000KT 10SM 13/11 A2967 RMK AO2 SLP048 6//// T01280106 58004 PNO $ KMNN 281453Z AUTO 20011G17KT 9SM CLR 22/17 A2974 RMK AO2 SLP068 T02220167 58005 $ KMNV 281515Z AUTO 21008KT 10SM FEW021 SCT030 BKN070 23/20 A2990 RMK A01 KMNZ 281455Z AUTO 36015G20KT 10SM BKN080 OVC110 18/07 A3017 RMK AO2 T01790066 KMOB 281520Z 24007KT 210V280 10SM BKN016 BKN055 BKN250 28/23 A2989 KMOD 281453Z 31006KT 10SM CLR 21/07 A2992 RMK AO2 SLP131 T02060067 53013 KMOP 281515Z AUTO 25003KT 10SM SCT007 OVC014 13/13 A2972 RMK AO2 T01310129 KMOR 281515Z AUTO 24008KT 10SM FEW021 FEW028 24/19 A2991 RMK A01 KMOT 281454Z 30015G22KT 10SM OVC047 09/05 A3016 RMK AO2 SLP224 T00890050 51015 KMOX 281515Z AUTO 33021G27KT 10SM SCT024 SCT032 BKN046 11/05 A2997 RMK AO2 KMPO 281453Z AUTO 17008KT 10SM BKN009 BKN014 OVC027 18/16 A2995 RMK AO2 SLP135 T01830161 51012 KMPV 281451Z AUTO 16014G21KT 10SM OVC017 21/18 A2993 RMK AO2 RAE10 SLP131 P0001 60001 T02060183 57003 KMPZ 281515Z AUTO 31005KT 10SM BKN012 13/12 A2989 RMK AO2 KMQB 281515Z AUTO 31011KT 10SM OVC011 12/10 A2989 RMK AO2 T01210104 TSNO KMQE 281451Z AUTO 20011KT 24/17 A2998 RMK AO1 SLP158 T02390167 50000 KMQI 281455Z AUTO 26003KT 10SM SCT019 23/18 A3000 RMK AO2 T02320183 KMQJ 281515Z AUTO 30008KT 10SM OVC008 13/13 A2977 RMK AO1 KMQS 281515Z AUTO 00000KT 10SM BKN010 OVC014 20/19 A2995 RMK AO2 KMQY 281525Z 20008KT 10SM BKN029 BKN043 OVC050 23/20 A2982 RMK AO2 KMRB 281453Z 00000KT 10SM CLR 24/17 A2987 RMK AO2 SLP112 T02440172 50001 $ KMRC 281515Z AUTO 24012KT 8SM OVC018 22/22 A2981 RMK A01 KMRF 281456Z AUTO 02022G30KT 10SM CLR 14/01 A3033 RMK AO2 PK WND 01033/1407 SLP222 T01390011 51020 KMRH 281458Z AUTO 34003KT 10SM CLR 26/20 A2999 RMK AO2 SLP155 I1000 I3/// T02560200 51008 $ KMRJ 281515Z AUTO 31004G15KT 10SM BKN014 OVC060 12/10 A2978 RMK AO2 KMRN 281515Z AUTO 21005KT 10SM SCT018 SCT025 SCT039 24/19 A2999 RMK AO2 T02390192 KMRT 281519Z AUTO 21010G15KT 10SM SCT023 SCT029 SCT070 22/16 A2974 RMK AO1 KMRY 281454Z 00000KT 6SM HZ FU CLR A2993 RMK AO2 SLPNO 53014 $ KMSL 281512Z AUTO 22012KT 10SM SCT020 SCT036 26/20 A2983 RMK AO2 T02560200 KMSN 281503Z 29005KT 10SM SCT008 OVC017 12/11 A2974 KMSO 281453Z 00000KT 10SM CLR 04/03 A3053 RMK AO2 SLP353 T00440033 53007 KMSP 281453Z 33013KT 10SM BKN025 BKN050 BKN100 12/07 A2987 RMK AO2 SLP117 60000 T01170067 53010 KMSS 281453Z AUTO 18004KT 4SM -RA FEW030 BKN047 OVC060 22/18 A2982 RMK AO2 RAB35 SLP099 P0000 60000 T02170183 53003 KMSV 281456Z AUTO 18005KT 10SM SCT007 OVC014 21/18 A2993 RMK AO2 SLP129 60001 T02060183 50003 KMSY 281453Z 22008KT 10SM SCT014 SCT250 29/24 A2987 RMK AO2 SLP119 T02940244 50005 KMTC 281456Z 32003KT 10SM OVC013 17/17 A2968 RMK AO2A SLP054 T01660166 53001 KMTH 281453Z AUTO VRB03KT 10SM FEW021 31/26 A2993 RMK AO2 LTG DSNT NE TSE1355 SLP134 T03060256 51011 KMTJ 281453Z AUTO 15006KT 10SM CLR 08/M04 A3046 RMK AO2 SLP271 T00781039 53021 KMTK 281520Z AUTO 23011KT 10SM FEW014 26/23 A2992 RMK A01 KMTN 281454Z 19005KT 10SM BKN012 22/21 A2993 KMTO 281518Z AUTO 29011KT 10SM SCT013 BKN120 14/11 A2984 RMK AO2 T01390111 KMTP 281454Z AUTO VRB04KT 21/19 A2998 RMK AO1 SLP153 T02110194 50003 KMTV 281515Z AUTO 22005KT 10SM SCT011 BKN028 BKN033 21/21 A2997 RMK AO2 T02140206 KMTW 281456Z AUTO 24004KT 10SM FEW011 13/12 A2970 RMK AO2 SLP057 6//// T01330117 56004 KMUI 281456Z 19005KT 7SM FEW008 OVC014 21/20 A2990 RMK AO2A CIG 011V016 SLP126 T02100198 51007 KMUO 281458Z AUTO 08006KT 10SM CLR 09/03 A3047 RMK AO2 SLP319 T00880030 52015 $ KMUT 281515Z AUTO 29010KT 10SM FEW013 BKN100 14/11 A2987 RMK AO2 KMVE 281455Z AUTO 34011G21KT 10SM SCT023 BKN065 11/06 A2997 RMK AO2 KMVH 281515Z AUTO 31005KT 7SM CLR 09/M03 A3036 RMK AO2 KMVL 281454Z AUTO 16008KT 4SM BR SCT014 BKN020 OVC025 21/19 A2988 RMK AO2 RAB32E47 SLP117 P0000 60000 T02060189 56003 KMVN 281456Z AUTO VRB03KT 10SM BKN009 OVC015 14/13 A2989 RMK AO2 CIG 008V013 SLP124 60005 T01440128 53013 KMVY 281453Z 18009KT 10SM SCT021 BKN037 OVC085 22/20 A3000 RMK AO2 RAE19 SLP157 P0001 60002 T02170200 50000 KMWA 281445Z 32010KT 7SM BKN009 14/13 A2989 KMWC 281445Z 25008KT 10SM OVC014 12/09 A2974 KMWH 281452Z 36006KT 10SM CLR 07/03 A3045 RMK AO2 SLP314 T00670028 53003 KMWK 281515Z AUTO 19004KT 10SM SCT010 SCT013 SCT024 22/20 A2997 RMK AO2 T02220204 KMWL 281453Z AUTO 34010KT 10SM OVC110 18/08 A3017 RMK AO2 SLP209 T01830078 51022 KMWM 281515Z AUTO 30012G17KT 10SM CLR 11/08 A2996 RMK AO2 KMWN 281454Z 18035G53KT 1/16SM PRFG FEW/// BKN000 BKN080 BKN180 09/09 RMK VIS N 1 PRFG BKN000 ACSL N BBLO FEW N PRFG INTMT KMWO 281515Z AUTO 18010KT 10SM BKN020 OVC027 21/18 A2975 RMK AO2 T02150177 KMWT 281453Z AUTO VRB05KT 10SM CLR 16/13 A3002 RMK AO2 SLP160 T01610128 51028 KMXF 281456Z AUTO 24004KT 10SM BKN015 OVC022 25/20 A2991 RMK AO2 SLP130 60000 T02520200 50008 KMXO 281515Z AUTO 30011KT 10SM BKN017 BKN090 13/11 A2983 RMK AO2 KMYF 281453Z 34003KT 9SM CLR 21/16 A2990 RMK AO2 SLP121 T02060161 51006 KMYJ 281515Z AUTO 31010KT 10SM BKN014 13/11 A2995 RMK AO2 KMYL 281451Z AUTO 00000KT 10SM CLR 03/M01 A3048 RMK AO2 SLP325 T00281011 51004 KMYP 281515Z AUTO 06008KT M1/4SM FZFG OVC001 M05/M05 A3063 RMK AO2 KMYR 281456Z 12006KT 10SM BKN070 BKN095 24/19 A3000 RMK AO2 SLP157 6//// T02390194 53009 PNO $ KMYV 281453Z AUTO 33013KT 10SM CLR 23/M01 A2994 RMK AO2 SLP140 T02331006 53009 KMYZ 281515Z AUTO 33015G19KT 10SM CLR 15/05 A3012 RMK AO2 KMZH 281515Z AUTO 30004KT 10SM BKN019 BKN032 OVC060 10/06 A2981 RMK AO2 KMZZ 281515Z AUTO 31012KT 10SM BKN005 OVC012 13/13 A2976 RMK AO2 T01290126 KN03 281515Z AUTO 21010G15KT 10SM SCT029 24/13 A2985 RMK AO2 KN38 281515Z AUTO 19011G17KT 10SM FEW023 BKN055 21/15 A2987 RMK AO2 KN60 281452Z AUTO 33016G25KT 09/05 A3017 RMK AO1 PK WND 32026/1420 SLP226 T00890050 51010 KNAK 281454Z AUTO 15004KT 10SM SCT018 23/21 A2992 RMK AO2 SLP133 6//// T02330211 51007 PNO KNBC 281456Z 36005KT 2 1/2SM RA BR BKN018 BKN037 OVC060 23/22 A2993 RMK AO2 SFC VIS 10 SLP136 P0019 60023 T02280222 50003 KNBG 281455Z 24006KT 10SM FEW018 29/27 A2988 RMK AO2 SLP117 T02940267 50006 $ KNBT 281456Z AUTO 07007KT 10SM SCT024 25/19 A3000 RMK AO2 SLP162 T02500189 51014 KNCA 281456Z 10005KT 10SM FEW040 SCT150 25/19 A2998 RMK AO2 SLP155 T02500189 50008 KNDZ 281456Z VRB03KT 10SM SCT008 BKN013 27/24 A2989 RMK AO2 SLP106 T02720239 58003 $ KNEL 281500Z 20010KT 10SM SCT027 BKN037 OVC047 25/18 A2993 RMK AO2 SLPNO T02500178 53005 $ KNEW 281453Z AUTO A2988 RMK AO2 SLP113 6//// 50003 PWINO PNO $ KNFE 281456Z AUTO 00000KT 10SM CLR 24/18 A2997 RMK AO2 SLP152 T02440183 51007 KNFG 281455Z AUTO 00000KT 5SM HZ CLR 16/12 A2991 RMK AO2 SLP128 T01610122 51013 KNFL 281456Z 16003KT 10SM CLR 08/M02 A3039 RMK AO2 SLP246 T00781022 53010 KNFW 281452Z 34014KT 10SM OVC110 19/08 A3016 RMK AO2 SLP196 T01940083 51025 $ KNGP 281445Z 36021G26KT 10SM FEW008 SCT018 BKN055 26/23 A2992 RMK AO2 PK WND 36026/1445 T02560233 $ KNGU 281459Z VRB03KT 10SM FEW140 26/19 A2998 RMK AO2 SLP152 T02560189 51007 $ KNHK 281452Z VRB04KT 10SM CLR 25/19 A2993 RMK AO2 CIG 100 RY24 SLP135 T02500189 51009 $ KNID 281456Z COR 31010KT 10SM FEW100 27/00 A3008 RMK AO2A FU FEW100 SLPNO 52019 T02710002 KNIP 281453Z 21009KT 10SM FEW015 BKN050 BKN100 BKN250 27/24 A2994 RMK AO2 SLP135 T02720244 50008 KNJK 281456Z 27003KT 10SM CLR 24/13 A2987 RMK SLP130 T02390128 51018 KNJM 281516Z AUTO 16004KT 10SM BKN027 26/19 A2999 RMK AO2 T02610189 $ KNJW 281522Z AUTO VRB04KT 10SM OVC010 24/21 A2983 RMK AO2 CIG 007V014 T02440211 TSNO $ KNKT 281454Z 00000KT 10SM CLR 25/18 A3000 RMK AO2 SLP156 6//// T02500183 51012 PNO $ KNKX 281455Z 36004KT 9SM CLR 20/17 A2990 RMK AO2 SLP119 T02000172 51007 $ KNLC 281456Z 00000KT 5SM FU FEW000 OVC200 18/08 A2995 RMK AO2 SLP139 FU FEW000 OVC200 RH/55 T01830078 52015 KNMM 281456Z 22008G16KT 170V250 10SM BKN015 BKN300 25/21 A2987 RMK AO2 SLP122 T02500211 58002 KNOG 281456Z AUTO 03019G30KT 10SM OVC020 A2997 RMK AO2 PK WND 03030/1450 SLPNO 6//// 51023 TSNO PNO KNOW 281515Z AUTO 00000KT 10SM CLR 10/10 A3039 RMK AO2 T01030099 KNOZ 281459Z AUTO 31003KT 10SM CLR 28/04 A2988 RMK AO2 SLP066 T02780039 53016 PWINO KNPA 281456Z 27006KT 10SM SCT020 SCT100 SCT250 29/24 A2987 RMK AO2 SLP117 6//// T02940239 58004 PNO $ KNQA 281510Z 36010KT 3SM BR FEW011 BKN018 OVC080 15/14 A2990 KNQI 281456Z 36016G25KT 9SM -RA SCT011 BKN017 OVC025 24/22 A2993 RMK AO2 RAB51 SLP131 P0001 60001 T02390217 51034 $ KNQX 281453Z 18005KT 10SM SCT022 SCT060 32/25 A2994 RMK AO2 SLP136 T03170250 51012 $ KNRB 281452Z 23009KT 10SM SCT045 BKN090 BKN200 28/23 A2993 RMK AO2 SLP135 T02830228 50007 $ KNRN 281515Z AUTO 33016G23KT 10SM CLR 13/00 A3031 RMK AO2 KNRS 281456Z 03005KT 8SM FEW010 19/16 A2990 RMK AO2 SLP126 T01890161 50010 $ KNSE 281456Z VRB03KT 10SM BKN009 BKN014 24/24 A2989 RMK SLP106 T02390239 58004 KNSI 281453Z 11003KT 7SM OVC007 18/16 A2992 RMK AO2 SLP125 T01780161 53011 $ KNTD 281452Z 12003KT 1 1/2SM BR OVC004 18/16 A2992 RMK AO2 SLP131 T01830161 53013 $ KNTU 281456Z 24006KT 10SM FEW030 SCT250 26/19 A2997 RMK AO2 SLP150 T02610189 51007 KNUC 281456Z AUTO 11003KT 19/ A2993 RMK AO2 SLP130 T0194 53013 $ KNUI 281453Z AUTO 15005KT 10SM CLR 26/20 A2993 RMK AO2 SLP134 T02610200 50007 KNUQ 281355Z AUTO 00000KT 10SM CLR 19/10 A2990 RMK AO2 KNUW 281456Z 27003KT 8SM BCFG FEW008 SCT250 11/09 A3043 RMK AO2 SLP302 T01060089 56006 KNXP 281456Z 16003KT 6SM HZ FEW180 22/01 A3010 RMK AO2 SLP159 T02220011 52022 KNY0 281516Z AUTO 23005KT 10SM BKN006 OVC055 20/19 A2988 RMK AO2 KNYC 281521Z AUTO 00000KT 10SM FEW022 FEW029 BKN050 23/19 A2996 RMK AO2 T02330189 $ KNYG 281510Z 16009KT 9SM BKN120 22/19 A2992 RMK AO2 T02170189 $ KNYL 281457Z 02003KT 7SM CLR 26/13 A2986 RMK AO2 SLP110 T02560133 53018 KNZY 281452Z 33004KT 10SM CLR 20/16 A2989 RMK AO2 SLP121 T02000161 53009 KO32 281505Z AUTO 00000KT 10SM CLR 19/15 A2997 RMK AO2 KO69 281515Z AUTO 00000KT 10SM CLR 18/09 A2992 RMK A01 KOAJ 281456Z 26003KT 10SM CLR 25/19 A2999 RMK AO2 SLP158 6//// T02500194 50008 PNO $ KOAK 281453Z 00000KT 10SM FEW080 FEW200 23/14 A2991 RMK AO2 SLP129 FU FEW080 T02280144 53010 KOBE 281515Z AUTO 00000KT 10SM SCT020 SCT027 29/24 A2994 RMK AO2 KOCF 281451Z 19009KT 10SM FEW100 28/25 A2995 RMK AO2 SLP141 T02780250 50009 $ KOCH 281456Z AUTO 36009KT 10SM OVC015 18/16 A3000 RMK AO2 SLP161 60000 T01780156 52010 KOCQ 281455Z AUTO 28005KT 10SM BKN010 BKN041 BKN050 13/11 A2968 RMK AO1 T01250109 KOCW 281455Z AUTO 16003KT 10SM SCT023 26/19 A2999 RMK AO2 T02560187 KODO 281453Z AUTO 04011G20KT 10SM FEW065 OVC080 17/M01 A3033 RMK AO2 SLP232 T01671011 51024 KODX 281453Z AUTO 33019G26KT 10SM CLR 13/01 A3017 RMK AO2 PK WND 33026/1434 SLP222 T01330006 51012 KOEB 281515Z AUTO 30004KT 5SM RA BKN005 OVC009 12/11 A2974 RMK AO2 T01210113 KOEL 281515Z AUTO 35015KT 10SM CLR 13/M01 A3034 RMK AO1 T01341012 KOEO 281515Z AUTO 31008KT 10SM SCT020 BKN027 OVC100 12/08 A2987 RMK AO2 T01200078 KOFF 281456Z AUTO 32013KT 10SM CLR 14/05 A3005 RMK AO2 SLP182 T01400054 52014 $ KOFK 281456Z AUTO 31016G25KT 10SM CLR 14/03 A3010 RMK AO2 SLP193 T01390028 51011 KOFP 281454Z AUTO 23007KT 10SM BKN100 24/19 A2995 RMK AO2 SLP140 T02390189 50001 KOGA 281515Z AUTO 33017G22KT 10SM CLR 12/M01 A3034 RMK AO2 T01151015 KOGB 281512Z AUTO 10004KT 10SM BKN004 BKN048 21/21 A2996 RMK AO2 T02110211 KOGD 281453Z 27004KT 10SM CLR 11/M03 A3044 RMK AO2 SLP283 T01061028 51012 $ KOGS 281515Z AUTO 17005KT 10SM FEW046 BKN070 BKN080 22/19 A2977 RMK AO2 KOIN 281515Z AUTO 33016G25KT 10SM CLR 14/00 A3035 RMK AO1 T01361002 KOJA 281515Z AUTO 35018G24KT 10SM CLR 17/02 A3025 RMK AO2 T01660019 KOJC 281453Z 32009G16KT 10SM CLR 14/09 A3005 RMK AO2 SLP174 T01390094 51015 KOKB 281452Z AUTO 03003KT 6SM BR CLR 16/15 A2990 RMK AO2 SLP125 T01610150 51011 KOKC 281452Z 36012KT 10SM CLR 16/04 A3020 RMK AO2 SLP219 T01610044 51027 KOKK 281456Z AUTO 30011KT 2SM -RA BR OVC006 12/12 A2978 RMK AO2 SLP084 P0005 60008 T01220122 51007 KOKM 281515Z AUTO 33013G19KT 10SM CLR 18/08 A3014 RMK AO2 T01830077 KOKV 281455Z AUTO 19005KT 10SM CLR 22/18 A2988 RMK AO2 KOKZ 281515Z AUTO 12003KT 10SM OVC008 23/21 A2994 RMK AO2 LTG DSNT W T02290215 KOLE 281515Z AUTO 18009G15KT 10SM SCT025 BKN029 20/14 A2984 RMK AO2 KOLF 281453Z AUTO 23004KT 10SM CLR 05/00 A3029 RMK AO2 SLP269 T00500000 50000 KOLG 281515Z AUTO 31009G16KT 10SM SCT023 BKN035 OVC045 09/05 A2980 RMK AO1 KOLM 281454Z 00000KT 10SM SCT001 08/07 A3036 RMK AO2 SLP280 T00780067 58001 KOLS 281454Z AUTO 00000KT 10SM CLR 20/03 A3010 RMK AO2 SLP133 T02000033 51012 KOLU 281456Z AUTO 31015G23KT 10SM CLR 14/03 A3012 RMK AO2 SLP201 T01440033 51013 KOLV 281450Z 36010KT 10SM -RA SCT005 BKN012 BKN040 15/15 A2989 KOLY 281515Z AUTO 30010KT 10SM BKN009 BKN013 OVC034 14/13 A2986 RMK AO2 LTG DSNT SW T01360130 KOLZ 281515Z AUTO 31013G18KT 10SM BKN017 BKN025 OVC030 13/08 A2985 RMK A01 KOMA 281452Z 32015G26KT 10SM SCT070 BKN250 14/06 A3004 RMK AO2 PK WND 33026/1446 SLP171 T01390056 51012 KOMH 281515Z AUTO 18005KT 10SM SCT010 OVC090 20/18 A2991 RMK AO2 KOMK 281453Z AUTO 00000KT 10SM CLR 08/04 A3046 RMK AO2 SLP317 T00830044 53007 KOMN 281450Z 20006KT 7SM SCT010 BKN085 28/25 A2995 KONA 281515Z AUTO 32013KT 10SM SCT024 BKN034 OVC065 12/09 A2982 RMK AO2 KONL 281515Z AUTO 31017G22KT 10SM CLR 13/01 A3017 RMK AO2 T01320010 KONM 281515Z AUTO 04011G17KT 10SM CLR 13/M03 A3043 RMK AO2 T01321035 KONO 281453Z AUTO 00000KT 10SM CLR 09/02 A3047 RMK AO2 SLP320 T00890017 53012 KONP 281515Z AUTO 08017G23KT 10SM CLR 17/06 A3017 RMK AO2 KONT 281453Z 00000KT 9SM CLR 21/17 A2992 RMK AO2 SLP120 T02060167 53009 KONX 281455Z AUTO 00000KT 10SM CLR 24/20 A2998 RMK AO2 T02410201 KONZ 281515Z AUTO 00000KT 10SM OVC012 17/15 A2969 RMK AO2 T01740150 KOOA 281515Z AUTO 33012KT 10SM BKN016 BKN090 15/11 A2991 RMK AO2 T01540108 KOPF 281453Z 18009KT 10SM CLR 29/24 A2994 RMK AO2 SLP140 T02940239 51009 KOPL 281515Z AUTO 00000KT 10SM -VCTSRA BKN060 OVC075 21/20 A2990 RMK AO2 LTG DSNT SW THRU N T02110195 KOPN 281515Z AUTO 25004KT 10SM OVC013 23/20 A2996 RMK AO2 LTG DSNT W KOQN 281515Z AUTO 20005KT 10SM BKN009 OVC016 22/19 A2993 RMK AO2 KOQT 281518Z AUTO VRB06KT 10SM SCT022 BKN034 24/18 A2989 KORB 281513Z AUTO 32005KT 3SM DZ 08/06 A2980 RMK AO2 KORD 281451Z 24008KT 10SM OVC010 12/09 A2977 RMK AO2 SLP082 60000 T01220094 53005 KORE 281452Z AUTO 18009KT 10SM SCT028 BKN037 22/18 A2996 RMK AO2 SLP143 T02220178 50004 KORF 281451Z 20005KT 10SM CLR 26/19 A2997 RMK AO2 SLP147 T02560189 51007 KORG 281515Z AUTO 23009KT 10SM VCTS SCT014 BKN032 OVC050 28/25 A2988 RMK AO2 LTG DSNT N AND NE T02800251 KORH 281454Z 18011KT 10SM OVC014 21/18 A2999 RMK AO2 SLP150 T02110178 50002 KORK 281515Z AUTO 33014G19KT 10SM CLR 16/11 A2999 RMK AO2 KORL 281453Z 19003KT 10SM CLR 28/26 A2995 RMK AO2 SLP144 60000 T02780256 50012 KORS 281515Z AUTO 34005KT 10SM CLR 12/11 A3039 RMK AO2 KOSA 281515Z AUTO 36012G21KT 10SM CLR 20/10 A3009 RMK AO1 T02000099 KOSC 281515Z AUTO 32006KT 10SM BKN007 OVC024 13/12 A2968 RMK AO2 T01260124 KOSH 281502Z 31006KT 10SM OVC011 13/11 A2970 RMK AO2 T01330106 KOSU 281453Z 20012G19KT 10SM SCT022 BKN085 23/17 A2975 RMK AO2 SLP069 T02280172 58005 KOTG 281524Z AUTO 31014KT 10SM BKN016 BKN043 OVC055 11/08 A3000 RMK AO2 KOTH 281456Z 01005KT 10SM CLR 13/12 A3010 RMK AO2 SLP192 T01330117 56008 KOTM 281520Z AUTO 31012KT 10SM BKN018 14/11 A2991 RMK AO2 T01390106 KOUN 281445Z 34015KT 10SM CLR 17/06 A3018 KOVE 281453Z AUTO 29007KT 6SM HZ CLR 21/04 A2997 RMK AO2 SLP148 T02060039 53011 KOVL 281455Z AUTO 31009G18KT 10SM OVC050 11/07 A2994 RMK AO2 KOVS 281453Z AUTO 28009KT 10SM BKN022 14/09 A2978 RMK AO2 SLP087 T01390094 51006 KOWA 281513Z AUTO 32011G21KT 10SM BKN022 12/08 A2988 RMK AO2 KOWB 281456Z 31009KT 6SM -RA BR BKN007 OVC012 14/14 A2981 RMK AO2 CIG 006V009 SLP095 P0010 60036 T01390139 51017 KOWD 281453Z 17008KT 10SM CLR 26/18 A2997 RMK AO2 SLP146 T02610183 50000 KOWI 281510Z AUTO 31010KT 10SM CLR 15/09 A3008 RMK AO2 PWINO KOWP 281515Z AUTO 34006G14KT 10SM CLR 18/09 A3016 RMK AO2 T01840092 PWINO KOWX 281515Z AUTO 22003KT 10SM OVC013 18/13 A2972 RMK AO1 KOXB 281453Z AUTO 19006KT 10SM CLR 23/19 A2997 RMK AO2 SLP147 60000 T02330194 50011 KOXC 281505Z 18009KT 10SM BKN009 21/19 A2997 RMK AO2 KOXD 281515Z AUTO 21006KT 10SM -RA BKN011 BKN023 OVC100 19/19 A2975 RMK AO2 T01870187 KOXI 281515Z AUTO 28004KT 3SM OVC028 11/10 A2979 RMK AO1 KOXR 281451Z 34003KT 4SM BR OVC005 18/17 A2991 RMK AO2 SLP128 T01780172 53013 KOXV 281515Z AUTO 31012G18KT OVC017 12/09 A2992 RMK AO2 KOYM 281515Z AUTO 17003KT 10SM BKN015 OVC090 19/17 A2988 RMK AO2 KOZA 281515Z AUTO 03015G24KT 10SM SCT085 17/02 A3028 RMK AO2 KOZR 281456Z AUTO 21005KT 10SM OVC014 26/22 A2992 RMK AO2 SLP132 T02580221 50003 KOZS 281515Z AUTO 29009KT 10SM BKN017 BKN021 14/09 A3002 RMK AO2 KOZW 281515Z AUTO 00000KT 5SM -RA SCT006 BKN010 OVC017 13/12 A2971 RMK AO2 T01270123 KP28 281456Z AUTO 34011G21KT 15/02 A3023 RMK AO1 SLP232 T01500017 51019 KP53 281456Z AUTO 00000KT 13/11 A2965 RMK AO1 SLP043 T01330106 55003 KP58 281451Z AUTO VRB03KT 16/12 A2967 RMK AO1 SLP042 T01560122 56006 KP59 281451Z AUTO 35011KT 12/09 A2968 RMK AO1 SLP048 P0001 60002 T01220094 50002 KP60 281456Z AUTO 00000KT M01/M04 A3054 RMK AO1 SLP358 T10111044 53002 KP68 281453Z AUTO 36003KT 07/M04 A3045 RMK AO1 SLP279 T00721039 53009 KP69 281452Z AUTO 22003KT 06/05 A3057 RMK AO1 SLP359 T00610050 53000 KP92 281459Z AUTO VRB03KT 28/26 A2987 RMK AO1 SLP115 T02830261 51009 KPAE 281453Z 35004KT 8SM OVC003 11/10 A3038 RMK AO2 SLP288 T01060100 56004 KPAH 281526Z 31007G17KT 10SM -RA FEW010 BKN018 OVC032 14/13 A2987 RMK AO2 P0001 T01440133 KPAM 281513Z 25005KT 10SM SCT013 27/26 A2989 RMK AO2A SLP125 $ KPAN 281515Z AUTO 03008KT 10SM CLR 21/M07 A3024 RMK AO2 KPBF 281453Z AUTO 34013G20KT 10SM SCT018 BKN024 BKN028 16/12 A2999 RMK AO2 SLP152 60003 T01610122 53019 KPBG 281453Z AUTO 14011KT 10SM FEW038 OVC100 22/19 A2982 RMK AO2 SLP096 T02220189 58004 KPBH 281535Z AUTO 33008KT 10SM OVC016 10/07 A2975 RMK AO2 T00950074 KPBI 281453Z 13009KT 10SM SCT028 SCT040 SCT250 31/24 A2994 RMK AO2 SLP138 T03060239 50010 KPBX 281515Z AUTO 16005KT 10SM SCT080 21/19 A2989 RMK AO2 T02110188 KPCD 281515Z AUTO 29010G15KT 10SM SCT012 BKN018 BKN026 15/11 A2990 RMK AO2 LTG DSNT S T01460114 KPCM 281455Z AUTO 16004KT 10SM SCT032 SCT048 28/27 A2996 RMK AO2 KPCW 281515Z AUTO 22010KT 10SM CLR 22/16 A2969 RMK AO2 KPCZ 281515Z AUTO 31009KT 10SM BKN019 BKN024 OVC030 14/11 A2971 RMK AO2 T01410109 KPDC 281515Z AUTO 30009KT 10SM SCT019 BKN026 OVC070 13/08 A2981 RMK AO2 T01310081 KPDK 281453Z 22007KT 10SM BKN001 OVC030 23/21 A2995 RMK AO2 SLP127 T02280206 51006 KPDT 281453Z 14004KT 10SM CLR 09/05 A3041 RMK AO2 SLP295 T00890050 58003 KPDX 281453Z 31007KT 10SM CLR 13/09 A3029 RMK AO2 SLP255 T01280094 55004 KPEA 281515Z AUTO 31011G17KT 10SM OVC016 12/09 A2993 RMK AO2 T01240091 KPEO 281453Z AUTO 21008KT 10SM CLR 24/16 A2982 RMK AO2 SLP090 T02390161 58001 KPEQ 281515Z AUTO 02010G18KT 10SM OVC075 18/00 A3035 RMK AO2 T01800000 KPEX 281515Z AUTO 31007G15KT 10SM OVC095 10/08 A2992 RMK AO2 KPEZ 281515Z AUTO 03009G21KT 10SM OVC050 23/07 A3005 RMK AO2 T02250073 KPGA 281453Z AUTO 00000KT 10SM CLR 19/M04 A3030 RMK AO2 SLP203 T01941039 52023 TSNO KPGD 281453Z VRB05KT 10SM FEW023 FEW065 31/24 A2995 RMK AO2 SLP140 T03060244 KPGV 281515Z AUTO 00000KT 10SM SCT022 26/20 A3000 RMK AO2 KPHD 281453Z AUTO 21008G15KT 10SM CLR 23/17 A2980 RMK AO2 SLP085 T02330172 58002 KPHF 281454Z AUTO 25007KT 10SM CLR 25/18 A2996 RMK AO2 RAB07E16 SLP146 P0000 60000 T02500183 51006 KPHL 281454Z 19006KT 10SM BKN014 BKN130 22/19 A2993 RMK AO2 SLP136 T02220194 53010 KPHN 281515Z AUTO 00000KT 10SM OVC010 17/15 A2969 RMK AO2 KPHP 281455Z AUTO 32018G26KT 10SM CLR 12/01 A3026 RMK AO2 PK WND 32027/1442 SLP245 T01170011 51012 KPHT 281515Z AUTO VRB04KT 10SM FEW011 BKN034 OVC043 14/13 A2986 RMK A01 KPHX 281526Z 13008KT 10SM FEW009 FEW250 28/02 A2992 RMK AO2 FU FEW009 W-N T02780022 KPIA 281454Z 29006KT 10SM OVC008 12/09 A2985 RMK AO2 CIG 007V012 SLP108 T01220094 53008 KPIB 281456Z AUTO VRB04KT 10SM OVC010 26/24 A2989 RMK AO2 SLP119 T02560239 56006 KPIE 281453Z 19007KT 10SM -RA BKN008 BKN050 OVC100 28/26 A2993 RMK AO2 RAB1356 SLP135 P0000 60000 T02780261 50007 KPIH 281453Z 00000KT 10SM CLR 03/M01 A3050 RMK AO2 SLP330 T00331006 53009 KPIL 281453Z AUTO A2986 RMK AO2 SLP113 53034 PWINO $ KPIM 281515Z AUTO 00000KT 10SM BKN009 OVC014 23/20 A2996 RMK AO2 LTG DSNT NW T02300204 KPIR 281453Z AUTO 31018KT 10SM CLR 12/03 A3017 RMK AO2 PK WND 31026/1436 SLP219 T01170028 51014 KPIT 281451Z 21012G16KT 10SM FEW020 SCT100 22/16 A2982 RMK AO2 SLP100 T02170161 50004 KPKB 281453Z 18010KT 10SM SCT023 SCT028 BKN038 24/17 A2984 RMK AO2 SLP097 T02390172 50003 KPKD 281453Z AUTO 33014KT 10SM BKN017 BKN024 OVC090 08/04 A2989 RMK AO2 SLP130 60000 T00830044 53006 KPKV 281515Z AUTO 36021G24KT 10SM BKN013 OVC025 21/17 RMK AO2 T02130165 KPLD 281515Z AUTO 29003KT 7SM OVC010 16/12 A2972 RMK AO2 KPLN 281508Z AUTO 20004KT 10SM SCT008 OVC095 14/13 A2968 RMK AO2 T01440128 KPLR 281515Z AUTO 20007G13KT 10SM BKN020 BKN025 BKN030 25/23 A2991 RMK A01 KPLU 281515Z AUTO 00000KT 5SM BR CLR 09/09 A3036 RMK AO2 KPMD 281453Z 28003KT 10SM CLR 20/03 A3009 RMK AO2 SLP164 T02000028 53020 KPMH 281459Z AUTO 19004KT 10SM CLR 24/18 A2981 RMK AO2 KPMP 281453Z 16010KT 10SM SCT020 SCT049 31/25 A2993 RMK AO2 SLP137 T03060250 51010 KPMU 281515Z AUTO 36007KT 340V060 10SM BKN014 BKN038 OVC044 16/14 A2989 RMK AO2 KPMV 281515Z AUTO 32013G20KT 10SM CLR 15/06 A3006 RMK AO2 T01460056 KPNA 281510Z AUTO 30003KT 10SM CLR 01/M06 A3054 RMK AO2 KPNC 281453Z AUTO 33010KT 10SM CLR 15/05 A3019 RMK AO2 SLP217 T01500050 51025 KPNE 281505Z 20005KT 10SM OVC015 23/19 A2995 RMK AO2 T02280194 KPNM 281515Z AUTO 29009KT 10SM SCT024 BKN030 BKN070 11/07 A2987 RMK AO2 KPNS 281453Z 27009KT 10SM BKN018 29/24 A2988 RMK AO2 SLP118 T02940239 58006 KPNT 281515Z AUTO 26008KT 10SM OVC011 12/11 A2983 RMK AO2 T01160108 KPO1 281530Z AUTO 24005KT 8SM 07/01 A3029 KPOB 281456Z AUTO 00000KT 10SM SCT100 23/20 A2997 RMK AO2 SLP150 T02320201 50002 $ KPOC 281447Z 00000KT 10SM CLR 18/16 A2993 KPOE 281458Z AUTO 30003KT 10SM VCTS OVC006 21/21 A2993 RMK AO2 RAE18 OVC V BKN SLP135 P0000 60134 T02120210 53023 KPOF 281453Z AUTO 32013G18KT 10SM BKN120 16/12 A2992 RMK AO2 SLP130 60003 T01560122 53009 KPOU 281453Z 19005KT 10SM FEW022 SCT028 BKN050 23/18 A2990 RMK AO2 SLP121 T02330183 51005 KPOV 281515Z AUTO 21006KT 10SM CLR 22/16 A2978 RMK AO2 T02170157 PWINO KPOY 281515Z AUTO 14007KT 10SM CLR 09/M07 A3041 RMK AO2 KPPA 281515Z AUTO 34013G16KT 10SM CLR 15/M01 A3037 RMK AO2 T01521011 KPPF 281452Z AUTO A3012 RMK AO2 SLPNO 51017 PWINO FZRANO $ KPPO 281515Z AUTO 28005KT 5SM -RA OVC042 11/11 A2979 RMK AO2 T01130107 KPPQ 281515Z AUTO 29008KT 10SM OVC011 13/12 A2991 RMK AO2 T01310117 KPQI 281456Z AUTO 19017G24KT 10SM BKN023 OVC075 23/18 A2997 RMK AO2 SLP171 T02330183 58001 KPQL 281453Z VRB05KT 10SM SCT019 30/24 A2988 RMK AO2 SLP121 T03000244 50002 KPQN 281455Z 33010G15KT 10SM 11/08 A3000 RMK AO2 KPRB 281453Z AUTO 00000KT 10SM CLR 16/09 A2995 RMK AO2 SLP135 T01560089 53013 KPRC 281453Z 00000KT 10SM CLR 16/M01 A3022 RMK AO2 SLP161 T01611006 53016 KPRG 281515Z 10SM SCT007 BKN011 OVC048 14/13 A2984 RMK AO2 P0001 T01350125 KPRN 281522Z AUTO 25005KT 10SM BKN016 BKN020 26/20 A2991 RMK AO2 T02560200 KPRO 281515Z AUTO 32014G20KT 10SM SCT022 OVC060 14/08 A2996 RMK AO2 T01420076 KPRS 281515Z AUTO 36013G21KT 10SM SCT060 20/04 A3028 RMK AO2 T01970036 KPRX 281456Z AUTO 33013KT 10SM CLR 16/12 A3011 RMK AO2 SLP208 6//// T01610117 51032 PNO $ KPSC 281453Z 34004KT 10SM CLR 07/05 A3045 RMK AO2 SLP311 T00670050 53003 KPSF 281454Z AUTO 18007KT 10SM OVC018 21/17 A2993 RMK AO2 SLP110 60002 T02060172 51009 KPSK 281515Z AUTO 23006KT 10SM SCT011 BKN033 OVC080 23/20 A2998 RMK AO2 T02260196 KPSM 281456Z 14008KT 7SM FEW005 SCT008 BKN250 23/23 A2995 RMK AO2A SLP144 T02260226 58001 KPSN 281515Z AUTO 34011G15KT 10SM CLR 18/13 A3007 RMK AO2 T01890139 KPSO 281515Z AUTO 19003KT 10SM CLR 11/M03 A3040 RMK AO2 T01061035 KPSP 281453Z 00000KT 10SM CLR 28/09 A2991 RMK AO2 SLP123 T02830094 53018 KPSX 281452Z AUTO 35020G29KT 10SM OVC011 21/18 A2994 RMK AO2 PK WND 36029/1449 SLP139 T02060183 51031 KPTB 281515Z AUTO 22006KT 10SM CLR 25/19 A2995 RMK AO2 T02470187 KPTD 281515Z AUTO 17007KT 10SM FEW040 SCT049 BKN055 21/18 A2982 RMK AO2 KPTK 281453Z 02005KT 10SM BKN009 OVC015 14/12 A2968 RMK AO2 SLP047 T01440117 58001 $ KPTN 281510Z AUTO 29007KT 10SM SCT016 BKN042 BKN055 28/26 A2990 RMK AO2 $ KPTS 281515Z AUTO 34007KT 280V020 10SM CLR 15/10 A3008 RMK AO2 T01540102 KPTT 281515Z AUTO 34017KT 10SM CLR 15/M01 A3025 RMK AO2 T01521007 KPTV 281456Z AUTO 09003KT 6SM HZ CLR 19/13 A2996 RMK AO2 SLP144 T01890128 51014 KPTW 281454Z AUTO VRB03KT 9SM SCT015 OVC021 21/19 A2994 RMK AO2 SLP135 T02060189 51012 KPUB 281453Z 34013KT 10SM CLR 12/M05 A3046 RMK AO2 SLP294 T01171050 52013 KPUC 281453Z AUTO 03014KT 10SM CLR 11/M07 A3045 RMK AO2 SLP288 T01061072 53015 KPUJ 281515Z AUTO 00000KT 7SM BKN015 BKN023 BKN029 23/19 A2993 RMK AO2 KPUW 281453Z AUTO 09011KT 10SM CLR 09/04 A3048 RMK AO2 SLP329 T00940044 55001 TSNO KPVB 281515Z AUTO 29009G15KT 10SM BKN016 OVC023 13/12 A2980 RMK AO1 T01310116 KPVC 281456Z AUTO 17008KT 10SM OVC003 22/21 A3001 RMK AO2 CIG 002V006 SLP161 T02170206 50001 KPVD 281451Z 16007KT 10SM FEW007 FEW012 FEW045 BKN300 23/19 A2999 RMK AO2 SLP155 T02280194 50004 KPVE 281515Z AUTO VRB06G11KT 4SM BR SCT008 SCT013 OVC026 16/15 A2984 RMK A01 KPVG 281256Z AUTO 24004KT 10SM CLR 21/19 A2996 RMK AO2 SLP148 T02060194 PNO $ KPVJ 281515Z AUTO 36011KT 10SM CLR 18/08 A3018 RMK AO2 T01780079 KPVU 281456Z 10SM CLR 10/M02 A3045 RMK AO2 SLP293 T01001022 51017 $ KPVW 281515Z AUTO 01011G18KT 10SM OVC100 13/M01 A3036 RMK AO2 T01321014 TSNO KPWA 281453Z 34014KT 10SM CLR 17/05 A3020 RMK AO2 SLP220 T01670050 51025 KPWC 281222Z AUTO 30005KT 10SM SCT028 BKN065 OVC095 08/06 A2989 RMK AO2 KPWD 281510Z AUTO 28006KT 10SM CLR 06/02 A3026 RMK A01 Plentywood KPWG 281456Z AUTO 35019G23KT 10SM CLR 20/08 A3013 RMK AO2 PK WND 35028/1429 SLP198 T02000083 53029 $ KPWK 281500Z 23007KT 10SM OVC009 12/10 A2978 RMK AO2 T01220100 KPWM 281506Z 20006KT 1SM -RA BR OVC002 20/19 A2999 RMK AO2 RAB1453 P0000 T02000189 KPWT 281456Z AUTO 05009KT 10SM CLR 12/10 A3036 RMK AO2 SLP285 T01220100 58004 KPXE 281515Z AUTO 27004KT 10SM SCT011 OVC024 25/22 A2994 RMK AO2 T02460224 KPYM 281459Z AUTO 21005KT 10SM OVC007 22/20 A2999 RMK AO2 CIG 005V012 T02220200 KPYX 281455Z AUTO 33018G23KT 10SM CLR 13/00 A3034 RMK AO2 T01281005 KPZQ 281515Z AUTO 24004KT 10SM -RA BKN040 BKN050 OVC060 13/11 A2971 RMK AO2 T01250110 KQA8 281455Z AUTO VRB05KT 9999 CLR 36/02 A3011 RMK AO2 SLP101 WND DATA ESTMD T03580024 55003 $ KQAJ 281456Z 31003KT 9999 CLR 37/02 A2968 RMK AO2A SLP059 WND DATA ESTMD T03670018 55000 KQAL 281456Z AUTO 32005KT 9999 FEW130 36/04 A2981 RMK AO2 SLP063 WND DATA ESTMD T03630044 55004 KQAY 281456Z AUTO 00000KT 9999 CLR 37/06 A2967 RMK AO2 SHSNB16E55 SLP048 WND DATA ESTMD T03680056 55000 KQAZ 281456Z AUTO 11010G16KT 080V140 9999 FEW160 39/05 A2982 RMK AO2 SLP090 WND DATA ESTMD T03930046 KQB3 281455Z AUTO VRB02KT 9999 CLR 35/02 A2982 RMK AO2 SLP071 WND DATA ESTMD T03460015 56008 PWINO $ KQBG 281456Z AUTO 16009G16KT 9999 CLR 30/21 A2982 RMK AO2 SLP095 WND DATA ESTMD T02990207 53006 KQBL 281456Z AUTO 00000KT 10SM CLR 28/25 A2992 RMK AO2 LTG DSNT SE SLPNO WND DATA ESTMD T02780252 58002 KQD3 281456Z AUTO 05005KT 6000 HZ CLR 32/26 A2971 RMK AO2 SLPNO WND DATA ESTMD T03220255 KQDG 281456Z AUTO 19004KT 9999 CLR 11/09 A3000 RMK AO2 SLP161 T01050087 402040105 50004 $ KQEI 281520Z AUTO 13001KT 9999 CLR 12/11 A3000 RMK A02 TSNO KQEJ 281520Z AUTO 00000KT 9999 CLR 12/11 A2999 RMK A02 TSNO KQEK 281520Z AUTO 04001KT 9999 // CLR 16/18 / RMK A02 KQEN 281520Z AUTO 25005KT 9999 CLR 11/12 / RMK A02 TSNO KQEO 281455Z AUTO 00000KT 5SM BR CLR 13/13 A2997 RMK AO2 SLP147 WND DATA ESTMD T01300125 52002 KQEP 281520Z AUTO 01001KT 9999 CLR 15/14 A3000 RMK A02 TSNO KQEQ 281520Z AUTO 06001KT 6000 CLR 14/15 A3001 RMK A02 TSNO KQER 281520Z AUTO 04001KT 9999 CLR 12/11 A2996 RMK A02 TSNO KQES 281520Z AUTO 9999 CLR 24/15 / RMK A02 TSNO KQEV 281520Z AUTO 30001KT 9999 CLR 13/13 A2995 RMK A02 TSNO KQEW 281520Z AUTO 16003KT 9999 CLR 12/11 A2999 RMK A02 TSNO KQEX 281520Z AUTO 35002KT 9999 CLR 15/13 A2991 RMK A02 TSNO KQEY 281520Z AUTO 08002KT 9999 CLR 12/11 A2971 RMK A02 TSNO KQFB 281520Z AUTO 28001KT 9999 CLR 12/11 A3004 RMK A02 TSNO KQFL 281456Z AUTO 00000KT 5000 BR CLR 13/10 A3000 RMK AO2 SLP160 T01250103 402570110 50003 $ KQFT 281520Z AUTO 00000KT / // CLR 14/13 A2997 RMK A02 TSNO KQFU 281520Z AUTO 06001KT 9999 CLR 14/12 A3002 RMK A02 TSNO KQFV 281440Z AUTO 11002KT 9999 CLR 11/10 A3004 RMK A02 TSNO KQFW 281520Z AUTO 10001KT 9999 CLR 13/13 A3001 RMK A02 TSNO KQFX 281520Z AUTO 09001KT 9999 FEW002 13/11 A2997 RMK A02 TSNO KQGE 281456Z AUTO 18003KT 10SM CLR 27/24 A2989 RMK AO2 SLPNO T02710239 58003 $ KQGX 281356Z 34010KT 9999 CLR 36/10 A2968 RMK AO2A SLP049 WND DATA ESTMD ALSTG/SLP ESTMD $ KQHB 281456Z AUTO 06004KT 9999 SCT025 20/14 A3001 RMK AO2 SLP165 T02010140 402630178 58002 $ KQHC 281456Z AUTO VRB04KT 10SM FEW018 24/19 A2996 RMK AO2 SLPNO WND DATA ESTMD T02430192 50002 KQHF 281156Z AUTO 17004KT 10SM CLR 21/19 A2995 RMK AO2 SLPNO 60002 70007 T02070193 10211 20202 53008 KQHG 281458Z AUTO 19005KT 10SM SCT020 24/19 A2994 RMK AO2 SLPNO T02430192 53001 KQHK 281455Z AUTO VRB02KT 10SM CLR 32/02 A2989 RMK AO2 SLP073 WND DATA ESTMD T03200020 53003 $ KQHY 281456Z AUTO 18003KT 10SM CLR 27/25 A2988 RMK AO2 LTG DSNT SE SLPNO T02710245 58003 $ KQIK 281155Z 00000KT 1/4SM FG VV002 02/1 A2924 RMK AO2A SLP933 T00390028 KQIN 281055Z 33003KT 5SM BR SCT080 13/11 A3002 RMK AO2A SLP165 WND DATA ESTMD ALSTG/SLP ESTMD KQM2 281456Z AUTO 08009KT 9999 CLR 27/24 A2986 RMK AO2 SLP114 WND DATA ESTMD T02660236 KQMK 281456Z AUTO VRB06KT 9999 FEW015 27/23 A2986 RMK AO2 SLP114 WND DATA ESTMD T02700227 KQN3 281456Z AUTO 36004KT 9999 CLR 37/21 A2980 RMK AO2 SLP080 WND DATA ESTMD T03650211 KQRD 281458Z AUTO 17003KT 10SM CLR 28/24 A2988 RMK AO2 LTG DSNT SE SLPNO T02750242 58003 $ KQRH 281456Z AUTO 06006KT 9999 CLR 32/26 A2982 RMK AO2 SLP101 WND DATA ESTMD T03160261 KQSI 281455Z AUTO 00000KT 5SM HZ CLR 34/18 A2972 RMK AO2 SLP061 WND DATA ESTMD T03420184 52004 PWINO $ KQTA 281456Z AUTO VRB04KT 9999 CLR 35/03 A2983 RMK AO2 SLP082 WND DATA ESTMD T03510034 55000 KQTZ 281455Z 30007KT 9999 SKC 38/08 A2967 RMK SLP049 55002 KQWM 281456Z AUTO 30007KT 9999 CLR 38/05 A2969 RMK AO2 SLPNO WND DATA ESTMD T03780046 53002 KQX2 281455Z AUTO 01006KT 9999 CLR 33/05 A3002 RMK AO2 SLP106 T03330046 57004 PWINO $ KQXH 281456Z AUTO 32014KT 9999 CLR 35/04 A2995 RMK AO2 SLP122 WND DATA ESTMD T03520039 56005 $ KQXT 281456Z 26002KT 9000 HZ CLR 29/M08 A2983 RMK AO2A SLP047 WND DATA ESTMD T02941079 53006 KRAC 281453Z AUTO 25006KT 10SM OVC011 12/11 A2976 RMK AO2 CIG 009V013 SLP077 T01220111 53003 KRAL 281453Z 00000KT 10SM CLR 18/15 A2992 RMK AO2 SLP117 T01780150 53008 KRAP 281452Z 33017G26KT 10SM CLR 12/M03 A3030 RMK AO2 PK WND 33026/1445 SLP265 T01171033 53007 KRAS 281515Z AUTO 01018G23KT 10SM BKN014 OVC018 23/20 A2996 RMK AO2 T02290197 KRAW 281515Z AUTO 32010KT 10SM SCT018 14/10 A3004 RMK AO2 T01370097 KRBD 281453Z 34014G22KT 10SM BKN120 18/08 A3012 RMK AO2 SLP193 T01830083 51026 KRBG 281453Z AUTO 00000KT 10SM CLR 09/08 A3020 RMK AO2 SLP227 T00940078 53003 KRBL 281454Z AUTO 34009KT 10SM CLR 26/M03 A3003 RMK AO2 SLP165 T02561033 53009 KRBW 281515Z AUTO 30006KT 5SM +RA OVC005 22/21 A2998 RMK AO2 LTG DSNT SE KRCA 281456Z 33020G24KT 10SM CLR 11/M03 A3029 RMK AO2A SLP264 T01141028 52008 $ KRCE 281515Z AUTO 35014G19KT 10SM 16/05 A3022 RMK AO2 KRCM 281535Z AUTO 30009G17KT 10SM CLR 15/10 A3003 RMK AO2 KRCR 281515Z AUTO 30006KT 3SM RA BKN010 OVC013 13/12 A2978 RMK AO2 P0001 KRCV 281515Z AUTO 12005KT 10SM CLR 06/M03 A3047 RMK AO2 T00561028 KRCX 281515Z AUTO 34011KT 10SM 11/07 A2980 RMK AO2 T01100071 KRCZ 281515Z AUTO 19003KT 10SM BKN012 BKN055 23/20 A2998 RMK AO2 T02250196 KRDD 281453Z 36014G23KT 10SM FU CLR 27/M03 A3003 RMK AO2 SLP163 T02671028 53005 KRDG 281501Z 17005KT 10SM SCT014 OVC021 23/19 A2990 RMK AO2 T02280194 KRDK 281515Z AUTO 31016G24KT 10SM CLR 15/07 A3002 RMK AO2 KRDM 281456Z 00000KT 10SM CLR 04/M01 A3044 RMK AO2 SLP308 T00441011 53003 KRDR 281458Z 01019G25KT 10SM BKN023 BKN055 11/06 A3000 RMK AO2A SLP167 T01080064 52010 $ KRDU 281451Z 24006KT 10SM FEW008 FEW090 23/20 A2997 RMK AO2 SLP145 T02330200 50002 KREG 281515Z AUTO 24008KT 10SM SCT010 SCT014 29/25 A2987 RMK AO2 LTG DSNT NE T02930249 KREO 281452Z AUTO 00000KT 07/M02 A3046 RMK AO1 SLP314 T00671022 53006 KRFD 281454Z 28008KT 10SM BKN014 OVC021 13/10 A2978 RMK AO2 SLP086 T01330100 51004 KRFI 281515Z AUTO 35009G15KT 10SM BKN021 BKN120 18/13 A3006 RMK AO2 LTG DSNT E AND SE P0001 T01800130 KRGA 281515Z AUTO 20014KT 23/19 A2982 RMK AO2 KRGK 281515Z AUTO 33007KT 10SM SCT027 SCT041 BKN050 12/07 A2984 RMK AO2 KRHI 281453Z AUTO VRB04KT 10SM SCT015 OVC025 11/08 A2972 RMK AO2 SLP070 60000 T01060078 53006 KRHP 281455Z AUTO 27003KT 10SM BKN023 BKN050 23/18 A2996 RMK AO2 T02330183 KRHV 281447Z 00000KT 10SM SKC 19/11 A2992 KRIC 281454Z 23009KT 10SM FEW020 FEW110 24/18 A2994 RMK AO2 SLP143 T02440183 53005 KRIL 281453Z AUTO 00000KT 10SM CLR 05/M06 A3047 RMK AO2 SLP296 T00501061 53020 KRIV 281458Z AUTO 00000KT 8SM CLR 19/16 A2995 RMK AO2 SLP131 T01860155 52011 PWINO $ KRIW 281453Z AUTO 28006KT 10SM CLR 06/M06 A3047 RMK AO2 SLP311 T00611056 53005 KRKD 281525Z AUTO 19007KT 3/4SM BR OVC002 17/17 A3000 RMK AO2 RAB13E25 P0001 KRKP 281518Z AUTO 36017G22KT 10SM FEW015 BKN024 A2996 RMK AO2 $ KRKR 281515Z AUTO 33011G15KT 293V353 10SM CLR 17/10 A3010 RMK AO2 LTG DSNT E KRKS 281454Z AUTO 00000KT 10SM CLR 02/M07 A3051 RMK AO2 SLP328 T00221072 51010 KRKW 281515Z AUTO 22008G14KT 10SM SCT014 BKN022 BKN027 21/18 A2990 RMK A01 KRLD 281515Z AUTO 00000KT 10SM CLR 09/07 A3045 RMK AO2 T00910065 KRME 281522Z 16008KT 10SM FEW017 BKN060 23/18 A2985 RMK AO2 T02330183 KRMG 281526Z AUTO 21005KT 10SM FEW020 SCT025 SCT033 25/19 A2990 RMK AO2 T02500189 KRMN 281515Z AUTO 21003KT 10SM SCT015 OVC110 23/20 A2995 RMK AO2 T02250201 KRMY 281515Z AUTO 29004KT 5SM -RA OVC008 12/12 A2974 RMK AO2 P0001 T01200115 KRNC 281515Z AUTO 22009G18KT 190V250 10SM FEW025 SCT043 OVC080 24/18 A2985 RMK A01 KRND 281456Z AUTO 36014G23KT 10SM SCT060 OVC080 21/07 A3005 RMK AO2 PK WND 36029/34 SLP169 T02110070 52028 $ KRNH 281515Z AUTO 32012G20KT 10SM SCT024 BKN032 BKN040 12/06 A2984 RMK AO2 T01180056 KRNM 281453Z COR 00000KT 10SM CLR 16/13 A2994 RMK AO2 SLP129 T01560128 51011 KRNO 281455Z 00000KT 10SM CLR 10/M01 A3038 RMK AO2 SLP258 T01001011 53007 KRNP 281515Z AUTO 31004KT 10SM OVC009 12/11 A2973 RMK AO2 T01230110 KRNT 281453Z 00000KT 10SM SCT008 10/08 A3037 RMK AO2 SLP288 T01000083 53000 KRNV 281515Z AUTO 35011G15KT 10SM OVC013 16/16 A2992 RMK AO2 T01560156 KROA 281454Z VRB03KT 10SM FEW010 BKN100 22/18 A2995 RMK AO2 SLP131 60000 T02220183 50002 KROC 281454Z 21011KT 10SM FEW040 FEW080 23/16 A2978 RMK AO2 SLP085 T02330156 58004 $ KROG 281458Z 31010KT 10SM SCT017 14/09 A3008 RMK AO2 SLP183 6//// T01390094 51017 PNO $ KROS 281515Z AUTO 29006KT 10SM SCT017 SCT024 OVC035 10/07 A2985 RMK AO2 T00950065 KROW 281451Z A3040 RMK AO2 SLPNO 53013 $ KROX 281515Z AUTO 32013G16KT 10SM OVC011 07/ A2991 RMK AO2 TSNO PWINO KRPD 281515Z AUTO 34008KT 10SM SCT023 BKN027 OVC033 11/06 A2983 RMK AO2 T01070062 KRPH 281450Z AUTO 33006KT 10SM CLR 18/09 A3020 RMK AO2 T01760087 KRPJ 281515Z AUTO 28008KT 10SM OVC012 13/11 A2979 RMK AO2 T01250110 KRQB 281455Z AUTO 00000KT 10SM -RA OVC007 13/12 A2972 RMK AO2 60001 T01280123 KRQE 281453Z AUTO 00000KT 10SM CLR 10/M09 A3036 RMK AO2 SLP190 T01001094 51023 TSNO KRQO 281515Z AUTO 35021KT 10SM CLR 17/03 A3023 RMK AO2 T01710032 KRRL 281515Z AUTO 33008KT 10SM OVC023 11/08 A2973 RMK AO2 T01140075 TSNO KRRT 281506Z AUTO 31010KT 2 1/2SM -RA OVC009 08/06 A2990 RMK AO2 KRSL 281453Z AUTO 34019G26KT 10SM CLR 14/M01 A3022 RMK AO2 PK WND 33026/1451 SLP232 T01441006 51018 KRSN 281515Z AUTO 36014G20KT 10SM SCT014 OVC047 18/14 A2998 RMK AO2 LTG DSNT S T01760140 KRSP 281454Z AUTO 14006KT 10SM CLR 21/16 A2993 RMK AO2 SLP132 T02060161 50007 PWINO $ KRST 281454Z 33013KT 8SM -RA FEW010 BKN034 OVC040 10/08 A2985 RMK AO2 RAB26 SLP113 P0000 60000 T01000083 51009 KRSV 281515Z AUTO 32009G17KT 10SM OVC010 13/12 A2983 RMK AO2 T01300123 KRSW 281453Z VRB03KT 10SM CLR 28/24 A2993 RMK AO2 SLP133 T02830244 50007 KRTN 281453Z AUTO 34010KT 10SM OVC070 07/M03 A3047 RMK AO2 SLP288 T00671033 52014 $ KRTS 281515Z AUTO 00000KT 10SM CLR 09/M03 A3042 RMK AO2 KRUE 281453Z AUTO 30010KT 10SM CLR 17/12 A3001 RMK AO2 SLP157 T01670117 50021 KRUG 281455Z AUTO 32014G20KT 10SM OVC050 08/05 A3012 RMK AO2 KRUQ 281455Z AUTO 00000KT 10SM BKN015 OVC020 21/19 A2997 RMK AO2 T02130188 KRUT 281456Z AUTO 14011KT 10SM BKN026 OVC034 22/19 A2988 RMK AO2 RAB37E48 SLP109 P0000 60000 T02220194 50001 $ KRVJ 281515Z AUTO 00000KT 10SM BKN005 BKN014 OVC019 24/23 A2993 RMK AO2 T02450228 KRVL 281515Z AUTO 10004G10KT 9SM SCT018 SCT024 23/17 A2987 RMK AO2 KRVS 281453Z VRB05G14KT 10SM CLR 19/08 A3014 RMK AO2 SLP212 T01890083 51019 KRWF 281453Z AUTO 32015G22KT 10SM BKN048 OVC065 11/06 A2994 RMK AO2 RAB18E43 SLP142 P0000 60000 T01110061 53007 KRWI 281453Z AUTO VRB04KT 10SM SCT110 24/19 A2998 RMK AO2 SLP149 T02390194 50005 KRWL 281453Z AUTO 00000KT 10SM CLR 04/M08 A3049 RMK AO2 SLP318 T00391078 51008 KRWV 281515Z AUTO 36019G29KT 10SM OVC090 19/10 A3006 RMK AO2 T01940105 KRXE 281453Z AUTO 04003KT 10SM CLR 02/M04 A3051 RMK AO2 SLP338 T00171044 51009 KRYM 281456Z AUTO 31011KT 10SM BKN020 10/06 A2989 RMK AO2 SLP130 T01020063 50002 $ KRYN 281445Z 00000KT 10SM CLR 22/03 A3003 KRYV 281515Z AUTO 23004KT 10SM OVC010 12/12 A2973 RMK AO2 T01200120 KRYW 281515Z AUTO 36009G17KT 330V030 10SM SCT070 OVC080 18/07 A3014 RMK AO2 T01830066 KRYY 281509Z 20005KT 10SM BKN032 23/20 A2994 RMK AO2 $ KRZL 281515Z AUTO 00000KT 10SM SCT006 SCT033 OVC055 11/11 A2981 RMK AO2 P0001 PWINO KRZN 281515Z AUTO 33009KT 10SM SCT022 BKN050 OVC085 11/06 A2983 RMK AO2 T01110059 KRZR 281515Z AUTO 20011G17KT 9SM BKN019 BKN025 BKN030 24/22 A2988 RMK A01 KRZT 281515Z AUTO 20007KT 10SM SCT039 SCT065 BKN080 24/16 A2976 RMK AO2 PWINO KS21 281515Z AUTO 17003KT 10SM CLR 01/M01 A3050 RMK AO2 KS25 281515Z AUTO 29010KT 10SM CLR 08/04 A3025 RMK AO2 PWINO KS32 281515Z AUTO 33019G28KT 10SM SCT024 SCT032 BKN060 10/10 A3005 RMK AO2 KS33 281455Z AUTO 14003KT 10SM CLR 05/01 A3046 RMK AO2 KS39 281515Z AUTO 00000KT 10SM 06/02 A3046 RMK AO2 KS52 281515Z AUTO 00000KT 10SM CLR 03/03 A3048 RMK AO2 T00310028 KS59 281530Z AUTO 00000KT 10SM 04/03 A3048 KS71 281530Z AUTO 08003KT 10SM 04/01 A3028 KS85 281510Z AUTO 23007KT 10SM 07/02 A3026 RMK A01 Culbert on KSAA 281455Z AUTO 10003KT 10SM CLR 00/M08 A3051 RMK AO2 KSAC 281453Z 34008KT 10SM CLR 22/02 A2992 RMK AO2 SLP131 T02170017 51008 KSAD 281508Z AUTO 16010KT 10SM BKN024 23/04 A3013 KSAF 281453Z 14014KT 10SM BKN049 09/M03 A3044 RMK AO2 SLP241 T00891028 51021 KSAN 281451Z VRB03KT 10SM FEW010 20/16 A2991 RMK AO2 SLP128 T02000161 53009 KSAR 281520Z AUTO 30011G15KT 10SM SCT011 BKN015 OVC025 14/12 A2991 RMK AO2 LTG DSNT S KSAT 281451Z 01019G30KT 10SM BKN060 BKN085 22/06 A3006 RMK AO2 PK WND 01031/1354 SLP163 T02170061 51030 KSAV 281453Z 17003KT 10SM OVC007 25/23 A2994 RMK AO2 RAE29 SLP136 P0012 60045 T02500233 50003 KSAW 281447Z 35008KT 10SM OVC016 11/09 A2967 KSAZ 281455Z AUTO 32014G22KT 10SM BKN020 BKN025 OVC085 09/07 A2989 RMK AO2 KSBD 281449Z 00000KT 7SM SKC 19/12 A2993 KSBM 281513Z AUTO 25006KT 10SM SCT011 14/11 A2970 RMK AO2 T01390111 KSBN 281454Z 30007KT 10SM -RA BKN009 BKN017 OVC034 13/11 A2977 RMK AO2 SLP081 P0002 60007 T01280111 51004 KSBO 281515Z AUTO 16003KT 10SM OVC007 23/23 A2995 RMK AO2 LTG DSNT SE KSBP 281256Z 000000KT 1 1/2SM OVC002 14/14 A2990 BR KSBS 281515Z AUTO 00000KT 10SM CLR 01/M07 A3050 RMK AO1 T00091073 KSBY 281454Z 21004KT 10SM CLR 25/19 A2995 RMK AO2 SLP143 T02500194 50006 KSCD 281515Z AUTO 23007KT 10SM SCT018 OVC110 25/21 A2991 RMK AO2 T02500209 KSCF 281455Z AUTO 25005KT 10SM CLR 28/26 A2989 RMK A01 KSCH 281446Z 23008KT 3SM -RN SCT004 BKN008 OVC035 21/21 A2987 KSCK 281455Z AUTO 26005KT 10SM CLR 19/07 A2993 RMK AO2 SLP133 T01890072 53013 KSCR 281455Z AUTO 17007KT 10SM BKN009 23/20 A2998 RMK AO2 T02280196 KSCX 281515Z AUTO 20014KT 10SM BKN023 BKN030 BKN037 23/18 A2987 RMK A01 KSDA 281515Z AUTO 31011G17KT 10SM CLR 15/07 A3003 RMK AO2 KSDB 281453Z AUTO 07027G35KT 10SM CLR 23/M01 A3015 RMK AO2 PK WND 07035/1452 SLP147 T02331011 53009 $ KSDC 281515Z AUTO 19005KT 10SM CLR 23/16 A2979 RMK AO2 KSDF 281506Z 17013KT 10SM -RA FEW005 FEW039 OVC075 21/18 A2974 RMK AO2 P0000 T02060183 KSDL 281453Z 00000KT 10SM CLR 24/04 A2995 RMK AO2 SLP119 T02390044 53017 KSDM 281453Z 00000KT 8SM CLR 19/15 A2990 RMK AO2 SLP121 T01940150 52009 KSDY 281456Z AUTO 30011KT 10SM CLR 09/03 A3027 RMK AO2 SLP639 T00890028 51005 KSEA 281453Z 01007KT 10SM FEW004 12/11 A3036 RMK AO2 SLP288 T01220106 58001 KSEE 281347Z 00000KT 10SM SKC 15/14 A2991 KSEF 281515Z AUTO RMK AO2 PWINO TSNO KSEG 281453Z AUTO 15007KT 10SM FEW017 BKN023 BKN029 23/18 A2988 RMK AO2 SLP117 T02330178 51008 KSEM 281535Z AUTO VRB04KT 8SM OVC022 25/21 A2990 RMK AO2 KSEP 281515Z AUTO 34015G19KT 10SM OVC110 18/06 A3022 RMK AO2 T01810060 KSEQ 281458Z AUTO 01021G27KT 10SM OVC065 21/07 A3009 RMK AO2 PK WND 01028/44 SLP186 T02090071 52028 KSET 281517Z AUTO 30012KT 10SM OVC017 14/10 A2990 RMK AO2 T01390100 KSEZ 281515Z AUTO 06010G18KT 020V080 10SM CLR 23/M06 A3021 RMK AO2 KSFB 281453Z 18005KT 10SM FEW040 26/24 A2995 RMK AO2 RAB25E40 SLP140 P0000 60000 T02560244 50011 KSFF 281453Z 00000KT 10SM CLR 07/04 A3049 RMK AO2 SLP328 T00720044 53004 KSFM 281456Z AUTO 18008KT 10SM CLR 22/20 A2998 RMK AO2 SLP154 60000 T02220200 55001 KSFO 281456Z 16008KT 10SM FEW200 25/07 A2990 RMK AO2 SLP126 T02500067 53009 KSFQ 281455Z AUTO 00000KT 10SM CLR 25/19 A2998 RMK AO2 T02500193 KSFY 281515Z AUTO 29007KT 10SM BKN017 14/10 A2981 RMK AO2 KSFZ 281456Z AUTO VRB04KT 10SM OVC013 22/21 A2999 RMK AO2 SLP101 T02220206 50004 KSGF 281452Z 31011G18KT 10SM FEW016 13/09 A3003 RMK AO2 SLP167 T01330094 51012 KSGH 281456Z AUTO 18007KT 10SM FEW033 SCT060 22/18 A2973 RMK AO2 SLP065 T02170183 58011 KSGJ 281456Z 22008KT 10SM FEW060 27/24 A2995 RMK AO2 SLP141 T02720244 50007 $ KSGR 281501Z 33011KT 10SM OVC010 19/18 A2996 RMK AO2 RAE1458 P0000 T01940183 KSGS 281515Z AUTO 32014G19KT 10SM SCT050 SCT100 12/06 A2986 RMK AO2 T01240056 PWINO KSGT 281528Z AUTO 35012KT 10SM SCT021 18/13 A2999 RMK AO2 KSGU 281456Z AUTO 05015KT 10SM CLR 19/M03 A3023 RMK AO2 PK WND 04028/1422 SLP207 T01941033 53020 KSHD 281515Z AUTO 22005KT 10SM SCT110 23/18 A2994 RMK AO2 T02290180 KSHL 281515Z AUTO 32012G18KT 10SM FEW019 OVC055 11/08 A3000 RMK AO2 KSHN 281514Z AUTO 00000KT 10SM SCT002 09/08 A3034 RMK AO2 T00890083 KSHR 281453Z AUTO 10003KT 10SM CLR 09/00 A3039 RMK AO2 SLP293 T00890000 53001 KSHV 281456Z 01013G21KT 10SM BKN019 OVC027 18/13 A2999 RMK AO2 SLP152 60004 T01830133 53024 KSIF 281515Z AUTO 23004KT 10SM SCT016 SCT023 BKN036 22/19 A2995 RMK AO2 T02220190 KSIK 281535Z AUTO 33007G15KT 10SM SCT013 SCT021 16/15 A2991 RMK AO2 LTG DSNT S KSIY 281453Z AUTO 03011KT 10SM CLR 16/00 A3028 RMK AO2 SLP248 T01610000 53008 KSJC 281453Z 15003KT 10SM FEW035 BKN047 OVC060 19/10 A2992 RMK AO2 SLP129 FU FEW035 FU BKN047 FU OVC060 T01890100 53010 $ KSJN 281454Z AUTO 35005KT 10SM CLR 12/M04 A3028 RMK AO2 SLP184 T01221044 53020 KSJS 281515Z AUTO 20009G14KT 10SM SCT018 23/19 A2987 RMK AO2 T02310190 PNO KSJT 281451Z 02014G21KT 10SM FEW080 OVC100 18/04 A3025 RMK AO2 SLP226 T01780044 53024 KSJX 281515Z AUTO 17003KT 10SM SCT033 BKN046 OVC100 15/14 A2967 RMK AO2 T01480135 KSKA 281458Z AUTO 07003KT 10SM CLR 07/07 A3047 RMK AO2 SLP329 T00680068 53002 $ KSKF 281456Z AUTO 01017G28KT 10SM FEW055 22/07 A3004 RMK AO2 PK WND 04031/02 SLP166 T02190065 52029 $ KSKX 281456Z AUTO VRB06KT 10SM OVC043 06/M03 A3046 RMK AO2 SLP284 T00611033 51019 KSLB 281515Z AUTO 32014KT 10SM SCT016 11/08 A2998 RMK AO2 KSLC 281454Z 30004KT 10SM FEW009 BKN220 10/M01 A3044 RMK AO2 SLP287 FU FEW009 FU E-SE T01001006 53014 $ KSLE 281456Z 00000KT 10SM CLR 13/08 A3023 RMK AO2 SLP237 T01330078 55002 KSLG 281456Z AUTO 33012KT 10SM CLR 14/11 A3010 RMK AO2 SLP189 6//// T01440106 51018 TSNO PNO $ KSLH 281515Z AUTO 00000KT 10SM BKN008 BKN012 OVC095 14/14 A2966 RMK AO2 T01440135 KSLI 281458Z 00000KT 6SM HZ CLR 20/16 A2992 RMK SLP135 WND DATA ESTMD ALSTG/SLP ESTMD KSLK 281517Z AUTO VRB05KT 10SM FEW024 OVC032 21/17 A2985 RMK AO2 T02110167 KSLN 281453Z 32013G22KT 10SM CLR 15/03 A3018 RMK AO2 SLP218 T01500028 51016 KSLO 281515Z AUTO 31009G14KT 10SM SCT013 OVC120 15/12 A2988 RMK AO2 LTG DSNT S T01460122 KSLR 281515Z AUTO 36016G21KT 10SM SCT120 18/11 A3013 RMK AO2 T01820113 KSMD 281515Z AUTO 31007KT 5SM BR SCT007 SCT015 OVC025 14/14 A2973 RMK A01 KSME 281515Z AUTO 18007G15KT 10SM CLR 23/15 A2985 RMK AO2 KSMF 281453Z 32012G19KT 10SM CLR 22/02 A2992 RMK AO2 SLP131 T02170022 53009 KSMN 281456Z AUTO 00000KT 10SM CLR 00/M01 A3058 RMK AO2 SLP380 T00001011 53010 FZRANO $ KSMP 281456Z AUTO 00000KT 10SM CLR 08/06 A3045 RMK AO2 SLP311 T00830056 55000 KSMQ 281507Z AUTO 19005KT 10SM BKN018 BKN024 BKN050 23/19 A2991 RMK AO2 T02280194 KSMS 281455Z AUTO 00000KT 9SM BKN050 BKN060 OVC095 24/22 A2999 RMK AO2 LTG DSNT S KSMX 281518Z 00000KT 1/2SM R12/1800V2400FT FG VV002 15/14 A2992 KSNA 281500Z 00000KT 4SM HZ SCT009 21/17 A2991 RMK AO2 T02060172 KSNC 281435Z AUTO 19004G11KT 9SM OVC006 21/20 A2998 RMK AO2 KSNH 281515Z AUTO 32007G15KT 7SM OVC010 19/17 A2982 RMK A01 KSNK 281455Z AUTO 36017G24KT 10SM OVC100 16/00 A3029 RMK AO2 T01640003 KSNL 281515Z AUTO 01012G15KT 10SM CLR 17/05 A3018 RMK AO2 T01720050 KSNS 281453Z 00000KT 7SM CLR 15/12 A2992 RMK AO2 SLP140 T01500117 51013 KSNT 281451Z AUTO 09004KT M01/M04 A3058 RMK AO1 SLP337 T10061039 53010 KSNY 281453Z AUTO 32015KT 10SM CLR 09/M03 A3037 RMK AO2 SLP285 T00891028 51008 KSOA 281515Z AUTO 01018G24KT 10SM FEW065 FEW090 17/04 A3027 RMK AO2 KSOP 281456Z AUTO 20005KT 10SM CLR 26/19 A2998 RMK AO2 SLP153 T02560189 58002 KSOW 281515Z AUTO 32003KT 10SM CLR 15/M05 A3034 RMK AO2 KSPA 281515Z AUTO 00000KT 10SM OVC010 22/19 A2995 RMK AO2 KSPB 281453Z AUTO 00000KT 10SM CLR 11/09 A3028 RMK AO2 SLP253 T01060089 56006 KSPD 281456Z AUTO 35027G34KT 11/M02 A3039 RMK AO1 PK WND 35036/1418 SLP265 T01111022 53013 KSPF 281515Z AUTO 28015KT 10SM CLR 10/M03 A3033 RMK AO2 PWINO KSPG 281500Z 18006KT 10SM BKN011 27/26 A2992 RMK AO2 T02720261 KSPI 281452Z 29010KT 10SM OVC011 12/10 A2988 RMK AO2 SLP115 60000 T01170100 53004 KSPS 281452Z 36014KT 10SM FEW120 19/06 A3021 RMK AO2 SLP222 T01890061 53018 KSPW 281453Z AUTO 31013KT 10SM FEW049 OVC065 13/08 A2998 RMK AO2 RAB38E50 SLP154 P0000 60000 T01280078 53014 KSQI 281456Z AUTO 28011KT 10SM OVC011 13/12 A2981 RMK AO2 CIG 007V014 SLP962 T01330117 51009 KSQL 281447Z 17007KT 10SM SKC 25/03 A2992 KSRB 281515Z AUTO 20012KT 10SM BKN026 BKN060 OVC080 24/19 A2984 RMK A01 KSRC 281456Z AUTO 33009KT 10SM BKN100 17/12 A2998 RMK AO2 SLP151 T01670122 50023 KSRE 281515Z AUTO 01013KT 10SM CLR 18/07 A3017 RMK AO2 KSRQ 281508Z 19006KT 10SM BKN011 29/26 A2992 RMK AO2 T02890256 KSRR 281515Z AUTO 15010G14KT 110V170 10SM CLR 08/M05 A3050 RMK AO2 KSSC 281456Z 16005KT 10SM FEW010 BKN050 OVC080 23/20 A2997 RMK AO2A SLP149 T02310202 52009 $ KSSF 281453Z 02018G29KT 10SM OVC060 21/06 A3003 RMK AO2 PK WND 01029/1451 SLP159 T02110061 51030 $ KSSI 281453Z AUTO 24009KT 10SM -RA FEW012 BKN040 OVC070 26/25 A2993 RMK AO2 RAE1354B44 SLP135 P0000 60002 T02610250 50009 KSTC 281453Z 31013G20KT 10SM OVC100 10/06 A2988 RMK AO2 SLP131 T01000056 52006 KSTE 281515Z AUTO 30006KT 10SM SCT012 OVC023 11/10 A2973 RMK AO2 T01060102 KSTF 281515Z AUTO 21009KT 10SM BKN014 BKN075 23/21 A2985 RMK AO2 KSTJ 281453Z 31014G21KT 10SM CLR 14/08 A3004 RMK AO2 SLP171 T01440078 53014 KSTK 281455Z AUTO 33013KT 10SM CLR 10/M01 A3039 RMK AO2 KSTL 281506Z 30013G19KT 10SM OVC014 14/10 A2991 RMK AO2 T01390100 KSTP 281453Z 32016KT 10SM -RA FEW024 OVC055 12/06 A2987 RMK AO2 SLP113 P0000 60000 T01220061 53009 KSTS 281453Z 31004KT 9SM FU OVC041 21/04 A2990 RMK AO2 SLP119 T02060039 53009 KSUA 281447Z 18008KT 7SM SCT025 BKN050 30/23 A2995 KSUE 281456Z AUTO 19003KT 10SM BKN060 13/12 A2967 RMK AO2 SLP047 T01280117 56007 KSUN 281450Z 31011KT 10SM SKC 04/M02 A3054 KSUS 281454Z 28008KT 10SM OVC016 13/10 A2991 RMK AO2 SLP127 60000 T01330100 51011 KSUT 281455Z AUTO 13004KT 10SM SCT120 25/19 A2999 RMK AO2 T02450189 KSUU 281458Z AUTO 01013G23KT 10SM CLR 27/M02 A2990 RMK AO2 SLP131 T02681020 53005 $ KSUW 281535Z AUTO 31008KT 10SM BKN024 OVC075 11/06 A2980 RMK AO2 T01130057 KSUX 281452Z 32016G25KT 10SM OVC065 11/05 A3005 RMK AO2 PK WND 31026/1358 SLP177 T01110050 53013 KSUZ 281515Z AUTO 33011KT 300V010 10SM CLR 18/12 A3000 RMK A01 KSVC 281455Z AUTO 18006KT 10SM CLR 15/02 A3031 RMK AO2 T01500020 KSVE 281455Z AUTO 28005KT 10SM CLR 07/M03 A3037 RMK AO2 KSVH 281515Z AUTO 21007KT 10SM BKN011 OVC015 22/20 A2995 RMK AO2 T02240197 KSVN 281456Z AUTO 26003KT 10SM OVC005 25/23 A2991 RMK AO2 RAE15RAB18E29DZB29E31 TSE02 OVC V BKN SLP131 P0002 60039 T02450234 50006 $ KSWF 281445Z 20012KT 10SM SCT018 BKN040 23/20 A2992 KSWO 281453Z 32008KT 10SM CLR 17/07 A3018 RMK AO2 SLP215 T01670067 51025 KSWW 281515Z AUTO 35014G18KT 10SM BKN095 18/01 A3030 RMK AO2 T01840009 KSXK 281515Z AUTO 32015G20KT 10SM BKN065 12/09 A3002 RMK AO2 KSXS 281458Z AUTO 32004KT 10SM OVC008 24/22 A2991 RMK AO2 LTG DSNT SE SLP127 T02400219 50002 KSXT 281456Z AUTO 12010G19KT 10SM CLR 16/01 A3025 RMK AO2 SLP199 T01610006 53002 KSXU 281515Z AUTO 02008KT 10SM OVC075 12/M03 A3044 RMK AO2 T01181029 KSYF 281515Z AUTO 32014G20KT 10SM CLR 12/M03 A3038 RMK AO2 T01191029 PWINO KSYI 281515Z AUTO 19015G22KT 10SM FEW022 SCT041 BKN046 24/19 A2983 RMK A01 KSYM 281515Z AUTO 19009G15KT 160V220 10SM FEW025 SCT043 BKN095 23/18 A2983 RMK AO2 KSYN 281455Z AUTO 30013G18KT 10SM SCT020 BKN027 OVC050 12/09 A2986 RMK AO2 60003 T01210086 KSYR 281454Z 17011KT 10SM FEW036 SCT065 SCT180 26/16 A2981 RMK AO2 SLP089 T02560161 50001 KSZL 281456Z 31005KT 10SM CLR 14/09 A2997 RMK AO2A SLP151 52019 $ KSZT 281515Z AUTO 00000KT 10SM CLR 06/06 A3049 RMK AO2 KSZY 281515Z AUTO VRB04G10KT 5SM BR BKN014 OVC022 16/15 A2986 RMK A01 KT20 281515Z AUTO 36014G21KT 10SM OVC055 21/11 A3004 RMK AO2 T02140106 KT35 281515Z AUTO 36018KT 20/08 A3009 RMK AO2 T02040084 PWINO TSNO KT41 281515Z AUTO 32011KT 10SM OVC009 21/19 A2994 RMK AO2 LTG DSNT NE T02050190 KT69 281515Z AUTO 02012G23KT 10SM OVC024 22/18 A2997 RMK A01 KT74 281515Z AUTO 35023G27KT 10SM BKN085 20/09 A3010 RMK AO2 T02050089 KT82 281510Z AUTO 01013G20KT 10SM OVC075 18/03 A3016 RMK AO2 T01760032 KTAD 281454Z AUTO 33008KT 10SM OVC080 08/M01 A3048 RMK AO2 SLP298 T00781011 53015 $ KTAN 281452Z AUTO 16007KT 10SM FEW027 BKN033 24/18 A2998 RMK AO2 SLP150 T02440183 50000 KTAZ 281515Z AUTO 27009KT 10SM OVC011 13/10 A2987 RMK AO2 T01250102 KTBN 281511Z AUTO 28005KT 10SM BKN017 BKN024 13/10 A2999 RMK AO2 CIG 014 RWY33 SLP157 KTBR 281515Z AUTO 00000KT 10SM OVC005 23/21 A2994 RMK AO2 LTG DSNT E T02250207 KTBX 281515Z AUTO 10SM CLR 04/M05 A3056 RMK AO2 KTCC 281453Z AUTO 02016KT 10SM OVC085 13/00 A3040 RMK AO2 SLP260 T01330000 51017 KTCL 281453Z 20010KT 10SM FEW015 BKN065 25/21 A2988 RMK AO2 SLP115 T02500211 51002 KTCM 281513Z AUTO 00000KT 1/8SM R16/1600V1800FT FG VV001 10/09 A3036 RMK AO2 SLP285 $ KTCS 281453Z AUTO 03018G33KT 10SM CLR 14/M01 A3034 RMK AO2 PK WND 36033/1445 SLP204 T01391011 51024 $ KTCY 281515Z AUTO 29007KT 10SM CLR 26/M01 A2995 RMK A01 KTDR 281456Z AUTO 24006KT 10SM FEW021 28/24 A2990 RMK AO2 LTG DSNT SE SLP129 60001 T02790244 50001 $ KTDZ 281453Z AUTO 00000KT 10SM OVC015 19/15 A2971 RMK AO2 SLP056 60000 T01890150 57004 KTEB 281506Z 18009KT 10SM BKN016 BKN049 23/19 A2992 KTEW 281515Z AUTO 31005KT 4SM RA OVC007 13/12 A2973 RMK AO2 T01270121 KTEX 281515Z AUTO 00000KT 10SM CLR 05/M06 A3048 RMK AO2 KTHA 281515Z AUTO 19007KT 10SM FEW025 BKN035 OVC055 22/20 A2986 RMK A01 KTHV 281453Z AUTO VRB03KT 10SM BKN016 23/18 A2990 RMK AO2 SLP124 T02280178 51006 KTIF 281515Z AUTO 32019G30KT 10SM CLR 13/00 A3027 RMK AO2 T01290000 KTIK 281456Z AUTO 01012KT 10SM CLR 16/05 A3018 RMK AO2 SLP223 T01610054 52025 KTIP 281515Z AUTO 26007KT 10SM BKN011 OVC120 12/11 A2983 RMK AO2 T01220114 KTIW 281453Z 04003KT 10SM CLR 11/09 A3036 RMK AO2 SLP282 T01060094 55002 KTIX 281455Z 17003KT 7SM FEW023 SCT120 29/28 A2996 KTKC 281515Z AUTO 32012G21KT 10SM -RA SCT018 SCT023 OVC041 11/06 A2998 RMK AO2 T01140064 KTKI 281453Z 35010KT 10SM BKN120 18/09 A3013 RMK AO2 SLP203 T01780094 51026 KTKV 281515Z AUTO 30008KT 10SM BKN018 OVC023 10/06 A2974 RMK AO2 T01020063 PWINO KTKX 281515Z AUTO 32010G18KT 10SM FEW014 SCT018 BKN028 16/16 A2992 RMK AO2 TSNO KTLH 281458Z 24005KT 10SM BKN018 BKN095 28/23 A2992 KTMA 281515Z AUTO 20004KT 10SM BKN009 OVC015 26/23 A2993 RMK AO2 LTG DSNT NW T02590234 KTMB 281453Z 19005KT 10SM SCT030 31/25 A2994 RMK AO2 RAE05 SLP137 P0000 60001 T03060250 51004 KTME 281455Z AUTO 36013G18KT 10SM BKN017 OVC027 19/17 A2999 RMK AO2 KTMK 281515Z AUTO 00000KT 10SM CLR 10/08 A3021 RMK AO2 KTMT 281515Z AUTO 00000KT 10SM CLR 03/M08 A3046 RMK AO2 T00341084 KTNB 281515Z AUTO 00000KT 10SM 21/15 A3001 RMK AO2 T02120145 KTNU 281515Z AUTO 33011G17KT 10SM OVC015 13/11 A2991 RMK A01 KTOB 281515Z AUTO 30008KT 10SM SCT014 BKN037 OVC043 10/08 A2987 RMK AO2 KTOC 281515Z AUTO 20003KT 10SM SCT021 BKN029 BKN036 24/20 A2995 RMK AO2 T02410200 KTOI 281453Z AUTO 22005KT 10SM SCT015 BKN021 26/21 A2993 RMK AO2 SLP131 T02610211 51004 KTOL 281517Z 00000KT 10SM -RA OVC014 18/13 A2970 KTOP 281453Z 28009KT 10SM CLR 14/08 A3008 RMK AO2 SLP186 T01440078 53015 KTOR 281453Z AUTO 29006KT 10SM CLR 07/00 A3039 RMK AO2 SLP294 T00670000 50006 KTPA 281514Z 20007KT 10SM BKN012 OVC150 28/24 A2994 RMK AO2 T02830239 KTPF 281455Z AUTO 19005KT 10SM SCT010 SCT070 SCT090 28/25 A2994 RMK AO2 P0001 KTPH 281456Z AUTO 34007KT 10SM CLR 13/M08 A3036 RMK AO2 SLP225 T01331078 51011 KTPL 281451Z AUTO 36015G23KT 10SM FEW095 19/08 A3012 RMK AO2 PK WND 34027/1426 SLP189 T01940083 51032 KTQE 281454Z AUTO 31012G22KT 10SM OVC065 13/04 A3005 RMK AO2 SLP171 T01280044 51013 KTQH 281515Z AUTO 35010G15KT 10SM CLR 16/10 A3012 RMK AO2 KTQK 281515Z AUTO 10SM CLR 13/00 A3034 RMK AO1 T01251003 KTRI 281453Z 00000KT 10SM SCT008 SCT034 21/18 A2994 RMK SLP117 60011 T02110183 50001 KTRK 281455Z 00000KT 10SM SKC 03/M04 A3040 KTRL 281453Z AUTO 35011G21KT 10SM CLR 18/09 A3012 RMK AO2 PK WND 36026/1428 SLP193 T01780094 51029 KTSP 281515Z AUTO 12011G15KT 10SM CLR 24/M02 A3017 RMK AO2 KTTA 281515Z AUTO 23005KT 10SM SCT020 24/20 A2996 RMK AO2 T02420200 KTTD 281453Z 09019G26KT 10SM CLR 17/06 A3027 RMK AO2 PK WND 08028/1443 SLP249 T01720061 55005 KTTF 281515Z AUTO 00000KT 10SM OVC012 17/16 A2968 RMK AO2 T01660155 KTTN 281453Z 20009KT 10SM BKN010 BKN015 22/19 A2993 RMK AO2 SLP127 T02220194 53007 KTTS 281456Z AUTO 19005KT 10SM -DZ FEW130 FEW170 SCT200 28/26 A2994 RMK AO2 DZE00DZB33 SLP143 P0000 60000 T02810255 51011 $ KTUL 281453Z 33012KT 10SM CLR 17/09 A3014 RMK AO2 SLP202 T01720089 51020 KTUP 281507Z 00000KT 4SM VCTS -RA BR OVC011 21/19 A2983 KTUS 281453Z 16005KT 10SM CLR 22/01 A3003 RMK AO2 SLP125 T02220006 51011 KTVC 281453Z 17003KT 10SM -RA FEW010 FEW055 OVC080 15/13 A2967 RMK AO2 RAE01B51 SLP048 P0000 60003 T01500128 58002 KTVF 281456Z AUTO 33016G23KT 10SM -RA OVC012 08/06 A2995 RMK AO2 RAB50 SLP150 P0000 60000 T00830061 53006 KTVI 281515Z AUTO 00000KT 7SM SCT008 SCT015 BKN030 26/23 A2994 RMK AO2 LTG DSNT NW KTVK 281455Z AUTO 29003KT 10SM FEW016 14/13 A2995 RMK AO2 KTVL 281453Z AUTO 23004KT 10SM CLR 02/M03 A3040 RMK AO2 SLP270 T00221028 51006 KTVR 281502Z AUTO 34011G19KT 10SM BKN010 BKN028 BKN042 20/17 A2988 RMK AO2 T02000172 KTVY 281515Z AUTO 00000KT 10SM CLR 12/03 A3045 RMK AO2 KTWF 281453Z 20006KT 10SM CLR 08/01 A3048 RMK AO2 SLP303 T00830011 53010 KTWM 281515Z AUTO 31008G15KT 261V031 10SM SCT060 09/03 A2976 RMK AO2 KTXK 281453Z 34012KT 10SM CLR 19/12 A3004 RMK AO2 SLP167 T01890117 51028 KTXW 281515Z AUTO 00000KT 5SM HZ BKN013 OVC022 29/25 A2988 RMK AO2 T02890245 KTYL 281455Z AUTO 33003KT 10SM CLR 15/M07 A3032 RMK AO2 KTYQ 281515Z AUTO 33008KT 3SM DZ BKN004 OVC008 A2977 RMK AO2 KTYR 281453Z 35013G20KT 10SM OVC110 18/12 A3006 RMK AO2 SLP173 T01780117 51032 KTYS 281453Z 21011KT 10SM FEW031 SCT180 BKN250 24/19 A2989 RMK AO2 SLP112 T02390194 50003 KTZR 281510Z 20013KT 10SM SCT021 BKN050 OVC060 21/17 A2976 KU42 281455Z AUTO 35006KT 10SM 11/00 A3046 RMK AO1 T01101002 KU55 281510Z AUTO 00000KT A3045 RMK A01 KU68 281455Z AUTO 00000KT 10SM CLR 06/M03 A3043 RMK AO2 KUAO 281453Z 36011KT 10SM CLR 16/07 A3025 RMK AO2 SLP242 T01560072 55002 KUBE 281515Z AUTO 32015KT 10SM SCT019 OVC025 09/05 A2982 RMK AO2 KUCP 281456Z AUTO VRB06KT 10SM CLR 22/17 A2982 RMK AO2 SLP105 T02220172 55000 KUCY 281515Z AUTO 33007KT 7SM SCT013 SCT017 SCT080 15/15 A2987 RMK A01 KUDG 281525Z AUTO 17006KT 10SM BKN010 OVC060 23/21 A2998 RMK AO2 CIG 008V012 KUES 281445Z 25007KT 10SM OVC012 11/09 A2974 KUGN 281455Z 22009KT 10SM BKN009 BKN017 12/10 A2975 RMK AO2 CIG 008V013 SLP071 T01170100 51006 KUIL 281453Z AUTO 00000KT 10SM CLR 08/07 A3033 RMK AO2 SLP271 T00830072 56008 KUIN 281454Z AUTO 31012KT 10SM OVC010 12/09 A2990 RMK AO2 SLP126 T01220094 53014 KUKF 281515Z AUTO 17004KT 10SM BKN028 BKN035 22/19 A3000 RMK AO2 KUKI 281456Z AUTO 00000KT 9SM CLR 14/06 A2997 RMK AO2 SLP142 T01440061 53012 KUKL 281515Z AUTO 34012G15KT 10SM CLR 15/08 A3012 RMK AO2 T01510075 KUKT 281515Z AUTO 19005KT 10SM FEW010 OVC021 21/20 A2993 RMK A01 KULM 281515Z AUTO 31015KT 10SM SCT022 SCT031 OVC060 12/07 A2993 RMK AO2 KULS 281515Z AUTO 33016G19KT 290V350 10SM CLR 13/00 A3035 RMK AO2 KUNI 281515Z AUTO 17008KT 10SM CLR 24/18 A2980 RMK AO2 T02420178 KUNO 281453Z AUTO 31007G16KT 270V350 10SM FEW015 15/10 A2999 RMK AO2 SLP151 T01500100 53014 KUNU 281515Z AUTO 24003KT 10SM RA OVC008 12/11 A2973 RMK AO2 P0001 T01190109 KUNV 281453Z COR 18006KT 10SM SCT014 SCT050 21/16 A2989 KUOX 281515Z AUTO 35008G14KT 5SM BR SCT008 BKN013 BKN025 15/15 A2990 RMK AO2 PWINO KUTA 281515Z AUTO 34013G16KT 10SM SCT010 OVC015 15/14 A2997 RMK AO2 TSNO KUTS 281453Z AUTO 35008G18KT 320V020 10SM OVC020 19/14 A3000 RMK AO2 SLP155 T01890144 53013 KUUU 281506Z AUTO 21007KT 10SM SCT006 BKN020 OVC025 21/19 A2999 RMK AO2 T02110189 KUVA 281455Z AUTO 03011G18KT 10SM OVC050 22/04 A3010 RMK AO2 T02200035 KUYF 281515Z AUTO 19010G17KT 10SM SCT050 SCT065 BKN070 21/18 A2975 RMK AO2 KUZA 281454Z AUTO 20008KT 10SM FEW018 SCT031 BKN038 24/19 A2996 RMK AO2 SLP136 T02440189 53001 KVAD 281456Z AUTO 24006KT 10SM SCT010 BKN018 27/23 A2993 RMK AO2 CIG 009V018 BKN V OVC CIG 016 RWY36 SLP136 T02670233 50010 $ KVAF 281515Z AUTO 00000KT 10SM FEW015 SCT021 SCT031 32/24 A2991 RMK A01 KVAY 281454Z AUTO 00000KT 10SM FEW017 23/20 A2993 RMK AO2 SLP135 T02330200 53009 KVBG 281458Z 00000KT M1/8SM R30/0500FT FG VV001 14/14 A2992 RMK AO2A SLP134 T01370135 53009 KVBT 281456Z AUTO 31010KT 10SM CLR 14/11 A3010 RMK AO2 SLP193 T01440106 51017 TSNO KVBW 281355Z AUTO 00000KT 10SM SCT080 SCT110 18/18 A2992 RMK AO1 T01810181 KVCB 281453Z AUTO 36013KT 10SM CLR 28/M04 A2993 RMK AO2 SLP132 T02831039 53005 KVCT 281451Z 01017G29KT 10SM SCT034 OVC060 22/15 A2999 RMK AO2 PK WND 36029/1447 SLP152 T02170150 51037 KVCV 281445Z 00000KT 10SM SKC A3011 KVDF 281515Z AUTO 18004KT 10SM SCT012 29/25 A2994 RMK AO2 KVDI 281515Z AUTO 22003KT 7SM BKN005 OVC010 23/21 A2994 RMK AO2 LTG DSNT NW KVEL 281453Z AUTO 00000KT 10SM CLR 09/M06 A3049 RMK AO2 SLP298 T00941061 51019 KVER 281535Z AUTO RMK AO2 PWINO TSNO KVES 281515Z AUTO 18004KT 10SM OVC010 17/17 A2972 RMK AO2 KVGC 281515Z AUTO 18004KT 10SM BKN016 BKN041 OVC049 20/16 A2987 RMK AO2 KVGT 281453Z 34009G17KT 10SM CLR 25/M02 A3013 RMK AO2 SLP196 T02501022 53024 KVHN 281515Z AUTO 05015G20KT 10SM BKN055 16/00 A3039 RMK AO2 T01580000 KVIH 281453Z AUTO 29011KT 10SM BKN012 13/09 A2997 RMK AO2 SLP146 T01280094 51017 KVIS 281456Z AUTO 12004KT 8SM CLR 19/15 A2995 RMK AO2 SLP147 T01890150 51014 KVJI 281515Z AUTO 27003KT 10SM SCT006 SCT017 BKN031 20/17 A2997 RMK AO2 T01990166 KVKS 281515Z AUTO 34010G19KT 6SM BR BKN008 OVC012 19/19 A2988 RMK A01 KVKY 281515Z AUTO 24009KT 10SM CLR 28/25 A2992 RMK A01 KVLD 281459Z 00000KT 10SM SCT009 BKN015 28/24 A2993 RMK AO2 T02780239 KVLL 281515Z AUTO 00000KT 10SM OVC014 17/14 A2971 RMK AO2 T01650138 KVNC 281515Z AUTO 20007KT 8SM CLR 30/26 A2994 RMK AO2 KVNW 281515Z AUTO 00000KT 10SM -RA OVC013 16/13 A2971 RMK AO2 KVNY 281451Z 00000KT 8SM CLR 18/16 A2991 RMK AO2 SLP122 T01830156 53010 KVOA 281520Z AUTO 23012KT 10SM CLR 28/24 A2991 RMK A01 KVOK 281511Z 31009KT 10SM OVC015 12/11 A2976 RMK AO2A KVPC 281453Z AUTO VRB03KT 10SM BKN020 BKN029 26/20 A2992 RMK AO2 SLP120 60000 T02560200 50001 KVPS 281520Z AUTO 27003KT 10SM SCT016 BKN024 28/23 A2989 RMK AO2 DZB1455E11 CIG 015V024 CIG 015 RWY19 SLP128 $ KVPZ 281456Z AUTO 27008KT 10SM -RA OVC049 12/10 A2979 RMK AO2 SLP088 P0002 60006 T01170100 51006 KVQQ 281450Z 21005KT 10SM BKN012 29/24 A2994 KVRB 281453Z 19007KT 10SM SCT027 SCT047 31/24 A2994 RMK AO2 SLP136 60001 T03110239 51010 KVSF 281519Z AUTO 19009G16KT 10SM BKN028 22/17 A2993 RMK AO2 T02170167 KVTA 281454Z AUTO 19007KT 10SM CLR 24/18 A2976 RMK AO2 SLP073 T02390178 58005 KVTI 281515Z AUTO 29008KT 10SM BKN014 13/11 A2987 RMK AO2 T01320110 KVTN 281452Z AUTO 31016G26KT 10SM CLR 12/M01 A3024 RMK AO2 PK WND 31026/1430 SLP239 T01221011 51009 KVTP 281459Z AUTO 09006KT 10SM BKN009 BKN013 OVC020 M04/M05 A3051 RMK AO2 KVUJ 281515Z AUTO 24004KT 10SM BKN017 BKN024 24/19 A3001 RMK AO2 LTG DSNT E AND W T02360191 KVUO 281453Z AUTO 00000KT 10SM CLR 11/08 A3028 RMK AO2 SLP255 T01110083 55003 KVVV 281515Z AUTO 32009KT 10SM SCT015 BKN034 OVC047 09/08 A3000 RMK AO2 KVWU 281515Z AUTO 34006KT 7SM 08/06 A2987 RMK AO2 KVYS 281515Z AUTO 28009KT 10SM OVC009 13/11 A2982 RMK AO2 T01250107 KW13 281515Z AUTO 23006KT 10SM OVC110 23/18 A2993 RMK AO1 T02250180 KW22 281515Z AUTO 20008KT 10SM BKN032 OVC060 21/17 A2990 RMK AO2 KW29 281515Z AUTO 19006KT 10SM CLR 25/20 A2992 RMK AO2 KW31 281515Z AUTO 25003KT 10SM SCT021 24/20 A2995 RMK AO1 T02380195 KW63 281535Z AUTO 21007KT 10SM BKN018 25/20 A2995 RMK AO1 KW75 281535Z AUTO 21005KT 10SM CLR 25/20 A2995 RMK AO1 T02500199 KW78 281515Z AUTO 22006KT 10SM BKN023 24/19 A2995 RMK AO1 T02440186 KW81 281455Z AUTO 23004KT 10SM CLR A2994 RMK AO1 KW96 281515Z AUTO 21003KT 10SM SCT120 24/19 A2994 RMK AO1 T02420194 KW99 281510Z AUTO 19009G17KT 10SM CLR 26/17 A2988 RMK AO2 T02560170 KWAL 281454Z 23007KT 10SM CLR 25/18 A2997 RMK AO2 SLP144 60000 T02500183 53007 KWBF 281525Z AUTO 00000KT 4SM BR FEW017 FEW021 FEW100 29/27 A2991 RMK A01 KWDG 281445Z 32016KT 10SM SKC 15/03 A3021 KWDR 281515Z AUTO 00000KT 10SM SCT014 SCT020 OVC026 22/20 A2998 RMK AO2 LTG DSNT SE AND W KWHP 281450Z 00000KT 8SM SKC 18/15 A2996 KWJF 281456Z AUTO 00000KT 10SM CLR 16/01 A3008 RMK AO2 SLP173 T01610011 52020 KWLD 281454Z AUTO 32012KT 10SM CLR 14/06 A3019 RMK AO2 SLP222 T01440056 51024 KWMC 281456Z AUTO VRB04KT 10SM CLR 10/M02 A3043 RMK AO2 SLP284 T01001022 53008 $ KWRB 281520Z 00000KT 10SM SCT008 BKN016 OVC022 25/23 A2993 RMK AO2A CIG 008V016 BKN V OVC CIG 010 RWY33 SLP135 KWRI 281456Z 22011KT 10SM SCT040 BKN140 24/19 A2994 RMK AO2A SLP137 WND DATA ESTMD ALSTG ESTMD $ KWRL 281453Z AUTO 22004KT 10SM CLR A3045 RMK AO2 SLPNO 52009 $ KWST 281453Z AUTO 19005KT 10SM OVC005 19/18 A2999 RMK AO2 CIG 003V008 SLP156 T01940183 51003 KWVI 281453Z AUTO 00000KT 10SM CLR 15/12 A2992 RMK AO2 SLP132 T01500122 51012 KWVL 281456Z AUTO VRB03KT 5SM -RA BR OVC003 20/19 A2997 RMK AO2 RAB47 SLP173 P0000 60000 T02000194 50000 KWWD 281456Z AUTO 18008KT 10SM CLR 23/21 A2996 RMK AO2 RAB1358E11 SLP147 P0000 60001 T02330206 51013 KWWR 281515Z AUTO 33013G16KT 10SM CLR 15/00 A3033 RMK AO2 KWYS 281515Z AUTO 00000KT 10SM CLR M01/M05 A3052 RMK AO2 KX07 281515Z AUTO 00000KT 10SM SCT013 29/26 A2996 RMK A01 KX26 281515Z AUTO 21007KT 10SM SCT024 BKN031 BKN055 30/25 A2994 RMK AO2 T03020248 KX60 281455Z AUTO 23005KT 10SM SCT002 28/25 A2995 RMK AO2 LTG DSNT W T02830246 KXBP 281515Z AUTO 33006KT 10SM OVC120 18/09 A3020 RMK AO2 T01820085 KXER 281515Z AUTO 22010KT 10SM FEW016 30/25 A2992 RMK A01 KXIF 281458Z AUTO 00000KT 10SM CLR 23/18 A2988 RMK AO2 SLPNO T02300175 50002 $ KXLL 281515Z AUTO 19008KT 10SM BKN013 OVC018 21/18 A2993 RMK AO2 KXMR 281518Z 17005KT 10SM FEW190 29/26 A2992 RMK AO2A DZB09E13DZB15E18 SLP135 KXNA 281453Z 33011G16KT 10SM CLR 15/09 A3009 RMK AO2 SLP182 T01500094 51018 KXNO 281516Z AUTO 12006KT 10SM BKN008 BKN023 OVC043 23/ A2997 RMK AO2 CIG 008V024 BKN008 V SCT SLP149 $ KXNX 281515Z AUTO 00000KT 7SM BKN013 BKN018 OVC025 21/20 A2983 RMK A01 KXPY 281515Z AUTO 22008KT 10SM FEW026 FEW044 28/24 A2991 RMK A01 KXSA 281515Z AUTO 22006KT 10SM SCT100 25/22 A2994 RMK AO2 T02520221 KXVG 281513Z AUTO 31010G17KT 7SM -RA SCT013 BKN018 OVC026 08/07 A2986 RMK AO2 P0002 KXWA 281451Z AUTO 32011KT 10SM CLR 08/03 A3024 RMK AO2 SLP095 T00780028 51005 KY19 281515Z AUTO 33018KT 10SM OVC034 09/06 A3017 RMK AO2 KY23 281455Z AUTO 33007KT 10SM BKN023 OVC027 10/07 A2981 RMK AO2 T01030068 KY31 281515Z AUTO 00000KT 5SM DZ BKN033 OVC044 12/11 A2971 RMK AO2 T01160111 KY49 281515Z AUTO 34012G19KT 10SM SCT017 BKN023 OVC036 08/05 A2988 RMK AO2 T00830050 KY50 281456Z AUTO 30008KT 10SM -RA OVC013 13/11 A2972 RMK AO2 RAE12B52 SLP064 P0000 60000 T01280106 53004 $ KY51 281515Z AUTO 30007KT 10SM OVC015 11/10 A2979 RMK AO1 T01110103 KY70 281450Z AUTO 26003KT 5SM DZ OVC007 12/10 A2973 RMK AO2 P0001 KYIP 281453Z 02003KT 10SM OVC014 17/13 A2971 RMK AO2 SLP055 60000 T01720128 58001 KYKM 281453Z 00000KT 10SM CLR 06/03 A3045 RMK AO2 SLP315 T00610033 53002 KYKN 281456Z AUTO 31021KT 10SM CLR 13/04 A3008 RMK AO2 SLP200 T01280044 53008 KYNG 281451Z 21010KT 10SM FEW025 SCT095 SCT250 22/16 A2981 RMK AO2 SLP087 T02220161 51004 KZPH 281515Z AUTO 14006KT 10SM CLR 27/25 A2995 RMK A02 T02750253 KZZV 281453Z AUTO 19010KT 10SM CLR 23/18 A2979 RMK AO2 SLP082 T02330178 58003 LATI 281520Z VRB02KT 9999 FEW040 BKN100 21/15 Q1012 NOSIG LBBG 281500Z 11013KT 9999 FEW033 24/20 Q1013 NOSIG LBGO 281500Z AUTO 17012KT 140V200 9999 NCD 27/14 Q1011 NOSIG LBIA 281500Z 21010KT 9999 FEW060 BKN200 27/12 Q1013 LBPD 281500Z AUTO VRB07KT 9999 FEW087 27/13 Q1011 NOSIG LBPG 281500Z 12012KT 9999 SCT060 SCT100 BKN200 27/13 Q1011 LBPL 281500Z 00000KT 9999 SCT100 27/14 Q1009 LBSF 281500Z 21018KT 9999 SCT085 24/09 Q1012 TEMPO 21016G26KT LBWB 281300Z 16020KT 9999 BKN010 BKN020 23/19 Q1016 LBWN 281500Z 14012KT CAVOK 23/17 Q1014 NOSIG LCEN 281450Z 28016KT CAVOK 34/12 Q1014 NOSIG LCLK 281500Z 21011KT CAVOK 30/23 Q1013 NOSIG LCPH 281500Z 31010KT CAVOK 29/23 Q1014 LCRA 281523Z 09003KT CAVOK 29/20 Q1013 NOSIG LDDU 281500Z 09008KT 9999 BKN074 17/13 Q1012 NOSIG LDOS 281500Z 21006KT 9999 SCT045 17/13 Q1009 LDPL 281500Z 23007KT 9999 FEW045 17/09 Q1009 NOSIG LDRI 281500Z 12008KT 9999 FEW013 SCT036 BKN050 16/11 Q1009 LDSP 281500Z 33005KT 9999 SCT055 18/11 Q1010 NOSIG LDZA 281500Z 23008KT 190V260 CAVOK 17/09 Q1009 NOSIG LDZD 281500Z VRB03KT 9999 SCT025 18/08 Q1010 NOSIG LEAB 281500Z 30009KT 270V330 CAVOK 24/M05 Q1017 NOSIG LEAG 281500Z AUTO 07005KT 020V110 CAVOK 22/14 Q1014 LEAL 281500Z 09008KT 070V150 CAVOK 24/13 Q1015 NOSIG LEAM 281500Z 20006KT 160V230 CAVOK 24/19 Q1015 LEAO 281500Z 23003KT 180V290 CAVOK 24/M01 Q1017 LEAS 281500Z 04005KT 320V130 CAVOK 17/10 Q1020 NOSIG LEBA 281500Z 10006KT 040V150 CAVOK 30/00 Q1013 LEBB 281500Z 31006KT 280V010 9999 SCT038 19/10 Q1020 NOSIG LEBG 281500Z 05007KT 010V090 CAVOK 16/03 Q1020 LEBL 281500Z 21012KT CAVOK 22/12 Q1014 NOSIG LEBR 281500Z AUTO 32016KT 9999 NCD 19/06 Q1018 LEBT 281500Z AUTO 11008KT 060V150 CAVOK 24/05 Q1015 LEBZ 281500Z 05005KT 320V120 CAVOK 29/07 Q1014 LECH 281500Z AUTO 14009KT CAVOK 22/06 Q1016 LECO 281500Z 36008KT 330V050 9999 FEW030 18/12 Q1019 NOSIG LECV 281500Z 18004KT CAVOK 21/02 Q1018 LEDA 281500Z AUTO 25010KT 210V280 CAVOK 22/06 Q1015 LEEC 281300Z 10006KT 350V150 CAVOK 30/09 Q1014 LEGA 281300Z VRB04KT CAVOK 27/04 Q1017 LEGE 281500Z 21003KT 130V280 9999 FEW020 22/10 Q1014 LEGR 281500Z VRB02KT CAVOK 29/03 Q1015 LEGT 281500Z 12002KT CAVOK 23/01 Q1017 LEHC 281500Z 26015KT 230V290 CAVOK 21/07 Q1016 LEIB 281500Z 21009KT 9999 FEW030 23/12 Q1015 NOSIG LEJR 281530Z VRB03KT CAVOK 32/07 Q1012 LELC 281500Z 11010KT 080V160 CAVOK 24/13 Q1015 NOSIG LELL 281500Z 16006KT 110V240 CAVOK 24/10 Q1014 LELN 281500Z 20004KT 150V240 CAVOK 18/05 Q1019 LELO 281500Z 31006KT 250V030 9999 FEW043 20/06 Q1019 LEMD 281500Z 22002KT CAVOK 23/02 Q1017 NOSIG LEMG 281500Z 12009KT 090V150 CAVOK 23/18 Q1015 NOSIG LEMH 281500Z 27008KT 210V310 9999 FEW040 21/12 Q1015 LEMI 281500Z 14011KT 110V170 CAVOK 27/12 Q1015 LEMO 281530Z 04005KT 320V110 CAVOK 31/04 Q1013 NOSIG LEPA 281500Z 29005KT CAVOK 23/10 Q1015 NOSIG LEPP 281500Z 34011KT 300V010 9999 SCT035 17/08 Q1019 LERI 281500Z VRB05KT CAVOK 30/01 Q1014 NOSIG LERL 281500Z VRB03KT CAVOK 24/M01 Q1017 LERS 281500Z 26012KT 230V290 CAVOK 25/07 Q1014 LERT 281500Z 27011KT 240V300 CAVOK 26/14 Q1013 NOSIG LESA 281500Z 08004KT 030V140 CAVOK 22/M01 Q1018 LESB 281500Z AUTO 31009KT 280V340 CAVOK 22/10 Q1016 LESO 281500Z VRB05KT 9999 SCT050 18/09 Q1020 LEST 281500Z 03007KT 340V090 CAVOK 17/12 Q1019 NOSIG LESU 281500Z 31007KT 280V340 9999 FEW060 22/04 Q1015 LETL 281500Z AUTO 32009KT 290V010 CAVOK 20/M06 Q1018 LETO 281500Z 14001KT CAVOK 23/01 Q1017 NOSIG LETU 281500Z AUTO 32013KT 290V360 9999 NCD 20/06 Q1018 LEVC 281500Z 12013KT CAVOK 24/08 Q1015 NOSIG LEVD 281500Z 08002KT CAVOK 19/03 Q1019 LEVS 281500Z 26001KT CAVOK 25/02 Q1017 LEVT 281500Z 04008KT 350V100 9999 FEW038 16/08 Q1020 LEVX 281500Z 02003KT 300V090 CAVOK 20/11 Q1018 NOSIG LEXJ 281500Z 02004KT 330V080 9999 FEW042 19/11 Q1020 LEZG 281500Z 31019KT 280V340 CAVOK 21/06 Q1017 LEZL 281500Z 04007KT 340V080 CAVOK 30/05 Q1013 NOSIG LFAC 281500Z AUTO 31009KT 9999 FEW020 SCT027 BKN034 15/12 Q1012 LFAQ 281500Z AUTO 30012KT 5000 BR OVC004 13/12 Q1012 BECMG BKN020 LFAT 281500Z AUTO 29007KT 260V330 9999 OVC022 15/11 Q1012 NOSIG LFBA 281500Z AUTO 30008KT CAVOK 20/08 Q1018 NOSIG LFBC 281500Z AUTO 29007KT 260V320 9999 FEW036 OVC043 17/10 Q1019 NOSIG LFBD 281500Z AUTO 29010KT 260V330 9999 FEW001 BKN040 BKN046 18/09 Q1019 NOSIG LFBE 281500Z AUTO 28012KT CAVOK 19/08 Q1018 NOSIG LFBG 281500Z AUTO 28011KT 9999 FEW041 18/07 Q1018 NOSIG LFBH 281500Z AUTO 29012KT 9999 BKN033 OVC041 16/10 Q1018 TEMPO 30015G25KT LFBI 281500Z AUTO 30010KT 260V320 CAVOK 18/08 Q1017 NOSIG LFBL 281500Z AUTO 28011KT 9999 FEW034 15/07 Q1017 NOSIG LFBM 281500Z AUTO 28011KT 240V320 9999 FEW047 OVC056 20/09 Q1019 NOSIG LFBO 281500Z AUTO 30016KT CAVOK 20/05 Q1018 NOSIG LFBP 281500Z AUTO 28009KT 240V320 9999 FEW042 19/09 Q1019 NOSIG LFBT 281500Z AUTO 29007KT 230V340 9999 BKN044 18/08 Q1019 NOSIG LFBU 281500Z AUTO 27011KT CAVOK 17/05 Q1018 NOSIG LFBY 281500Z 29007KT 260V330 9999 SCT040 SCT050 20/10 Q1019 LFBZ 281500Z AUTO 31009KT 270V010 9999 BKN033 BKN040 BKN046 18/10 Q1020 NOSIG LFCK 281500Z AUTO 31016KT 9999 BKN047 18/08 Q1019 NOSIG LFCR 281500Z AUTO 31008KT 280V350 9999 FEW019 OVC058 12/09 Q1018 NOSIG LFGA 281500Z AUTO 23008KT 9999 FEW049 SCT064 OVC120 16/07 Q1011 LFGJ 281500Z AUTO 19008KT 9999 -RA FEW008 OVC036 13/12 Q1013 TEMPO 1500 DZRA BR OVC003 LFHP 281500Z AUTO 32013KT 9999 OVC011/// 09/08 Q1016 LFJL 281500Z AUTO 22006KT 9999 RA FEW018/// BKN023/// BKN040/// ///TCU 10/09 Q1012 TEMPO 4000 RA BKN009 LFJR 281500Z AUTO 31008KT 280V350 CAVOK 18/09 Q1016 LFKB 281500Z AUTO 14010KT 9999 FEW040/// SCT046/// BKN056/// ///CB 19/12 Q1008 TEMPO SHRA LFKC 281500Z AUTO 23011KT 190V250 9999 FEW043 20/09 Q1009 NOSIG LFKF 281500Z AUTO 27016KT 240V300 9999 FEW033 SCT052 BKN080 19/13 Q1010 TEMPO 28015G25KT SHRA SCT020CB BKN040 LFKJ 281500Z AUTO 11004KT 9999 FEW037/// OVC064/// ///TCU 17/14 Q1011 TEMPO 27010KT 3000 RA BR SCT020CB BKN040 LFKS 281500Z AUTO 27006KT 190V320 9999 SCT068 SCT082 22/07 Q1008 LFLB 281500Z AUTO VRB01KT 9999 BKN052 OVC072 15/11 Q1014 NOSIG LFLC 281500Z AUTO 12007KT 9999 OVC042 11/09 Q1016 NOSIG LFLL 281500Z 29008KT 9999 -RA FEW010 OVC023 12/10 Q1015 NOSIG LFLN 281500Z AUTO 27007KT 5000 -RA BR OVC007 11/10 Q1015 TEMPO RADZ LFLP 281500Z AUTO 23005KT 200V270 9999 FEW019 BKN048 OVC058 13/10 Q1014 NOSIG LFLS 281500Z AUTO 34006KT 9999 SCT013 BKN019 OVC026 11/10 Q1015 TEMPO 2500 -RADZ BKN004 LFLU 281500Z AUTO 02007KT 9999 FEW019 OVC039 14/11 Q1014 LFLW 281500Z AUTO 01003KT 330V040 9999 FEW014 SCT025 BKN031 11/08 Q1018 TEMPO BKN013 LFLX 281500Z AUTO 28012KT CAVOK 17/09 Q1015 NOSIG LFLY 281500Z AUTO 29008KT 9999 -DZ SCT018 OVC026 13/10 Q1015 TEMPO 2000 -RADZ BKN008 LFMC 281500Z AUTO 29016KT 9999 ////// 23/09 Q1008 LFMD 281500Z AUTO 13006KT 070V170 CAVOK 21/07 Q1008 NOSIG LFMH 281500Z AUTO 34004KT 310V010 9999 -RA BKN013 BKN020 OVC035 11/10 Q1016 TEMPO BKN008 LFMI 281500Z AUTO 35016KT CAVOK 20/09 Q1012 TEMPO 32020G30KT LFMK 281500Z AUTO 29019KT 9999 FEW048 19/08 Q1017 TEMPO 29020G35KT LFML 281500Z AUTO 34019KT CAVOK 20/10 Q1012 TEMPO 32020G30KT LFMN 281500Z 10007KT 9999 FEW030 20/11 Q1009 NOSIG LFMO 281500Z AUTO 35016KT CAVOK 18/10 Q1013 TEMPO 35020G35KT LFMP 281500Z AUTO 29023KT CAVOK 21/07 Q1015 BECMG 30020G30KT LFMT 281500Z AUTO 30019KT CAVOK 19/08 Q1014 BECMG 31020G30KT LFMU 281500Z AUTO 30014KT 270V330 CAVOK 19/08 Q1015 BECMG 29020G30KT LFMV 281500Z AUTO 35016KT CAVOK 19/10 Q1012 BECMG 34015G25KT LFMY 281500Z AUTO 33012KT 290V360 9999 SCT045 BKN170 19/09 Q1012 BECMG 33015G25KT LFOA 281500Z AUTO 26005KT 9999 OVC031 12/09 Q1015 NOSIG LFOB 281500Z AUTO 30013KT 9999 SCT021 BKN054 BKN110 15/10 Q1013 NOSIG LFOC 281500Z AUTO 30011KT 270V340 CAVOK 19/05 Q1014 NOSIG LFOE 281500Z AUTO 30014KT CAVOK 17/05 Q1014 NOSIG LFOH 281500Z AUTO 29010KT 9999 BKN015 OVC027 15/12 Q1015 TEMPO BKN013 LFOJ 281500Z AUTO 33008KT 9999 SCT048 BKN070 BKN088 17/07 Q1014 NOSIG LFOK 281500Z AUTO 29010KT 5000 2200 BR OVC004 13/13 Q1012 TEMPO OVC007 BECMG 23005KT LFOP 281500Z AUTO 29012KT CAVOK 16/06 Q1014 NOSIG LFOT 281500Z AUTO 29010KT 260V320 CAVOK 19/07 Q1015 NOSIG LFOV 281500Z AUTO 31008KT 270V360 9999 SCT028 OVC038 17/11 Q1016 LFOZ 281500Z AUTO 32005KT 9999 BKN035 OVC041 14/09 Q1014 LFPB 281500Z AUTO 27006KT 240V300 CAVOK 15/11 Q1013 NOSIG LFPG 281500Z 30009KT 9999 FEW012 SCT022 BKN056 14/12 Q1013 NOSIG LFPM 281500Z AUTO 28009KT 9999 FEW019 OVC048 14/13 Q1013 LFPN 281500Z AUTO 31012KT 9999 OVC048 14/08 Q1013 NOSIG LFPO 281500Z 30009KT 9999 FEW024 BKN050 15/10 Q1013 NOSIG LFPT 281500Z AUTO 31011KT CAVOK 16/07 Q1013 LFPV 281500Z AUTO 30009KT 9999 OVC049 14/09 Q1013 NOSIG LFQA 281500Z AUTO 29008KT 9999 -RADZ OVC007 13/12 Q1011 LFQB 281500Z AUTO 30011KT 5000 -RADZ BR BKN007 OVC015 13/13 Q1012 LFQG 281500Z AUTO 28010KT 9999 FEW011 OVC020 11/10 Q1015 LFQQ 281500Z AUTO 28011KT 4400 -DZ BR OVC003 13/13 Q1011 BECMG 9999 NSW BKN020 LFRB 281500Z AUTO 27009KT 220V300 9999 BKN013 BKN019 OVC046 18/15 Q1017 TEMPO 3000 DZ OVC003 LFRC 281500Z AUTO 28010KT 9999 BKN016 BKN022 17/13 Q1015 TEMPO RA BKN012 LFRD 281500Z AUTO 31010KT 9999 FEW033 BKN066 18/14 Q1016 TEMPO RA BKN012 LFRG 281500Z AUTO 29008KT 260V340 9999 OVC015 14/11 Q1015 TEMPO RA BKN014 LFRH 281500Z AUTO 26010KT 9999 FEW007 BKN046 OVC054 17/15 Q1017 BECMG BKN014 LFRI 281500Z AUTO 29008KT 9999 BKN018 BKN025 BKN032 15/12 Q1018 NOSIG LFRJ 281500Z AUTO 25008KT 9999 BKN014 BKN022 BKN040 17/15 Q1017 BECMG BKN009 LFRK 281500Z AUTO 29009KT 9999 SCT023 BKN028 OVC041 16/12 Q1015 TEMPO RA BKN014 LFRL 281500Z AUTO 27008KT 9999 BKN007 BKN024 BKN030 17/15 Q1017 BECMG 3000 RADZ BKN003 LFRM 281500Z AUTO 29008KT 250V340 CAVOK 20/05 Q1015 NOSIG LFRN 281500Z AUTO 28006KT 250V310 9999 FEW019 BKN062 18/13 Q1017 TEMPO RA BKN012 LFRO 281500Z AUTO 26011KT 9999 FEW012 OVC054 18/15 Q1017 LFRQ 281500Z AUTO 27008KT 9999 BKN009 BKN013 BKN019 17/15 Q1017 TEMPO 3000 DZ OVC003 LFRS 281500Z AUTO 27009KT 9999 SCT018 BKN023 BKN036 16/13 Q1017 TEMPO BKN013 OVC025 LFRT 281500Z AUTO 29007KT 9999 FEW020 SCT046 OVC056 18/13 Q1016 LFRU 281500Z AUTO 25006KT 9999 SCT017 SCT028 OVC052 18/15 Q1016 LFRV 281500Z AUTO 23004KT 200V270 9999 BKN016 OVC022 17/14 Q1017 LFRZ 281500Z AUTO 28008KT 9999 FEW019 BKN049 BKN066 17/14 Q1017 TEMPO BKN013 OVC020 LFSB 281500Z 25007KT 9999 FEW030 SCT040 BKN055 14/08 Q1012 NOSIG LFSD 281500Z AUTO 19004KT 5000 -RA BR BKN005 BKN013 OVC022 13/13 Q1013 LFSG 281500Z AUTO 17005KT 9999 RA BKN018/// BKN032/// OVC058/// ///TCU 11/10 Q1012 LFSI 281500Z AUTO 16004KT 5000 -RA BR FEW005/// OVC019/// ///TCU 11/10 Q1012 LFSL 281500Z AUTO 29009KT 230V320 CAVOK 17/05 Q1018 NOSIG LFSN 281500Z AUTO 20006KT 9999 -RA FEW018/// SCT030/// OVC060/// ///TCU 11/09 Q1012 LFSO 281500Z AUTO VRB03KT 9999 -RA SCT014/// BKN024/// OVC044/// ///TCU 10/09 Q1012 BECMG 4000 RADZ BKN009 LFST 281500Z AUTO 34007KT 9999 BKN040 OVC048 15/08 Q1011 NOSIG LFSX 281500Z AUTO 19003KT 9999 FEW023/// BKN032/// OVC043/// ///TCU 13/09 Q1013 LFTH 281500Z AUTO 31011KT 280V350 CAVOK 23/08 Q1009 NOSIG LFTW 281500Z AUTO 32014KT CAVOK 19/09 Q1013 NOSIG LFVP 281500Z 25010KT 0350 R26/0450N FG VV/// 14/14 Q1021 NOSIG LFYR 281500Z AUTO 27009KT 230V300 CAVOK 17/09 Q1014 NOSIG LGAD 281520Z 28008KT 9999 FEW018TCU SCT025 BKN080 24/20 Q1015 LGAL 281520Z 17006KT 9999 SCT025 24/20 Q1014 LGAV 281520Z 20012KT 9999 FEW025 26/20 Q1014 NOSIG LGBL 281520Z 00000KT 9999 FEW012 SCT030 BKN080 21/20 Q1013 LGEL 281520Z /////KT 9999 FEW018 BKN070 26/21 Q1012 LGHI 281450Z 16005KT 9999 SCT025 25/18 Q1014 LGIO 281150Z 21006KT 140V280 9999 FEW030TCU BKN035 25/14 Q1015 LGIR 281520Z 30004KT 9999 BKN080 30/21 Q1016 NOSIG LGKF 281450Z 26007KT 9999 FEW012 SCT020 25/23 Q1015 LGKL 281520Z 13005KT 9999 SCT020 BKN080 25/22 Q1015 LGKO 281520Z 20004KT 9999 FEW020 28/17 Q1017 LGKP 281520Z 20004KT CAVOK 27/24 Q1016 LGKR 281520Z /////KT 9999 SCT030 26/15 Q1013 NOSIG LGKV 281520Z 00000KT 9999 FEW020 SCT080 25/21 Q1013 LGKZ 281520Z AUTO 18010KT //// // ////// 21/12 Q1014 RE// LGLM 281520Z 21003KT 9999 FEW020TCU BKN030 21/19 Q1014 LGLR 281450Z 00000KT 9999 FEW030 SCT080 22/18 Q1013 RMK SCT180 BLU LGMK 281520Z 13013G23KT 9999 FEW015 SCT030 26/18 Q1015 LGMT 281520Z 23008KT 9999 FEW025 SCT030 29/18 Q1015 LGNX 281350Z 17006KT 9999 SCT030 27/18 Q1016 LGPA 281520Z AUTO 14010KT //// // ////// 26/20 Q1015 RE// LGPZ 281520Z 22008KT 9999 FEW014TCU SCT025 25/20 Q1014 LGRP 281520Z 26008KT CAVOK 29/21 Q1016 NOSIG LGRX 281520Z 26008KT 9999 FEW010 FEW020TCU SCT070 24/21 Q1014 LGSA 281520Z 11004KT 9999 FEW100 29/19 Q1015 LGSK 281520Z 00000KT 7000 -RA SCT010 FEW020TCU SCT030 21/19 Q1013 LGSM 281450Z 00000KT CAVOK 27/22 Q1017 LGSO 281450Z 16010KT 9999 FEW018 26/21 Q1015 LGSR 281520Z 15010KT 9999 FEW025 26/23 Q1016 LGSY 281450Z 09015KT 9999 FEW020TCU 26/18 Q1013 RMK BKN080 BKN180 BLU LGTG 281450Z 28008KT 9999 SCT030 28/17 Q1013 RMK BKN080 BKN180 BLU LGTS 281520Z 14010KT 9999 FEW020 25/17 Q1012 NOSIG LGZA 281450Z 30005KT 9999 FEW014 SCT018 BKN070 26/20 Q1015 LHBC 281145Z 14018KT 9999 -SHRA SCT060TCU BKN086 20/10 Q1009 LHBP 281500Z 33005KT CAVOK 14/13 Q1008 NOSIG LHDC 281445Z AUTO 10006KT 070V140 8000 RA OVC054 //////TCU 15/14 Q1011 LHKE 281515Z 16004KT 8000 -RA OVC060 15/14 Q1010 RESHRA R12/290295 TEMPO 5000 RA RMK BLU LHPA 281515Z 30004KT 9999 -SHRA FEW009 BKN040 13/13 Q1009 RETS TEMPO NSW RMK BLU LHPP 281445Z 35003KT 9999 FEW026 BKN083 14/13 Q1009 RETSRA LHPR 281445Z AUTO 35005KT 330V030 CAVOK 16/13 Q1008 NOSIG LHSM 281445Z AUTO 28005KT 240V330 9999 SCT023 BKN044 //////TCU 17/13 Q1009 NOSIG LHSN 281515Z 26010KT 230V290 6000 SHRA SCT040TCU SCT050 OVC083 15/13 Q1009 TEMPO 4000 TSRA RMK WHT LIBA 281455Z 21009KT 9999 FEW030CB BKN040 17/12 Q1011 LIBC 281450Z 25013KT CAVOK 22/09 Q1014 LIBD 281520Z 27009KT 9999 RA FEW015 SCT040 16/13 Q1012 LIBF 281450Z 22009KT 190V250 9999 FEW030 SCT050 18/10 Q1011 LIBG 281450Z 24012G23KT 9999 SCT030 23/10 Q1012 LIBH 281455Z 29009KT 260V340 9999 BKN030 24/15 Q1011 RMK BKN SCT080 QUK 3 QUL 1 S VIS MAR 20 KM VIS MIN 9999 LIBN 281455Z 24014KT 9999 FEW035 24/13 Q1012 LIBP 281520Z AUTO 13003KT 9999 -RA BKN060/// 19/11 Q1009 LIBQ 281455Z VRB09G25KT 0000 -RA FG VV/// 07/07 Q1015 LIBR 281520Z 22012KT CAVOK 24/13 Q1011 LIBV 281455Z 27007KT 9999 SCT025 SCT050 19/12 Q1011 LIBY 281455Z ///07KT 9999 FEW020 23/14 Q1012 LICA 281520Z AUTO 26013KT 9999 FEW100/// 21/14 Q1014 LICB 281520Z AUTO 26011KT 9999 NCD 21/12 Q1017 LICC 281520Z 26013KT 9999 FEW060 25/09 Q1014 LICD 281520Z AUTO 36006KT 9999 NCD 24/13 Q1016 LICF 281455Z 31007KT 9999 BKN040 23/08 Q1014 LICG 281450Z 18006KT CAVOK 22/12 Q1017 LICJ 281520Z 25017KT 9999 FEW030 SCT060 22/15 Q1015 LICL 281455Z 26008KT 220V290 9999 FEW020 24/17 Q//// RMK FEW QUK 2 QUL 0 VIS MAR 20 KM VIS MIN 9999 LICR 281450Z 02008KT 340V070 9999 FEW040 23/11 Q1015 LICT 281455Z 27013KT 9999 SCT018 24/15 Q1017 LICZ 281455Z 26015KT 9999 FEW035 SCT090 26/09 Q1015 LIEA 281520Z AUTO 29010G21KT 260V320 9999 FEW028 BKN034 19/14 Q1013 LIEB 281455Z 27015KT 9999 BKN040 20/08 Q1010 LIEC 281455Z 23026KT 9999 SCT020 21/15 Q1013 RMK SCT QUK 3 QUL 0 VIS MAR 16 KM VIS MIN 9999 LIED 281455Z 29014KT 9999 FEW025TCU SCT040 21/13 Q1013 LIEE 281520Z 31013KT 9999 FEW030 21/13 Q1014 LIEO 281520Z 25012KT 9999 -SHRA SCT030 18/14 Q1011 LIMA 281450Z 11003KT CAVOK 21/02 Q1007 LIMC 281520Z 21004KT 160V240 CAVOK 21/03 Q1008 NOSIG LIME 281520Z 13004KT 100V180 CAVOK 18/05 Q1008 NOSIG LIMF 281520Z 05004KT 360V100 CAVOK 20/04 Q1008 LIMG 281450Z VRB03KT 9999 SCT040 20/07 Q1009 LIMH 281455Z 04020KT 9999 FEW020 M09/M10 Q1013 LIMJ 281520Z 17006KT 9999 FEW025 19/12 Q1009 LIMK 281455Z 19007KT CAVOK 20/07 Q1009 LIML 281520Z 17003KT 130V220 CAVOK 21/05 Q1007 NOSIG LIMN 281455Z 27004KT 180V320 CAVOK 21/04 Q1007 LIMP 281450Z 12003KT 350V160 9999 FEW030 20/09 Q1008 LIMS 281455Z 17003KT 9999 FEW035 20/07 Q1007 LIMU 281455Z 20006KT 9999 FEW020 19/11 Q1008 LIMV 281455Z /////KT 9999 FEW013 15/10 Q1009 LIMW 281520Z AUTO 25016KT 9999 NCD 21/M01 Q1008 LIMY 281455Z 09012KT CAVOK 19/09 Q1008 LIMZ 281520Z AUTO 06007KT 9999 ///////// 20/05 Q1007 LIPA 281455Z 08005KT 9999 SCT020 BKN055 14/09 Q1009 LIPB 281450Z VRB03KT 9999 FEW070 SCT110 18/08 Q1007 RMK MON LIB LIPC 281455Z 06006KT 9999 FEW030 20/12 Q1008 LIPE 281520Z 05004KT 010V090 9999 FEW050 19/08 Q1008 LIPF 281455Z /////KT 9999 FEW080 18/07 Q1008 LIPH 281520Z VRB02KT 9999 FEW020 SCT070 16/09 Q1009 LIPI 281355Z 35008KT 4500 RA BR FEW013 SCT025 BKN040 11/10 Q1008 RMK OVC VIS MAX W 12 KM VIS MIN 4500 WIND THR06 02008KT WIND THR24 01007KT GRN LIPK 281450Z VRB03KT 9999 FEW030 21/05 Q1008 LIPL 281455Z 25003KT CAVOK 19/03 Q1007 LIPO 281520Z AUTO 22007KT 9999 NCD 20/05 Q1008 LIPQ 281520Z AUTO 12006KT 9999 OVC015/// 14/13 Q1008 LIPR 281520Z 09006KT 060V120 9999 SCT050 19/09 Q1008 LIPS 281455Z 21003KT 9999 FEW015 SCT080 BKN100 16/12 Q1009 LIPX 281520Z VRB01KT 9999 FEW080 20/06 Q1008 LIPY 281520Z AUTO 12003KT 070V170 9999 FEW061/// BKN140/// 20/07 Q1009 LIPZ 281520Z VRB01KT 9999 FEW020 BKN070 16/10 Q1009 NOSIG LIQC 281455Z 25012KT 8000 RA SCT015TCU BKN020 16/15 Q1012 LIQN 281450Z VRB03KT 9000 FEW045 13/11 Q1010 LIQO 281455Z 15004KT 9999 FEW004 14/08 Q1008 LIQW 281155Z 00000KT 9999 -RA SCT015 BKN020 19/13 Q1009 RMK OVC VIS MIN 9999 WIND THR18 20004KT WHT LIRA 281520Z 23008KT 210V270 9999 SCT028 18/11 Q1010 LIRE 281455Z 23006KT 9999 FEW018 18/12 Q1010 LIRF 281520Z 25004KT 210V310 9999 FEW025 18/12 Q1010 NOSIG LIRG 281455Z /////KT 9999 FEW020TCU BKN022 16/10 Q1010 RMK BKN MON NE CLD CIME VIS MIN 9999 WHT LIRH 281455Z 11003KT 6000 FEW010 FEW020CB SCT030 15/14 Q1010 RETS LIRI 281450Z 02003KT 8000 BKN030 16/14 Q1012 RETSRA LIRK 281455Z AUTO VRB02KT //// 03/02 Q1012 LIRL 281455Z 13005KT 9999 FEW020 FEW025CB 17/14 Q1010 LIRM 281455Z /////KT 9999 FEW018CB SCT020 BKN030 15/13 Q1011 RERA LIRN 281520Z 21004KT 150V250 8000 -TSRA SCT020CB BKN050 16/13 Q1012 NOSIG LIRP 281515Z 27003KT 9999 SCT040 SCT070 17/12 Q1009 NOSIG LIRQ 281520Z 23003KT 170V290 9999 SCT060 18/09 Q1009 LIRS 281455Z 24004KT 9999 FEW025TCU 19/10 Q1009 LIRT 281455Z 34009KT 0000 FG VV/// 10/09 Q1012 LIRU 281450Z VRB03KT 9999 SCT030 17/13 Q1010 LIRV 281455Z 33001KT 9999 SCT022 15/08 Q1009 LIRX 281455Z 18012KT 9999 SCT020 17/14 Q1010 LIRZ 281520Z AUTO 24004KT 9999 SCT037/// SCT059/// BKN085/// 17/10 Q1010 LIVC 281455Z AUTO 22009KT //// 03/02 Q1012 LIVD 281455Z /////KT 9999 FEW025 BKN030 08/06 Q1010 LIVE 281455Z 02007G20KT 9999 SCT030 08/01 Q1006 RMK BKN BKN060 VIS MIN 9999 LIVF 281455Z 20007KT 9999 SCT032 SCT038 15/05 Q1008 LIVM 281455Z AUTO VRB05KT //// 21/07 Q1008 LIVO 281455Z 00000KT 5000 -RA BR FEW010 BKN025 07/06 Q1008 LIVP 281455Z 00000KT 9999 FEW013 SCT020 02/M03 Q1008 LIVR 281455Z 34003KT 8000 BKN016 04/01 Q1004 LIVT 281455Z /////KT 9999 -RA BKN020 SCT025 15/13 Q1008 RMK OVC QUK 0 QUL 0 VIS MAR 10 KM VIS MIN 9999 LJCE 281500Z 25007KT 220V290 9999 FEW030 SCT065 16/09 Q1009 RMK BLU LJLJ 281500Z 29009KT 9999 -RA FEW003 SCT030 BKN045 10/08 Q1010 NOSIG LJMB 281500Z 02006KT 9999 BKN015 13/10 Q1009 LJPZ 281500Z 22005KT 190V260 9999 -RA BKN050 BKN070 14/11 Q1009 LKCV 281500Z 31005KT 7000 -RA FEW003 SCT013 OVC025 10/10 Q1010 NOSIG LKKB 281500Z 29006KT 4500 DZ BR SCT014 BKN020 OVC029 09/08 Q1011 NOSIG LKKV 281519Z VRB02KT 9999 -RA FEW020 11/07 Q1011 RMK REG QNH 1006 LKLN 281500Z AUTO 22003KT 190V270 5000 -RA SCT004 BKN050 OVC057 09/09 Q1012 LKMT 281500Z 03005KT 6000 -RA SCT007 OVC014 11/10 Q1010 NOSIG LKNA 281500Z 07003KT 050V110 7000 OVC002 10/09 Q1009 NOSIG LKPD 281500Z VRB02KT 8000 -RA SCT027 OVC039 11/10 Q1010 NOSIG LKPR 281500Z 29005KT 9999 -RA FEW015 OVC025 09/08 Q1011 NOSIG LKTB 281516Z 29002KT 4500 -RA BR FEW010 OVC013 11/10 Q1010 RMK REG QNH 1006 LLBG 281450Z 33012KT CAVOK 31/21 Q1014 NOSIG LMML 281515Z 26008KT 230V290 9999 FEW040 24/15 Q1017 NOSIG LOAN 281500Z 32005KT 10KM -SHRA FEW015ST BKN045SC LOAV 281500Z 35010KT 15KM -SHRA FEW010ST BKN030SC 12/12 LOWG 281520Z 31003KT 250V360 9999 FEW010 BKN035 12/10 Q1009 NOSIG LOWI 281520Z 06003KT 030V120 9999 FEW015 SCT050 BKN065 10/07 Q1013 NOSIG LOWK 281520Z 28004KT 230V300 9999 -RADZ SCT010 OVC038 10/08 Q1010 NOSIG LOWL 281520Z AUTO 26007KT 9999 FEW022 BKN026 10/09 Q1011 NOSIG LOWS 281520Z 33004KT 9999 FEW010 BKN035 09/07 Q1012 NOSIG LOWW 281520Z 31006KT 9999 FEW007 BKN015 11/10 Q1010 NOSIG LOXT 281450Z 26004KT 12KM FEW007ST SCT010SC BKN020SC 11/10 Q1010 RMK WIND INFO EST/OVC LOXZ 281520Z VRB02KT 10KM FEW008ST OVC035SC 09/07 Q1010 NOSIG LPAR 281500Z 12004KT CAVOK 28/11 Q1015 LPAZ 281500Z 06007KT 020V120 9999 SCT016 FEW025TCU 24/19 Q1021 LPBJ 281500Z 03003KT 280V090 CAVOK 28/08 Q1015 LPCS 281500Z 32008KT CAVOK 23/14 Q1016 LPFL 281500Z 01010KT 5000 -DZ BKN004 19/18 Q1026 LPFR 281500Z 11005KT CAVOK 24/16 Q1014 LPHR 281500Z 06011KT 030V110 9999 FEW014 SCT035 24/19 Q1023 LPLA 281500Z /////KT 9999 FEW015 23/19 Q1023 LPMA 281500Z 36013KT 320V030 9999 SCT016 24/16 Q1018 LPMR 281500Z 31009KT 270V330 CAVOK 20/15 Q1016 LPMT 281500Z 34003KT 290V040 CAVOK 27/10 Q1015 LPOV 281500Z 35008KT CAVOK 19/12 Q1016 LPPD 281500Z 04010KT 360V090 9999 FEW009 FEW016TCU BKN030 24/19 Q1022 LPPR 281500Z 32007KT 280V340 CAVOK 19/10 Q1017 LPPS 281500Z 35013KT 7000 -SHRA FEW007 BKN011 21/19 Q1018 LPPT 281500Z VRB03KT CAVOK 27/11 Q1015 LPST 281500Z 30009KT 9999 FEW025 20/14 Q1016 LQBK 281500Z 24006KT CAVOK 19/10 Q1009 NOSIG LQMO 281500Z 08003KT 030V140 9999 -RA FEW030 BKN045 16/13 Q1010 LQSA 281500Z 34005KT 310V020 9999 FEW040 BKN050 13/11 Q1011 NOSIG LQTZ 281500Z 28005KT 9999 BKN035 18/10 Q1010 LRAR 281500Z 14012KT 9999 SCT040CB 19/14 Q1009 R09/29//95 LRBC 281500Z 15004KT 9999 BKN040 19/14 Q1015 LRBM 281500Z 14004KT 100V160 9999 SCT050 19/11 Q1012 LRBO 281500Z 13022KT 9999 SCT050 BKN100 23/14 Q1014 BLU BLU LRBS 281500Z 11006KT 090V180 9999 FEW050CB 26/12 Q1012 NOSIG LRCK 281500Z 12016KT 9999 BKN020 FEW035CB 21/18 Q1016 NOSIG LRCL 281500Z 13006KT 9999 -RA FEW040 15/12 Q1013 R07/29//95 LRCT 281500Z 05001KT 9999 -SHRA BKN010 BKN040CB OVC090 16/12 Q1013 GRN GRN LRCV 281500Z 04004KT 010V070 CAVOK 22/14 Q1011 LRFT 281500Z 13014G24KT 9999 BKN060 23/18 Q1015 BLU BLU LRIA 281500Z 13010KT CAVOK 22/11 Q1016 LROD 281500Z 11007KT 9999 -RA BKN047 15/14 Q1011 R01/19//95 LROP 281500Z 11004KT CAVOK 26/12 Q1012 NOSIG LRSB 281500Z 14011KT 120V180 9999 FEW042CB BKN050 19/10 Q1013 LRSM 281500Z 19004KT 9999 -RA NSC 16/13 Q1012 LRSV 281500Z 17007KT 9999 -SHRA FEW040CB SCT050 14/12 Q1016 R16/29//95 LRTC 281500Z 13019KT 9999 FEW025 21/15 Q1016 LRTM 281500Z 03005KT 9999 -RA FEW011 SCT035 16/14 Q1013 R07/29//95 LRTR 281500Z 12010KT 9999 FEW048 FEW055CB 17/14 Q1009 NOSIG LRTZ 281500Z 12018KT 9999 SCT014 BKN020 BKN140 22/18 Q1015 WHT WHT LSGC 281520Z 25005KT 190V270 9999 BKN024 BKN027 08/05 Q1013 LSGG 281520Z 24009KT 9999 VCSH FEW025 BKN050 14/09 Q1014 NOSIG LSGS 281520Z 25015KT 9999 FEW060 16/07 Q1011 LSMA 281520Z AUTO 09003KT 060V130 9999NDV BKN051 BKN078 14/07 Q1012 RMK LSMD 281520Z AUTO 26009KT 9999NDV SCT038 BKN066 14/05 Q1012 RMK LSME 281520Z AUTO 26005KT 210V300 9999NDV FEW041 BKN073 14/06 Q1012 RMK LSMM 281520Z AUTO 25003KT 220V320 9999NDV BKN047 BKN067 13/07 Q1012 RMK LSMP 281520Z AUTO 21006KT 9999NDV OVC046 13/08 Q1013 RMK LSZA 281520Z 21004KT CAVOK 21/07 Q1007 NOSIG LSZB 281520Z 28005KT 180V320 9999 BKN050 13/07 Q1012 NOSIG LSZC 281520Z AUTO 35005KT 270V030 9999 SCT065 SCT075 14/07 Q1012 LSZG 281520Z AUTO 23004KT 9999 FEW025 BKN045 BKN050 12/09 Q1013 LSZH 281520Z 26008KT 9999 FEW037 SCT060 14/06 Q1012 NOSIG LSZL 281420Z 24004KT 200V270 9999 FEW090 19/04 Q1007 RMK BLU+ LSZR 281520Z 09003KT 050V120 9999 FEW030 14/06 Q1012 NOSIG RMK L LSZS 281520Z 33012KT 310V010 9999 BKN038 04/M02 Q1012 RMK T TL180 LTAB 281450Z 26010KT CAVOK 29/06 Q1020 NOSIG RMK RWY06 25008KT 220V280 LTAC 281450Z 24010KT CAVOK 28/06 Q1020 NOSIG LTAD 281450Z 25009KT CAVOK 29/06 Q1020 NOSIG RMK RWY29 25008KT LTAE 281450Z 25010KT CAVOK 29/06 Q1020 NOSIG RMK RWY21 25009KT LTAF 281450Z 22010KT CAVOK 30/23 Q1013 NOSIG RMK RWY23 24010KT LTAG 281450Z 20010KT CAVOK 32/21 Q1013 NOSIG RMK SKC LTAH 281350Z 24012KT CAVOK 29/09 Q1022 RMK RWY13 26012G23KT 220V310 LTAI 281450Z 13003KT 100V160 9999 FEW030 31/19 Q1015 NOSIG LTAJ 281450Z 06006KT 040V100 CAVOK 33/10 Q1015 NOSIG LTAL 281250Z 04007KT 350V070 9999 FEW033 27/09 Q1020 LTAN 281450Z 35011KT CAVOK 30/05 Q1021 NOSIG RMK RWY19 36011KT LTAP 281450Z 11002KT 9999 FEW040 30/07 Q1016 BECMG TL1550 03012KT RMK RWY23 11003KT LTAR 281450Z 34009KT 9999 FEW040 22/07 Q1025 LTAS 281350Z 34008KT 310V010 CAVOK 27/14 Q1016 LTAT 281450Z 30012KT CAVOK 30/04 Q1018 NOSIG RMK RWY03 31009KT LTAU 281450Z 32010KT 9999 FEW040 29/04 Q1021 NOSIG RMK RWY07 29009KT LTAV 281350Z 28010KT 9999 SCT040 29/08 Q1020 RMK RWY11 29010KT 260V330 LTAW 281250Z 27005KT 9999 FEW040 32/12 Q1018 RMK RWY22 25006KT 220V280 LTAY 281450Z 29013KT 9999 FEW035 29/11 Q1021 LTAZ 281450Z 27009KT 9999 FEW040 29/06 Q1021 LTBA 281450Z VRB02KT CAVOK 27/15 Q1016 NOSIG LTBD 281450Z 28008KT CAVOK 31/16 Q1016 LTBF 281450Z 23007KT CAVOK 32/13 Q1015 NOSIG RMK RWY18 22007KT 190V250 LTBG 281450Z 35008KT CAVOK 25/18 Q1015 NOSIG RMK RWY18 36010KT LTBH 281515Z VRB04KT 9999 FEW025CB SCT030 BKN100 23/18 Q1015 RETSRA LTBI 281450Z 32004KT 280V350 CAVOK 29/10 Q1019 NOSIG RMK RWY08 32004KT LTBJ 281450Z 23007KT CAVOK 31/14 Q1016 NOSIG LTBL 281450Z 24005KT CAVOK 31/15 Q1015 NOSIG RMK RWY17 23005KT 200V260 LTBO 281350Z 21005KT 180V280 9999 SCT040 29/12 Q1021 LTBQ 281450Z 29003KT 270V350 CAVOK 27/15 Q1016 NOSIG LTBR 281450Z 08004KT CAVOK 30/14 Q1016 NOSIG LTBS 281450Z 20006KT 9999 FEW030 29/20 Q1016 NOSIG LTBT 281350Z 29003KT 9999 FEW040 SCT100 34/14 Q1015 RMK RWY13 28006KT 250V330 1CU040 3AC100 LTBU 281450Z 16004KT 130V190 CAVOK 26/13 Q1015 RMK RWY22 16003KT 100V260 LTBY 281450Z 32007KT 290V350 9999 FEW040 29/10 Q1019 LTCA 281450Z 29008KT CAVOK 30/04 Q1017 NOSIG LTCB 281450Z 09005KT 9999 FEW035 23/23 Q1017 LTCC 281450Z 36011KT CAVOK 32/04 Q1014 NOSIG RMK RWY16 28010KT LTCD 281450Z VRB02KT CAVOK 26/11 Q1020 NOSIG LTCE 281450Z 35004KT CAVOK 20/07 Q1024 NOSIG RMK RWY08R 33003KT RWY26R 35004KT RWY08L 35002KT LTCF 281450Z 07008KT 9999 FEW040 18/04 Q1025 LTCG 281450Z 00000KT 9999 BKN028 24/21 Q1018 NOSIG LTCI 281450Z 20004KT 170V230 9999 FEW040 19/08 Q1025 NOSIG LTCJ 281450Z 33004KT CAVOK 31/05 Q1012 RMK RWY20 33005KT SKC LTCK 281450Z 06007KT CAVOK 24/01 Q1019 RMK RWY11 08006KT LTCL 281250Z 33009KT CAVOK 36/03 Q1013 LTCM 281450Z 10007KT 9999 FEW033 SCT100 24/20 Q1018 LTCN 281450Z 29013KT CAVOK 33/16 Q1014 NOSIG LTCO 281250Z 03012KT CAVOK 24/03 Q1023 LTCP 281250Z 17003KT 110V240 CAVOK 35/07 Q1015 LTCR 281150Z 03009KT 320V080 CAVOK 36/02 Q1013 LTCS 281450Z 29006KT CAVOK 31/06 Q1017 LTCT 281250Z 12003KT 060V170 CAVOK 28/06 Q1020 LTCU 281250Z VRB02KT CAVOK 31/05 Q1018 LTCV 281450Z 30008KT CAVOK 32/03 Q1012 LTCW 281350Z 07016KT 9999 FEW040 21/06 Q1024 LTDA 281450Z 23013KT CAVOK 29/22 Q1012 NOSIG LTFA 281250Z 26007KT 220V290 CAVOK 33/14 Q1016 RMK RWY17 24008KT LTFC 281450Z 24006KT 200V280 CAVOK 31/10 Q1020 LTFD 281450Z 12003KT 9999 FEW035 SCT100 BKN200 27/16 Q1015 LTFE 281450Z 28010KT 9999 FEW035 SCT120 BKN200 30/13 Q1017 NOSIG LTFG 281450Z 26008KT CAVOK 29/22 Q1014 LTFH 281450Z 09004KT 060V130 CAVOK 25/19 Q1016 NOSIG LTFJ 281450Z 00000KT CAVOK 28/12 Q1016 NOSIG LTFK 281350Z VRB11KT 9999 SCT030 SCT100 27/16 Q1015 LTFM 281450Z 20006KT 170V230 CAVOK 28/10 Q1016 NOSIG LUKK 281500Z 12009KT CAVOK 23/10 Q1017 R27/CLRD// NOSIG LWOH 281500Z 26002KT 9999 BKN040TCU 17/10 Q1014 LWSK 281530Z 30005KT 260V340 9999 -RA VCTS FEW040CB SCT060 20/15 Q1012 NOSIG LXGB 281520Z 07007KT CAVOK 22/17 Q1014 NOSIG RMK BLU BLU LYBE 281500Z 15007KT 110V270 9999 -RA SCT033 19/14 Q1009 RETS NOSIG LYBT 281500Z 32005KT 260V030 9999 SCT033 18/14 Q1009 RETS NOSIG LYKV 281500Z 28007KT 210V340 9999 SCT043 24/08 Q1010 NOSIG LYNI 281500Z 09012KT 9999 FEW033TCU BKN040 18/15 Q1011 TEMPO TS FEW033CB BKN040 LYPG 281500Z 14006KT 9999 FEW034 SCT040 BKN100 21/13 Q1012 NOSIG LYTV 281500Z VRB01KT 9999 FEW040 18/13 Q1012 NOSIG LYUZ 281500Z 21006KT 180V270 9999 SCT023 14/05 Q1012 LYVR 281500Z 13022KT CAVOK 18/12 Q1009 LZIB 281500Z 03003KT 9999 FEW010 SCT018 BKN021 14/12 Q1009 NOSIG LZKZ 281500Z VRB02KT 9999 -RA NSC 14/12 Q1011 NOSIG LZPP 281500Z 02004KT 350V050 9999 BKN032 BKN080 14/12 Q1009 LZSL 281520Z VRB02KT 5000 RA BR OVC030 12/11 Q1011 LZTT 281500Z 04004KT 010V070 9999 FEW030 OVC040 10/07 Q1012 NOSIG LZZI 281500Z VRB02KT 9999 -RA BKN040 OVC080 13/12 Q1010 MBGT 281500Z 08010KT 9999 SCT015 29/23 Q1014 MBPV 281500Z 10004KT 9999 SCT012 30/23 Q1013 MDAB 281500Z 19004KT 9999 FEW018 SCT300 27/25 Q1014 MDBH 281500Z 00000KT 9999 FEW021 SCT300 32/27 Q1013 MDCY 281500Z 00000KT 8000 -RA SCT016 OVC300 26/25 Q1013 MDJB 281500Z 36008KT 9999 FEW018 SCT020 30/25 Q1014 CB/N MDLR 281500Z 12010KT 9999 FEW018CB SCT020 SCT300 32/28 Q1012 CB/NE/E/SW MDPC 281500Z 07006KT 9999 FEW025 31/23 Q1014 MDPP 281500Z 00000KT 9999 BKN020 28/24 Q1013 MDSD 281500Z 01008KT 7000 -RA FEW016CB BKN016 SCT070 27/24 Q1013 CB/NE/E MDST 281500Z 12005KT 060V140 9999 FEW022CB FEW024 BKN300 27/22 Q1014 CB/NE/E/SE MGCB 281500Z 00000KT CAVOK 21/17 QFE869.8 FEW090 MGES 281500Z 00000KT 9999 FEW018 BKN200 25/17 QFE908.0 MGGT 281500Z 04008KT 9999 FEW018 BKN200 22/17 Q1024 A3024 MGHT 281500Z 00000KT 9999 SCT018 19/14 MGMM 281500Z 09004KT CAVOK 30/25 Q1012 A2988 MGMT 281500Z 00000KT CAVOK 31/23 FEW200 MGPB 281500Z 36004KT 9999 FEW018 SCT200 30/25 Q1011 A2985 MGQZ 281500Z 00000KT CAVOK 15/10 QFE772/8 SCT200 MGRT 281500Z 00000KT CAVOK 29/24 Q1013 A2991 SCT200 VOL SANTA MARIA Y SANTIAGUITO EN ACTIVIDAD MGSJ 281500Z 03004KT CAVOK 29/23 Q1011 A2985 BKN200 MGTU 281500Z 02004KT CAVOK 29/22 SCT200 MGZA 281500Z 00000KT CAVOK 27/22 BKN200 MHCA 281500Z 00000KT 9999 SCT026 SCT200 29/20 MHCH 281500Z VRB02KT 9999 FEW030 29/24 MHGS 281500Z 36004KT 9999 SCT038 BKN200 23/19 MHLC 281500Z 00000KT 9999 FEW025 SCT250 31/25 Q1011 A2986 NOSIG MHLE 281500Z 09006KT 9999 SCT022 SCT220 22/15 MHLM 281500Z 19006KT 9999 FEW028 BKN250 30/24 Q1011 A2986 NOSIG MHNO 281500Z 00000KT 9999 FEW040 25/21 MHPL 281500Z 36004KT 9999 SCT028TCU 30/26 Q1011 MHRO 281500Z 09018KT 9999 FEW028 SCT250 30/25 Q1011 A2986 NOSIG MHSC 281456Z 30005KT 9999 FEW050 SCT120 27/20 A2997 RMK AO2A SLPNO $ MHSR 281500Z 04005KT 9999 SCT020 BKN250 22/21 MHTE 281500Z VRB02KT 9999 FEW026 BKN250 30/26 Q1009 MHTG 281500Z 00000KT 9999 FEW028 25/24 Q1018 A3006 NOSIG MHTR 281500Z 00000KT 9999 FEW028 BKN250 32/21 MHYR 281500Z 27004KT 9999 SCT023 24/20 MKJP 281500Z 16009KT 9999 FEW020 FEW022CB 29/24 Q1012 MKJS 281500Z 05015KT 9999 FEW024 31/24 Q1011 MMAA 281345Z 03006KT 8SM FEW100 OVC300 26/23 A2979 RMK 8/072 HZY MMAN 281146Z 00000KT 6SM SKC 19/18 A2983 RMK SLP/// 5//// 9// HZY RTS MMAS 281447Z 01007KT 6SM SCT200 18/11 A3023 RMK SLP/// 5//// 9// 8/008 HZY MMBT 281449Z 00000KT 10SM SCT110 BKN210 26/22 A2987 RMK 8/063 CB S MMCB 281454Z 17003KT 1/4SM FG VV001 18/18 A3011 RMK 8//// MMCE 281445Z 14011KT 6SM FEW015 BKN200 29/25 A2985 RMK SLP105 52020 964 8/508 HZY MMCL 281348Z 00000KT 10SM SKC 28/25 A2980 RMK HZY MMCM 281345Z 10008KT 7SM SCT020CB 30/29 A2987 RMK 8/300 MMCN 281449Z 12005KT 10SM SCT100 29/23 A2980 RMK SLP092 8/030 ISOL SC S HZY MMCP 281158Z RTD 00000KT 6SM SCT007 SCT300 25/25 A2983 RMK SLP091 5//// 964 8/601 HZY RTS MMCS 281447Z 06017KT 10SM SKC 16/00 A3033 RMK SLP170 5//// 945 MMCU 281140Z 17006KT 10SM SKC 16/05 A3007 RMK SLP071 5//// 903 AC SW RTS MMCV 281447Z 23002KT 7SM SKC 24/24 A2986 RMK SLP/// 54000 902 HZY MMCZ 281145Z 13004KT 7SM SCT250 25/24 A2986 RMK SLP115 5//// 966 8/005 SC RTS MMDO 281347Z 00000KT 10SM FEW070 10/08 A3024 RMK 8/050 MMEP 281251Z 00000KT 7SM FEW006 SCT090 BKN250 20/19 A2997 RMK 8/638 MMGL 281447Z 31003KT 7SM BKN080 BKN300 21/16 A3012 RMK SLP085 51010 958 8/038 HZY MMGM 281359Z RTD 00000KT 10SM SCT120 27/24 A2976 RMK 8/040 RTS MMHO 281253Z 00000KT 10SM SKC 24/17 A2984 RMK HZY MMIA 281448Z 00000KT 6SM BKN150 25/22 A2993 RMK 8/010 HZY MMIO 281140Z 18006KT 10SM SKC 20/12 A3005 MMLM 281302Z RTD 07004KT 8SM BKN025 28/23 A2980 RMK 8/500 HZY RTS MMLO 281145Z 00000KT 8SM FEW220 12/09 A3020 RMK SLP083 54000 964 8/002 MMLP 281453Z 15006KT 10SM SKC 27/17 A2984 RMK SLP103 5//// 964 ISOL CI HZY MMLT 281449Z 00000KT 10SM SKC 32/23 A2979 RMK SLP088 MMMA 281346Z 15004KT 4SM SKC 27/27 A2980 RMK HZY MMMD 281446Z 11010KT 6SM BKN012 BKN300 30/26 A2989 RMK SLP112 52002 966 8/108 MMML 281445Z 00000KT 10SM SKC 23/14 A2987 RMK SLP115 5//// 913 MMMM 281515Z 09002KT 4SM BKN015 BKN200 20/16 A3018 RMK 8/508 HZY MMMT 281202Z RTD 00000KT 8SM BKN120 26/23 A2977 RMK SLP156 951 8/050 VCHZ RTS MMMX 281445Z 07002KT 8SM FEW025 SCT080 SCT200 17/12 A3028 NOSIG RMK SLP127 52032 910 8/532 HZY MMMY 281246Z 33007KT 8SM FEW100 21/20 A2980 RMK 8/020 HZY MMNL 281448Z 03004G34KT 2SM -RA OVC006 25/24 A2999 RMK SLP138 52037 942 8/7// RAB35 MSG TX MMMX MMOX 281449Z 09004KT 10SM BKN020 BKN220 19/13 A3019 RMK SLP110 52019 952 8/702 CU ARND MMPA 281205Z RTD 30010KT 4SM SCT020 25/24 A2980 RMK SLP0966 5//// 942 8/500 HZY RTS MMPB 281448Z 04005KT 9SM FEW090 SCT220 17/13 A3027 RMK 8/032 HZY MMPN 281428Z 00000KT 3SM BR OVC080 17/17 A3008 RMK 8/02/ HZY MMPQ 281447Z 00000KT 6SM BKN020 28/26 A2975 RMK 8/100 HZY MMPR 281448Z 00000KT 15SM FEW025 SCT070 OVC100 28/25 A2983 RMK SLP098 52015 960 8/47/ LWR CLDS-SE DSNT CB-SE AND NW MMPS 281449Z 00000KT 15SM SCT070 SCT220 29/23 A2985 RMK 8/091 CB DSNT S SW SE MMRX 281446Z 05006KT 3SM BR HZ BKN012 28/24 A2987 RMK SLP111 52036 919 8/500 MMSD 281445Z 30009KT 12SM SKC 29/18 A2985 RMK SLP088 5//// 987 MMSL 281207Z RTD 29011KT 7SM SKC 25/22 A2983 RMK RTS MMSP 281151Z 00000KT 6SM SKC 12/07 A3015 RMK SLP074 52005 960 CI SC MMTC 281140Z 00000KT 8SM BKN100 22/04 A2997 RMK SLP032 5//// 960 8/030 RTS MMTG 281248Z 13003KT 3SM BR FEW004 SCT015 BKN300 23/22 A2990 RMK 8/802 VSBY VRB BC BR MMTJ 281407Z RTD 00000KT 6SM SKC 16/15 A2992 RMK HZ RTS MMTM 281202Z RTD 22002KT 4SM SKC 25/25 A2978 RMK SLP083 5//// 984 BR HZY SC CI RTS MMTO 281449Z 26006KT 2SM BR HZ SCT015 BKN070 13/11 A3033 RMK SLP083 52010 966 8/530 MMTP 281349Z 09002KT 10SM SKC 26/25 A2984 RMK CI MMUN 281453Z 09003KT 7SM FEW015 SCT250 31/26 A2991 RMK SLP131 52017 961 8/108 MMVA 281456Z 00000KT 5SM SCT200 30/26 A2986 RMK 8/008 HZY MMVR 281452Z 17004KT 7SM BKN250 28/25 A2984 RMK SLP077 52015 975 8/001 HZY MMZC 281004Z RTD 00000KT 10SM SKC 11/04 A3018 RMK RTS MMZH 281447Z E12004KT 7SM SCT250 28/24 A2982 RMK SLP093 52016 967 8/002 HZY SC MMZO 281240Z 36006KT 12SM FEW020 SCT250 25/20 A2979 RMK 8/106 RTS MNBL 281500Z 02004KT 8000 TS FEW017CB SCT020 29/25 Q1011 2CI300 CBRA/E/SE/S MNCH 281500Z 04004KT CAVOK 30/21 Q1010 MNJG 281500Z 00000KT 9999 SCT020 24/19 Q1012 MNJU 281500Z 09004KT 9999 SCT020 29/22 Q1011 1AC080 1CI300 MNMG 281500Z 11006KT 9999 FEW022 29/23 Q1010 A2983 1AC070 NOSIG MNPC 281500Z 02006KT 7000 BKN016 31/26 Q1009 HZ MNRS 281500Z 09004KT 9999 FEW012CB SCT014 29/24 Q1010 CB/S MPBO 281500Z 27004KT 9999 FEW020 SCT090 ///// Q1013 MPDA 281500Z VRB04KT 9999 FEW020 29/23 Q1009 MPMG 281500Z VRB02KT 9999 SCT017TCU 28/25 Q1011 NOSIG MPPA 281500Z 00000KT 9999 FEW017 30/27 Q1010 MPSM 281500Z 06002KT(E) 9999 FEW030 29/24 Q1010 MPTO 281500Z 08003KT 9999 SCT018 28/24 Q1011 NOSIG MRLB 281500Z 22003KT CAVOK 27/23 A2983 MRLM 281500Z 19002KT 9999 FEW020 SCT120 30/23 A2985 MROC 281500Z 12010KT 080V150 CAVOK 25/17 A2998 NOSIG MRPV 281500Z 10012KT 9999 FEW045 BKN220 24/16 A3000 NOSIG MSAC 281450Z 10002KT 9999 FEW033 29/25 Q1009 A2982 MSLP 281450Z 12003KT 060V170 9999 FEW030 29/23 Q1011 A2985 NOSIG MSLU 281450Z 00000KT CAVOK 27/23 Q1010 A2983 MSSA 281450Z 15002KT 9999 FEW023 28/22 Q1013 A2993 MSSM 281450Z 00000KT CAVOK 25/25 Q10108 A2985 MSSS 281450Z 00000KT 9999 FEW023 27/21 Q1015 A2998 MTPP 281459Z AUTO /////KT //// ////// ///// Q//// A//// NOSIG MUCC 281450Z AUTO 11008KT 070V160 31/25 Q1013 MUCL 281454Z 08009KT 050V110 9000 FEW020 30/24 Q1013 MUCM 281451Z 08010KT 9000 SCT018 30/24 Q1014 MUCU 281450Z 19004KT 100V250 9000 FEW020 31/21 Q1013 MUGM 281451Z 12017KT 10SM FEW030 32/22 A2994 RMK AO2 SLP137 T03170222 51013 $ MUHA 281455Z 04005KT 9999 BKN025 30/23 Q1014 MUHG 281450Z 10012KT 9999 FEW024 31/22 Q1013 MUSC 281450Z 14008KT 110V170 9000 SCT025 30/23 Q1014 MUVR 281450Z 14006KT 9000 BKN020 29/25 Q1014 MWCB 281500Z 13010KT 9999 SCT020 31/25 Q1012 MWCR 281500Z /////KT 9999 VCSH BKN016TCU 30/25 Q1012 RMK WND SPD ND DIR EST 11007KT 070V140 MYGF 281500Z 21005KT 9999 VCSH BKN014TCU 29/27 A2997 RESHRA MYNN 281500Z 14008KT 9999 SCT025 30/24 A2996 MYSM 281500Z AUTO 11009KT 9999 BKN027/// BKN032/// 30/24 A2997 MZBZ 281500Z 10006KT 9999 BKN021 31/26 A2987 Q1011 NOSIG NCAI 281100Z AUTO NCAT 281500Z AUTO 13003KT //// ////// ///// Q1010 NCMG 281500Z AUTO 11006KT //// ////// ///// Q1012 NCMH 281500Z AUTO 12005KT //// ////// ///// Q1009 NCMK 281500Z AUTO 11005KT //// ////// 23/21 Q1014 NCMR 281500Z AUTO 10003KT //// ////// ///// Q1015 NCPK 281500Z AUTO 07002KT //// ////// 27/24 Q1009 NCPY 281500Z AUTO 06015KT //// ////// 28/22 Q1009 NCRG 281500Z AUTO 10006KT 060V150 9999 FEW019/// SCT026/// BKN060/// 21/19 Q1017 NCRK 281500Z AUTO 10004KT //// ////// 26/24 Q1009 NFFN 281500Z VRB02KT 9999 FEW030 22/20 Q1011 NOSIG NFNA 281500Z 00000KT 9999 SCT018 BKN045 22/22 Q1012 NFTF 281500Z 09004KT 9999 FEW015 21/21 Q1015 NFTL 281200Z 08014KT 9999 FEW018 24/21 Q1016 NFTV 281500Z 08008KT 9999 SCT016 24/22 Q1013 NGFU 281500Z 06008KT 9999 FEW018TCU 28/23 Q1008 NGTA 281500Z 09007KT 9999 FEW020 27/23 Q1008 NIUE 281500Z AUTO 13007KT //// // ///////// 23/23 Q1014 NLWW 281500Z AUTO 11008KT 080V140 9999 -RA FEW012/// SCT026/// BKN086/// 25/23 Q1009 TEMPO 2000 TSRA BKN010 SCT016CB NSFA 281500Z 10004KT 9999 FEW024 24/23 Q1010 NSTU 281500Z 11016KT 10SM SCT017 BKN100 27/24 A2984 RMK SLP105 60015 8/170 T02680242 57015 NTAA 281500Z VRB01KT 9999 FEW023 SCT300 23/20 Q1014 NOSIG NVSS 281500Z 00000KT 9999 BKN022 25/21 Q1011 NVVV 281500Z 14002KT 9999 FEW020 20/20 Q1012 NWWW 281500Z AUTO 16009KT 9000 -RA SCT015/// OVC022/// ///CB 19/18 Q1015 TEMPO 4000 SHRA BKN008 FEW018CB NZAA 281500Z AUTO 29020KT 9999 BKN032/// BKN042/// 14/09 Q1007 TEMPO 6000 SHRA NZCH 281500Z AUTO 28009KT 9999 NCD 04/M03 Q0992 NOSIG NZSP 281150Z 11010KT 3200 IC DRSN SCT015 M61/ A2820 RMK CLN AIR 12002KT ALL WNDS GRID SDG/HDG NZWN 281500Z AUTO 30012G23KT 250V340 9999 NCD 10/00 Q0995 NOSIG OAHR 281455Z 05005KT CAVOK 20/M08 Q1018 RMK FEW150 A3007 BLU OAIX 281507Z 33008KT 9999 -RA SCT090 BKN120 19/06 A2999 RMK AO2A RAB07 SLP088 OAKB 281450Z 04007KT 9999 FEW065 SCT120 BKN140 19/04 Q1018 RMK A3008 BLU BLU OAKN 281456Z 26002KT 9999 CLR 22/M05 A2989 RMK AO2A SLP065 WND DATA ESTMD T02231048 52005 $ OAMS 281450Z 25006KT 9999 FEW250 21/M05 Q1018 BLU+BLU+ OBBI 281530Z 03005KT 350V090 CAVOK 34/21 Q1005 NOSIG OEAB 281500Z 04011KT CAVOK 27/M12 Q1023 NOSIG OEAH 281500Z 06008KT CAVOK 37/15 Q1006 NOSIG OEAO 281500Z 36010KT CAVOK 37/02 Q1013 OEAR 281500Z 27006KT CAVOK 39/17 Q1007 OEBA 281500Z 09010KT CAVOK 29/M03 Q1020 NOSIG OEBH 281500Z 07017KT CAVOK 32/02 Q1015 NOSIG OEDF 281500Z 06006KT CAVOK 38/14 Q1005 NOSIG OEDM 281500Z 36009KT CAVOK 35/03 Q1014 NOSIG OEDR 281500Z 03010KT CAVOK 37/15 Q1003 OEGN 281500Z 27008KT 8000 FEW030 33/28 Q1006 NOSIG OEGS 281500Z 34011KT CAVOK 35/11 Q1012 OEGT 281500Z 33010KT CAVOK 39/07 Q1013 OEHL 281500Z 02008KT CAVOK 31/06 Q1017 OEJN 281500Z 27006KT CAVOK 34/25 Q1005 NOSIG OEKJ 281500Z 02008KT CAVOK 38/02 Q1012 OEKM 281500Z 06018KT CAVOK 26/M02 Q1023 NOSIG OEMA 281500Z 13003KT CAVOK 39/M01 Q1013 NOSIG OENG 281500Z 08008KT CAVOK 31/M01 Q1015 NOSIG OEPA 281500Z 33009KT CAVOK 36/12 Q1009 NOSIG OEPS 281456Z AUTO 01005KT 8000 HZ CLR 36/03 A2990 RMK AO2 SLPNO WND DATA ESTMD T03620025 53004 OERF 281500Z 32013KT CAVOK 37/03 Q1010 OERK 281500Z 33008KT CAVOK 35/06 Q1012 NOSIG OERR 281500Z 35008KT CAVOK 37/04 Q1011 OERY 281500Z 34012KT CAVOK 36/05 Q1012 OESH 281500Z 02006KT CAVOK 37/00 Q1010 NOSIG OESK 281500Z 34007KT CAVOK 36/00 Q1016 OETB 281500Z 01012KT CAVOK 36/M01 Q1015 NOSIG OETF 281500Z 09009KT CAVOK 32/M04 Q1019 NOSIG OETR 281500Z 32012KT CAVOK 33/08 Q1016 OEWD 281500Z 05010KT CAVOK 37/08 Q1010 NOSIG OEWJ 281500Z 31015KT CAVOK 33/27 Q1007 NOSIG OEYN 281500Z 27017KT CAVOK 39/18 Q1004 NOSIG OIAA 281500Z 29006KT CAVOK 36/09 Q1003 OIAD 281500Z 00000KT 6000 NSC 36/14 Q1004 A2967 OIAG 281400Z 23006KT CAVOK 40/15 Q1003 OIAH 281500Z 28004KT CAVOK 32/16 Q1010 A2984 OIAM 281500Z 00000KT CAVOK 36/20 Q1002 OIAW 281500Z 20002KT 8000 NSC 34/17 Q1002 OIBA 281500Z 24004KT CAVOK 33/26 Q1004 OIBB 281500Z 26006KT CAVOK 32/22 Q1004 A2965 OIBH 281500Z 00000KT CAVOK 32/24 Q1004 A2965 OIBJ 281500Z 23006KT CAVOK 31/20 Q1010 OIBK 281500Z 28008KT 8000 NSC 33/26 Q1004 NOSIG OIBL 281500Z 26008KT 6000 NSC 33/27 Q1004 OIBP 281500Z 29004KT CAVOK 34/26 Q1004 A2965 OIBQ 281500Z 25004KT CAVOK 32/23 Q1004 OIBS 281500Z 24006KT 6000 NSC 33/26 Q1004 OIBV 281500Z 27006KT 5000 HZ NSC 34/25 Q1004 OICC 281500Z 12004KT CAVOK 27/M03 Q1016 A3001 OICI 281500Z 24006KT CAVOK 29/03 Q1016 A3003 OICK 281200Z 30004KT CAVOK 34/01 Q1013 OICM 281400Z 26006KT CAVOK 41/07 Q1005 OICS 281030Z 01004KT 9999 FEW040 28/03 Q1019 A3011 OIFM 281500Z 04016KT 8000 NSC 25/03 Q1018 A3008 OIFS 281500Z 07008KT 9999 FEW040 21/M03 Q1020 OIGG 281430Z 00000KT 9999 SCT020 BKN080 22/13 Q1024 OIHR 281100Z 02010KT 9999 FEW040 27/M00 Q1021 OIIE 281500Z 35018KT 9999 FEW040 SCT200 23/06 Q1017 OIII 281500Z 07008KT 5000 HZ FEW035 FEW040CB SCT100 24/06 Q1019 A3009 BECMG 7000 OIIK 281500Z 36006KT CAVOK 17/07 Q1020 OIIP 281500Z 28016KT 5000 HZ FEW040TCU SCT100 17/08 Q1018 A3009 OIKB 281500Z 07004KT 5000 HZ NSC 32/25 Q1004 A2967 NOSIG OIKK 281500Z 06010KT 9999 FEW040 BKN110 25/M02 Q1018 A3008 OIKQ 281500Z 22006KT 5000 BR NSC 31/28 Q1004 NOSIG OIMB 281500Z 06010KT 9999 SCT040 22/M07 Q1017 OIMC 281500Z AUTO 26002KT //// // ////// 15/08 Q1024 OIMD 281500Z AUTO 04002KT //// // ////// 23/M02 Q1015 OIMM 281500Z 05010KT 9999 FEW030CB SCT035 BKN110 15/08 Q1022 A3018 OIMN 281500Z 34008KT 9999 SCT045 OVC090 15/03 Q1024 OIMQ 281500Z AUTO 18012KT //// // ////// 21/05 Q1018 OIMS 281500Z 02020KT 9999 SCT035 SCT100 20/03 Q1021 OIMT 281500Z AUTO 35012KT //// // ////// 27/05 Q1014 OINE 281500Z 19010KT 9999 SCT030 BKN100 21/13 Q1022 OING 281500Z 24006KT 9999 SCT025 SCT100 19/16 Q1024 OINN 281500Z 20010KT 9999 SCT020CB BKN028 OVC080 19/14 Q1023 OINR 281500Z 30006KT 9999 FEW023CB SCT026 BKN090 22/16 Q1022 OINZ 281500Z 21008KT 9999 SCT030 BKN080 21/15 Q1023 OISF 281500Z 24006KT 9999 FEW040 29/02 Q1011 A2986 OISL 281500Z 19006KT 9999 FEW035CB 34/16 Q1008 A2977 OISR 281500Z 30006KT CAVOK 34/13 Q1007 A2975 OISS 281500Z 26004KT 9999 FEW040 28/00 Q1015 A2998 OISY 281500Z 13004KT CAVOK 21/01 Q1019 OITL 281400Z 07016KT 9999 FEW010 SCT035 BKN090 11/09 Q1026 OITM 281500Z 10008KT 9999 SCT032 22/06 Q1020 OITP 281500Z 14004KT 9999 FEW035 SCT070 20/10 Q1024 OITR 281500Z 29006KT 9999 FEW035 18/10 Q1021 OITT 281500Z 07012KT 9999 FEW030 20/07 Q1024 A3026 NOSIG OITZ 281500Z 08016KT 9999 FEW025 14/06 Q1022 A3020 OIYY 281500Z 32008KT CAVOK 27/02 Q1017 OIZB 281500Z 33012KT CAVOK 27/M01 Q1010 OIZC 281500Z 20008KT 5000 BR NSC 29/25 Q1005 A2968 OIZH 281500Z 03008KT CAVOK 24/M02 Q1016 A3002 OIZI 281500Z 33006KT 9999 FEW040 36/M00 Q1008 OIZJ 281500Z 10004KT 7000 NSC 31/28 Q1004 OJAI 281500Z 30017KT 4000 BLDU NSC 31/08 Q1017 NOSIG OJAM 281500Z 29010KT 7000 NSC 30/07 Q1018 NOSIG OJAQ 281500Z 36018KT 6000 NSC 41/12 Q1010 NOSIG OKAS 281458Z 31008KT 9999 CLR 38/04 A2967 RMK AO2A SLP042 T03780042 53001 $ OKBK 281500Z 33006KT CAVOK 39/06 Q1004 NOSIG OLBA 281500Z 05010KT 8000 SKC 31/20 Q1015 NOSIG OMAA 281500Z 34008KT 280V360 CAVOK 33/27 Q1005 NOSIG OMAD 281500Z 36006KT CAVOK 33/25 Q1005 NOSIG OMAL 281500Z 31012KT CAVOK 36/15 Q1007 NOSIG OMDB 281500Z 33008KT CAVOK 33/26 Q1005 NOSIG OMDW 281500Z 30008KT CAVOK 32/24 Q1006 NOSIG OMFJ 281530Z 17004KT 7000 SCT025 32/25 Q1005 A2970 OMRK 281500Z 32005KT CAVOK 33/26 Q1005 A2969 OMSJ 281500Z 34004KT CAVOK 34/26 Q1005 NOSIG OODQ 281450Z AUTO 21017KT CAVOK ////// 26/22 Q1008 NOSIG RMK RH75? 0 OOMS 281450Z 06010KT CAVOK 32/25 Q1004 NOSIG OOSA 281450Z 18007KT 9999 FEW025 26/23 Q1009 NOSIG OOSH 281450Z AUTO 03005KT //// ////// 32/25 Q1004 RMK 1001 OPIS 281455Z 23005KT 6000 FEW040 23/17 Q1009 NOSIG OPKC 281500Z 24008KT 6000 SCT030 29/21 Q1008 NOSIG OPLA 281455Z 00000KT 4000 FU SCT100 31/22 Q1006 NOSIG RMK QFE979 RMK A29.73 OPMT 281500Z 00000KT 5000 FU NSC 32/20 Q1005 NOSIG OPNH 281500Z 13504KT 4000 NSC 32/22 Q1005 NOSIG OPPS 281500Z 23030KT 4000 VCTS FEW030TCU SCT040 BKN100 29/13 Q1008 OPSK 281500Z 00000KT 4000 HZ NSC 33/24 Q1004 NOSIG OPST 281500Z 00000KT 4000 FU NSC 30/21 Q1006 NOSIG RH59 ORBI 281500Z 29012KT CAVOK 37/09 Q1005 NOSIG ORER 281500Z 10006KT CAVOK 35/06 Q1011 NOSIG ORMM 281500Z 27006KT CAVOK 35/07 Q1004 NOSIG ORNI 281400Z 35010KT 8000 NSC 39/08 Q1005 NOSIG ORSU 281500Z 03016KT CAVOK 31/06 Q1014 OSDI 281500Z 00000KT CAVOK 35/00 Q1015 OSKL 281500Z 32008KT CAVOK 35/00 Q1011 OSLK 281500Z 24006KT 9999 FEW030 29/24 Q1014 OTBD 281500Z AUTO 04005KT CAVOK 35/24 Q1005 NOSIG OTBH 281456Z 06009KT 9999 CLR 38/20 A2968 RMK AO2A SLP051 T03760199 53006 $ OTHH 281500Z AUTO 02003KT 340V090 CAVOK 35/23 Q1005 NOSIG PAAD 281515Z AUTO 06003KT 1 1/4SM BR OVC004 00/00 A2971 RMK AO2 T10051005 PAAK 281456Z AUTO 29016G19KT 10SM SCT027 BKN036 BKN050 06/03 A3010 RMK AO2 RAB11E24 SLP193 P0001 60001 T00610028 51003 PAAQ 281453Z AUTO 36008KT 10SM OVC090 07/02 A2936 RMK AO2 SLP946 T00670017 53039 TSNO $ PABE 281453Z 31007KT 10SM CLR 01/01 A2949 RMK AO2 SLP986 T00110011 53023 PABI 281526Z 00000KT 1 3/4SM BR BKN002 BKN120 02/01 A2943 RMK AO2 I1000 T00220011 $ PABL 281456Z AUTO 27011KT 10SM OVC012 02/01 A2960 RMK AO2 SLP025 T00220006 51017 FZRANO PABR 281453Z 08008KT 9SM -SN BKN014 M01/M03 A2978 PABT 281453Z 32008KT 10SM BKN050 00/M04 A2953 RMK AO2 SLP010 T00001044 53018 PABV 281456Z AUTO 12004KT 10SM OVC095 06/04 A2939 RMK AO2 SLP956 T00610044 53039 PACD 281453Z AUTO 28009KT 10SM -RA FEW014 OVC041 06/05 A2959 PACM 281456Z AUTO 27009KT 10SM OVC011 05/05 A2964 RMK AO2 SLP033 6//// T00500050 53021 PNO $ PACV 281521Z 15003KT 4SM RA BR OVC013 08/08 A2946 RMK AO2 P0006 T00830078 PACZ 281455Z AUTO 02026KT 10SM OVC007 04/04 A2957 PADE 281453Z AUTO 24013KT 10SM OVC010 02/02 A2958 RMK AO2 CIG 009V014 SLP018 T00220017 53013 TSNO PADG 281528Z 00000KT 10SM FEW090 M05/M08 A2954 PADK 281456Z AUTO 28006KT 10SM BKN040 04/02 A3016 PADL 281456Z AUTO 00000KT 10SM FEW042 SCT050 OVC060 05/03 A2941 PADM 281502Z AUTO 33005KT 10SM CLR 01/00 A2954 RMK AO2 SLP008 T00110000 51016 FZRANO PADQ 281453Z 27004KT 10SM OVC065 07/06 A2943 PADU 281456Z 27011G16KT 10SM OVC024 07/03 A2977 RMK AO2 RAB13E26 SLP084 P0001 60002 T00720028 51014 PAEC 281453Z 00000KT 10SM BKN030 BKN040 02/00 A2931 RMK NOSPECI FIRST PAED 281456Z 18003KT 10SM -DZ BKN080 09/06 A2936 PAEG 281453Z AUTO 00000KT 10SM OVC042 02/02 A2943 RMK AO2 UPB09E45 SLP972 P0001 60002 T00220017 53017 TSNO $ PAEH 281455Z AUTO 35013KT 320V050 10SM OVC007 07/05 A2946 PAEI 281456Z AUTO 00000KT 10SM CLR M02/M03 A2939 RMK AO2 SLP960 T10241035 52024 $ PAEL 281447Z 22008KT 7SM BKN025 08/06 A2996 RMK SEA 2 SWELL 4 SW NOSPECI PAEN 281453Z 18009KT 10SM SCT013 OVC100 09/06 A2936 PAFA 281453Z 01006KT 10SM SCT050 SCT080 03/M01 A2940 PAFB 281458Z AUTO 00000KT 10SM CLR M01/M02 A2941 PAFE 281456Z AUTO 13007KT 10SM CLR 09/08 A3011 RMK AO2 RAB06E29 SLP208 P0003 60004 T00890078 52022 $ PAFM 281456Z AUTO 00000KT 10SM CLR M03/M05 A2959 RMK AO2 SLP026 T10281050 53019 FZRANO PAFR 281458Z AUTO 00000KT 10SM OVC080 05/04 A2934 PAFS 281501Z AUTO 00000KT 10SM OVC021 02/00 A2943 PAGA 281456Z AUTO 34003KT 10SM CLR M01/M02 A2951 PAGH 281528Z AUTO 00000KT 1/2SM FZFG CLR M04/M05 A2959 RMK AO2 FZRANO PAGK 281453Z AUTO VRB03KT 10SM BKN036 OVC043 02/00 A2942 RMK AO2 SLP978 T00170000 53045 TSNO PAGL 281456Z AUTO 34011KT 10SM CLR 01/00 A2959 RMK AO2 SLP014 T00110000 53013 FZRANO PAGM 281456Z AUTO 01008KT 10SM FEW027 02/M02 A2979 RMK AO2 SLP092 T00171022 50000 FZRANO PAGN 281523Z AUTO 00000KT 3SM -RA BR BKN044 BKN055 OVC075 08/08 A3010 RMK AO2 PRESRR P0000 PAGS 281456Z AUTO 21006KT 7SM RA FEW027 OVC034 08/06 A3003 RMK AO2 RAB18 SLP168 P0010 60010 T00830061 53051 PAGY 281453Z AUTO 22025G35KT 10SM SCT055 OVC075 12/05 A2983 RMK AO2 PK WND 22036/1356 SLP101 60000 T01170050 51052 TSNO PAHL 281456Z AUTO 29004KT 10SM CLR M01/M03 A2953 RMK AO2 SLP004 T10061028 53021 FZRANO PAHN 281454Z AUTO 09010G28KT 10SM -RA BKN080 11/06 A2986 RMK AO2 PK WND 09033/1431 SLP115 P0000 60002 T01060056 53043 TSNO PAHO 281453Z 05003KT 10SM OVC050 07/07 A2939 PAHP 281456Z AUTO 34021G24KT OVC013 06/03 A2960 RMK AO2 PK WND 34027/1419 SLP023 T00560033 51021 PWINO $ PAIG 281456Z AUTO 20004KT 10SM OVC034 04/03 A2941 RMK AO2 SLP967 T00390033 53024 $ PAII 281456Z AUTO VRB06KT 10SM -RA OVC019 08/07 A2943 RMK AO2 RAB01 SLP964 P0000 60000 T00780072 53023 PAIK 281456Z AUTO 03003KT 10SM CLR M03/M05 A2960 RMK AO2 SLP024 T10331050 51015 FZRANO PAIM 281455Z AUTO 00000KT 10SM CLR 00/M02 A2950 PAIN 281456Z AUTO 00000KT 10SM OVC080 M04/M06 A2938 RMK AO2 SLP975 T10441056 53026 FZRANO PAIW 281456Z AUTO 34011KT 10SM OVC020 03/00 A2969 RMK AO2 SLP054 6//// T00330000 51005 PNO $ PAJC 281457Z AUTO 00000KT 10SM OVC046 06/02 A2951 RMK AO2 SLP994 60000 T00610022 53018 PAJN 281453Z 08012KT 9SM -RA FEW021 BKN042 BKN080 09/08 A3001 PAJZ 281514Z AUTO 31003KT 8SM OVC029 06/03 A2945 RMK AO2 $ PAKH 281456Z AUTO SCT023 BKN036 OVC060 A2952 RMK AO2 SLPNO P0001 60005 52027 PWINO FZRANO $ PAKI 281456Z AUTO 35013KT 10SM CLR 04/03 A2953 RMK AO2 SLP003 T00390033 53021 PWINO $ PAKK 281456Z AUTO 00000KT 10SM CLR M01/M01 A2953 RMK AO2 SLP009 T10061011 53018 FZRANO PAKN 281511Z AUTO 10003KT 10SM -RA OVC013 06/05 A2939 PAKP 281456Z AUTO 05009KT 10SM OVC010 M07/M08 A2958 RMK AO2 SLP068 T10671078 53007 FZRANO PAKT 281453Z 19003KT 8SM SCT009 OVC032 11/11 A3019 PAKU 281445Z 05009KT 7SM R06/P6000FT OVC003 M01/M01 A2974 PAKV 281453Z AUTO 00000KT 10SM CLR M03/M04 A2953 RMK AO2 SLP002 T10281039 52024 TSNO $ PAKW 281453Z AUTO 18003KT 10SM BKN027 BKN032 OVC040 11/09 A3014 RMK AO2 SLP206 60001 T01110089 53010 TSNO PALH 281453Z 21006KT 10SM OVC090 09/06 A2937 RMK AO2 SLP947 T00940061 52038 PALJ 281455Z 00000KT 7SM SCT040 BKN060 03/01 A2938 RMK FIRST REPORT NOSPECI PALP 281445Z 05010KT 10SM BKN002 BKN005 M00/M02 A2976 PALU 281455Z 08016KT 10SM BKN013 00/M03 A2966 PAMB 281456Z AUTO 06003KT 9SM OVC060 04/03 A2941 RMK AO2 SLP963 T00440028 53021 $ PAMC 281453Z AUTO 21003KT 10SM CLR 01/M01 A2943 RMK AO2 SLP971 T00061006 53029 TSNO PAMD 281512Z AUTO 21015G22KT 8SM -RA SCT015 OVC036 10/08 A2947 RMK AO2 RAB1454 P0000 PAMH 281456Z AUTO VRB03KT 10SM CLR 01/M01 A2943 RMK AO2 SLP964 T00111006 53027 FZRANO PAMK 281456Z AUTO 04009KT 10SM FEW013 05/03 A2954 RMK AO2 SLP006 6//// T00500033 51010 PNO $ PAMM 281456Z AUTO 17005KT 9SM CLR A3020 RMK AO2 SLPNO 51014 FZRANO $ PAMO 281502Z AUTO 33012KT 10SM CLR 03/03 A2955 RMK AO2 SLP011 T00280028 53018 PAMR 281453Z 00000KT 10SM -RA OVC085 08/05 A2936 RMK AO2 RAB25 SLP944 P0000 60000 T00830050 53038 PANC 281526Z 20009KT 10SM -RA BKN016 OVC095 09/06 A2938 RMK AO2 RAB26 P0000 T00940061 PANI 281456Z AUTO 00000KT 9SM CLR M03/M03 A2946 RMK AO2 SLP979 T10281033 53027 FZRANO PANN 281453Z AUTO 00000KT 10SM CLR M01/M03 A2939 RMK AO2 SLP959 T10111033 53026 TSNO $ PANV 281456Z AUTO 28004KT 10SM CLR 03/00 A2946 RMK AO2 SLP038 T00330000 53021 TSNO PANW 281456Z AUTO 28004KT 10SM BKN033 OVC049 04/03 A2941 RMK AO2 SLP964 T00390028 51023 PAOH 281456Z AUTO 03003KT 8SM -RA OVC039 08/07 A3000 RMK AO2 RAB39 SLP158 P0001 60009 T00780072 53030 $ PAOM 281453Z 36006KT 10SM CLR 01/M02 A2958 PAOO 281456Z AUTO 30019KT 10SM CLR 06/04 A2958 RMK AO2 PK WND 30026/1412 SLP023 T00560044 53016 TSNO PAOR 281453Z AUTO 00000KT 4SM BR OVC003 03/02 A2939 PAOT 281453Z 05006KT 10SM CLR M01/M02 A2955 PAOU 281513Z AUTO 31007KT 7SM -RA BKN008 OVC014 07/07 A2954 RMK AO2 CIG 004V010 PNO $ PAPB 281453Z AUTO 34019KT 10SM FEW024 SCT030 A2978 RMK AO2 PK WND 34029/1433 UPB1355E07B45E49RAB36E45 SLPNO P0000 60000 51017 TSNO PAPG 281456Z 01006KT 10SM FEW003 SCT030 BKN039 09/08 A3014 RMK AO2 RAE01 SLP209 P0001 60004 T00940083 51022 PAPH 281504Z AUTO 22015KT 8SM -RA OVC005 06/06 A2949 RMK AO2 P0000 PAPM 281502Z AUTO 34010KT 3SM BR OVC002 04/04 A2945 RMK AO2 PAPN 281456Z AUTO 21012KT 9SM -RA OVC005 06/06 A2931 RMK AO2 SLP938 P0000 60001 T00610056 53020 PAPO 281456Z AUTO 02018KT 10SM CLR 02/M04 A2960 RMK AO2 SLP024 T00171039 53002 FZRANO PAPT 281458Z 00000KT 25SM BKN100 M02/M02 A2933 RMK NO SPECI. FIRST PAQH 281526Z AUTO 34005KT 10SM FEW003 00/M01 A2949 RMK AO2 FZRANO PAQT 281452Z 03009KT 6SM BR OVC004 M01/M01 A2976 RMK (SCC FSS) PARC 281156Z AUTO 04004KT 10SM OVC041 01/00 A2944 RMK AO2 SLP009 P0001 60001 70001 T00110000 10022 20011 51010 FZRANO PARS 281456Z AUTO 33005KT 10SM CLR 06/02 A2947 RMK AO2 SLP984 T00610017 53021 $ PASA 281456Z AUTO 33011G15KT 10SM OVC020 02/M01 A2977 RMK AO2 SLP082 60000 T00221011 52007 FZRANO PASC 281453Z 04008KT 7SM -SN OVC004 00/M01 A2972 PASD 281456Z 30003KT 10SM FEW021 SCT035 BKN055 07/03 A2956 RMK AO2 SLP013 6//// T00720033 51014 PNO $ PASI 281453Z 19007KT 5SM -RA FEW022 BKN055 OVC070 12/08 A3005 PASK 281456Z AUTO 11005KT 10SM CLR 00/M04 A2959 RMK AO2 SLP017 T00001039 53015 FZRANO PASL 281456Z AUTO 00000KT 10SM BKN038 01/01 A2945 RMK AO2 SLP964 T00110006 52029 FZRANO PASM 281456Z AUTO 03004KT 10SM CLR 01/01 A2954 RMK AO2 SLP013 T00110011 52021 FZRANO PASO 281453Z AUTO 00000KT 10SM -RA OVC047 08/07 A2938 RMK AO2 SLP950 P0002 60004 T00830072 53029 TSNO $ PASV 281455Z AUTO 03002KT 1/2SM FG VV002 M01/M01 A2936 PASX 281456Z AUTO 17004KT 10SM OVC090 08/06 A2939 RMK AO2 SLP963 T00830061 53035 PASY 281455Z 22010KT 7SM FEW015 07/04 A3020 PATA 281452Z 00000KT 10SM CLR M01/M02 A2948 RMK AO2 SLP986 T10061022 53023 PATC 281455Z AUTO 02015KT 10SM OVC017 03/00 A2965 PATE 281456Z AUTO 35004KT 10SM OVC017 02/M01 A2964 RMK AO2 SLP042 T00171006 51009 FZRANO PATG 281456Z AUTO 34007KT 10SM CLR 02/02 A2944 RMK AO2 SLP061 T00220017 53019 FZRANO PATK 281453Z AUTO 00000KT 10SM CLR 00/M02 A2936 RMK AO2 SLP944 T00001017 53038 TSNO PATL 281455Z AUTO VRB03KT 10SM CLR 02/01 A2944 PATO 281353Z AUTO 00000KT 10SM OVC060 06/06 A2935 RMK AO2 RAB02E14 SLP939 P0000 T00560056 TSNO $ PATQ 281456Z AUTO 06008KT 10SM OVC004 M02/M02 A2975 PAUN 281456Z AUTO 13006KT 10SM CLR M02/M03 A2953 RMK AO2 SLP003 6//// T10171028 51019 FZRANO PNO $ PAUT 281515Z AUTO 30025G28KT 7SM SCT020 SCT024 OVC031 07/05 A2971 RMK AO2 T00700051 PWINO PAVA 281456Z AUTO 35017KT 10SM OVC011 05/03 A2960 RMK AO2 SLP027 6//// T00500033 51024 PNO $ PAVC 281518Z AUTO 31009KT 10SM -RA SCT021 OVC070 07/04 A2959 RMK AO2 RAB11 P0000 PAVD 281456Z 05004KT 7SM FEW004 BKN025 OVC050 07/06 A2948 PAVL 281453Z AUTO 03006KT 10SM CLR M04/M06 A2956 RMK AO2 SLP009 T10391056 52006 TSNO PAWD 281453Z AUTO 35005KT 10SM -RA OVC050 07/06 A2937 RMK AO2 RAB24 SLP946 P0000 60000 T00720061 51035 TSNO PAWG 281456Z 09008KT 10SM FEW015 BKN050 BKN090 10/09 A3016 PAWM 281456Z AUTO 34015KT 10SM CLR 01/M01 A2958 RMK AO2 SLP021 6//// T00061011 53012 FZRANO PNO $ PAWN 281456Z AUTO 35007KT 10SM CLR M03/M06 A2958 RMK AO2 SLP027 T10331061 51011 FZRANO PAWS 281456Z AUTO 07003KT 10SM BKN080 OVC090 07/03 A2939 RMK AO2 SLP956 T00720028 53040 PAYA 281453Z AUTO 18014G21KT 10SM SCT024 BKN030 OVC043 11/08 A2979 RMK AO2 PK WND 18029/1416 RAE37 SLP088 P0005 60006 T01110083 51057 TSNO PAZK 281456Z AUTO 32003KT 10SM FEW038 BKN120 01/M02 A2936 RMK AO2 SLP977 T00061022 53036 FZRANO PFCL 281456Z AUTO 11003KT 10SM OVC048 05/02 A2941 RMK AO2 SLP954 T00500022 53022 TSNO PFEL 281456Z AUTO 18003KT 10SM CLR 03/M01 A2956 RMK AO2 SLP011 T00331006 53017 PFKT 281456Z AUTO 35010KT 10SM OVC019 02/00 A2967 RMK AO2 SLP046 T00220000 51013 FZRANO PFKW 281456Z AUTO 34004KT 10SM CLR 01/01 A2948 RMK AO2 SLP981 T00110006 53024 FZRANO PFNO 281456Z AUTO 07007KT 8SM CLR M04/M05 A2957 RMK AO2 SLP097 T10391050 51014 FZRANO PFYU 281456Z 03006KT 10SM CLR 01/M02 A2950 PGSN 281454Z 26005KT 10SM -RA SCT019 28/26 A2975 RMK AO2 SLP094 P0000 60000 T02830261 58013 PGUA 281456Z 27011KT 10SM FEW016 SCT065 SCT085 26/24 A2979 RMK AO2A SLP078 T02550237 57010 $ PGUM 281454Z 24005KT 10SM SCT070 26/24 A2979 RMK AO2 SLP079 T02610239 58012 PHBK 281456Z AUTO 07004KT 10SM CLR 24/18 A2994 RMK AO2 SLP141 T02390183 55007 PHHI 281456Z AUTO 00000KT 10SM CLR 21/20 A2995 RMK AO2 SLP131 60000 T02120202 56006 $ PHJR 281453Z AUTO 00000KT 10SM CLR 24/21 A2995 RMK AO2 SLP149 T02390206 55007 TSNO PHKO 281453Z AUTO 10004KT 10SM FEW055 25/18 A2993 PHLI 281453Z AUTO 08008KT 10SM BKN021 BKN029 OVC034 27/22 A2996 PHMK 281454Z AUTO 00000KT 10SM OVC055 24/19 A2997 RMK AO2 SLP148 T02440194 55001 TSNO $ PHNG 281457Z 09010KT 10SM FEW019 SCT032 26/22 A2992 RMK AO2 SLP127 60000 T02610217 55005 $ PHNL 281453Z 01003KT 10SM FEW033 24/21 A2994 PHNY 281512Z AUTO 01005KT 10SM BKN016 21/ A3001 RMK AO2 PHOG 281454Z AUTO 00000KT 10SM CLR 23/18 A2995 PHSF 281456Z AUTO 13003KT 10SM CLR 07/M03 A3028 RMK AO2 SLP148 WND DATA ESTMD T00681035 55001 $ PHTO 281453Z AUTO 24006KT 10SM FEW075 22/17 A2995 PKMJ 281155Z 15009KT 14SM -SHRA FEW015 SCT050 BKN120 OVC300 28/25 A2982 RMK LAST PKMR 281451Z VRB03KT 15SM SCT014 BKN045 BKN110 OVC300 27/24 A2976 RMK SLP080 60025 8/878 T02730237 57015 PKWA 281520Z AUTO 00000KT 10SM CLR 27/25 A2976 RMK AO2 T02650251 PLCH 281500Z 10007KT 9999 FEW020 26/22 Q1009 PMDY 281456Z AUTO 04009KT 8SM SCT034 SCT041 BKN060 25/19 A3008 RMK AO2 SLP185 T02500189 57005 PPIT 281456Z AUTO 33009KT 10SM CLR 02/ A2949 RMK AO2 SLP988 T0022 51021 FZRANO TSNO PPIZ 281456Z AUTO 04012KT 10SM BKN020 BKN120 M03/M04 A2972 RMK AO2 SLP068 T10331039 53001 FZRANO PTKK 281450Z 00000KT 15SM FEW014 SCT290 26/22 A2979 RMK SLP091 8/101 T02630223 57014 PTRO 281450Z 22006KT 14SM SCT016 BKN110 BKN290 26/23 A2984 PTTP 281514Z 08002KT 12SM -SHRA BKN018TCU OVC130 26/25 A2980 RMK TCU ALQDS PTYA 281450Z VRB05KT 12SM FEW016 BKN300 28/25 A2980 RMK SLP093 8/101 T02800248 403160255 57007 RCFN 281300Z 31002KT 9999 VCSH FEW016 BKN024 BKN030 25/23 Q1011 NOSIG RMK A2987 RCKH 281500Z 36007G17KT 320V030 9999 FEW016 SCT090 28/23 Q1010 NOSIG RMK A2983 RCMQ 281500Z 01002KT 9999 FEW010 SCT020 BKN060 23/21 Q1010 NOSIG RMK A2985 RCNN 281500Z 35006KT 9999 FEW012 BKN060 26/23 Q1010 RMK A2985 RCSS 281500Z 09003KT 9999 FEW012 BKN035 BKN060 24/24 Q1011 NOSIG RMK A2987 RCTP 281500Z 13005KT 9999 FEW012 BKN030 BKN040 23/21 Q1011 NOSIG RMK A2987 RJAA 281500Z 04006KT 9999 FEW030 18/15 Q1014 NOSIG RMK 1CU030 A2995 RJAH 281500Z 36005KT 9999 FEW030 15/14 Q1014 RJAW 281500Z VRB02KT 9999 FEW015 SCT230 27/24 Q1003 RMK 2CU015 A2964 RJBB 281500Z AUTO 09005KT 9999 NSC 20/16 Q1012 NOSIG RJBD 281000Z VRB02KT 9999 FEW030 SCT050 BKN/// 22/18 Q1011 RJBE 281300Z 04007KT CAVOK 22/13 Q1012 RJCB 281100Z VRB01KT 9999 FEW040 09/06 Q1014 RJCC 281500Z 22003KT 9999 FEW030 07/07 Q1014 RMK 1CU030 A2996 RJCH 281100Z 01005KT 9999 FEW040 12/09 Q1015 RJCK 281100Z 16003KT 9999 FEW030 09/08 Q1014 RJCM 281100Z 18005KT 9999 FEW020 09/07 Q1013 RJCO 281100Z 18003KT 9999 FEW015 14/09 Q1015 RJDC 281200Z 01005KT 9999 FEW030 BKN/// 20/15 Q1012 RJDT 281100Z 03009KT 330V070 9999 FEW025 20/15 Q1013 RJEC 281100Z 17005KT 9999 FEW020 07/06 Q1014 RJFE 281000Z 36007KT 9999 FEW020 SCT/// 20/15 Q1011 RJFF 281500Z AUTO 10002KT 9999 NCD 18/16 Q1012 NOSIG RJFK 281200Z 12003KT 080V160 9999 FEW035 BKN045 BKN/// 19/15 Q1013 RJFM 281200Z 35006KT 320V020 9999 FEW030 BKN050 BKN060 23/15 Q1012 RJFO 281300Z 27006KT 9999 FEW030 SCT/// 19/14 Q1012 RJFR 281500Z 34004KT 9999 FEW035 BKN/// 20/16 Q1012 RJFS 281400Z 34005KT CAVOK 16/14 Q1012 RJFT 281200Z 06007KT CAVOK 19/13 Q1012 RJFU 281200Z VRB02KT CAVOK 21/14 Q1012 RJGG 281500Z 35011KT 9999 FEW030 21/16 Q1011 NOSIG RJKA 281000Z 09012KT 9999 FEW010 SCT090 BKN150 24/21 Q1008 RJKI 281500Z AUTO 09005KT 9999 NSC 23/20 Q1008 RJNG 281333Z 05002KT 9999 FEW030 BKN060 20/15 Q1013 RMK 1CU030 5SC060 A2992 RJNK 281500Z 12003KT 9999 FEW030 16/14 Q1013 RJNS 281200Z 36003KT 9999 FEW030 SCT060 20/17 Q1013 RJNT 281200Z 24004KT 9999 FEW020 SCT050 18/15 Q1014 RJNW 281000Z 04004KT 010V080 9999 FEW025 16/12 Q1015 RJNY 281148Z 33003KT 9999 FEW030 BKN060 22/17 Q1013 RMK 1CU030 5SC060 A2991 RJOA 281300Z 03007KT 9999 FEW025 BKN/// 17/12 Q1014 RJOB 281200Z 01010KT 340V040 9999 FEW025 SCT/// 18/13 Q1013 RJOC 281100Z 15004KT 9999 FEW030 SCT/// 18/15 Q1014 RJOH 281500Z 25002KT 9999 FEW030 BKN050 17/15 Q1014 RJOI 281455Z 02011KT 9999 SCT030 BKN045 BKN250 21/14 A2991 RMK SLP128 T02110139 402610150 50000 RJOK 281100Z 35007KT 9999 FEW025 SCT050 BKN/// 19/16 Q1011 RJOM 281200Z 11006KT 9999 FEW030 SCT/// 22/15 Q1012 RJOO 281100Z 35008KT 9999 FEW030 SCT/// 20/15 Q1013 RMK 1CU030 A2992 RJOR 281200Z 16004KT 120V200 9999 FEW020 SCT040 BKN050 18/15 Q1014 RJOS 281500Z 34005KT 9999 FEW030 BKN060 21/16 Q1012 RJOT 281200Z 14006KT 100V180 9999 FEW030 18/15 Q1013 RJOW 281000Z 07003KT 010V120 9999 FEW035 BKN/// 21/16 Q1013 RJOY 281000Z 36008KT 9999 FEW030 BKN/// 23/14 Q1012 RJSA 281200Z 18003KT 9999 FEW025 BKN035 10/09 Q1016 RJSC 281000Z 13005KT 9999 FEW030 SCT050 15/13 Q1015 RJSD 281500Z AUTO VRB01KT 9999 NCD 12/12 Q1015 RJSF 281100Z 36005KT 9999 FEW015 BKN050 15/13 Q1016 RJSI 281000Z VRB01KT 9999 FEW040 SCT050 14/12 Q1015 RJSK 281200Z 14002KT 9999 FEW040 14/12 Q1015 RJSM 281500Z 22007KT 9999 FEW010 13/10 Q1016 RJSN 281200Z 13003KT 9999 FEW030 17/15 Q1016 RJSR 281000Z 15003KT 9999 FEW020 13/12 Q1015 RJSS 281200Z 13003KT 9999 FEW020 BKN025 19/15 Q1015 RJSY 281200Z 16003KT 9999 FEW030 SCT050 16/14 Q1016 RJTT 281500Z 03009KT 9999 FEW025 BKN030 BKN/// 21/17 Q1014 NOSIG RMK 1CU025 5CU030 A2995 RJTY 281456Z AUTO 04004KT 10SM SCT030 BKN050 19/16 A3002 RMK AO2 SLP164 60000 T01930159 402650148 50002 FZRANO $ RKJB 281500Z AUTO 03003KT 010V070 7000 NCD 17/17 Q1015 RKJK 281456Z AUTO 05003KT 10SM CLR 16/15 A2995 RMK AO2 SLP146 T01590149 402480141 55001 $ RKNY 281500Z AUTO 25003KT 9999 NCD 15/12 Q1014 RKPC 281500Z 13008KT 9999 FEW030 19/16 Q1014 NOSIG RKPK 281500Z 36005KT CAVOK 15/11 Q1015 RKSG 281506Z 00000KT 2 1/2SM BR CLR 18/15 A2997 RMK AO2A SLP152 $ RKSI 281500Z 32008KT 8000 NSC 19/16 Q1015 NOSIG RKSM 281500Z 00000KT 9999 SCT050 17/15 A2999 RKSO 281458Z AUTO 09004KT 7SM CLR 14/14 A2997 RMK AO2 LTG DSNT S SLP152 T01440142 402630127 51006 $ RKSS 281500Z 28001KT 7000 NSC 15/15 Q1015 NOSIG RKSY 281458Z AUTO 00000KT 9999 CLR 19/14 A2996 RMK AO2 SLP148 T01940143 51004 RKTN 281500Z 10003KT CAVOK 15/12 Q1015 RKTU 281500Z 05002KT CAVOK 12/12 Q1015 ROAH 281500Z 35005KT 9999 FEW022 BKN140 26/20 Q1008 RMK 1CU022 7AC140 A2977 RODN 281456Z AUTO 00000KT 10SM BKN130 23/21 A2978 RMK AO2 SLP090 T02270209 402880223 58003 $ ROIG 281100Z 01007KT 9999 FEW019 BKN023 BKN070 25/24 Q1009 ROMD 281500Z AUTO 05004KT 010V080 9999 FEW023 26/23 Q1007 ROMY 281100Z 36003KT 330V040 9999 FEW025 BKN060 25/21 Q1009 RORK 281500Z AUTO 05006KT 010V080 9999 NSC 26/23 Q1007 RORS 281000Z 01012KT 9999 SCT023 BKN030 BKN070 26/22 Q1008 RORY 281500Z AUTO 11003KT 9999 FEW070 //////TCU 24/22 Q1008 ROTM 281456Z 00000KT 9999 FEW020 SCT120 24/22 A2980 RMK SLP074 T02440217 402890233 56003 ROYN 281500Z AUTO 03015KT 9999 SCT029 BKN034 BKN043 26/22 Q1010 RPLB 281500Z 07004KT 9999 FEW020 BKN080 25/24 Q1012 NOSIG RMK A2988 RPLC 281500Z 18002KT 8000 SCT020 BKN100 25/24 Q1012 RERA NOSIG RMK A2988 RPLI 281500Z 15003KT 100V180 8000 TS VCSH SCT017CB BKN100 27/26 Q1011 RMK A2985 CB SE/SW/NW-N/ VCSH SW/NW-N RPLL 281500Z 00000KT 9999 FEW025 SCT100 27/24 Q1011 RESHRA NOSIG RMK A2985 RPMD 281500Z 32003KT 9999 FEW016TCU BKN260 27/27 Q1011 RMK A2985 TCU S RPMZ 281500Z 25007KT 220V280 9999 -SHRA FEW016CB FEW017 OVC090 27/25 Q1012 RMK A2988 CB ENE/SW RPVD 281500Z 27004KT 9999 FEW014CB FEW015 SCT070 26/25 Q1011 RETS RMK A2985 CB/LTG OCNL SE-SW RPVM 281500Z 26004KT 9999 SCT018CB OVC090 26/24 Q1012 RMK A2988 CB S-SW/W-NW RPVP 281500Z 27004KT 9999 FEW019 26/24 Q1012 RMK A2988 SAAC 281500Z 23009KT CAVOK 20/04 Q1016 SAAG 281500Z 23010KT CAVOK 20/07 Q1015 SAAJ 281400Z 25010G21KT CAVOK 18/09 Q1014 SAAP 281500Z 14009KT CAVOK 23/03 Q1016 SAAR 281500Z 14004KT CAVOK 23/01 Q1015 SAAV 281500Z 19005KT 120V250 CAVOK 23/06 Q1016 SABE 281500Z 25007KT 200V320 CAVOK 20/02 Q1013 NOSIG SACO 281500Z 04010KT 010V080 CAVOK 24/M00 Q1015 NOSIG SADF 281500Z 22013KT CAVOK 19/04 Q1013 SADM 281400Z 23011KT CAVOK 17/05 Q1013 SADO 281500Z 25009G19KT CAVOK 19/06 Q1014 SADP 281500Z 23011KT 200V270 CAVOK 19/05 Q1013 SAEZ 281400Z 25010KT CAVOK 17/06 Q1013 NOSIG SAME 281500Z 36011KT CAVOK 20/M02 Q1012 SAMM 281500Z 11009KT CAVOK 14/M02 Q1014 SAMR 281400Z 36020KT CAVOK 22/M02 Q1013 SANC 281500Z 36024G34KT CAVOK 25/01 Q1013 SANE 281500Z 05009KT CAVOK 24/06 Q1017 SANL 281500Z 05005KT CAVOK 24/05 Q1016 SANT 281500Z 07015KT 8000 NSC 25/05 Q1016 SANU 281400Z 36012KT CAVOK 22/01 Q1014 SAOC 281400Z 32009KT CAVOK 23/M01 Q1014 SAOU 281500Z 32015G26KT CAVOK 23/01 Q1014 RMK ESTIMATED WIND SARC 281500Z 11008KT CAVOK 23/07 Q1017 SARE 281500Z 13009KT 090V160 CAVOK 23/08 Q1017 SARF 281500Z 14007KT CAVOK 24/10 Q1016 SARI 281500Z 18007KT CAVOK 24/15 Q1015 SARL 281300Z 18010KT 9999 FEW020 17/11 Q1017 SARP 281500Z 14008KT CAVOK 21/11 Q1017 SASA 281500Z 07007KT 9999 FEW022 20/M00 Q1020 SASJ 281400Z 05003KT 8000 NSC 20/04 Q1020 SATR 281500Z 16004KT CAVOK 21/11 Q1017 SAVC 281500Z 29021G33KT 250V330 CAVOK 17/04 Q1002 SAVE 281400Z 29009KT 9999 SCT038 BKN200 10/M02 Q1009 SAVT 281500Z 27016KT CAVOK 19/M01 Q1006 SAVV 281500Z 32008KT 300V040 CAVOK 21/02 Q1007 SAVY 281500Z 23015KT CAVOK 19/00 Q1006 SAWC 281500Z 05012KT 9999 VCSH BKN060 BKN200 05/00 Q1001 SAWE 281500Z 05006KT 360V090 9999 -FZDZ SCT006 BKN070 05/02 Q0997 SAWG 281400Z 22021KT 9999 FEW020 SCT030 BKN200 06/M02 Q0998 SAWH 281500Z 23014KT 9999 BKN040 BKN100 02/M04 Q0998 SAWT 281219Z 20013KT 9999 VCSH BKN020 BKN080 00/M01 Q0999 SAZB 281500Z 32008KT CAVOK 20/06 Q1011 SAZG 281500Z 32009KT CAVOK 23/04 Q1012 SAZM 281500Z 23012KT 180V270 9999 BKN022 12/07 Q1010 SAZN 281500Z 23009KT CAVOK 18/01 Q1011 SAZR 281500Z 27005KT CAVOK 22/09 Q1012 SAZS 281500Z 27006KT CAVOK 09/M01 Q1011 SAZT 281500Z 23009KT CAVOK 15/05 Q1011 SAZY 281500Z 25013KT CAVOK 12/M06 Q1010 SBAF 281500Z 23016KT CAVOK 31/20 Q1011 SBAN 281500Z 07006KT 9999 SCT040 32/M02 Q1019 SBAR 281500Z 11012KT 9999 SCT017 29/22 Q1014 SBAT 281500Z 01003KT 9999 FEW045 34/22 Q1013 SBAX 281500Z 32006KT CAVOK 33/07 Q1018 SBBE 281500Z 06005KT 9999 BKN030 32/24 Q1011 SBBG 281505Z AUTO 26012KT 9999 BKN028 18/11 Q1014 SBBH 281500Z 33005KT CAVOK 34/06 Q1016 SBBI 281400Z 35005G15KT 7000 RA BKN040 BKN100 17/16 Q1017 RETS SBBQ 281500Z 29008KT CAVOK 32/08 Q1019 SBBR 281500Z 13010KT 020V180 CAVOK 34/06 Q1019 SBBU 281500Z 33004KT 9999 FEW045 36/18 Q1013 SBBV 281500Z 12004KT 9999 SCT030 OVC100 33/21 Q1012 SBBW 281500Z 05004KT 9999 SCT025 41/10 Q1013 SBCA 281500Z 17008KT 5000 BR BKN004 18/18 Q1016 SBCB 281500Z 19012KT CAVOK 28/22 Q1012 SBCC 281500Z VRB04KT 9999 SCT040 FEW045TCU SCT100 29/20 Q1014 SBCF 281500Z 33008KT CAVOK 33/10 Q1016 SBCG 281500Z VRB03KT 6000 VV030 30/20 Q1014 SBCH 281400Z 21002KT 9999 FEW015 BKN100 16/14 Q1016 SBCI 281000Z AUTO /////KT ///V/// CAVOK 25/19 Q1010 SBCJ 281500Z 01004KT CAVOK 29/21 Q1015 SBCO 281400Z 27016KT 9999 BKN027 17/11 Q1014 SBCP 281500Z 10008KT CAVOK 31/22 Q1011 SBCR 281500Z 22011KT 170V270 7000 NSC 29/17 Q1014 SBCT 281500Z 13007KT 6000 -RA BKN014 OVC070 19/17 Q1014 RETS SBCX 281500Z 30010KT 9999 FEW004 SCT007 BKN012 14/11 Q1015 SBCY 281500Z 23003KT 9999 SCT020 38/15 Q1011 SBCZ 281500Z 03004KT CAVOK 33/24 Q1012 SBEG 281500Z 17006KT 9999 SCT025 31/24 Q1012 SBEK 281400Z 31003KT CAVOK 33/24 Q1012 SBES 281500Z 21010KT 180V240 CAVOK 29/22 Q1011 SBFI 281500Z 16006KT CAVOK 23/15 Q1015 SBFL 281500Z 14011KT 9999 BKN018 23/19 Q1010 SBFN 281500Z 13013KT 100V160 9999 SCT015 31/23 Q1012 SBFS 281400Z 11004KT CAVOK 27/22 Q1012 SBFZ 281500Z 09017KT 9999 BKN025 31/22 Q1012 SBGL 281500Z 13015KT 9999 FEW020 31/20 Q1010 SBGM 281500Z 01003KT 5000 HZ FEW047 33/22 Q1013 SBGO 281500Z 23004KT 9999 SCT045 35/09 Q1016 SBGR 281518Z 18017G27KT 6000 SCT040 BKN100 26/18 Q1016 SBGW 281500Z 08003KT 330V120 9000 SCT030 SCT080 33/11 Q1013 SBHT 281400Z 04003KT 9999 BKN017 31/24 Q1012 SBIH 281500Z /////KT 9999 FEW025 35/24 Q1011 SBIL 281500Z 03006KT 9999 FEW025 29/23 Q1015 SBIZ 281500Z 03003KT 9999 SCT025 34/22 Q1011 SBJP 281500Z 10013KT 9999 BKN030 BKN070 30/21 Q1013 SBJR 281500Z 15007KT CAVOK 31/22 Q1011 SBJU 281400Z 17008KT 9999 FEW022 33/16 Q1016 SBJV 281500Z 31007KT 9999 BKN045 27/20 Q1009 SBKG 281500Z 10009KT 9999 BKN021 28/21 Q1015 SBKP 281500Z 34008KT CAVOK 34/10 Q1014 SBLE 281200Z AUTO 07006KT 020V110 9999 OVC020 22/17 Q1019 SBLO 281500Z 13004KT CAVOK 31/21 Q1014 SBLS 281500Z VRB05KT CAVOK 35/12 Q1017 SBMA 281500Z 32008KT 9999 SCT020 FEW025TCU 30/24 Q1012 SBME 281500Z 12007KT CAVOK 29/24 Q1011 SBMG 281400Z 18006KT 8000 NSC 28/19 Q1013 SBMK 281100Z 00000KT CAVOK 27/07 Q1017 SBML 281400Z 02010KT CAVOK 30/18 Q1015 SBMN 281500Z 12003KT 9999 SCT020 33/25 Q1012 SBMO 281500Z 06008KT 9999 BKN017 26/23 Q1014 SBMQ 281500Z 10007KT 9999 SCT020 34/25 Q1011 SBMS 281500Z 11006KT 9999 BKN030 37/21 Q1011 SBMT 281400Z 36005KT CAVOK 31/14 Q1015 SBMY 281000Z AUTO 22002KT CAVOK 22/22 Q1010 SBNF 281500Z 27007KT CAVOK 26/22 Q1009 SBNM 281400Z 26010KT 9999 SCT010 17/12 Q1016 SBNT 281500Z 13020KT 9999 SCT023 SCT067 29/22 Q1012 SBOI 281500Z 08006KT 9999 BKN030 32/22 Q1012 SBPA 281500Z 29017KT 250V310 9999 SCT030 BKN035 18/13 Q1014 SBPB 281515Z 07018KT 9999 FEW020 32/23 Q//// SBPC 281400Z /////KT CAVOK 29/10 Q//// SBPF 281400Z 28016KT 9999 BKN015 BKN020 15/12 Q1016 SBPJ 281500Z 24008KT 9999 FEW030 36/21 Q1011 SBPL 281500Z 10007KT CAVOK 31/17 Q1014 SBPP 281500Z 18008KT 0500 FG VV000 16/16 Q1017 SBPR 281500Z 03005KT CAVOK 37/10 Q1017 SBPS 281500Z 05015KT 9999 FEW030 29/19 Q1014 SBPV 281500Z 36003KT 9999 FEW025 31/23 Q1012 SBRB 281500Z 02006KT 9999 FEW020 SCT100 31/22 Q1013 SBRF 281500Z 13012KT 9999 SCT018 SCT040 28/22 Q1013 SBRJ 281500Z 17013KT CAVOK 28/21 Q1011 SBRP 281500Z 33012KT 300V360 CAVOK 37/08 Q1013 SBSC 281500Z 14015KT CAVOK 31/22 Q1010 SBSG 281500Z 16014G26KT 130V200 9999 BKN025 FEW031TCU BKN080 30/23 Q1012 SBSJ 281500Z 05003KT 9999 FEW040 SCT090 30/14 Q1015 SBSL 281500Z 07012KT 9999 BKN025 31/23 Q1012 SBSM 281500Z 25006KT 180V300 9999 BKN030 19/12 Q1015 SBSN 281500Z 11007KT 9999 FEW017 32/24 Q1011 SBSP 281500Z 19021KT CAVOK 23/17 Q1018 SBSR 281500Z 30004KT CAVOK 36/09 Q1013 SBST 281500Z 27006KT 220V300 8000 RA FEW027 BKN100 24/22 Q1014 SBSV 281500Z 09011KT 9999 FEW020 29/23 Q1015 SBTA 281500Z 15005KT 100V190 8000 NSC 31/18 Q1013 SBTD 281500Z 22012KT 9999 BKN006 OVC010 20/18 Q1016 SBTE 281500Z 12005KT 9999 SCT025 36/18 Q1010 SBTF 281500Z 03002KT CAVOK 27/24 Q1012 SBTK 281000Z AUTO 34003KT 310V020 CAVOK 22/22 Q1009 SBTT 281500Z 05005KT CAVOK 31/23 Q1012 SBUA 281500Z 11004KT 9999 FEW020 30/24 Q1012 SBUF 281500Z 11009KT 9999 SCT020 34/19 Q1013 SBUL 281500Z 32006KT 8000 NSC 33/03 Q1018 SBUR 281500Z 33009KT CAVOK 36/02 Q1016 SBVH 281500Z VRB03KT 9999 BKN035 32/18 Q1015 SBVT 281500Z 07013KT CAVOK 31/22 Q1012 SBYS 281300Z 04004KT 010V070 CAVOK 32/15 Q1015 SCAP 281500Z 22005KT 170V270 9999 BKN041 11/03 Q1012 SCAR 281500Z 22012KT CAVOK 18/11 Q1013 SCAT 281500Z 34015KT 9999 OVC017 14/08 Q1016 SCBA 281500Z 29029KT 9999 FEW030 SCT200 11/02 Q1001 SCCC 281500Z 26027G37KT 9999 FEW040 ///// Q0999 RMK 1/8 AC LENT SCCF 281500Z 27012KT CAVOK 22/M17 Q1023 SCCH 281500Z 26008KT 7000 NSC 12/08 Q1012 SCCI 281524Z 23014KT 9999 -SHRASN BKN030 04/M04 Q1000 NOSIG SCCY 281500Z 23007KT 9999 FEW030 BKN040 11/04 Q1003 SCDA 281500Z 26009KT 9999 SCT025 17/10 Q1014 SCEL 281500Z VRB02KT CAVOK 18/03 Q1011 NOSIG SCFA 281500Z 22008KT 9999 BKN026 16/09 Q1014 NOSIG SCFM 281500Z 22020G30KT 9999 FEW030 05/M05 Q1000 SCFT 281500Z 28013KT 240V300 9999 FEW023 OVC040 12/03 Q1009 SCGE 281500Z 18005KT 9999 FEW040 10/09 Q1017 SCGZ 281500Z 19007G20KT 0200 +SHSN OVC006 01/M01 Q0998 SCHR 281500Z 29012KT 9999 SCT020 OVC030 08/06 Q0999 SCIC 281500Z 19007KT CAVOK 14/05 Q1011 SCIE 281500Z 23010KT 180V250 CAVOK 13/08 Q1014 SCIP 281500Z 10011KT 9999 FEW020 19/13 Q1025 NOSIG SCIR 281500Z /////KT 9999 BKN015 BKN200 14/05 Q1018 SCJO 281500Z VRB04KT 9999 SCT025 BKN200 12/06 Q1014 SCMK 281500Z 33009KT 6000 -RA OVC007 10/09 Q1010 SCNT 281500Z 22020KT 9999 FEW040 06/M05 Q1002 NOSIG SCON 281500Z AUTO 01008KT 330V050 9999 OVC009/// 11/09 Q1012 SCPQ 281500Z 35012KT 4000 -DZ BR BKN004 OVC010 ///// Q1012 SCQP 281500Z 27003KT 230V310 9999 OVC013 09/07 Q1015 SCRD 281500Z 30006KT CAVOK 16/09 Q1011 SCRG 281500Z 18006KT CAVOK 17/05 Q//// SCRM 281500Z 11037KT 0200 BLSN OVC005 M12/M13 Q0982 NOSIG SCSE 281500Z 28015KT 9999 FEW013 BKN017 15/10 Q1014 SCSN 281500Z 26008KT 230V290 CAVOK 15/11 Q1011 SCTB 281500Z VRB03KT CAVOK 18/01 Q1011 SCTE 281500Z 36010KT 320V020 9999 SCT020 BKN045 12/06 Q1014 NOSIG SCTN 281500Z 35013KT 9999 SCT010 OVC020 10/08 Q1013 SCVD 281500Z 24004KT 9999 SCT009 BKN018 11/07 Q1015 SCVM 281500Z 33008KT CAVOK 14/11 Q1011 SEAM 281500Z 12006KT 9999 FEW020 17/10 Q1028 SECA 281500Z 20004KT 9999 FEW040 26/15 Q1017 SECO 281500Z 14004KT 9999 FEW020 SCT100 29/22 Q1014 RMK A2994 SECU 281500Z 25002KT 9999 FEW040 18/11 Q1026 SEGS 281500Z 14016KT 9999 OVC016 21/17 Q10129 A2991 SEGU 281500Z 20008KT 9999 SCT020 BKN030 BKN100 25/19 Q1011 NOSIG RMK A2987 SEJD 281500Z 06004KT 9999 SCT020 BKN100 27/23 Q1015 RMK A2999 SELT 281500Z 16006KT 9999 FEW030 13/07 Q1030 SEMC 281500Z 36009KT 9999 SCT030 SCT100 23/16 Q1019 RMK A3009 SEMT 281500Z 22008KT 9999 BKN020 23/20 Q1011 RMK A2987 SENL 281500Z 13002KT 9999 FEW020 SCT100 27/23 Q1015 RMK A2998 SEQM 281500Z 07002KT 9999 FEW033 SCT090 BKN300 17/10 Q1025 NOSIG RMK A3028 SERB 281500Z 12003KT 9999 SCT040 15/09 Q1028 SERO 281500Z 21003KT 9999 SCT016 OVC030 23/20 Q1012 SESA 281500Z 24009KT 9999 OVC015 21/18 Q1012 RMK A2990 SESM 281500Z 32005KT 9999 SCT023 BKN110 21/19 Q1018 RMK A3007 SEST 281500Z 16012KT 9999 FEW016 BKN080 21/19 Q1011 RMK A2985 SETN 281500Z 20006KT 9999 SCT023 BKN080 26/22 Q1011 A2987 SETU 281500Z 12010KT 9999 BKN020 15/09 Q1031 SFAL 281450Z 32023KT 9999 BKN021 08/03 Q0996 SGAS 281500Z 22008KT CAVOK 23/09 Q1018 SGEN 281500Z 16004KT CAVOK 19/09 Q1016 SGES 281500Z 18012KT 9999 FEW030 24/13 Q1014 SKAR 281500Z 00000KT 9999 BKN020 23/17 A3007 SKBG 281500Z 14004KT 9999 SCT017 SCT240 25/17 A3000 SKBO 281500Z 12010KT 9999 BKN027 17/06 A3035 NOSIG SKBQ 281500Z 15005KT 100V180 9999 FEW015 SCT090 30/26 A2985 NOSIG SKCC 281500Z 22004KT 180V310 9999 FEW023 SCT200 31/18 A2990 SKCG 281500Z 21007KT 190V270 9999 SCT014CB SCT200 30/26 A2983 RMK N/SW SKCL 281500Z VRB02KT 9999 FEW017 27/18 A3000 NOSIG SKEJ 281500Z 23004KT 9999 SCT015 29/24 A2984 SKIP 281500Z 10010KT 9999 BKN018 15/09 A3041 SKLC 281500Z 21004KT 9999 SCT020 28/23 A2985 SKLT 281500Z 05006KT 9999 FEW020 SCT200 32/25 A2989 SKMD 281500Z 09004KT 9999 SCT035 SCT200 25/16 A3013 SKMR 281500Z VRB02KT 9999 FEW020 30/24 A2984 SKMZ 281400Z 29009KT 9000 VCFG SCT012 BKN080 18/15 A3029 SKNV 281500Z VRB03KT 9999 FEW040 BKN120 28/19 A2995 SKPC 281500Z VRB02KT 9999 FEW017 SCT070 28/22 A2988 SKPE 281500Z 32005KT 9999 SCT014 SCT080 23/18 A3008= METAR SKAR 281500Z 00000KT 9999 BKN020 23/17 A3007 SKPS 281500Z 36004KT 9999 FEW025 20/15 A3012 SKPV 281500Z 08008KT 040V140 9999 FEW018 OVC200 31/27 A2985 SKRG 281500Z 12006KT 9999 SCT020 SCT080 19/13 A3030 NOSIG SKRH 281400Z 12008KT CAVOK 30/25 A2981 SKSM 281500Z 18006KT 9999 FEW020 BKN100 30/25 A2987 SKSP 281500Z 04009KT 010V080 9999 FEW018 BKN200 31/26 A2985 SKUC 281500Z 20003KT 9999 SCT030 29/24 A2990 SKUI 281500Z 24005KT 8000 BKN012 BKN080 26/24 A2985 RMK HZ SKVP 281500Z 24004KT 210V280 9999 FEW020 SCT100 29/23 A2988 SKVV 281500Z 06004KT 9999 FEW023 SCT090 28/22 A2998 SLAL 281500Z 34017KT 9999 SCT015 BKN200 15/06 Q1029 SLCA 281500Z 00000KT 9999 BKN070 23/M01 Q1022 SLCB 281500Z 10007KT 9999 FEW036 BKN200 22/05 Q1024 SLCO 281500Z 26004KT 8000 FEW025 BKN080 29/23 Q1013 SLCP 281500Z 18015KT 9999 SCT070 BKN200 24/16 Q1018 SLET 281500Z 16015KT 9999 SCT070 BKN200 24/08 Q1017 SLJE 281500Z 18012KT 9999 NSC 28/14 Q1019 SLJO 281500Z 14008KT 5000 FU FEW020 33/23 Q1011 SLLP 281500Z 10008KT 070V130 9999 FEW020 14/02 Q1036 SLMG 281500Z 14003KT 8000 SCT020 FEW023CB 33/23 Q1011 SLOR 281500Z 01010KT 9999 SCT020 15/02 Q1033 SLPS 281500Z 26006KT 8000 NSC 30/22 Q1014 SLRB 281500Z 00000KT 9999 NSC 27/17 Q1019 SLRI 281500Z 10005KT 9999 FEW017 SCT200 31/23 Q1013 SLRQ 281500Z 09004KT 8000 SCT013 SCT200 30/24 Q1012 SLRY 281500Z 16006KT 8000 FEW030 BKN200 29/24 Q1009 METAR SLRQ 281500Z 09004KT 8000 SCT013 SCT200 30/24 Q1012 SLSA 281500Z 13008KT 5000 TS VCSH FU FEW007 BKN017 FEW023CB BKN070 26/24 Q1011 SLSI 281500Z 21013KT 9999 NSC 29/17 Q1015 SLTJ 281500Z 20004KT 9999 SCT025 OVC070 13/08 Q1023 SLTR 281500Z 12012KT 7000 -TSRA SCT005 FEW020CB OVC070 19/18 Q1014 SLVM 281500Z 18005KT 9999 SCT070 27/13 Q1019 SLVR 281500Z 15009KT 9999 SCT023 BKN070 BKN200 21/15 Q1017 SLYA 281500Z 00000KT 9999 SCT070 24/15 Q1018 SMJP 281500Z 13006KT 9999 FEW030 31/23 Q1012 NOSIG SMZO 281500Z 12008KT 9999 SCT025 32/21 Q1012 NOSIG SOCA 281500Z AUTO 08007KT 060V130 9999 SCT040 33/22 Q1012 TEMPO 4000 SHRA FEW020TCU SPGM 281500Z 12002KT 8000 FEW040 BKN090 24/21 Q1015 RMK HZ PP000 SPHI 281500Z 19006KT 120V230 9999 SCT019 21/14 Q1013 RMK BIRD HAZARD RWY 19/01 PP000 SPHO 281500Z VRB02KT 9999 FEW040 19/06 Q1027 RMK PP000 SPJC 281500Z 30007KT 9999 OVC012 17/13 Q1014 NOSIG RMK BIRD HAZARD RWY 15 PP000 SPJL 281500Z 31007KT 9999 SCT025 13/01 Q1034 RMK PP000 SPJR 281530Z VRB04KT 9999 FEW026 19/08 Q1027 SPLO 281500Z 17006KT 9999 FEW035 18/13 Q1013 RMK PP000 SPME 281500Z /////KT 9999 OVC013 22/19 Q1012 RMK BIRD HAZARD RWY 32/14 TX26.4/TN20.6 PP000 SPMS 281500Z 00000KT 9999 FEW015 SCT100 30/25 Q1012 RMK BIRD HAZARD RWY09/27 PP000 SPNC 281300Z 10003KT 9999 FEW030 18/12 Q1022 RMK TX30.2/TN12.4 PP000 SPPY 281300Z 00000KT 9999 FEW025 13/10 Q1027 RMK TX23.7/TN07.8 RA EN LA NOCHE PP032 SPQT 281500Z 35008KT 300V030 9999 FEW020 SCT100 30/24 Q1012 NOSIG RMK BIRD HAZARD PP000 SPQU 281500Z 26007KT 210V330 CAVOK 20/M06 Q1024 NOSIG RMK PP000 SPSO 281500Z 30005KT 6000 FEW009 OVC011 17/15 Q1013 RMK BIRD HAZARD RWY 22/04 PP000 SPST 281500Z 19003KT 9999 FEW015 BKN080 25/24 Q1013 RMK BIRD HAZARD RWY 17/35 PP000 SPTN 281500Z 24006KT 180V270 CAVOK 18/11 Q1014 RMK PP000 SPTU 281500Z 29005KT 250V310 3000 TSRA BR SCT012 SCT030CB OVC120 Q1013 RMK BIRD HAZARD RWY 01/19 PP060 SPYL 281500Z 19009KT 9999 FEW040 22/17 Q1013 RMK BIRD HAZARD RWY 17/35 PP000 SPZO 281500Z 29004KT 9999 SCT050 17/01 Q1030 NOSIG RMK BIRD HAZARD RWY 28 PP000 SUAA 281500Z 26015KT 200V280 9999 BKN015 12/06 Q1012 SUCA 281500Z 26012KT CAVOK 16/05 Q1013 SUDU 281500Z 24016G36KT CAVOK 18/05 Q1013 SULS 281500Z 25019KT 9999 BKN020 12/08 Q1011 SUMU 281500Z 26014KT 9999 SCT017 12/07 Q1012 NOSIG SUSO 281500Z 22008KT CAVOK 20/03 Q1015 SVBI 281502Z AUTO 25002KT NCD 29/23 Q1016 SVBM 281502Z AUTO 09006KT NCD 26/20 Q1015 SVBS 281502Z AUTO 23002KT NCD 28/// Q1016 SVFM 281502Z AUTO 00000KT NCD 25/15 Q1015 SVGD 281502Z AUTO 22002KT NCD 29/23 Q1013 SVGU 281502Z AUTO 24002KT NCD 30/23 Q1013 SVJM 281502Z AUTO 26004KT NCD 27/19 Q1014 SVMC 281502Z AUTO 19005KT NCD 31/23 Q1010 SVMG 281500Z /////KT 9999 SCT010 32/24 Q1012 SVMI 281502Z AUTO 02004KT NCD ///// Q1013 SYCJ 281500Z 21004KT 110V260 9999 FEW018CB BKN020 31/26 Q1011 RMK CB-W-N SYEC 281500Z 09004KT 9999 -SHRA FEW016CB SCT017 30/25 Q1012 NOSIG RMK CB SE-NW SYLT 281200Z 07004KT 9999 FEW024 28/24 Q//// NOSIG SYMB 281200Z 06008KT 9999 BKN019 26/25 Q//// NOSIG TAPA 281500Z 10011KT 050V150 9999 SCT020 31/23 Q1014 NOSIG TBPB 281500Z 12016KT 9999 VCSH FEW014CB 32/25 Q1012 NOSIG TDCF 281500Z 21003KT 9999 FEW018 FEW///CB 32/25 Q1011 TDPD 281500Z 11010KT 9999 BKN021 30/25 Q1014 TFFF 281500Z AUTO 10013KT 9999 BKN029/// BKN034/// ///TCU 32/25 Q1012 TEMPO VRB15G25KT 1000 TSRA SCT010CB BKN016TCU TFFR 281500Z AUTO 11011KT 080V140 9999 FEW027 SCT240 30/24 Q1013 TEMPO 3500 SHRA FEW018CB BKN020TCU TGPY 281500Z 10014KT 8000 -SHRA SCT014CB BKN016 29/25 Q1012 TEMPO SHRA CB-N/E/S TIST 281453Z 09009KT 10SM -RA FEW030 FEW120 29/24 A2995 TISX 281453Z 05007KT 10SM FEW050 FEW070 29/26 A2994 TJBQ 281450Z 06011KT 10SM CLR 30/23 A2996 TJIG 281446Z 09007KT 10SM SCT020 BKN080 29/23 A2995 TJNR 281453Z AUTO 10010KT 10SM SCT030 30/23 A2997 RMK AO2 SLP149 T03000233 50015 TJSJ 281456Z 08010KT 10SM SCT035 SCT060 BKN110 29/23 A2996 TKPK 281500Z 10011KT 9999 FEW020 32/26 Q1014 TKPN 281500Z 09012KT 9999 SCT020 31/24 Q1013 TLPC 281500Z 13009KT 9999 -SHRA FEW017CB SCT023 29/25 Q1013 NOSIG TLPL 281500Z 14019KT 9999 -SHRA FEW016CB SCT022 32/25 Q1012 NOSIG TNCA 281400Z 12007KT 090V170 9999 SCT017 31/24 Q1011 NOSIG TNCB 281455Z 11010KT 060V150 9999 SCT023TCU 32/24 Q1011 TNCC 281500Z 08009KT 9999 VCSH FEW016TCU 31/24 Q1011 NOSIG TNCE 281455Z AUTO /////KT //// // ///////// ///// Q//// RE// TNCM 281500Z 09012KT 9999 FEW018 31/24 Q1015 NOSIG TQPF 281500Z 10015KT 9999 SCT018 30/23 Q1014 TRPG 281500Z 11013KT 060V160 9999 -SHRA BKN018 29/26 Q1014 TTCP 281500Z 15009KT 9999 VCSH FEW014TCU SCT016 30/23 Q1012 RMK TCU SW TTPP 281500Z 00000KT 9999 FEW016 30/22 Q1012 NOSIG TUPJ 281500Z 11008KT 10SM FEW016 SCT045 30/25 A2997 RMK Q1014 VIS16KM TVSA 281500Z 03003KT 360V080 9999 SCT012CB BKN016 27/23 Q1013 CB- OVHD TEMPO SHRA TXKF 281455Z 14010KT 9999 FEW019 BKN180 27/22 Q1021 UAAA 281500Z 14002MPS 110V170 5000 FU FEW100 07/M03 Q1026 R05R/CLRD65 NOSIG UAAH 281100Z 07003MPS 010V110 CAVOK 13/M04 Q1027 R05/0///60 NOSIG RMK QFE732/0977 UAAT 281300Z 03005MPS 9999 NSC 09/M04 Q1026 NOSIG RMK QFE717/0957 UACC 281500Z 26003MPS CAVOK 12/02 Q1029 R22/0///70 NOSIG RMK QFE740/0987 UACK 281200Z 31004MPS CAVOK 16/05 Q1028 R20/090070 NOSIG RMK QFE747/0996 UACP 281130Z 29003MPS CAVOK 18/08 Q1027 R23/0/0060 NOSIG RMK QFE758/1011 UADD 281523Z 06008MPS 9999 NSC 11/M04 Q1022 R31/0///65 NOSIG RMK QFE708/0944 UAII 281500Z 08008G14MPS 9999 SCT050CB 17/M03 Q1019 R10/0///70 NOSIG RMK QFE729/0972 UAKD 281400Z 09004MPS CAVOK 09/M06 Q1030 R04/0///65 NOSIG RMK QFE738/0984 UAKK 281500Z 26002MPS CAVOK 06/02 Q1029 R05/0///70 NOSIG RMK QFE724/0965 UAOO 281500Z 04004MPS CAVOK 14/M04 Q1026 NOSIG RMK QFE757/1010 UARR 281500Z 33001MPS CAVOK 15/05 Q1034 R04/CLRD70 NOSIG RMK QFE772/1029 UASK 281500Z VRB01MPS 5000 BR SCT022 BKN076 05/04 Q1027 R30/090060 NOSIG RMK QFE744/0993 UASP 281500Z 23002MPS 200V260 CAVOK 05/01 Q1027 R21/0///70 NOSIG RMK QFE759/1012 UASS 281430Z 30002MPS 9000 OVC048 08/04 Q1027 R08/1///60 NOSIG RMK QFE749/0999 UATE 281500Z 08004MPS CAVOK 15/M05 Q1028 R12/0///70 NOSIG RMK QFE769/1026 UATG 281500Z 05003MPS CAVOK 16/M04 Q1032 R14/CLRD70 NOSIG RMK QFE776/1035 UATT 281500Z 31002MPS 9000 NSC 15/M01 Q1032 R31/70D NOSIG RMK QFE753/1005 UAUU 281500Z 32003MPS CAVOK 09/04 Q1031 R33/CLRD70 NOSIG RMK QFE757/1010 UBBB 281500Z 05008KT CAVOK 19/07 Q1026 R88/CLRD// NOSIG UBBG 281500Z 09012KT 9999 BKN066 21/08 Q1024 R12/CLRD// NOSIG UBBL 281500Z 00000KT 9999 BKN100 19/12 Q1026 R33/CLRD// NOSIG RMK MT OP UBBN 281500Z 12014KT 9999 FEW046 22/08 Q1019 R14R/CLRD// NOSIG RMK MT OP QFE689 UBBQ 281500Z 25004KT 9999 BKN070 20/10 Q1026 R34/CLRD// NOSIG RMK MT OBSC UBBY 281500Z VRB02KT 9999 BKN060 19/10 Q1029 R33/////// NOSIG RMK MT OP UBEE 281500Z 18004KT CAVOK 22/10 Q1024 R30/CLRD// NOSIG UCFL 281500Z 24005MPS 9999 SCT033CB 10/M05 Q1022 R07/CLRD// UCFM 281500Z 06004MPS CAVOK 10/M02 Q1023 R08/0///95 NOSIG UCFO 281500Z 12001MPS 6000 NSC 16/04 Q1019 R12/0///95 NOSIG UDSG 281500Z 06013KT 9999 FEW049 17/07 Q1023 R02/CLRD70 NOSIG UDYZ 281500Z 05009KT 9999 NSC 24/07 Q1019 R09/010070 NOSIG UEEE 281500Z 32003MPS 3200 FU SCT016 04/01 Q1003 R23L/09//60 NOSIG RMK QFE744 UERP 281500Z 19003MPS 9999 SCT021 BKN100 01/00 Q0990 R35/290340 NOSIG RMK QFE698 UERR 281500Z 24008MPS 9999 -SHRA BKN036CB 04/04 Q1000 R25/290537 NOSIG RMK QFE719/0959 UGKO 281500Z 25004KT CAVOK 25/19 Q1018 NOSIG UGSB 281500Z 30003KT 260V330 9999 FEW023 24/21 Q1018 NOSIG UGTB 281500Z 11005KT 9999 BKN058 20/08 Q1027 NOSIG UHBB 281500Z 29002MPS 9999 FEW033 09/04 Q1008 R36/090060 NOSIG RMK QFE739/0985 UHHH 281500Z 23007MPS 9999 -SHRA SCT036CB 12/08 Q1006 R23L/290045 NOSIG RMK QFE748/0997 UHMA 281500Z 18002MPS 9999 BKN039 04/02 Q1008 R01/////// NOSIG RMK TDZ R01/18002MPS END R01/17002G03MPS QFE752/1003 UHMM 281500Z 30002MPS 0250 0200W R10/0200N FU FG VV002 02/01 Q1007 RMK QBB060 QFE741 R28/08003MPS UHPP 281500Z 03003MPS 9999 -SHRA BKN033CB 06/06 Q1004 R16R/290345 NOSIG RMK QFE750/1000 UHSS 281500Z 10003MPS 9999 NSC 11/10 Q1008 RMK QFE755/1006 UHWW 281500Z 08003MPS 4900 BR NSC 14/14 Q1011 R25L/0///70 NOSIG RMK QFE757 UIAA 281500Z AUTO 25002G07MPS 170V340 9999 NCD 05/M02 Q1018 RMK QFE705/0940 UIBB 281500Z AUTO 22003MPS 190V250 9999 // ///029/// 05/00 Q1018 RMK QFE721/0961 UIII 281500Z 09002MPS CAVOK 03/01 Q1022 R12/60D NOSIG RMK QFE723/0965 UIUU 281500Z 31002MPS 270V020 9999 NSC 01/M00 Q1023 R26/CLRD60 NOSIG RMK QFE723/0964 UKBB 281500Z 13003MPS CAVOK 17/07 Q1021 R18L/CLRD// NOSIG UKDD 281500Z 02002MPS 9999 SCT046 20/14 Q1020 R08/210370 NOSIG UKDE 281500Z 08002MPS 050V130 CAVOK 22/14 Q1020 R02R/090070 NOSIG UKDR 281500Z 05003MPS 020V090 CAVOK 21/10 Q1020 R36/09//70 NOSIG UKHH 281500Z 13003MPS 9999 BKN048 21/09 Q1022 R07/0///81 NOSIG UKKK 281500Z 11002MPS 090V150 CAVOK 17/08 Q1021 R08/70D NOSIG UKKM 281500Z AUTO 09003MPS 9999 // NCD 17/08 Q1021 UKLI 281500Z 12003MPS 090V150 CAVOK 17/11 Q1013 R10/090070 NOSIG UKLL 281500Z 11005MPS CAVOK 16/11 Q1014 R13/CLRD// NOSIG UKLR 281500Z 11005MPS CAVOK 17/07 Q1017 NOSIG UKLU 281500Z VRB01MPS 9999 -SHRA SCT040CB 19/08 Q1011 R10/090070 NOSIG UKOH 281500Z 08004MPS 050V110 CAVOK 24/08 Q1018 R03/CLRD// NOSIG UKON 281500Z 09004MPS CAVOK 25/08 Q1018 R04/090075 NOSIG UKOO 281500Z 13003MPS CAVOK 21/13 Q1018 R16/090060 NOSIG UKWW 281500Z 10004MPS CAVOK 17/09 Q1019 NOSIG ULAA 281500Z 14001MPS CAVOK 13/10 Q1027 R08/CLRD68 NOSIG RMK QFE769/1026 ULLI 281500Z 11004MPS CAVOK 14/07 Q1020 R10R/090060 NOSIG ULMM 281500Z 21001MPS CAVOK 10/08 Q1020 R13/290060 NOSIG RMK QFE758 ULOO 281500Z 14002MPS 100V170 9999 OVC010 13/10 Q1018 R19/090070 NOSIG RMK QFE759 ULPB 281500Z 06002MPS 360V140 CAVOK 12/08 Q1024 R19/09//70 NOSIG RMK QFE764/1019 ULWC 281500Z 13002MPS CAVOK 14/03 Q1026 R21/010065 NOSIG RMK QFE760/1013 UMBB 281330Z 12003MPS 7000 NSC 17/06 Q1017 R11/CLRD// NOSIG UMGG 281500Z 16003MPS 9999 SCT045 16/08 Q1022 R28/CLRD// NOSIG UMII 281500Z 20004MPS 6000 -SHRA BKN007 OVC014CB 11/10 Q1019 R23/290068 TEMPO 2000 SHRA BKN005 UMKK 281500Z 17002MPS 130V200 9999 FEW030 17/09 Q1016 R24/95D NOSIG RMK QFE761/1014 UMMG 281500Z 17004MPS CAVOK 16/06 Q1017 NOSIG UMMS 281500Z 22002MPS 9999 FEW034 14/08 Q1019 R31R/CLRD// R31L/////// NOSIG UMOO 281300Z 21002MPS 8000 BKN021CB OVC/// 11/09 Q1021 R13/290068 NOSIG UNAA 281500Z 24001MPS 6000 2500N BR FU NSC 04/03 Q1021 R02/CLRD65 NOSIG RMK QFE743 UNBB 281500Z 26003MPS CAVOK 07/00 Q1025 R06/CLRD66 NOSIG RMK QFE746 UNEE 281500Z 22004MPS CAVOK 05/01 Q1022 R23/CLRD60 NOSIG RMK QFE743 UNKL 281500Z 23001MPS CAVOK 02/02 Q1019 R11/CLRD65 NOSIG RMK QFE739 UNNT 281500Z 24004MPS CAVOK 09/01 Q1023 R25/090070 R16/090070 NOSIG RMK QFE757/1010 UNOO 281500Z 30002MPS 9999 SCT033 10/06 Q1025 R25/CLRD60 NOSIG RMK QFE761 UNTT 281500Z 24004MPS 9999 FEW030 11/04 Q1020 R21/090060 NOSIG RMK QFE750 UOOO 281500Z 32006MPS 9999 BKN043CB 00/M00 Q1018 R19/15//55 RMK QFE747/0996 URFF 281500Z 07005MPS CAVOK 24/07 Q1018 R01/090095 NOSIG URKA 281500Z 03005MPS CAVOK 23/14 Q1018 R04/010065 NOSIG RMK QFE760/1013 URKK 281500Z 13002MPS CAVOK 25/19 Q1018 R23L/CLRD70 NOSIG RMK QFE760 URMG 281500Z 10007MPS CAVOK 18/10 Q1024 R08/090070 NOSIG RMK QFE753/1004 URML 281500Z 16009MPS 9999 NSC 19/09 Q1026 R14/01//70 NOSIG RMK QFE769/1026 URMM 281500Z 13006MPS 9999 NSC 21/11 Q1023 R12/090070 NOSIG RMK QFE739/0985 URMN 281500Z 00000MPS 9999 SCT/// BKN/// 18/13 Q1023 R24/010070 NOSIG RMK QFE730 URMO 281500Z VRB01MPS 9999 BKN039 17/15 Q1024 R09/010070 NOSIG RMK QFE724/0966 URMT 281500Z 11009MPS CAVOK 20/06 Q1023 R07/010070 NOSIG RMK QFE727 URRP 281500Z 11007MPS CAVOK 22/06 Q1022 R05/CLRD70 TEMPO 13011G19MPS RMK QFE762/1016 URSS 281500Z 18001MPS 9999 SCT040 24/21 Q1017 R02/010070 R06/010070 NOSIG RMK R06/00000MPS MT OBSC QFE762 URWA 281500Z 10005MPS CAVOK 14/02 Q1031 R09/010070 NOSIG RMK QFE775/1034 URWI 281500Z 12009MPS CAVOK 18/01 Q1027 NOSIG URWW 281500Z 11005MPS CAVOK 16/M01 Q1030 R06/010070 NOSIG USCC 281500Z 32003MPS 9999 FEW040 10/06 Q1032 R27/000060 NOSIG RMK QFE754 USCM 281500Z 36003MPS 9999 NSC 12/04 Q1033 R36/090060 NOSIG RMK QFE735 USHH 281500Z 35001MPS CAVOK 05/M02 Q1034 R06/010060 NOSIG USNN 281500Z 36003MPS 9999 BKN043 05/01 Q1029 R03/0///65 NOSIG RMK QFE768 USPP 281500Z 23003MPS CAVOK 11/08 Q1034 R21/090060 NOSIG RMK QFE764 USRR 281500Z 34002MPS CAVOK 04/01 Q1032 R07/CLRD60 NOSIG RMK QFE769 USSS 281500Z 06001MPS CAVOK 08/07 Q1033 R26R/010060 NOSIG RMK QFE754/1005 USTR 281500Z 36003MPS 9999 SCT039 14/10 Q1031 R21/CLRD65 R30/////99 NOSIG RMK QFE764/1018 UTAA 281500Z 29004KT 240V340 9999 FEW049CB BKN049 BKN099 16/04 Q1024 R88/CLRD70 NOSIG UTAK 281500Z 05014KT CAVOK 19/M01 Q1025 R34L/CLRD70 NOSIG UTAM 281500Z 23006KT 6000 SCT066CB SCT066 OVC100 17/05 Q1023 R88/CLRD70 NOSIG UTAT 281500Z 01006KT CAVOK 15/M00 Q1025 R08/CLRD70 NOSIG UTAV 281500Z 29008KT 9999 FEW050CB BKN100 19/M04 Q1020 R31/CLRD70 NOSIG UTDD 281500Z 23002MPS 9999 FEW066 18/02 Q1018 R09/D NOSIG RMK QFE695/0927 UTDK 281500Z 28002MPS 9999 NSC 20/03 Q1017 R01/09//70 RMK QFE705/0940 UTDL 281500Z 25006MPS 9999 SCT086 19/03 Q1018 R26/CLRD70 NOSIG RMK QFE726/0968 UTDT 281500Z 15004MPS 9999 FEW120 20/02 Q1015 R35/////// RMK QFE722/0963 UTFF 281500Z 00000KT 9999 NSC 21/04 Q1017 R18/CLRD70 UTFN 281500Z VRB02KT 9999 NSC 20/06 Q1017 R28/CLRD70 NOSIG UTNN 281500Z 34006KT CAVOK 15/M01 Q1026 R33/CLRD60 NOSIG UTNU 2281500Z 34006KT CAVOK 12/M01 Q1024 R31/CLRD70 NOSIG UTSA 281500Z 32004KT 9999 NSC 18/M03 Q1019 R07/CLRD70 NOSIG UTSB 281500Z 33008KT CAVOK 18/M00 Q1019 R01/CLRD70 NOSIG UTSK 281500Z 20004KT 9999 SCT050CB 17/02 Q1019 R16/CLRD70 UTSS 281500Z 16004KT 130V190 6000 NSC 17/01 Q1019 R09/70D NOSIG UTST 281500Z 25006KT CAVOK 18/M04 Q1017 R88/CLRD70 NOSIG UTTT 281500Z 25004KT CAVOK 18/04 Q1018 R08R/CLRD70 NOSIG UUBC 281500Z 12005MPS 9999 SCT017 12/09 Q1025 R31/290150 NOSIG RMK QFE751/1002 UUBP 281500Z 23001MPS 9999 SCT033 14/09 Q1023 R16/CLRD70 NOSIG RMK QFE749/0998 UUBW 281500Z 10004MPS 9999 SCT040 10/08 Q1026 R30/110055 NOSIG UUDD 281500Z 13006MPS 9999 OVC037 11/07 Q1026 R14R/290042 NOSIG UUDL 281500Z 12002MPS CAVOK 14/02 Q1029 R23/010060 NOSIG RMK QFE763 UUEE 281500Z 12005MPS 9999 OVC033 10/06 Q1026 R06R/290051 R06L/290051 NOSIG UUMO 281500Z 13004MPS 9999 OVC031 10/08 Q1026 R08/090060 NOSIG RMK QFE755/1006 UUOB 281500Z 08003MPS 9999 BKN046 19/09 Q1023 R11/010060 NOSIG UUOK 281500Z 12007MPS 9999 SCT033 18/08 Q1023 R12/CLRD65 NOSIG RMK QFE749/0999 UUOL 281500Z 12004MPS CAVOK 16/01 Q1027 R15/090060 NOSIG UUOO 281500Z 14006MPS CAVOK 17/02 Q1027 R12/090070 NOSIG RMK QFE756 UUWW 281500Z 12004MPS 9999 OVC027 10/07 Q1026 R06/190060 NOSIG UUYY 281500Z 00000MPS 7000 NSC 10/09 Q1032 R18/61D NOSIG RMK QFE766/1021 UWGG 281500Z 14002MPS CAVOK 15/02 Q1032 R18L/090070 NOSIG UWKD 281500Z 15002MPS CAVOK 09/02 Q1035 R11/60D NOSIG RMK QFE766/1021 UWKE 281500Z 25002MPS CAVOK 14/03 Q1035 R21/090070 NOSIG RMK QFE759/1012 UWKS 281500Z 17002MPS CAVOK 15/M01 Q1034 R24/010060 NOSIG RMK QFE761 UWLW 281500Z 00000MPS 8000 NSC 10/03 Q1035 R20/CLRD60 NOSIG RMK QFE770 UWOO 281500Z 34003MPS CAVOK 12/03 Q1033 R26/CLRD65 NOSIG RMK QFE764/1019 UWOR 281500Z 00000MPS CAVOK 14/02 Q1032 R07/CLRD65 NOSIG RMK QFE749/0998 UWSG 281500Z 07003MPS CAVOK 15/05 Q1033 R08/CLRD70 NOSIG RMK QFE772/1030 UWUU 281500Z 27002MPS 240V300 CAVOK 10/04 Q1034 R32L/0///60 NOSIG UWWW 281500Z 26001MPS CAVOK 16/01 Q1035 R15/CLRD60 NOSIG RMK QFE764/1019 VAAH 281500Z 23004KT 3000 HZ SCT020 SCT080 30/26 Q1008 NOSIG VAAU 281500Z 34002KT 6000 FEW020 24/21 Q1011 NOSIG VABB 281500Z 30004KT 4000 HZ FEW020 SCT100 29/24 Q1009 NOSIG VABO 281500Z 20003KT 4000 HZ FEW020 SCT080 28/24 Q1008 NOSIG VABP 281500Z 05004KT 5000 HZ FEW025 26/23 Q1010 NOSIG VABV 281300Z 22005KT 4000 HZ FEW020 SCT080 27/22 QQ1007 VAID 281500Z 00000KT 6000 NSC 26/20 Q1011 NOSIG VAJB 281130Z 04006KT 4000 HZ FEW025 SCT030 30/22 Q1007 VAJJ 281230Z 28005KT 5000 HZ FEW020 SCT025 30/24 Q1007 NOSIG VAKP 281100Z 25006KT 8000 SCT018 28/21 Q1009 VANP 281500Z 00000KT 2000 BR SCT018 OVC080 25/23 Q1009 NOSIG VAOZ 281300Z 28006KT 6000 FEW030 25/19 Q1011 NOSIG VAPR 281000Z 22009KT 6000 FEW020 31/24 Q1008 VARK 281200Z 29006KT 6000 SCT020 33/21 Q1007 VASU 281500Z 00000KT 5000 HZ FEW020 27/24 Q1009 NOSIG VAUD 281300Z 04006KT 5000 HZ FEW030 SCT100 30/21 Q1010 BECMG 3000 HZ VCBI 281510Z 23010KT 9999 SCT016 28/25 Q1010 NOSIG VCRI 281510Z 22007KT 9999 FEW018 27/26 Q1010 NOSIG VDPP 281500Z 16004KT 9000 SCT015 SCT040 26/24 Q1009 VDSR 281500Z 19003KT 9000 SCT015 SCT040 26/26 Q1007 VDSV 281500Z VRB03KT 9000 SCT015 FEW017CB SCT040 26/25 Q1010 CB VEAT 281400Z 00000KT 5000 BR FEW018 SCT100 29/27 Q1005 NOSIG VEBN 281500Z VRB01KT 3000 HZ NSC 30/25 Q1005 NOSIG VEBS 281500Z 22002KT 3000 TS SCT018 FEW030CB SCT100 29/26 Q1005 NOSIG VECC 281500Z 16003KT 2600 BR SCT018 FEW030CB BKN100 31/30 Q1005 NOSIG VEDG 281230Z 03002KT 2800 HZ SCT018 SCT090 30/25 Q1005 NOSIG VEGT 281500Z 00000KT 3000 BR FEW018 FEW025CB SCT100 29/29 Q1005 NOSIG VEGY 281500Z 00000KT 2500 BR FEW018 29/26 Q1006 VEIM 281200Z 26004KT 5000 HZ FEW018 SCT020 BKN100 24/19 Q1008 NOSIG VEJH 281230Z 00000KT 4000 HZ FEW020 32/26 Q1005 VEJS 281200Z 00000KT 5000 HZ FEW015 SCT025 32/24 Q1003 VEKO 281200Z 02002KT 6000 FEW020 SCT100 33/24 Q1005 VELP 281200Z 02003KT 4000 BR SCT018 SCT025 BKN100 27/25 Q1006 NOSIG VELR 281230Z 07003KT 3500 BR FEW012 SCT018 27/26 Q1005 VEMN 281200Z 00000KT 5000 HZ FEW018 BKN100 28/26 Q1005 BECMG 3000 HZ VEPT 281500Z 00000KT 4000 HZ FEW100 27/24 Q1004 NOSIG VERC 281500Z 00000KT 3000 HZ SCT018 SCT100 26/23 Q1010 NOSIG VERP 281500Z 31004KT 3000 BR FEW100 28/25 Q1008 NOSIG VGEG 281500Z 24004KT 5000 FEW018 SCT120 BKN300 29/27 Q1006 NOSIG VGHS 281500Z 00000KT 4000 HZ SCT012 BKN100 30/23 Q1005 NOSIG VHHH 281500Z 08008KT 9999 FEW020 SCT025 26/25 Q1011 NOSIG VIAR 281500Z 00000KT 3000 BR NSC 27/22 Q1007 NOSIG VIDD 281200Z 32004KT 4500 HZ NSC 34/21 Q1005 NOSIG VIDN 281330Z 00000KT 2500 BR FEW030 26/22 Q1007 VIDP 281500Z 33004KT 3500 HZ NSC 31/19 Q1007 NOSIG VIGG 281200Z 21002KT 6000 FEW035 28/18 Q1011 VIJP 281500Z 00000KT 3000 HZ FEW030 32/16 Q1008 NOSIG VILK 281500Z 00000KT 3000 BR NSC 29/26 Q1005 NOSIG VLLB 281200Z 36002KT 9999 SCT020 SCT060 30/25 Q1005 NOSIG VLLN 281200Z 14002KT 7000 FEW020 FEW200 26/25 Q1008 NOSIG VLPS 281200Z 14002KT 9999 FEW020 SCT050 30/24 Q1007 NOSIG VLSK 281200Z 09002KT 3000 HZ SCT020 BKN100 30/22 Q1006 NOSIG VLVT 281200Z 09002KT 5000 BR BKN100 27/25 Q1005 NOSIG VMMC 281500Z 11006KT 050V150 9999 FEW010 SCT020 27/25 Q1010 NOSIG VNKT 281520Z 26003KT 190V300 7000 FEW015 SCT030 22/20 Q1015 NOSIG VOBG 281500Z VRB02KT 5000 BR SCT012 SCT018 BKN080 24/22 Q1013 NOSIG VOBL 281500Z 27003KT 6000 SCT012 SCT018 FEW025CB BKN080 24/24 Q1014 NOSIG VOBM 281400Z 27004KT 8000 SCT015 SCT080 23/22 Q1013 VOBZ 281500Z 00000KT 3000 BR FEW020 SCT080 28/26 Q1006 NOSIG VOCB 281500Z 20012KT 6000 FEW012 26/22 Q1011 NOSIG VOCI 281500Z 00000KT 4000 BR SCT012 SCT100 27/25 Q1011 NOSIG VOCL 281500Z 30004KT 5000 HZ FEW015 SCT090 26/23 Q1010 NOSIG VOCP 281000Z 33008KT 6000 FEW020 30/25 Q1005 VOGO 281500Z 31008KT 6000 SCT016 SCT090 27/24 Q1009 NOSIG VOHB 281400Z 27003KT 9999 SCT015 24/21 Q1013 VOHS 281500Z 35007KT 5000 BR SCT015 BKN100 27/23 Q1012 NOSIG VOHY 281500Z 00000KT 5000 HZ FEW020 BKN100 24/22 Q1012 NOSIG VOKN 281500Z VRB02KT 4000 HZ SCT018 SCT090 27/25 Q1010 NOSIG VOMD 281500Z 06004KT 6000 TS FEW018 FEW025CB BKN090 25/23 Q1010 NOSIG VOML 281500Z 32005KT 6000 SCT012 BKN080 27/23 Q1010 NOSIG VOMM 281500Z 24003KT 5000 TS SCT020 FEW025CB BKN100 27/25 COR Q1008 NOSIG VOMY 281300Z 24010KT 6000 SCT015 SCT080 27/20 Q1011 VORY 281500Z 05009KT 5000 HZ FEW020 SCT025 FEW030CB 28/23 Q1006 NOSIG VOTK 281200Z 16006KT 6000 SCT020 FEW030CB BKN100 33/23 Q1005 NOSIG VOTP 281400Z 00000KT 6000 FEW020 30/24 Q1006 NOSIG VOTR 281500Z 16008KT 5000 HZ SCT016 FEW025CB BKN080 29/25 Q1008 NOSIG VOTV 281500Z VRB03KT 3000 BR FEW015 SCT080 28/27 Q1011 NOSIG VOVZ 281500Z 35004KT 3500 BR FU SCT018 BKN080 28/26 Q1006 TEMPO DZ VQPR 281100Z 15011KT 9999 SCT050 24/10 Q1016 VRMM 281500Z 20007KT 9999 FEW018TCU BKN270 29/25 Q1011 NOSIG VTBD 281500Z 10005KT 9999 FEW020CB SCT035 27/26 Q1008 TEMPO TL1540 5000 TSRA VTBS 281500Z 13006KT 9999 FEW018CB SCT030 BKN090 27/26 Q1007 TEMPO FM1505 TL1545 19015G25KT 4000 TSRA VTBU 281500Z 23008KT 9000 -SHRA FEW020 SCT100 27/24 Q1008 NOSIG VTCC 281500Z 27003KT 220V320 9999 FEW035 26/24 Q1008 NOSIG VTCH 281200Z 00000KT 9999 FEW020CB SCT025 28/26 Q1005 VTCL 281200Z 12003KT 9999 FEW025 SCT100 27/24 Q1006 NOSIG VTCN 281100Z 00000KT 9999 FEW040 30/27 Q1004 NOSIG VTCP 281100Z 26003KT 230V290 9999 FEW010 BKN100 27/24 Q1004 NOSIG VTCT 281500Z 23003KT 9999 FEW030 26/26 Q1009 NOSIG VTPB 281100Z 02005KT 9999 BKN025 28/24 Q1004 NOSIG VTPH 281100Z 17006KT 130V220 9999 FEW026 BKN080 29/24 Q1004 NOSIG VTPM 281100Z 29003KT 240V340 9999 SCT030 BKN100 29/26 Q1004 NOSIG VTPO 281000Z 32005KT 9999 SCT025 32/26 Q1002 NOSIG VTPP 281300Z VRB02KT 8000 -TSRA FEW020CB BKN025 25/25 Q1005 RERA NOSIG VTSB 281500Z 19006KT 9999 FEW020 25/25 Q1010 VTSC 281500Z 00000KT 9999 FEW020 24/24 Q1011 NOSIG VTSE 281100Z 25004KT 220V310 9999 FEW020 BKN100 26/24 Q1006 NOSIG VTSF 281300Z 05003KT 9999 DZ FEW018 SCT022 27/24 Q1009 NOSIG VTSG 281500Z 00000KT 9999 FEW020 BKN100 24/24 Q1011 NOSIG VTSM 281500Z 24003KT 9999 FEW020 28/23 Q1010 NOSIG VTSP 281500Z VRB01KT 9999 FEW020 BKN100 25/24 Q1010 NOSIG VTSR 281300Z VRB02KT 7000 -RA BKN020 24/24 Q1009 NOSIG VTSS 281500Z 12002KT 9999 FEW020 SCT100 24/24 Q1011 NOSIG VTST 281400Z 13003KT 9999 -RA FEW025 SCT080 25/25 Q1010 NOSIG VTUD 281500Z 17004KT 150V210 9999 FEW035 27/25 Q1008 NOSIG VTUI 281200Z 11004KT 9999 FEW035 BKN100 30/25 Q1006 NOSIG VTUK 281500Z 07002KT 9000 FEW030 27/25 Q1009 NOSIG VTUL 281200Z 00000KT 9999 BKN030 BKN080 26/25 Q1006 NOSIG VTUO 281500Z 18005KT 140V210 8000 SCT020 BKN100 26/25 Q1008 NOSIG VTUQ 281100Z 10009G19KT 070V150 9000 -RA SCT025 BKN100 28/25 Q1006 NOSIG VTUU 281500Z 16004KT 070V210 9999 FEW030 BKN100 27/25 Q1009 NOSIG VTUV 281400Z 14004KT 9999 FEW030 27/26 Q1007 NOSIG VTUW 281300Z 15004KT 9999 FEW015 28/26 Q1007 NOSIG VVCI 281500Z 08004KT CAVOK 28/25 Q1009 NOSIG VVCR 281500Z 23011KT 9999 FEW015 SCT040 29/27 Q1010 NOSIG VVDN 281500Z 18004KT 9999 TS FEW015 FEW017CB 29/26 Q1009 NOSIG VVNB 281500Z VRB02KT 5000 BR FEW020 SCT023 BKN026 27/24 Q1009 NOSIG VVPB 281500Z 16003KT 9999 FEW020 SCT070 28/26 Q1009 NOSIG VVPQ 281500Z 23007KT 9999 SCT015 SCT040 28/24 Q1009 NOSIG VVTS 281500Z 19006KT 160V230 9999 FEW017 SCT050 27/25 Q1010 NOSIG VYMD 281130Z 34005KT 6000 BKN020 FEW025CB 34/24 Q1002 VYNT 281200Z 14008KT 6000 TS BKN016 FEW020CB BKN100 29/27 Q1003 VYYY 281500Z 21005KT 6000 BKN016 FEW020CB OVC100 26/25 Q1007 WAAA 281500Z VRB02KT 8000 FEW020 26/23 Q1011 NOSIG WADD 281500Z 13006KT 9999 SCT017 27/27 Q1013 NOSIG WADL 281500Z 14007KT 7000 BKN016 26/23 Q1013 NOSIG WAHQ 281000Z 21010KT 9000 FEW015 31/22 Q1009 NOSIG WAHS 281100Z 33004KT 7000 FEW014 32/22 Q1008 NOSIG WAJJ 281500Z 00000KT 9999 FEW013 25/21 Q1009 NOSIG WALL 281130Z 25002KT 9999 FEW020 27/25 Q1010 WAMM 281500Z 00000KT 9000 FEW022 24/23 Q1012 NOSIG WAOO 281500Z AUTO 27001KT 7000 NCD 25/24 Q1011 WAPP 281500Z 04005KT 350V090 6000 TSRA FEW016CB BKN017 24/24 Q1011 NOSIG RMK CB TO SW WATT 281200Z 14011KT 8000 FEW018 28/22 Q1013 NOSIG WBGB 281500Z VRB02KT 9999 SCT016 27/25 Q1011 WBGG 281500Z VRB01KT 9999 SCT020 25/23 Q1011 NOSIG WBGR 281500Z VRB02KT 9999 FEW016 25/25 Q1011 WBGS 281500Z 00000KT 9999 -RA SCT018 24/23 Q1011 WBGY 281500Z AUTO 00000KT //// // ////// 26/25 Q1011 WBKK 281500Z 10005KT 9999 FEW014 25/23 Q1011 NOSIG WBKL 281500Z VRB03KT 9999 FEW013 SCT030 27/25 Q1012 WBKS 281500Z VRB02KT 9999 FEW015 24/24 Q1011 WBKT 281500Z 00000KT 9999 FEW013 24/24 Q1012 WBKW 281500Z VRB02KT 9999 FEW017 24/24 Q1011 WBSB 281500Z 15001KT 9999 -SHRA FEW014 BKN140 27/25 Q1012 NOSIG WIBB 281300Z 00000KT 8000 FEW013 28/23 Q1008 WIDD 281500Z 13005KT 9999 FEW014 28/25 Q1012 NOSIG WIHH 281200Z 09006KT 6000 FEW018CB FEW020 29/22 Q1010 CB TO S WIII 281530Z 21004KT 7000 FEW020 26/22 Q1012 NOSIG WIPP 281200Z 10010KT 9999 FEW010 29/23 Q1009 NOSIG WMAU 281500Z AUTO 23005KT 110V240 //// // ////// 25/24 Q1011 WMBA 281500Z 00000KT 9999 FEW032 25/24 Q1010 WMKA 281500Z VRB02KT 8000 FEW012 24/24 Q1010 WMKB 281500Z VRB03KT 8000 FEW025 27/24 Q1010 NOSIG WMKC 281500Z 00000KT 9999 FEW020 26/24 Q1011 WMKD 281500Z 00000KT 9999 FEW025 27/25 Q1011 NOSIG WMKE 281500Z AUTO 00000KT //// // ////// 27/26 Q1011 WMKI 281500Z VRB03KT 8000 FEW028 26/24 Q1011 WMKJ 281500Z 00000KT 9999 FEW022 26/25 Q1011 WMKK 281500Z VRB02KT 9999 FEW030 28/23 Q1010 NOSIG WMKL 281500Z VRB02KT 9999 FEW026 25/24 Q1011 WMKM 281500Z VRB02KT 9999 FEW028 28/24 Q1011 WMKN 281500Z VRB01KT 9999 FEW022 28/26 Q1010 WMKP 281500Z 00000KT 9999 FEW025 27/24 Q1010 NOSIG WMSA 281500Z 00000KT 9999 FEW028 29/23 Q1011 WSAP 281500Z 15003KT 9999 FEW018 SCT150 BKN300 29/26 Q1011 WSSL 281500Z 13003KT 100V180 9999 FEW020 BKN300 28/24 Q1011 WSSS 281500Z 17003KT 9999 FEW018 BKN300 28/25 Q1011 NOSIG YABA 281500Z AUTO 31006KT 9999 // NCD 10/08 Q1017 YAMB 281500Z AUTO 00000KT 9999 // OVC056 10/08 Q1024 YARG 281500Z AUTO 34005KT 9999 // NCD 31/12 Q1012 YAYE 281500Z AUTO 12012KT 9999 // NCD 21/16 Q1012 YBAS 281500Z AUTO 02017KT 9999 // NCD 27/M05 Q1015 RF00.0/000.0 YBBN 281500Z 20006KT 9999 SCT038 SCT061 15/09 Q1024 NOSIG YBCG 281500Z AUTO 19005KT 9999 // BKN062 15/09 Q1024 RF00.0/000.0 YBCS 281500Z AUTO 17006KT 9999 // BKN042 23/19 Q1016 NOSIG YBCV 281500Z AUTO 13006KT 9999 // NCD 15/M04 Q1020 YBDV 281500Z AUTO 09011KT //// // ////// 21/M04 Q1016 YBHI 281500Z AUTO 05007KT 9999 // BKN120 13/03 Q1021 YBHM 281500Z AUTO 10018KT 9999 // SCT031 SCT089 22/16 Q1019 YBLN 281500Z AUTO 09003KT 9999 // ////// 11/10 Q1018 YBMA 281500Z AUTO 00000KT 9999 // NCD 18/M03 Q1016 YBMK 281500Z AUTO 10011KT 9999 // SCT034 22/15 Q1019 YBNA 281500Z AUTO 22004KT 9999 // BKN044 OVC053 OVC078 13/11 Q1024 YBOK 281500Z AUTO 06011KT 9999 // NCD 12/09 Q1023 YBPN 281500Z AUTO 08005KT 9999 // NCD 20/16 Q1019 YBRK 281500Z AUTO 12006KT 9999 // NCD 19/13 Q1020 YBRM 281500Z AUTO 28007KT 9999 // NCD 25/21 Q1012 YBTL 281500Z AUTO 08012KT 9999 // SCT025 SCT031 BKN055 24/19 Q1017 YBUD 281500Z AUTO 19006KT 9999 // SCT041 SCT046 BKN052 15/12 Q1022 YBWP 281500Z AUTO 09005KT 9999 // NCD 24/18 Q1012 YBWX 281500Z AUTO 22017KT //// // ////// 23/19 Q1014 YCAR 281500Z AUTO 18018KT 9999 // NCD 19/15 Q1019 YCAS 281500Z AUTO 00000KT //// // ////// 10/09 Q1025 YCBA 281500Z AUTO 07006KT 9999 // NCD 11/03 Q1022 YCBB 281500Z AUTO 09010KT 9999 // NCD 09/03 Q1023 YCBP 281500Z AUTO 06012KT 9999 // SCT077 OVC100 22/M01 Q1016 YCCY 281500Z AUTO 19005KT 9999 // NCD 21/M08 Q1015 YCDU 281500Z AUTO 31006KT 9999 // NCD 16/12 Q1015 YCFS 281500Z AUTO 00000KT 9999 // OVC045 12/10 Q1026 YCIN 281500Z AUTO 26006KT //// // NCD 25/16 Q1012 YCNM 281500Z AUTO 11005KT //// // ////// 08/05 Q1022 YCOM 281500Z AUTO 01003KT 9999 // NCD M01/M02 Q1025 YDBY 281500Z AUTO 27007KT 9999 // NCD 25/17 Q1012 YEML 281500Z AUTO 05010KT 9999 // NCD 19/13 Q1020 YESP 281528Z AUTO 31004KT 6000 // NCD 11/11 Q1017 YFRT 281500Z AUTO 11005KT 9999 // SCT105 17/09 Q1016 YGEL 281500Z AUTO 01005KT 9999 // SCT026 11/10 Q1020 YGFN 281500Z AUTO 19005KT 9999 // OVC056 13/09 Q1025 YGLA 281500Z AUTO 14005KT 9999 // SCT039 SCT047 19/11 Q1021 YGTE 281500Z AUTO 00000KT 9999 // NCD 23/21 Q1012 YGTH 281500Z AUTO 11010KT 9999 // NCD 06/05 Q1023 YHID 281500Z AUTO 13013KT 9999 -SHRA BKN015 OVC020 OVC029 26/23 Q1012 YHUG 281500Z AUTO 05007KT 9999 // NCD 24/12 Q1016 YKRY 281500Z AUTO 11004KT 9999 // BKN017 12/11 Q1023 YLEC 281500Z AUTO 03012KT 9999 // NCD 18/M01 Q1018 YLHI 281500Z AUTO 15003KT 9999 // SCT040 14/09 Q1022 RF00.0/000.0 YLIS 281500Z AUTO 11005KT 9999 // SCT042 10/08 Q1025 YLRE 281500Z AUTO 14010KT 9999 // NCD 19/M02 Q1016 YMAV 281500Z AUTO 00000KT 9999 // SCT020 04/04 Q1026 RF00.0/000.0 YMAY 281500Z AUTO 00000KT 9999 // NCD 05/05 Q1025 YMDG 281500Z AUTO 22001KT 9999 // NCD 03/03 Q1025 YMEK 281500Z AUTO 20007KT 9999 // NCD 19/03 Q1018 YMEN 281500Z AUTO 31006KT 9999 // NCD 06/04 Q1025 YMER 281500Z AUTO 21003KT //// // SCT035 05/05 Q1027 YMHB 281500Z AUTO 00000KT 9999 // OVC031 09/05 Q1026 RF00.0/000.0 YMIA 281500Z AUTO 04005KT 9999 // NCD 11/03 Q1022 YMLT 281500Z AUTO 17003KT 9999 // NCD 06/04 Q1026 RF00.0/000.0 YMML 281500Z 35004KT CAVOK 04/03 Q1026 NOSIG YMOR 281500Z AUTO 09011KT 9999 // NCD 11/03 Q1022 YMTG 281500Z AUTO 06007KT 9999 // NCD 06/05 Q1022 YNAR 281500Z AUTO 13006KT 9999 // NCD 04/04 Q1024 YNBR 281500Z AUTO 15013KT 9999 // NCD 12/03 Q1022 YNTN 281500Z AUTO 26004KT 9999 // NCD 23/15 Q1012 YNWN 281500Z AUTO 20007KT 9999 // NCD 22/M02 Q1015 YOLD 281500Z AUTO 05004KT 9999 // NCD 18/02 Q1017 YPAD 281500Z 05010KT CAVOK 16/02 Q1018 NOSIG YPBO 281500Z AUTO 18005KT 9999 // NCD 21/M01 Q1016 YPCC 281500Z AUTO 11011KT 9999 // NCD 27/23 Q1016 YPDN 281500Z AUTO /////KT 9999 // NCD 28/23 Q1012 NOSIG YPEA 281500Z AUTO 00000KT 9999 // NCD 10/08 Q1019 YPGV 281500Z AUTO 10001KT 9999 // NCD 23/20 Q1013 YPJT 281500Z AUTO 00000KT 9999 // SCT031 10/10 Q1019 RF00.0/000.2 YPKG 281500Z AUTO 22007KT 9999 // NCD 16/03 Q1017 YPKU 281500Z AUTO 31001KT 9999 // NCD 25/22 Q1011 YPLM 281500Z AUTO 20017KT 9999 // NCD 19/12 Q1017 YPPD 281500Z AUTO 25005KT 190V280 9999 // NCD 24/20 Q1011 YPPH 281500Z 03004KT 9999 FEW018 10/09 Q1019 NOSIG YPTN 281500Z AUTO 06004KT 9999 // NCD 29/07 Q1012 YPWR 281500Z AUTO 04010KT 9999 // NCD 17/M00 Q1017 YPXM 281500Z AUTO 13013KT 9999 // BKN019 24/20 Q1016 YRMD 281500Z AUTO 12009KT 9999 // NCD 21/M05 Q1015 YSCB 281500Z AUTO 11004KT 9999 // SCT013 04/04 Q1026 YSDU 281500Z AUTO 16009KT 9999 // NCD 07/05 Q1024 YSNF 281500Z AUTO 18005KT 9999 // NCD 15/09 Q1019 YSNW 281500Z AUTO 29004KT 9999 // BKN033 OVC042 12/09 Q1026 YSRI 281500Z AUTO 00000KT 9999 // OVC043 10/09 Q1026 YSSY 281500Z 14008KT 9999 FEW027 BKN040 15/09 Q1026 NOSIG YSTW 281500Z AUTO 15011KT 9999 // NCD 09/06 Q1024 RF00.0/000.0 YSWG 281500Z AUTO 07003KT 9999 // NCD 05/04 Q1025 YTEF 281500Z AUTO 29012KT 9999 // NCD 28/13 Q1012 YTNK 281500Z AUTO 09010KT 9999 // NCD 25/M04 Q1015 YTRE 281500Z AUTO 27004KT 9999 // NCD 08/06 Q1025 YWGT 281500Z AUTO 20002KT 1800 // NCD 05/04 Q1025 YWHA 281500Z AUTO 02008KT 9999 // NCD 18/02 Q1016 YWLM 281500Z AUTO 00000KT 9999 // NCD 05/05 Q1026 ZBAA 281500Z 01003MPS 6000 -SHRA FEW050CB 21/18 Q1014 NOSIG ZBAD 281500Z 00000MPS 8000 NSC 20/17 Q1013 NOSIG ZBHH 281500Z 09003MPS 9999 -RA SCT030 11/08 Q1019 NOSIG ZBSJ 281500Z 26004MPS CAVOK 20/16 Q1013 NOSIG ZBTJ 281500Z 20001MPS 8000 NSC 21/16 Q1013 NOSIG ZBYN 281500Z 14001MPS 1800 -RA BR SCT020 15/14 Q1017 NOSIG ZGGG 281500Z 05002MPS 350V080 9999 -RA OVC026 25/23 Q1011 NOSIG ZGHA 281500Z VRB01MPS 7000 SCT023 OVC050 22/21 Q1013 NOSIG ZGKL 281500Z 01001MPS 5000 BR FEW015 SCT023 OVC043 21/21 Q1013 NOSIG ZGNN 281500Z 07002MPS 9999 BKN020 25/23 Q1011 NOSIG ZGOW 281500Z 08004MPS 9999 SCT026 26/22 Q1012 NOSIG ZGSZ 281500Z VRB01MPS 9999 SCT026 BKN043 28/23 Q1011 NOSIG ZHCC 281500Z VRB01MPS CAVOK 21/13 Q1014 NOSIG ZHHH 281500Z VRB01MPS 7000 NSC 23/20 Q1012 NOSIG ZJHK 281500Z VRB01MPS 9999 FEW046 25/25 Q1009 NOSIG ZJSY 281500Z 10004MPS CAVOK 27/26 Q1009 NOSIG ZLLL 281500Z 24001MPS 9999 OVC046 13/10 Q1023 NOSIG ZLXY 281500Z VRB01MPS 5000 BR OVC070 18/17 Q1015 NOSIG ZMUB 281500Z 16002MPS CAVOK M04/M08 Q1025 NOSIG RMK QFE660.4 69 ZPPP 281500Z 21005MPS 9999 FEW026 17/17 Q1020 NOSIG ZSAM 281500Z 07004MPS 9999 BKN023 OVC040 24/20 Q1012 NOSIG ZSFZ 281500Z 31002MPS 270V350 9999 BKN020 OVC030 22/19 Q1013 NOSIG ZSHC 281500Z VRB01MPS CAVOK 22/19 Q1013 NOSIG ZSNB 281500Z VRB01MPS 6000 NSC 19/19 Q1014 NOSIG ZSNJ 281500Z VRB01MPS CAVOK 22/19 Q1013 NOSIG ZSOF 281500Z 08002MPS CAVOK 21/17 Q1012 NOSIG ZSPD 281500Z 10003MPS CAVOK 22/17 Q1014 NOSIG ZSQD 281500Z 00000MPS CAVOK 18/16 Q1015 NOSIG ZSSS 281500Z 13002MPS 080V180 CAVOK 23/17 Q1014 NOSIG ZUCK 281500Z 03003MPS 8000 -RA FEW036 19/18 Q1014 NOSIG ZUGY 281500Z 16002MPS 9999 BKN015 OVC033 19/17 Q1014 NOSIG ZUUU 281500Z 00000MPS 6000 SCT040 19/19 Q1015 NOSIG ZWSH 281500Z VRB02MPS 1600 DU SCT040 18/02 Q1018 NOSIG ZWWW 281500Z VRB01MPS CAVOK 14/M03 Q1022 NOSIG ZYCC 281500Z VRB01MPS 9999 -RA BKN030 10/08 Q1015 NOSIG ZYHB 281500Z 21003MPS CAVOK 09/09 Q1013 NOSIG ZYTL 281500Z VRB02MPS CAVOK 20/16 Q1015 NOSIG ZYTX 281500Z 02006MPS 360V060 9999 -RA OVC026 14/09 Q1016 NOSIG
More info

Charts for


NOTAM


Warning: file_get_contents(http://api.vateud.net/notams/.json): failed to open stream: Redirection limit reached, aborting in /var/www/customers/vh-7192/web/home/phpvms/core/common/NOTAMSData.class.php on line 18

Warning: Invalid argument supplied for foreach() in /var/www/customers/vh-7192/web/home/phpvms/core/common/NOTAMSData.class.php on line 22